-


Hub News

Updated 11/27/2018 By Mark Toler

PANC Hub

 

 

 

Welcome to Anchorage (PANC) Home of vNWA Cargo Operations

 

 

PANC Hub Management Open

 

 

 

 

The PANC Hub is the primary base for all Cargo Operations at Virtual Northwest Airlines.  Our fleet and route system for our cargo operations here at vNWA are based off of both real world NWA Cargo fleet & routes over the years as well as Virtual fleet & routes.  This offers our Pilots more of a choice of destinations as well as a different aircraft that NWA may have not operated in the real world but maybe they would have if they were still in existence as we are portraying to a certain extent in the Virtual World.  Having the base in Anchorage gives us the gateway to Asia where NWA was the leader in Cargo for all of Asia in there time as well as the Pacific.  Please feel free to fly these routes at anytime and let us know if you have any suggestions or comments about the Cargo Operations here in Anchorage by utilizing the Forums for the PANC Hub.

                                                                                                                                                                 

Anchorage Fleet    
 Aircraft Type QTY. Range
A400M Airbus 3 2600
Airbus A300F4-600R Freighter 3 4070
Boeing 747-228 Freighter 4 3615
Boeing 747-400 Freighter 5 4970
Boeing 747-400 Combi 1 7212
Boeing 747-800 Freighter 2 5050
Boeing 757-200F 3 3150
Boeing 777 Freighter 2 5500
McDonnell Douglas MD11 Freighter 3 3950
Quest Aircraft Kodiak 1 1032
     
TOTAL  25

 

 

 

 

 

 

 

 

 

 

 

 

"ATTENTION vNWA PILOTS THAT PREFER FLYING CARGO"


 

Virtual Northwest Airlines is pleased to announce that we will be opening up our PANC Hub to Pilots for Cargo Operations beginning April 1st 2017.  We are looking forward to expanding our Operations here at Virtual Northwest with staffing our operations at Anchorage with full time pilots.  Pilots assigned to the PANC Hub will still be able to fly any route we have in our system beside Cargo Routes but would hope the main focus would be on operating Cargo Routes.  We have a total of 25 aircraft that make up the PANC Fleet with 10 different types of aircraft.  We currently have over 75 Cargo Routes operated just in and out of PANC with several more operated out of the other current 5 hubs.  Our Cargo routes are based off of "Real World" Cargo Routes that NWA flew as well as "Virtual Routes" we have added as well.  
Current pilots wishing to transfer to the PANC Hub are encouraged to do so by sending an email to virtualnorthwest@gmail.com.  We encourage all Pilots as well to let your Pilot friend at other Cargo VA's that we have opened up our PANC Hub now for assigned pilots for our Cargo Operations. 

We are looking forward to adding PANC as a staffed hub for us here at vNWA as well as being a revenue making operation for us.  Please stay tuned for additional announcements in the following week as we plan to "Staff It Up"  April 1st, 2017 at PANC.

Virtual Northwest Operations

 

 


 

_________________________________________________________________________________________________________

__________________________________________________________________________

 

 

PANC Operations

 

We have added and updated more Routes to our Cargo Operations here at the PANC Hub.  We have a variety of Fleet here to choose from on these Routes both from what NWA flew in the Real World and what we have added on the Virtual side to keep it interesting.  So lets get this Cargo in the air.

 

_____________________________________________________________________________

_____________________________________________________

 

PANC Newest additon to the fleet:  747-800F

 

vNWA PANC Based A400M Leaving PANC.

 

 

PANC Based 757-200F

 

 

 

___________________________________________________________________________________________________

____________________________________________________________________________

 

 

 Usefull Links

 

FLIGHT PLANNING:   PANC-Charts    Fuel Planning    Fleet-Substitute-Charts    vNWA-Routes  Routing     

 

PILOT RESOURCES :      Policy-Manual         vNWA-Pilot-Academy       Manual-PIREP-Report         VatSim                                                      

                                                                                                                                                                                                                                                                                                                                                                            

updated: 9/13/17                                                                                                                                                                                 


Pilot Roster

Pilot ID Name Rank Domicile Hours Flights Last Flight
NWA6002 Brian Akers First Officer United States 3 1 04/01/2020
NWA6004 David Kurth Captain United States 115 37 11/22/2020
NWA6058 Paul McCurry Senior Captain Canada 33 7 09/15/2019

Total Hub Hours: 151.55
Total Hub Flights: 45

Current Vatsim Metar

KRND 290356Z AUTO 34010KT 10SM OVC020 12/11 A3006 RMK AO2 DZB27E46 SLP178 P0000 T01150109 $ KCEC 290356Z AUTO 00000KT 5SM BR CLR 04/04 A3024 RMK AO2 SLP241 T00440039 KAFF 290358Z AUTO 36012KT 10SM CLR M06/M10 A3006 RMK AO2 SLP223 T10561100 $ CXKI 290400Z AUTO M00/M01 RMK AO1 SOG 02 3006 SLP101 T10041013 EDVK 281920Z 10010KT 9999 OVC013 02/M01 Q1023 KPCZ 290355Z AUTO 21005KT 10SM CLR 03/M01 A2990 RMK AO2 T00301015 DAUL 290300Z 27012KT 9999 SCT033 06/02 Q1014 KRCZ 290355Z AUTO 00000KT 10SM CLR 08/07 A3015 RMK AO2 T00770069 KGSP 290353Z 00000KT 10SM CLR 08/05 A3014 RMK AO2 SLP202 T00780050 FNSU 271200Z 30006KT 9999 BKN013 28/// Q1013 KFMM 290355Z AUTO 00000KT 10SM SCT100 M01/M08 A3004 RMK AO2 T10121081 KTTN 290353Z AUTO 00000KT 10SM CLR 04/M01 A3012 RMK AO2 SLP196 T00391006 KAST 290355Z AUTO 09007KT 10SM CLR 05/04 A3032 RMK AO2 SLP267 T00500039 CYHY 290400Z 20009KT 15SM FEW110 BKN210 M10/M15 A2972 RMK AS2CI3 SLP083 PAWD 290353Z AUTO 00000KT 10SM UP OVC045 01/M01 A2885 RMK AO2 UPE00B45 SLP770 P0000 T00061006 TSNO $ LKVO 271200Z 26003KT 2000 BR OVC003 00/00 Q1022 KVNW 290355Z AUTO 24005KT 10SM CLR 02/M03 A3015 RMK AO2 RJTK 282133Z 09005KT 9999 FEW050 BKN070 BKN200 08/M01 Q1021 RMK 1SC050 5AC070 6CI200 A3017 UASS 290402Z 15006MPS CAVOK M04/M07 Q1033 R26/42//45 NOSIG RMK QFE756/1008 CYCK 290400Z AUTO 24012KT 9SM CLR 04/M00 A3007 RMK SLP188 KDKK 290353Z AUTO 21010KT 10SM CLR 03/M04 A3009 RMK AO2 SLP194 T00331039 CZEM 271400Z 23011G18KT 15SM BKN043 M02/M07 A2982 RMK SC7 LAST STFD OBS/NEXT 301400 UTC SLP101 KSEG 290353Z AUTO 00000KT 10SM CLR M03/M04 A3015 RMK AO2 SLP215 T10331044 LIBY 281755Z 16010KT 9999 FEW016 16/11 Q1016 RMK BKN SCT080 BKN190 QUK / QUL / VIS MAR 15 KM VIS MIN 9999 KOKC 290352Z 03007KT 10SM -RA OVC060 06/03 A3015 RMK AO2 RAB08 SLP212 P0002 T00560033 KMBS 290353Z AUTO 22012KT 10SM CLR 03/M02 A2999 RMK AO2 SLP163 T00331022 PAOT 290353Z 04005KT 10SM CLR M17/M19 A2924 RMK AO2 SLP903 T11671189 $ KLUD 290355Z AUTO 03003KT 7SM BKN007 OVC019 08/07 A3009 RMK AO2 P0001 T00750067 KLVM 290353Z AUTO 21004KT 10SM SCT075 M02/M10 A3030 RMK AO2 SLP287 T10221100 KHIB 290353Z AUTO 00000KT 10SM CLR M06/M07 A2972 RMK AO2 SLP087 T10561072 LRCK 290400Z 29003KT 0800 R18/P2000 R36/1200D FZFG VV002 M02/M02 Q1019 NOSIG SAWG 290400Z 27021G34KT CAVOK 07/M01 Q0999 LWSK 290400Z 00000KT 5000 BR NSC M04/M05 Q1019 NOSIG KHMZ 290355Z AUTO 00000KT 10SM CLR M02/M05 A3015 RMK AO2 T10221046 KJCA 290355Z AUTO 10004KT 10SM CLR 10/09 A3012 RMK AO2 T01030090 SPAY 271635Z 29002KT 5000 -RA BR BKN015 22/22 Q1014 LIMU 290255Z 01020KT CAVOK 12/03 Q1011 RMK SKC QUK / QUL / VIS MAR 30 KM VIS MIN 9999 PABA 290352Z AUTO 05016KT 8SM -SN OVC012 M13/M14 A2949 RMK AO2 SLP995 P0000 T11331144 FZRANO KDEN 290353Z 22008KT 10SM CLR 01/M07 A3005 RMK AO2 SLP178 T00111067 KIMM 290355Z AUTO 00000KT 10SM FEW047 SCT055 19/17 A3004 RMK AO2 PWINO KSBP 282356Z 32011KT 10SM SKC 17/M02 A3011 RJNK 290400Z 34005KT 300V020 9999 FEW030 SCT080 11/03 Q1021 KBIE 290355Z AUTO 19007KT 10SM CLR 04/00 A3001 RMK AO2 T00350000 FMMI 290400Z 11005KT 070V180 9999 FEW017 BKN020 20/15 Q1020 NOSIG PATE 290356Z AUTO 36014G21KT 9SM -SN SCT015 OVC020 M09/M11 A2928 RMK AO2 SNB01 SLP925 P0000 T10891111 FZRANO KCVN 290356Z AUTO 04006KT 10SM OVC003 01/01 A3011 RMK AO2 SLP214 T00110006 FZRANO KGSB 290356Z AUTO 00000KT 10SM CLR 07/06 A3013 RMK AO2 SLP206 T00740062 $ KAGS 290353Z AUTO 35003KT 1/4SM FG VV001 12/11 A3012 RMK AO2 SLP198 T01220111 RVRNO KJXI 290355Z AUTO 09007KT 7SM DZ OVC021 09/05 A3009 RMK AO2 T00870052 CXZC 290400Z AUTO 25003KT M01/M03 RMK AO1 SOG 14 3010 SLP078 T10141034 KXNO 290406Z AUTO 02003KT 7/8SM BR CLR 09/09 A3013 RMK AO2 SLP206 RVRNO $ K6A2 290355Z AUTO 00000KT 10SM CLR 11/10 A3010 RMK AO2 KOKZ 290355Z AUTO 12003KT 10SM OVC023 14/12 A3011 RMK AO2 T01370125 UTSA 290400Z 05012KT 9000 NSC 01/M04 Q1035 R07/CLRD70 NOSIG LBSF 290400Z 00000KT 5000 BR NSC M05/M06 Q1017 TEMPO 1500 BR SKBG 282300Z 31003KT 9999 SCT012 BKN070 20/20 A2996 KDLZ 290355Z AUTO 20003KT 7SM CLR 01/00 A3016 RMK AO2 KHOT 290353Z AUTO 00000KT 10SM CLR 05/02 A3015 RMK AO2 SLP209 T00500017 $ YFRT 290400Z AUTO 13006KT 9999 // NCD 24/06 Q1013 RF00.0/000.0 LIRG 271755Z 03005KT CAVOK 10/08 Q1019 RMK BKN BKN080 MON NE LIB NC VIS MIN 9999 BLU KFCM 290353Z AUTO 23007KT 10SM CLR 03/M02 A2988 RMK AO2 SLP124 T00331017 $ KCLI 290355Z AUTO 21003KT 10SM CLR 00/M03 A2989 RMK AO2 T00031035 KQEY 290410Z AUTO 29005G10KT 9999 FEW033 OVC037 04/M03 A3006 RMK A02 TSNO EDDK 290350Z 15009KT 9999 BKN016 02/M01 Q1024 NOSIG KCDS 290353Z AUTO 32005KT 9SM -RA OVC018 04/03 A3014 RMK AO2 SLP212 P0000 T00440033 KSCD 290355Z AUTO 00000KT 10SM CLR 10/09 A3011 RMK AO2 T01030092 KOEO 290355Z AUTO 21008KT 10SM CLR 05/00 A2988 RMK AO2 T00461005 CYLT 290400Z 09002KT 15SM FEW200 M31/M34 A2961 RMK CI1 SLP032 UAKK 290400Z 28004MPS 4000 -SN BKN036 M12/M15 Q1032 R23/491045 NOSIG RMK QFE726/0968 UASP 290400Z 15002MPS 7000 OVC037 M08/M09 Q1031 R03/491540 NOSIG RMK QFE762/1017 KHVN 290353Z AUTO 31003KT 10SM CLR 07/02 A3008 RMK AO2 SLP187 T00670022 LTCL 281250Z 17007KT 9999 FEW040 SCT100 16/07 Q1021 KIML 290353Z AUTO 27010KT 10SM CLR 03/M08 A3001 RMK AO2 SLP181 T00281083 CPEH 290400Z AUTO 24005KT M06/M08 RMK AO1 T10641083 KWRI 290356Z AUTO 33003KT 10SM CLR 03/M01 A3011 RMK AO2 SLP196 T00291006 $ KMKG 290355Z 21011KT 10SM CLR 07/03 A3000 RMK AO2 SLP162 LAST T00720033 VEBN 290400Z 31004KT 1500 R27/1800 BR NSC 19/13 Q1020 NOSIG KRHP 290355Z AUTO 00000KT 10SM CLR 03/03 A3014 RMK AO2 T00280027 CZRP 290300Z AUTO 24011KT M20/M22 RMK AO1 T11951215 58002 KDCY 290355Z AUTO 00000KT 10SM CLR 01/M01 A3017 RMK AO2 P0001 T00051011 KWST 290353Z AUTO 00000KT 10SM CLR 04/M01 A3006 RMK AO2 SLP179 T00391006 RJAH 290400Z 04004KT 9999 FEW030 BKN060 BKN210 12/M01 Q1021 FQVL 281800Z 09010KT 9999 SCT020 27/23 Q1014 NOSIG KGXA 290358Z AUTO 18006KT 10SM CLR 03/M15 A3018 RMK AO2 SLP226 WND DATA ESTMD T00321151 KBVN 290355Z AUTO 34005KT 10SM CLR 04/M04 A2996 RMK AO2 T00371040 SPLO 281800Z 18008KT CAVOK 22/14 Q1013 RMK PP000 KFIT 290352Z AUTO 00000KT 10SM CLR M01/M02 A3002 RMK AO2 SLP170 T10061022 LLER 281950Z 36010KT 9999 FEW050 18/08 Q1018 MDBA 222330Z 00000KT 9999 FEW018CB ASCT020 SCT300 27/25 Q1011 CB/SE/S YSCN 290330Z AUTO 30027KT 9999 // NCD 37/11 Q0998 RMK KCKM 290355Z AUTO 02003KT 10SM 07/03 A3015 RMK A01 LOWK 290350Z AUTO VRB01KT 9999 FEW020 BKN026 M02/M02 Q1020 KSFQ 290355Z AUTO 00000KT 1SM BR OVC001 06/06 A3016 RMK AO2 T00610061 CXTP 290400Z AUTO 01001KT 04/04 RMK AO1 8016 SLP058 T00370035 50014 KLRO 281355Z AUTO 00000KT 8SM -DZ FEW050 SCT070 OVC080 14/13 A3009 RMK AO2 FYML 290400Z AUTO 16006KT //// // ////// 20/03 Q1018 KCTZ 290355Z AUTO 00000KT 10SM CLR 09/09 A3014 RMK AO2 T00930088 LIBA 290355Z 09006KT 1200 -RA BR BKN006 12/12 Q1011 RMK BKN VIS MIN 1200 WIND THR11 09007KT WIND THR29 /////KT AMB RKSS 290400Z 30008KT 260V360 9999 BKN035 02/M06 Q1029 NOSIG SLCP 282200Z 00000KT 9999 NSC 28/23 Q1013 YPMQ 290400Z AUTO 08009KT 9999 // NCD 31/20 Q1002 RMK LFRK 290400Z AUTO 31001KT CAVOK 02/01 Q1020 KIPL 290353Z AUTO 28005KT 10SM CLR 09/M04 A3012 RMK AO2 SLP198 T00941044 NFTL 290300Z 27005KT 9999 FEW017 BKN300 28/25 Q1008 CYXZ 290000Z 00000KT 15SM BKN020 BKN190 01/M00 A2978 RMK SC5AC2 LAST OBS/NEXT 291100 UTC SLP101 KSUN 290353Z 29006KT 10SM SKC M06/M08 A3037 KSYI 290355Z AUTO 00000KT 10SM CLR 01/01 A3014 RMK A01 KBRY 290355Z AUTO 00000KT 10SM CLR 00/M02 A3016 RMK AO1 RKTP 271215Z 34009KT 9999 SCT035 04/M03 A3036 OTBD 290400Z 14008KT 9999 FEW030 BKN140 25/19 Q1018 NOSIG NZNP 290400Z 24015KT 19KM NCD 19/13 Q1002 RMK AUTO VATSIM USE ONLY FGSL 290300Z 23003KT 9999 FEW010 24/24 Q1011 NOSIG EGCN 290350Z VRB01KT 0800 R20/1200 FG BKN001 OVC005 07/07 Q1026 CXDP 290300Z AUTO 21006KT M05/M08 RMK AO1 T10541080 CZDB 290400Z AUTO 29002KT 03/02 RMK AO1 SLP103 T00310019 58001 KDSF 290355Z AUTO 06012KT 10SM CLR 24/20 A3002 RMK A01 YGLA 290400Z AUTO 04010KT 020V080 9999 // NCD 29/15 Q1011 RF00.0/000.0 ETWM 290320Z AUTO 08004KT //// // ////// 01/M01 Q1026 /// K7S6 290355Z AUTO 00000KT 10SM M01/M08 A3030 RMK A01 White Sulphur Spgs PAIM 290355Z AUTO 08016G30KT 040V100 10SM -SN CLR M09/M14 A2902 RMK AO2 PK WND 06030/0345 SHSNB0342E0344 SLP861 T10921142 KMML 290356Z AUTO 25013KT 10SM CLR 06/M03 A2990 RMK AO2 SLP135 T00561033 KFRG 290353Z 31003KT 10SM CLR 06/M01 A3011 RMK AO2 SLP195 T00561006 K1S5 290355Z AUTO 00000KT 10SM CLR M01/M02 A3041 RMK AO2 T10101017 LFRM 290400Z AUTO VRB03KT CAVOK 04/02 Q1019 CWSD 290400Z AUTO 24002KT 01/M00 RMK AO1 SLP103 T00101003 58006 WIPP 290400Z 30008KT 9999 SCT010 28/24 Q1011 NOSIG DFOO 290400Z 00000KT CAVOK 23/13 Q1012 NZNS 290400Z 03019KT 19KM NCD 19/15 Q1001 RMK AUTO VATSIM USE ONLY KMGY 271053Z AUTO 00000KT 10SM OVC025 08/04 A3010 RMK AO2 SLP195 T00830039 KDXX 290355Z AUTO 26008KT 10SM CLR 06/M03 A2990 RMK AO2 PWINO KFFZ 290354Z 01003KT 10SM CLR 12/M01 A3010 RMK AO2 SLP182 T01221011 YGAY 290400Z AUTO 31003KT //// // ////// 35/11 Q1009 RMK KUKT 290355Z AUTO 00000KT 10SM CLR 02/M02 A3013 RMK A01 KTBR 290355Z AUTO 00000KT 10SM CLR 12/11 A3012 RMK AO2 T01150108 TSNO KBAZ 290351Z AUTO 36009KT 10SM FEW008 OVC024 13/10 A3007 RMK AO2 RAE01 SLP181 P0000 T01280100 KVCB 290353Z AUTO 24003KT 10SM CLR 05/00 A3020 RMK AO2 SLP228 T00500000 LEMI 290400Z AUTO 30007KT CAVOK 12/05 Q1013 ESKS 290350Z AUTO VRB01KT 0800 R15/P2000N R33/P2000N BR VV002 M10/M10 Q1027 VASU 290400Z 07008KT 3000 HZ NSC 28/13 Q1016 BECMG 3500 HZ MPBO 271900Z 27008KT 9999 SCT016 BKN080 ///// Q1012 RWY DAMP KLOU 290353Z AUTO 00000KT 7SM CLR 02/M01 A3016 RMK AO2 SLP216 T00171011 KM21 290355Z AUTO 00000KT 10SM CLR 00/M03 A3017 RMK AO2 T10051027 KULM 290342Z AUTO 25006KT 10SM CLR 03/M02 A2990 RMK AO2 UATE 290400Z 11009MPS CAVOK M01/M03 Q1034 R12/0///70 NOSIG RMK QFE774/1032 LGHI 290350Z 00000KT 9999 FEW020 09/07 Q1017 CWGY 290400Z AUTO 22012KT M10/M12 RMK AO1 PK WND 23018/0309 SLP301 T11011118 53015 YPJT 290400Z AUTO 23015KT 9999 // NCD 22/13 Q1010 RF00.0/000.0 KLRY 290355Z AUTO 00000KT 10SM CLR 03/M02 A3014 RMK AO2 OISF 290400Z 00000KT 9999 SCT040 BKN100 09/07 Q1021 A3017 KCXP 290355Z AUTO 00000KT 10SM CLR M00/M09 A3031 RMK AO2 WSSS 290400Z 36005KT 290V050 9999 FEW018 BKN150 29/23 Q1011 NOSIG USHH 290400Z 22001MPS 2800 BR BKN002 M18/M20 Q1045 R06/450242 TEMPO 0900 FZFG OVC002 MHSC 290155Z 35006KT 9999 FEW080 FEW200 23/19 A3001 RMK AO2A SLPNO ALSTG ESTMD $ VTPO 290400Z 05004KT CAVOK 28/19 Q1016 NOSIG WBSB 290400Z 22007KT 9999 FEW015 SCT140 BKN300 30/23 Q1010 NOSIG KSKA 290358Z 00000KT 10SM CLR M01/M01 A3037 RMK AO2A VIS 2 1/4 RWY23 SLP311 T10121013 $ KBFW 290355Z AUTO 00000KT 10SM CLR M04/M05 A2974 RMK AO2 CYDN 290410Z AUTO 32008KT 9SM -SN SCT016 BKN024 BKN030 OVC037 M02/ A2996 RMK TD MISG SLP168 UMOO 290400Z 02005MPS 1700 SHSNRA BR BKN004 OVC015CB 00/M01 Q1018 NOSIG RMK QBB120 SESM 282300Z 35002KT 9999 SCT023 OVC090 19/18 Q1014 RMK A2995 KLEE 290353Z AUTO 00000KT 10SM CLR 19/18 A3004 RMK AO2 SLP172 T01940183 VTUI 290400Z VRB06KT 9999 FEW030 26/17 Q1017 NOSIG KLUM 290355Z AUTO 18005KT 10SM CLR 00/M02 A2988 RMK AO2 T00021024 EGGD 290350Z AUTO 07008KT 2700 BR OVC003 07/07 Q1023 OIZJ 290400Z 02004KT 8000 NSC 22/16 Q1019 VILK 290400Z 00000KT 1200 R27/2000 HZ NSC 19/14 Q1020 BECMG 1500 HZ KRRL 290355Z AUTO 00000KT 10SM CLR 01/M02 A2985 RMK AO2 T00131023 TSNO KAPF 290353Z AUTO 00000KT 9SM CLR 22/20 A3004 RMK AO2 SLP171 T02170200 $ KJDD 290355Z AUTO 00000KT 5SM -RA BR BKN013 OVC019 09/08 A3009 RMK AO2 P0003 ETSB 290320Z AUTO 07009KT 0100 // ////// M01/M01 Q1021 /// KFFO 290356Z AUTO 00000KT 10SM CLR 00/M03 A3017 RMK AO2 SLP227 T00041028 KGTF 290353Z 07003KT 10SM BKN075 M04/M08 A3036 RMK AO2 SLP321 T10391078 $ KFRM 290356Z AUTO 24011KT 10SM CLR 04/M01 A2991 RMK AO2 SLP142 T00391011 KNDZ 290356Z AUTO 01005KT 10SM CLR 17/15 A3007 RMK AO2 SLP169 T01670150 $ KWDR 290355Z AUTO 00000KT 10SM CLR 10/09 A3014 RMK AO2 PAMC 290353Z AUTO 31009KT 10SM CLR M12/M13 A2895 RMK AO2 SLP812 T11221133 TSNO $ KBPG 290355Z AUTO 13004KT 4SM BR CLR 03/03 A3011 RMK AO2 T00330030 KCRX 290355Z AUTO 00000KT 9SM CLR 05/04 A3014 RMK AO2 ENUN 290350Z AUTO 20021KT 9999NDV -SHRA FEW010/// 06/04 Q1016 W08/S/ KAXA 290355Z AUTO 22009KT 10SM CLR 02/02 A2991 RMK A01 KK88 290355Z AUTO 20006KT 10SM CLR 03/00 A3015 RMK AO1 T00291005 DAOL 290000Z 25006KT 8000 -RA SCT013 BKN030 13/11 Q1014 LTCM 280750Z VRB02KT CAVOK 13/06 Q1021 KQBL 251456Z AUTO 00000KT 10SM FEW039 24/20 A3018 RMK AO2 SLPNO WND DATA ESTMD T02430199 KBFD 290353Z AUTO 24006KT 10SM CLR 01/M05 A3008 RMK AO2 SLP201 T00111050 YTST 290400Z AUTO 29008KT 9999 // NCD 34/23 Q1005 RMK WBKS 290400Z 00000KT 9999 SCT015 29/25 Q1008 YTIB 290400Z AUTO 21013KT 170V230 //// // ////// 36/06 Q1007 CWDZ 290400Z AUTO 17003KT M09/M11 RMK AO1 SLP304 T10851112 51013 KHAE 290355Z AUTO 20005KT 10SM CLR 05/M03 A3010 RMK AO2 YSNW 290400Z AUTO 28027G41KT 9999 // NCD 33/10 Q0998 KNUW 290356Z 09004KT 10SM FEW050 FEW100 BKN200 04/03 A3041 RMK AO2 SLP296 T00440028 KSEE 290355Z AUTO 32004KT 10SM CLR 11/M04 A3010 RMK AO2 KVWU 290335Z AUTO 23009KT 10SM 03/M03 A2968 RMK AO2 KRMY 290355Z AUTO 23009KT 10SM CLR 03/M02 A3006 RMK AO2 T00321016 K4S2 290355Z AUTO 00000KT 10SM SCT050 04/03 A3039 RMK AO2 WIMM 290400Z 07006KT 9999 SCT017 29/26 Q1010 NOSIG VECC 290400Z 35006KT 3000 HZ NSC 23/16 Q1018 NOSIG KBJJ 290356Z AUTO 21005KT 10SM CLR 01/M02 A3014 RMK AO2 SLP215 T00111017 FYWH 290400Z 24003KT CAVOK 18/01 Q1021 NOSIG KBEA 290355Z AUTO 35010KT 4SM BR OVC004 16/16 A3002 RMK AO2 T01620162 SELT 282300Z 19008KT 9999 BKN030 BKN100 12/09 Q1027 LFSD 290400Z AUTO 01010KT 7000 OVC011 02/02 Q1017 KF05 290355Z AUTO 02003KT 10SM OVC028 07/06 A3013 RMK AO2 T00700060 KMJD 290255Z AUTO 00000KT 10SM BKN010 BKN013 OVC100 15/14 A3008 RMK AO2 OEGS 290400Z 35008KT 6000 BR SCT030 14/14 Q1017 TEMPO 3000 BR KVNC 290355Z AUTO 00000KT 3SM BR CLR 20/20 A3004 RMK AO2 KMPZ 290355Z AUTO 21008KT 10SM CLR 05/00 A3005 RMK AO2 LFOE 290400Z AUTO 01004KT 7000 NSC 02/01 Q1020 ULWC 290400Z 06004MPS 9999 BKN008 OVC016 M05/M07 Q1034 NOSIG RMK QFE765/1020 KRRT 290355Z AUTO 26011G16KT 10SM CLR 02/M02 A2966 RMK AO2 ENBR 290350Z 15009KT 9999 BKN026 06/02 Q1027 RMK WIND 1200FT 15020KT EGSS 290350Z AUTO 04004KT 010V070 1500 BR OVC002 08/07 Q1024 HUGU 250900Z 26004KT 9000 BKN022 FEW023CB 25/21 KCCY 290355Z AUTO 23007KT 10SM CLR 03/01 A2994 RMK AO2 KPRX 290356Z AUTO 10011KT 9SM -RA BKN028 BKN036 OVC049 10/01 A3008 RMK AO2 SLP205 P0000 T01000011 KMLE 290355Z AUTO 15004KT 10SM CLR 04/00 A2999 RMK AO2 T00431005 PABR 290353Z 16005KT 10SM OVC016 M13/M16 A2957 RMK AO2 SLP015 T11331161 $ KSBS 290355Z AUTO 00000KT 10SM CLR M05/M10 A3024 RMK AO1 T10491100 LIED 290355Z 35005KT 9999 FEW023 12/08 Q1003 RMK BKN SCT080 VIS MIN 9999 WIND THR35 35005KT WIND THR17 /////KT BLU CYEK 290402Z AUTO 36009KT 6SM -SN OVC018 M16/M18 A3003 RMK SLP176 KRWF 290353Z AUTO 24011KT 10SM CLR 04/M03 A2989 RMK AO2 SLP129 T00391028 OMFJ 290400Z 29006KT CAVOK 26/15 Q1019 A2011 CXTH 290400Z AUTO 21008KT M11/M11 RMK AO1 T11061109 OIFS 290400Z 19004KT 6000 -RA SCT020 FEW030CB OVC070 05/05 Q1022 PANI 290356Z AUTO VRB03KT 9SM -SN OVC015 M09/M12 A2908 RMK AO2 SNB04 SLP841 P0000 T10941117 FZRANO KQEV 290410Z AUTO 31003KT 9999 FEW032 OVC050 03/M04 A3035 RMK A02 TSNO RJCT 272333Z 30003KT 9999 FEW050 BKN100 BKN200 M00/M05 Q1014 RMK 1CU050 6AC100 7CI200 A2996 KCXU 290355Z AUTO 00000KT 10SM SCT027 17/15 A3008 RMK AO1 T01670150 UWGG 290400Z 11003MPS 6000 -SN OVC005 M00/M01 Q1034 R36R/450140 NOSIG KAPG 290358Z AUTO 00000KT 10SM CLR 00/M01 A3015 RMK AO2 SLP213 T00041008 $ PHMK 290354Z 02007KT 10SM FEW028 SCT050 24/18 A3000 RMK AO2 SLP160 P0001 T02390178 $ KLRU 290355Z AUTO 29008KT 10SM CLR 04/M08 A3019 RMK AO2 T00351077 OAIX 290358Z 00000KT 6000 HZ FEW190 SCT240 03/M01 A3033 RMK AO2A VIS E-SE 3200 SLP253 T00311009 $ LETL 290400Z AUTO 31002KT 4000 BR NCD 02/02 Q1013 CYYH 290408Z 21017KT 1SM -SN BLSN VV005 M26/M29 A2988 RMK BLSN8 SLP123 NFLB 240300Z 12008KT 50KM SCT020TCU BKN048 BKN300 27/25 Q1008 CZOL 290400Z AUTO 22003KT M07/M06 RMK AO1 T10651055 KCVS 290405Z AUTO 05008KT 9SM FEW003 FEW009 BKN041 OVC070 02/02 A3011 RMK AO2 SLP202 $ OOMS 290350Z 20003KT CAVOK 22/16 Q1018 NOSIG KGUP 290353Z AUTO 00000KT 10SM CLR M02/M05 A3023 RMK AO2 SLP273 T10221050 KLOZ 290353Z AUTO 00000KT 6SM BR CLR 00/M01 A3016 RMK AO2 SLP217 T00001006 VERB 251200Z 05002KT 1500 HZ FEW020 SCT100 BKN200 20/12 Q1014 KLZZ 290355Z AUTO 32004KT 10SM SCT007 SCT012 OVC022 08/07 A3011 RMK AO2 T00750065 LFQQ 290400Z AUTO 05009KT 3200 BR OVC002 03/03 Q1022 TEMPO 0800 BECMG VV/// KEDW 290358Z AUTO 00000KT 10SM CLR 04/M15 A3019 RMK AO2 SLP238 T00421151 KLGA 290351Z 33007KT 10SM CLR 08/M01 A3011 RMK AO2 SLP196 T00831006 KSEP 290355Z AUTO 28005KT 10SM OVC019 07/06 A3014 RMK AO2 T00680057 KMWK 290355Z AUTO 00000KT 10SM CLR 05/02 A3017 RMK AO2 T00470022 KLFI 290356Z AUTO 00000KT 6SM BR CLR 06/06 A3015 RMK AO2 SLP216 T00640064 $ KQFT 290410Z AUTO 20005KT / // BKN042 02/M08 A3037 RMK A02 TSNO K04V 290355Z AUTO 33019G25KT 10SM CLR 00/M11 A3015 RMK AO2 FJDG 290355Z 34008KT 9999 FEW022 FEW0065 SCT250 30/26 A2986 RMK SLP108 P0005 T02990262 SAAR 290400Z 02002KT 0100 FG SCT002 15/15 Q1010 KCCO 290355Z AUTO 05004KT 10SM CLR 13/08 A3010 RMK AO2 T01290079 CYQL 290400Z 18008KT 20SM SKC M07/M09 A3031 RMK SLP310 PHLI 290353Z 03014KT 10SM SCT060 24/19 A3003 RMK AO2 SLP168 T02390189 YWLG 290400Z AUTO 26019KT 9999 // NCD 43/08 Q1004 RMK KADM 290355Z AUTO 36004KT 7SM -RA FEW049 OVC060 07/05 A3011 RMK AO2 P0004 KFOA 290355Z AUTO 00000KT 10SM CLR 01/M01 A3016 RMK AO2 LFMV 290400Z AUTO 12002KT 6000 NSC 01/00 Q1013 NOSIG KDWH 290405Z AUTO 01005KT 10SM SCT004 OVC011 16/14 A3003 RMK AO2 RAE00 CIG 007V012 P0000 T01560139 SBKP 290400Z 09011KT CAVOK 23/17 Q1018 KOTM 290353Z AUTO 21011KT 10SM CLR 06/00 A3003 RMK AO2 SLP171 T00560000 KCDW 290353Z AUTO 00000KT 10SM CLR 04/M02 A3012 RMK AO2 SLP205 T00391022 KGAD 290356Z AUTO 00000KT 10SM CLR 08/07 A3012 RMK AO2 SLP205 T00830067 PAPT 290159Z 30004KT 25SM OVC050 M07/M07 A2878 RMK NO SPECI. LAST KERY 290355Z AUTO 22006KT 10SM CLR 02/01 A2981 RMK AO2 T00200005 KMDW 290353Z 22010KT 10SM CLR 06/01 A3004 RMK AO2 SLP180 T00560006 $ KCFJ 290355Z AUTO 00000KT 10SM CLR 01/M04 A3014 RMK AO2 T00071043 SCRD 282200Z 17014KT CAVOK 19/07 Q1018 KMGN 290355Z AUTO 23005KT 10SM CLR 05/01 A2988 RMK AO2 T00490009 EDDC 290350Z VRB01KT 9999 FEW015 BKN038 00/M00 Q1024 KDBQ 290353Z AUTO 23010KT 10SM CLR 04/01 A2997 RMK AO2 SLP157 T00390006 KPAE 290353Z 00000KT 10SM CLR 04/04 A3037 RMK AO2 SLP287 T00440039 CYAZ 290100Z 05003KT 15SM FEW150 FEW210 04/04 A3036 RMK AC1CI1 LAST STFD OBS/NXT 291500UTC SLP282 CWTT 290400Z AUTO 24010KT 04/M00 RMK AO1 T00361004 KPHF 290354Z AUTO 00000KT 4SM BR CLR 07/05 A3016 RMK AO2 RAE0259 SLP211 P0000 T00720050 KD25 290355Z AUTO 00000KT 10SM CLR M02/M05 A2981 RMK AO2 T10171046 DRRB 251100Z 08008KT CAVOK 35/05 Q//// CYRB 290400Z 24009KT 15SM -SN BKN026 OVC050 M22/M25 A2951 RMK SC6SC2 SLP004 VTCN 290400Z 01005KT 270V080 CAVOK 27/18 Q1018 NOSIG LIBQ 290355Z 27008KT 0000 -SN FG VV/// 02/02 Q1010 RMK MON INVIS VAL INVIS VIS MIN 0000 TXKF 290355Z 30012KT 9999 FEW020 FEW047 SCT180 BKN230 22/18 Q1012 KAIO 290355Z AUTO 20005KT 10SM CLR 00/00 A2999 RMK AO2 KPUJ 290355Z AUTO 36004KT 10SM CLR 11/05 A3011 RMK AO2 KUIN 290354Z AUTO 21007KT 10SM CLR 02/M02 A3009 RMK AO2 SLP193 T00221022 $ EDFH 290350Z 09006KT 050V140 6000 BKN006 M01/M01 Q1021 KAUS 290353Z 34007KT 9SM BKN009 OVC025 12/10 A3010 RMK AO2 RAE36 SLP193 P0000 T01170100 $ SAVT 252122Z 23030G44KT 8000 DS BKN030 SCT034 BKN200 19/M06 Q1000 EPSN 290400Z 33004KT 9999 SCT006 BKN020 03/03 Q1023 RMK 025 100 7/3= LFPT 290400Z AUTO 04002KT 7000 NSC 01/00 Q1020 TFFR 290400Z AUTO 30002KT 9999 BKN008 BKN017 OVC032 24/23 Q1015 TEMPO 2000 SHRA SCT015CB BKN020 CYPC 290000Z 21013KT 15SM FEW050 M16/M20 A2964 RMK SC1 LAST STFD OBS/NEXT 291400 UTC SLP038 PPAA 7618/ 42361 NO ASCENT DUE TO MTS STAFF SHORTAGE HTGW 232000Z 13012KT 9999 FEW021 21/15 Q1018 NOSIG ORER 290400Z 34005KT 6000 -RA SCT030 OVC080 11/08 Q1019 NOSIG KFFT 290353Z AUTO 00000KT 10SM CLR M01/M03 A3016 RMK AO2 SLP220 T10111033 LERS 290400Z AUTO 36005KT CAVOK 11/08 Q1012 SBMG 290200Z 07008KT CAVOK 27/18 Q1015 KPHL 290354Z 31005KT 10SM CLR 07/M02 A3014 RMK AO2 SLP206 T00721022 LFBC 290400Z AUTO 01003KT 8000 NSC 05/05 Q1013 LEHC 290400Z AUTO 00000KT 9999 BKN043 OVC070 08/06 Q1013 KHSI 290353Z AUTO 23004KT 10SM CLR 03/M02 A2998 RMK AO2 SLP162 T00331022 KARG 290356Z AUTO 31003KT 10SM CLR 04/02 A3017 RMK AO2 SLP220 T00390017 KPAO 282347Z 31007KT 10SM SKC 16/02 A3019 CWBS 290400Z AUTO 22014KT 04/01 RMK AO1 PK WND 20018/0320 T00400011 CXDE 290400Z AUTO 10009KT M17/M19 RMK AO1 SOG 23 8040 SLP988 T11721193 KLCI 290356Z AUTO 24006KT 10SM CLR 01/01 A2997 RMK AO2 SLP153 T00060006 FZRANO LFLS 290400Z AUTO 07009KT 9000 NSC 01/M00 Q1015 TEMPO 4000 BR LGSK 281520Z VRB03KT 9999 FEW025 14/08 Q1018 KMWO 290355Z AUTO 00000KT 10SM CLR M01/M01 A3020 RMK AO2 T10071011 PAVA 290356Z AUTO 36006KT 9SM -SN OVC036 M04/M06 A2920 RMK AO2 SLP892 P0000 T10441056 FZRANO LEGR 290400Z AUTO 00000KT 9999 ////// 07/07 Q1013 KCNY 290353Z AUTO 21003KT 10SM CLR M04/M14 A3023 RMK AO2 SLP273 T10441144 KJSO 290355Z AUTO 08004KT 10SM OVC005 10/09 A3008 RMK AO2 T01000093 KCMR 290355Z AUTO 17006KT 10SM CLR M04/M11 A3025 RMK AO2 KGWR 290355Z AUTO 30018G24KT 10SM CLR 06/M05 A2990 RMK A01 MMCS 290345Z 00000KT 10SM SKC 06/M07 A3019 UACC 290400Z 34004MPS 310V010 9000 -SN OVC043 M11/M13 Q1035 R04/39//45 NOSIG RMK QFE744/0993 RODN 290356Z AUTO 01015KT 10SM SCT034 SCT044 BKN060 22/13 A3020 RMK AO2 SLP233 T02180129 $ KJFZ 290355Z AUTO 08003KT 10SM CLR 03/00 A3016 RMK AO2 T00321005 KRAL 290353Z 00000KT 10SM CLR 14/M10 A3012 RMK AO2 SLP192 T01441100 MPSM 290100Z E35006KT 9999 SCT020 25/23 Q1010 K7W6 290355Z AUTO 00000KT 1SM BR OVC001 07/06 A3015 RMK AO2 T00660058 KMVN 290356Z AUTO 00000KT 10SM CLR M02/M03 A3016 RMK AO2 SLP222 T10221033 FZRANO LFLY 290400Z AUTO 30003KT 7000 FEW019 M01/M02 Q1016 TEMPO 0800 FG VV/// ENBL 281650Z 20005KT 9999 SCT020 BKN035 03/M00 Q1025 YBRK 290400Z AUTO 07008KT 010V130 9999 // NCD 33/15 Q1010 RF00.0/000.0 OITP 290400Z 32004KT 9999 OVC020 06/04 Q1028 KSGR 290410Z AUTO 01003KT 10SM OVC014 19/17 A3001 RMK AO2 T01890172 ETHB 290320Z AUTO VRB02KT 9999 // ////// 00/M02 Q1026 /// MNPC 282300Z 09006KT 6000 VCRA FEW014CB SCT016 26/25 Q1011 CBRA/NE KPPA 290355Z AUTO 01003KT 7SM RA OVC003 02/01 A3012 RMK AO2 P0001 T00180012 KCGC 290355Z AUTO 00000KT 10SM OVC014 20/18 A3004 RMK AO2 WIDD 290400Z 34006KT 9999 FEW014 29/23 Q1012 NOSIG KMAO 290355Z AUTO 00000KT 3SM BR CLR 08/08 A3013 RMK AO2 CWAE 290100Z 00000KT 15SM FEW032 00/M00 A3035 RMK CU2 LAST OBS/NEXT 291500UTC SLP299 CYTZ 290400Z AUTO 25014G19KT 9SM CLR 05/M00 A3002 RMK SLP172 SBCZ 282200Z 30004KT 9999 SCT030 FEW040TCU BKN090 26/26 Q1008 YWDH 290400Z AUTO 06004KT 9999 // NCD 42/02 Q1006 RMK LIMH 290355Z 05014KT CAVOK M08/M10 Q1015 RMK SKC MON LIB VAL NIL VIS MIN 9999 HTBU 290300Z 00000KT 9999 RA BKN012 FEW014CB OVC080 19/17 Q1017 EHFD 290355Z AUTO /////KT 9999 // BKN013/// 07/03 Q1026 RE// GMMI 282000Z AUTO 19004KT 170V230 //// ////// 15/11 Q1014 NOSIG KBVI 290355Z AUTO 20005KT 10SM CLR 02/M03 A3014 RMK AO2 T00201033 EGKA 281750Z 02008KT CAVOK 10/09 Q1019 FMMS 290300Z 00000KT 9999 BKN017 22/// Q1014 KFAY 290353Z 00000KT 10SM CLR 09/07 A3013 RMK AO2 SLP199 T00940072 HUEN 290330Z 27010KT 9999 SCT018 FEW020CB BKN110 19/18 Q1017 KOZA 290355Z AUTO 00000KT 10SM CLR 01/00 A3015 RMK AO2 UUBW 290400Z 08005MPS 9999 -RASN OVC004 01/01 Q1027 R30/210050 NOSIG KELZ 290356Z AUTO 24013G18KT 10SM CLR 01/M05 A3005 RMK AO2 SLP197 T00061050 TSNO VTSC 290400Z VRB03KT 9999 FEW022 29/23 Q1012 NOSIG KACK 290353Z 32012KT 10SM CLR 08/00 A3001 RMK AO2 SLP160 T00830000 CYEV 290400Z 04005KT 15SM -SN OVC019 M19/M21 A2942 RMK SC8 SLP971 YFBS 290400Z AUTO 21009KT //// // ////// 27/10 Q1007 RMK RKNR 270237Z 34005KT 9999 SCT025 BKN080 03/M04 A3012 RMK CIG080 CZSP 290400Z AUTO 30005KT 02/M00 RMK AO1 SLP102 T00201002 58005 KBIF 290358Z AUTO 01006KT 10SM CLR 06/M07 A3016 RMK AO2 SLP200 T00621066 $ SBCH 282300Z 12020G35KT 9999 TS SCT020 FEW040CB SCT100 24/18 Q1014 K04W 290259Z AUTO 00000KT 10SM CLR 04/00 A2979 RMK AO2 CYQW 290400Z AUTO 27004KT 9SM CLR M10/M12 A3022 RMK SLP271 KSDL 290353Z 34004KT 10SM CLR 14/M03 A3012 RMK AO2 SLP190 T01441033 KMEZ 290355Z AUTO 00000KT 10SM CLR 02/02 A3012 RMK AO2 YMNG 290400Z AUTO 18014KT 9999 // SCT039 BKN060 23/09 Q1010 LTBD 281350Z 00000KT CAVOK 20/M01 Q1019 USTR 290400Z 32002MPS 2800 -SN BR OVC006 M15/M17 Q1046 R30/450250 R21/490345 TEMPO 0400 FZFG VV002 RMK QBB180 QFE775/1033 WMKP 290400Z 21004KT 170V250 9000 FEW020 30/24 Q1011 NOSIG SAZM 290400Z 00000KT 0100 R13/0350 FG OVC001 19/18 Q1008 OSKL 290400Z 33006KT 9999 FEW026 09/02 Q1017 KTCY 290355Z AUTO 21009KT 10SM CLR 10/M01 A3019 RMK A01 TNCE 290355Z AUTO 00000KT //// // ///////// 26/// Q//// RE// CYUL 290400Z 24016G21KT 15SM OVC048 05/M00 A2992 RMK SC8 SLP135 SCDA 290400Z 14003KT CAVOK 18/14 Q1015 KPSP 290353Z 35005KT 10SM CLR 13/M07 A3016 RMK AO2 SLP215 T01331072 HCMM 281400Z 08016KT 9999 FEW026 29/20 Q1007 KY70 290357Z AUTO 23012KT 10SM CLR 04/M01 A3002 RMK AO2 T00371015 KNY0 290356Z AUTO 30005KT 10SM CLR M01/M02 A3003 RMK AO2 KDSV 290354Z AUTO 18005KT 10SM CLR M01/M04 A3007 RMK AO2 SLP198 T10061039 PGUA 290357Z 10018G24KT 10SM BKN017 30/24 A2978 RMK AO2A PK WND 12026/36 SLP075 T02950243 $ NCMR 290400Z AUTO 05004KT //// ////// ///// Q1012 CWLB 290400Z AUTO 22004KT M10/M12 RMK AO1 SOG 09 3009 SLP240 T10951117 CXHF 290400Z AUTO 02/M00 RMK AO1 T00161003 KI23 290355Z AUTO 21005KT 10SM CLR M00/M02 A3017 RMK AO1 LIVF 290355Z 00000KT 0050 FG VV/// 03/02 Q1012 RMK MON INVIS VAL INVIS VIS MIN 0050 CMGB 290400Z AUTO 22002KT 04/ RMK AO1 SLP133 T0037 50001 KNJW 232357Z AUTO 00000KT 10SM CLR 08/04 A3022 RMK AO2 SLP034 T00830039 10161 20083 53003 EKOD 281350Z 13004KT 070V180 9999 FEW002 BKN007 BKN009 02/01 Q1027 MHLE 290000Z 00000KT 9999 FEW022TCU 17/14 KCDJ 290352Z AUTO 19003KT 02/M02 A3008 RMK AO1 SLP195 T00171017 SAWE 290300Z 27024G34KT CAVOK 06/02 Q0992 KMWM 290243Z AUTO 21010KT 10SM CLR 04/M01 A2990 RMK AO2 SBMO 290400Z 12004KT CAVOK 24/21 Q1015 UKDR 290404Z 19002MPS 3000 BR OVC014 02/02 Q1018 R18/19//60 BECMG 0300 FG VV002= YPLC 290400Z AUTO 14011KT 9999 // OVC037 19/09 Q1015 RMK VAUD 290400Z 00000KT 5000 HZ NSC 16/08 Q1022 NOSIG RJOH 290400Z 26006KT 9999 FEW010 SCT050 12/09 Q1022 MMQT 290341Z 10005KT 7SM BKN300 16/02 A3025 RMK 8/006 GMMD 281900Z 14008KT SCT026 12/07 Q1014 NOSIG YLHI 290400Z AUTO 33010G23KT 300V070 9999 // SCT021 24/20 Q1010 DAOV 290400Z 21006KT 9999 FEW023 BKN026 09/06 Q1015 KHFY 290355Z AUTO 00000KT 10SM CLR 01/M04 A3017 RMK AO2 T00131040 VTUU 290400Z 04017KT 9999 SCT030 27/19 Q1016 NOSIG WMKD 290400Z 35003KT 250V060 9999 FEW020 29/24 Q1011 NOSIG YGTN 290400Z AUTO 14006KT 090V170 9999 // NCD 35/11 Q1008 RMK KHBR 290353Z AUTO 05005KT 10SM OVC050 06/03 A3014 RMK AO2 RAE49 SLP210 P0000 T00560033 RKSG 290356Z 35003KT 7SM BKN036 BKN046 OVC060 03/M07 A3039 RMK AO2A SLP295 $ LGKF 281550Z 10005KT 9999 SCT012 16/15 Q1018 NVVA 290300Z VRB02KT 9999 FEW020 SCT040 BKN300 27/20 Q1013 SPJI 281900Z 00000KT 9999 FEW020 OVC080 27/22 Q1020 RMK TX28.2 PP000 KGIF 290353Z AUTO 25003KT 10SM CLR 21/17 A3004 RMK AO2 SLP171 T02060172 KJMR 290355Z AUTO 23005KT 10SM CLR 03/M01 A2982 RMK AO2 KLCQ 290355Z AUTO 03003KT 1 3/4SM BR OVC002 15/15 A3007 RMK AO2 KHTL 290353Z AUTO 22006KT 10SM CLR 03/M01 A2993 RMK AO2 SLP146 T00281006 ESMS 290350Z 34007KT 3200 BR BKN002 M00/M00 Q1027 CWNE 290400Z AUTO 23005KT 04/02 RMK AO1 SLP094 T00370017 58004 KBVU 290355Z AUTO 36004KT 10SM CLR 06/M10 A3020 RMK AO2 CWTG 290400Z AUTO 25009KT 01/01 RMK AO1 SLP082 T00080007 55003 CWPD 290400Z AUTO 18003KT M03/M04 RMK AO1 SLP077 T10321041 56008 KCEZ 290353Z AUTO 06006KT 10SM CLR M06/M11 A3021 RMK AO2 SLP255 T10561111 EGHQ 290350Z AUTO 08004KT 9999 NCD 08/06 Q1021 KSLR 290355Z AUTO 00000KT 4SM DZ OVC025 09/07 A3013 RMK AO2 T00850067 KGHB 272040Z AUTO 18009KT 10SM CLR 25/22 A2999 RMK A01 SBYS 290200Z 17003KT CAVOK 22/21 Q1019 KLGB 290353Z AUTO 33003KT 10SM CLR 14/M01 A3010 RMK AO2 SLP193 T01441011 FNCT 281600Z 29006KT 9999 BKN015 27/23 Q1010 KCHO 290353Z 16003KT 10SM CLR 07/M01 A3014 RMK AO2 SLP205 T00671011 ETNN 290320Z 08005KT 6000 OVC008 03/01 Q1023 GRN K54J 290355Z AUTO 00000KT 10SM CLR 16/14 A3006 RMK AO2 T01630143 CYUY 290400Z 24004KT 15SM -SN OVC020 M01/M02 A2978 RMK SC8 PCPN VRY LGT SLP103 CWBU 290400Z AUTO 30011KT M10/M14 RMK AO1 SOG 22 3040 SLP223 T11001138 CWRN 290400Z AUTO 31016KT 05/04 RMK AO1 PK WND 32019/0355 SLP083 T00530041 53002 CWRO 290400Z AUTO 17036G43KT 07/07 RMK AO1 PK WND 17049/0331 SLP096 T00730068 56017 VTSP 290400Z 08011KT 040V110 9999 FEW020 30/23 Q1011 NOSIG LGAV 290350Z 36003KT 9999 FEW025 SCT060 11/10 Q1017 NOSIG ENGC 290350Z 21020KT 9999 SCT025 SCT040 08/04 Q1024 W08/S5 CYTH 290400Z 31005KT 10SM -SN OVC047 M09/M11 A2991 RMK SC8 SLP151 RJOF 290346Z 30011KT 9999 FEW025 SCT035 14/03 Q1024 RMK 1CU025 4CU035 A3024 KMDS 290355Z AUTO 27007KT 10SM CLR 03/M05 A2994 RMK AO2 KFXY 290355Z AUTO 21004KT 10SM CLR 00/00 A2993 RMK AO2 KMCC 290355Z AUTO 00000KT 10SM CLR 06/01 A3019 RMK AO2 SEMT 290400Z 24004KT 9999 BKN020 24/20 Q1013 RMK A2991 HKMO 290300Z 25004KT 9999 FEW020 SCT080 25/24 Q1011 NOSIG KFQD 290355Z AUTO 30005KT 10SM CLR 07/05 A3015 RMK AO2 VANP 290400Z 06002KT 3000 HZ NSC 24/13 Q1020 NOSIG PAGH 281407Z AUTO 00000KT 4SM -SN BR SCT019 OVC026 M13/M14 A2931 RMK AO2 P0000 FZRANO KBTL 290353Z 23011KT 10SM CLR 03/M01 A3006 RMK AO2 SLP186 T00281011 KNRB 290352Z AUTO 32007KT 10SM OVC007 18/18 A3006 RMK AO2 SLP179 T01780178 $ KOWB 290356Z 18003KT 10SM CLR 02/M01 A3018 RMK AO2 SLP222 T00221011 UHMD 270330Z 02003MPS P1000 SCT030 M05/M08 Q0993 RMK QFE744/0992 EGNM 282320Z 06003KT 0200 R32/0175 -RADZ FG VV/// 07/07 Q1024 SPQT 290400Z 00000KT 9999 FEW010 SCT025 BKN100 24/23 Q1012 NOSIG RMK PP000 MMCL 290349Z 00000KT 10SM SKC 19/09 A2990 RMK HZY KRSW 290353Z 00000KT 10SM CLR 21/19 A3004 RMK AO2 SLP170 T02110189 KSIK 281355Z AUTO 00000KT 10SM CLR 00/00 A3028 RMK AO2 KLKV 290353Z AUTO 33009KT 10SM CLR 01/M05 A3029 RMK AO2 SLP305 T00061050 FZRANO $ CYXJ 290400Z CCA 23017KT 15SM DRSN BKN140 BKN240 M01/M06 A2994 RMK AC5CI2 SLP183 KMEH 290356Z AUTO 00000KT 10SM OVC031 01/M03 A3035 RMK AO2 SLP304 T00111028 $ KGLY 290355Z AUTO 00000KT 10SM CLR 02/M02 A3013 RMK AO2 KGDJ 290355Z AUTO 30007KT 10SM OVC012 08/07 A3012 RMK AO2 T00800068 K2V6 290354Z AUTO 22007KT 10SM CLR M01/M05 A3002 RMK AO2 KFME 290355Z AUTO 00000KT 10SM CLR 01/00 A3018 RMK AO1 KPPF 241652Z AUTO A2991 RMK AO2 SLPNO PWINO FZRANO $ ESNS 290350Z AUTO 27007KT 9999 OVC012/// M01/M03 Q1028 LFMH 290400Z AUTO 16002KT 4300 R17/1000U BR NSC M02/M02 Q1015 KEQA 290355Z AUTO 00000KT 10SM CLR 06/00 A3011 RMK AO2 SARL 290400Z 18010KT 9999 FEW045CB SCT100 BKN200 19/18 Q1010 RMK CB OBS TO N ESTIMATED WIND K05U 290355Z AUTO 00000KT 10SM CLR M09/M16 A3032 RMK A01 KCRS 290400Z AUTO 33006KT 3SM -RA BR BKN004 OVC008 12/11 A3009 RMK AO2 CIG 003V006 P0000 T01170111 PADL 290356Z 28004KT 9SM -SN OVC038 M04/M05 A2890 RMK AO2 SLP789 P0000 T10391050 VOPC 280400Z 05003KT 6000 SCT020 27/22 Q1015 NOSIG RPVD 290400Z 04006KT 9999 FEW015 31/25 Q1008 RMK A2977 ENRM 280850Z 13006KT 080V180 CAVOK 03/M01 Q1022 SBNF 290245Z 05010KT 9999 FEW013 SCT045 24/22 Q1017 KQER 290410Z AUTO 18008G14KT 9999 FEW037 M00/M09 A3029 RMK A02 TSNO SCMK 290400Z AUTO 23003KT //// // SCT034/// SCT055/// 07/04 Q1022 YMTG 290400Z AUTO 21013KT 9999 // OVC044 17/09 Q1014 RMK K2W6 290355Z AUTO 00000KT 10SM CLR 03/01 A3017 RMK AO1 KTEB 290351Z 00000KT 10SM CLR 05/M01 A3011 RMK AO2 SLP194 T00501011 CWII 290400Z AUTO 36007KT M01/M02 RMK AO1 SLP112 T10121015 53034 KRDG 290354Z AUTO 23003KT 10SM CLR 05/M03 A3013 RMK AO2 SLP210 T00501028 KPCW 290355Z AUTO 24011KT 10SM CLR 04/M01 A3011 RMK AO2 LGSO 290350Z AUTO 14010KT //// // ////// 15/12 Q1018 RE// KBNW 290355Z AUTO 24008KT 10SM CLR 05/02 A2996 RMK AO2 K6P9 290355Z AUTO 31008KT 10SM OVC005 06/05 A3012 RMK AO2 T00550052 RJOW 290400Z 25005KT 210V290 9999 -SHRA FEW020 SCT030 BKN040 11/05 Q1023 UMII 281600Z 09004MPS 4800 BR OVC004 M00/M01 Q1020 TEMPO 2000 BKN003 RMK QBB120= ENVD 281450Z 26014KT 9999 FEW015 M03/M06 Q1023 LGAL 281750Z 00000KT 9999 FEW018 07/06 Q1018 MMPS 290043Z 00000KT 15SM SKC 27/22 A2986 RMK AC N HZY RJKN 290023Z AUTO 02009KT 9999 -RA BKN036 BKN043 OVC050 17/13 Q1025 RMK A3028 CWJW 290400Z AUTO 18002KT M08/M13 RMK AO1 SOG 04 3006 SLP299 T10751128 RJKA 290400Z 35011KT 9999 FEW030 SCT040 BKN060 19/12 Q1022 KM19 290356Z AUTO 05003KT 10SM CLR 04/02 A3016 RMK AO2 SLP214 T00390022 YBHM 290400Z AUTO 11014KT 9999 // NCD 28/17 Q1011 RF00.0/000.0 KL18 290355Z AUTO 01004KT 10SM CLR 13/M06 A3011 RMK AO2 KFPK 290355Z AUTO 22008KT 10SM CLR 04/M01 A3003 RMK AO2 T00431007 OERK 290400Z 16003KT 9999 FEW050 16/13 Q1018 NOSIG KL35 290355Z AUTO 00000KT 10SM CLR M04/M20 A3027 RMK AO2 LTCG 290350Z VRB02KT CAVOK 11/03 Q1021 NOSIG RMK RWY29 00000KT UKON 280900Z 33002MPS 300V360 0100 FG VV001 03/03 Q1018 R22/090075 NOSIG= KDMW 290355Z AUTO 00000KT 10SM CLR 06/M02 A3014 RMK AO2 KSBA 260553Z 00000KT 7SM CLR 08/07 A3005 RMK AO2 SLP174 T00780067 10150 20072 51003 $ YSNF 290400Z AUTO 29009KT 9999 // NCD 22/15 Q1015 RF00.0/000.0 ENHM 290350Z AUTO 16011KT 9999NDV -SHRA FEW036/// BKN045/// BKN051/// 08/05 Q1025 W10/S4 FBMN 290400Z 05003KT CAVOK 21/21 Q1016 KVPS 290357Z AUTO 02004KT 10SM -RA BKN100 17/15 A3005 RMK AO2 RAB56 SLP182 $ LEPA 290400Z 25001KT 9999 FEW025 SCT045 11/10 Q1009 NOSIG KONL 290355Z AUTO 27004KT 10SM CLR 00/M06 A2995 RMK AO2 T00001058 LCRA 290350Z 31002KT 9999 FEW040 12/08 Q1019 NOSIG ETAD 290356Z AUTO 06010KT 8000 BR OVC003 01/01 A3016 RMK AO2 CIG 002 RWY05 SLP219 T00050005 CWUX 290400Z AUTO 06002KT M01/M02 RMK AO1 SLP083 T10091016 56010 KACQ 290355Z AUTO 21003KT 10SM CLR 00/M01 A2993 RMK AO2 ESOK 290350Z AUTO VRB03KT 4400 -FZDZ SCT005/// BKN008/// OVC009/// M02/M02 Q1029 SLRQ 282200Z 00000KT 9999 SCT020 SCT200 31/26 Q1007 CXWB 290300Z AUTO 03005KT M25/M28 RMK AO1 SLP183 T12511281 51009 VEMR 290400Z 13003KT 3000 HZ FEW020 22/15 Q1020 KGPT 290353Z AUTO 06004KT 10SM FEW070 SCT090 OVC110 16/14 A3005 RMK AO2 RAE16 SLP174 P0001 T01610144 TSNO ROMD 290400Z AUTO 01016KT 9999 FEW039 OVC050 22/13 Q1021 LFMN 290400Z 32012KT CAVOK 10/05 Q1011 NOSIG PACD 290353Z AUTO 29016KT 10SM FEW037 00/M06 A2932 RMK AO2 PK WND 30028/0331 SLP929 T00001056 TSNO $ KFEW 290358Z AUTO 34008KT 10SM CLR 00/M12 A3010 RMK AO2 SLP197 T10021124 $ SBSP 290400Z AUTO 05003KT 030V090 CAVOK 20/16 Q1020 FOON 281800Z 06004KT 9999 TS SCT013 FEW020CB 27/25 Q1012 EGAA 290350Z AUTO 08005KT 5000 BR BKN018/// OVC023/// 07/06 Q1024 KECG 290410Z 00000KT 1/2SM FG CLR 07/07 A3015 RMK AO2 T00670067 $ KVLD 290353Z AUTO 04007KT 10SM OVC006 16/14 A3008 RMK AO2 SLP194 T01610139 YBDG 290400Z AUTO 22013KT 9999 // OVC055 20/08 Q1011 RMK RJNY 290122Z 08004KT 040V120 9999 FEW030 BKN150 14/04 Q1021 RMK 1CU030 5AC150 A3017 EHEH 290408Z AUTO 07006KT 040V130 4100 BR SCT005 BKN006 OVC008 03/02 Q1024 YLO NZCI 290400Z 17008KT 140V220 20KM BKN045 OVC060 20/13 Q0999 RMK AUTO NZNR VATSIM SOCA 290400Z AUTO 00000KT 9999 3100 FEW018 SCT025 24/24 Q1012 TEMPO 3000 SHRA BKN015 SCT020TCU YHOT 290400Z AUTO 20009KT 9999 // SCT032 15/08 Q1010 RMK GMAG 281800Z 32008KT 9999 FEW020 16/10 Q1014 NOSIG KCKC 290355Z AUTO 01003KT 10SM CLR M03/M05 A2972 RMK AO2 EGUW 290350Z AUTO 07006KT 1200 BR OVC001/// 07/07 Q1024 SBPC 282000Z /////KT 9999 FEW015 27/11 Q1020 FNMO 281500Z 25012KT 9999 SCT029 26/17 Q1008 EPMB 290330Z 01004KT 9999 FEW017 OVC040 03/01 Q1022 RMK 025 091 8/2= KVPC 290353Z AUTO 00000KT 10SM CLR 09/07 A3012 RMK AO2 SLP194 T00890067 UACK 290400Z 35005MPS 6000 -SN OVC014 M12/M13 Q1040 NOSIG RMK QFE756/1008 K3LF 290355Z AUTO 15003KT 10SM CLR 01/M02 A3014 RMK AO2 T00121018 EDHL 281850Z 06002KT 9999 BKN023 01/M00 Q1028 EHKD 290355Z AUTO 08010KT 050V110 9000 BR OVC008 04/01 Q1025 GRN KCGS 290355Z AUTO 00000KT 10SM CLR 02/M01 A3015 RMK AO1 T00221007 KSZY 290355Z AUTO 00000KT 10SM CLR 04/00 A3013 RMK A01 LETU 290400Z AUTO 24006KT 9999 NCD 07/06 Q1013 OODQ 290350Z AUTO 08012KT //// R22///// FEW040 24/13 Q1017 NOSIG KDDC 290352Z AUTO 23009KT 10SM -RA BKN044 BKN070 OVC085 04/03 A3012 RMK AO2 SLP208 P0004 T00440028 KBOK 290356Z AUTO 00000KT 10SM CLR 06/05 A3023 RMK AO2 SLP242 T00610050 KJSV 290355Z AUTO 00000KT 10SM CLR 06/02 A3015 RMK AO2 KFKR 290355Z AUTO 22003KT 10SM CLR 03/M03 A3015 RMK AO2 T00271030 KNSE 290356Z AUTO 00000KT 10SM CLR 16/14 A3007 RMK AO2 SLP170 T01560144 PNO $ KGWW 290355Z AUTO 00000KT 10SM CLR 06/06 A3015 RMK AO2 T00560056 MNBL 282300Z 03004KT 9999 FEW019 27/25 Q1010 LFAQ 290400Z AUTO 04011KT 0450 0400 R27/0650D FG VV/// 02/02 Q1021 FOOG 282300Z 21006KT 9999 FEW008 26/25 Q1012 KLEX 290354Z 05003KT 10SM CLR 01/M03 A3017 RMK AO2 SLP220 T00061028 HTSU 290300Z 00000KT 9999 SCT018 FEW020CB 16/15 Q1022 GCRR 290400Z AUTO 27009KT CAVOK 18/15 Q1013 KONP 290355Z AUTO 07006KT 10SM CLR 06/06 A3032 RMK AO2 LZTT 290400Z 20004KT 9999 SCT023 BKN100 M03/M05 Q1016 KBBW 290353Z AUTO 28011KT 10SM CLR 07/M06 A2995 RMK AO2 SLP154 T00671056 SBUL 290300Z 06006KT CAVOK 22/11 Q1020 EGPI 290350Z AUTO VRB03KT 9999 SCT035/// 05/04 Q1024 CYYN 290400Z AUTO 28011KT 9SM CLR M10/M11 A3024 RMK ICG INTMT SLP285 SBAT 281700Z 10007KT 9999 SCT035 FEW038TCU 34/21 Q1012 LSZL 290350Z AUTO VRB01KT 4100NDV BR FEW033 M02/M02 Q1018 RMK KNFW 290352Z AUTO 28004KT 10SM OVC006 10/08 A3011 RMK AO2 RAB0257E39 SLP179 P0001 T01000083 $ KDYT 290355Z AUTO 22005KT 10SM CLR 03/M02 A2978 RMK AO2 NZHT 290300Z 32012KT 290V020 60KM FEW055 18/09 Q1000 RMK NZMF VATSIM USE ONLY LTFE 290350Z 00000KT CAVOK 03/01 Q1020 NOSIG RMK RWY10 06003KT SPJL 282000Z 12009KT 9999 SCT020 SCT100 20/M03 Q1031 RMK PP000 ETHA 290320Z AUTO 08009KT //// // ////// M01/M02 Q1018 /// KI16 290355Z AUTO 10SM 00/00 A3022 RMK AO2 T00011004 KLHM 290355Z AUTO 08005KT 10SM CLR 01/00 A3018 RMK AO1 EPLL 290400Z 35004KT 9999 -SN BKN006 01/00 Q1019 ORNI 290400Z 32007KT 2000 BR SCT040 14/14 Q1017 NOSIG DTTJ 290400Z 25022KT 8000 NSC 16/05 Q1009 NOSIG KCQT 290352Z AUTO 00000KT 10SM CLR 14/02 A3010 RMK AO2 SLP192 T01390017 $ VEMN 290400Z 09006KT 5000 HZ NSC 23/14 Q1020 NOSIG OPIS 290355Z 27008KT 6000 NSC 15/06 Q1019 NOSIG CYCP 290000Z VRB02KT 15SM FEW060 FEW180 FEW250 M02/M05 A3035 RMK CU1AC1CI1 CU TR LAST STFD OBS/NEXT 291400Z SLP312 CXAF 290400Z AUTO 16005KT M11/M12 RMK AO1 T11101116 RJFE 290400Z 36010KT 9999 FEW035 SCT040 BKN045 11/03 Q1026 CYAW 272200Z 23005KT 0SM -DZ FG VV002 12/12 A2989 RMK FG8 DA35FT LAST OBS/NEXT 301000 UTC SLP123 FBKE 281200Z VRB02KT 9999 TSRA BKN025 FEW030CB SCT065 19/19 Q1018 KBPC 290355Z AUTO 00000KT 10SM OVC005 02/02 A3013 RMK AO2 KDCA 290352Z 33006KT 10SM CLR 09/M04 A3016 RMK AO2 SLP214 T00891039 YCOM 290400Z AUTO 23017KT 9999 // NCD 24/09 Q1006 RMK SETU 271900Z 05004KT 9999 -TSRA FEW016CB BKN020 13/11 Q1029 KTOL 290352Z 23009KT 10SM CLR 05/M04 A3011 RMK AO2 SLP200 T00501039 $ VTSG 290400Z 05008KT 360V110 9999 SCT020 31/25 Q1012 NOSIG YBDV 290400Z AUTO 31008KT //// // ////// 45/13 Q1003 KMBG 290352Z AUTO 32014G21KT 10SM CLR 06/M07 A3002 RMK AO2 SLP180 T00611067 KOCW 290355Z AUTO 00000KT 10SM CLR 08/07 A3016 RMK AO2 T00750068 TJBQ 290350Z 07009KT 10SM SCT021 SCT050 BKN065 24/22 A3002 FNSA 281200Z 00000KT 4000 -RA SCT023 21/18 Q1019 UAUU 290400Z 33003MPS 4900 BR OVC017 M17/M19 Q1046 R33/850051 NOSIG RMK QFE769/1025 K2C8 290355Z AUTO 31023G30KT 10SM BKN023 OVC030 01/M03 A2980 RMK AO2 KMLU 290353Z 09005KT 10SM CLR 10/07 A3010 RMK AO2 SLP193 T01000072 KDFI 290353Z AUTO 21007KT 10SM CLR 03/M03 A3012 RMK AO2 SLP207 T00281033 KWVI 290353Z AUTO 34003KT 10SM CLR 08/04 A3017 RMK AO2 SLP219 T00830039 KCLE 290351Z 21010KT 10SM CLR 04/M03 A3010 RMK AO2 SLP215 T00391028 LJPZ 290400Z AUTO 09007KT 9999 OVC060/// 09/03 Q1015 KTBX 290355Z AUTO 10SM CLR 00/M18 A3023 RMK AO2 KWJF 290356Z 00000KT 10SM CLR 03/M13 A3022 RMK AO2 SLP253 T00331133 DAAS 290400Z 28007KT 8000 SCT010 SCT026 08/06 Q1009 KGED 290354Z AUTO 00000KT 10SM CLR 04/03 A3014 RMK AO2 SLP207 T00440028 $ KHZE 290355Z AUTO 32019G28KT 10SM OVC028 M00/M04 A3013 RMK AO2 KN03 290355Z AUTO 00000KT 10SM CLR M03/M03 A3005 RMK AO2 EKSN 271350Z 17002KT CAVOK 07/05 Q1022 PAOH 282254Z AUTO 06005KT 2 1/2SM -SN BR OVC013 02/01 A2938 RMK AO2 PK WND 10026/2158 VIS 1 1/4V4 RAE49SNB49 P0018 FZRANO $ K4V0 290355Z AUTO 00000KT 10SM CLR M09/M13 A3028 RMK AO2 T10911132 CYPR 290400Z AUTO 15017G29KT 7SM -RA SCT028 OVC034 06/04 A2994 RMK SLP141 KOXB 290353Z AUTO 00000KT 10SM CLR 03/02 A3015 RMK AO2 SLP208 T00330017 KPQL 290353Z AUTO 00000KT 10SM -RA FEW100 OVC110 17/15 A3006 RMK AO2 RAB0257 SLP181 P0000 T01720150 YBCK 290400Z AUTO 01009KT //// // ////// 38/M00 Q1009 RMK SVFM 290402Z AUTO 12003KT NCD 22/19 Q1017 EKSP 290350Z 36002KT 9999 BKN015 01/M00 Q1029 KOLE 290355Z AUTO 21005KT 10SM CLR 00/M05 A3004 RMK AO2 SAAC 261130Z 16003KT 5000 BR NSC 20/19 Q1013 LFLN 290400Z AUTO 09003KT 7000 FEW018 M01/M01 Q1016 BIEG 290400Z 19014KT 9999 FEW050 SCT061 BKN120 05/M02 Q1001 KDAW 290351Z AUTO 00000KT 10SM CLR 03/00 A2996 RMK AO2 SLP146 T00330000 K1M4 290356Z AUTO 00000KT 10SM CLR 07/04 A3013 RMK AO2 SLP724 T00670044 CWBK 290400Z AUTO 33012KT 05/03 RMK AO1 8005 SLP095 T00490028 50005 FBSK 290400Z 30004KT 9999 SCT015 FEW035CB BKN065 18/18 Q1017 NOSIG KPMH 290355Z AUTO 00000KT 10SM CLR M01/M01 A3021 RMK AO2 T10131013 SVMI 290402Z AUTO 09006KT NCD ///// Q1014 VTST 290400Z 05006KT 360V090 9999 FEW025 31/25 Q1010 NOSIG HEGN 290300Z 28007KT CAVOK 16/07 Q1018 NOSIG ETHS 290320Z 33002KT 9999 BKN030 M01/M02 Q1026 BLU CWJO 290300Z AUTO 13003KT M00/M00 RMK AO1 SLP095 T10031003 57009 YCMM 290400Z AUTO 13009KT 100V180 //// // ////// 21/08 Q1014 UUOK 290400Z 14009MPS 9000 OVC010 02/M00 Q1020 R12/290150 NOSIG RMK QFE747/0996 SLRY 282200Z 00000KT 6000 VCSH FEW020 FEW023CB SCT200 33/24 Q1007 EHWO 290355Z AUTO 08009KT 050V120 1100 BR OVC001 03/03 Q1024 RED KDPG 252255Z 29001KT 50SM SCT110 SCT220 10/M09 A2996 RMK SLP149 T00981088 LAST TNCC 290400Z 08010KT 9999 FEW017 28/24 Q1013 NOSIG FQNC 281300Z 10011KT 9999 FEW020 32/19 Q1010 RMK TX/33.4 TM/25.1 FPST 281500Z 15014KT 9999 FEW020CB BKN040 31/27 Q1010 NOSIG CYIN 290400Z AUTO 16006KT 9SM FEW120 M02/M05 A3020 RMK SLP270 VVCT 290400Z 02004KT 9999 -RA SCT013 FEW015TCU BKN040 27/26 Q1011 NOSIG TCU/E LKLN 290400Z AUTO 35002KT 9999 OVC035 M00/M01 Q1023 KCBK 290355Z AUTO 22013KT 10SM CLR 02/M01 A3006 RMK AO2 PWINO FQMA 290400Z 36005KT 9999 FEW030 BKN070 24/22 Q1012 NOSIG LFKS 290400Z AUTO 35010KT 9999 ////// 13/11 Q1009 KCMI 290353Z AUTO 20008KT CLR 00/M02 A3013 RMK AO2 SLP210 T00001017 $ ULMM 290400Z 19004MPS 9999 BKN016 M03/M05 Q1024 R13/390138 NOSIG RMK QFE761 KRME 290353Z AUTO 00000KT 10SM CLR M02/M04 A3006 RMK AO2 SLP182 I1000 T10221039 KT74 290355Z AUTO 32007KT 5SM -RA BR BKN022 BKN027 OVC042 10/09 A3010 RMK AO2 P0003 T01000092 ZBTJ 290400Z 31003MPS 270V350 CAVOK 03/M10 Q1033 NOSIG KLWM 290354Z AUTO 21004KT 10SM CLR 03/M01 A3002 RMK AO2 SLP165 T00281011 KTBN 290356Z AUTO 00000KT 10SM CLR 03/M01 A3013 RMK AO2 SLP211 T00301014 FNHU 281500Z 08012KT 8000 VCSH SCT016 FEW026CB BKN070 24/17 Q1018 URSS 290400Z 04005MPS 9999 NSC 04/M02 Q1022 R02/010070 R06/010070 NOSIG RMK R06/07003MPS QFE765 YWYM 290400Z AUTO 27006KT 190V310 //// // ////// 40/17 Q1004 KJRB 290356Z AUTO 26003KT 10SM CLR 08/M01 A3012 RMK AO2 SLP201 T00781011 ZYTL 290400Z 31004MPS 270V350 9999 BKN040 03/M07 Q1031 NOSIG K1EM 290358Z AUTO 24007KT 10SM BKN085 M03/M06 A3034 RMK AO2 SLP312 T10301056 $ LFJR 290400Z AUTO 04006KT 020V080 9000 NSC 04/03 Q1018 KIFA 290355Z AUTO 22009KT 10SM CLR 04/00 A2997 RMK AO2 T00391003 KDUA 290355Z AUTO 16004KT 5SM RA SCT031 BKN060 OVC065 08/07 A3014 RMK AO2 LICF 290255Z 30006KT 9999 BKN030 13/11 Q1008 RMK BKN BKN080 BKN200 QUK / QUL / VIS MAR 12 KM MON INVIS NC VIS MIN 9999 VEPT 290400Z 28003KT 1500 R25/2000 FU NSC 20/09 Q1019 NOSIG OERR 290400Z 27008KT 7000 NSC 09/07 Q1019 NOSIG KNYC 290351Z AUTO VRB04KT 10SM CLR 07/M01 A3013 RMK AO2 SLP195 T00721011 $ MMCZ 290143Z 07004KT 7SM FEW100 23/21 A2997 RMK 8/070 KONZ 290355Z AUTO 24009KT 10SM CLR 04/M02 A3007 RMK AO2 T00381023 SVBS 290402Z AUTO 06002KT NCD 23/// Q1016 EDDR 290350Z 07010KT 5000 BR OVC003 01/00 Q1020 LEAS 290400Z AUTO 26004KT 230V290 CAVOK 08/05 Q1010 OIMN 290400Z 07006KT 9000 NSC 02/M03 Q1028 RCMQ 290400Z 03014KT 9999 FEW010 SCT200 25/15 Q1019 NOSIG RMK A3009 KFGN 290355Z AUTO 00000KT M03/M06 A2965 RMK AO2 PWINO DTTF 290400Z 23017KT 6000 NSC 10/04 Q1007 NOSIG FLKK 290400Z 15003KT CAVOK 20/18 Q1019 KGOV 290358Z AUTO 23003KT 10SM CLR 03/00 A2990 RMK AO2 SLP141 T00250004 $ RJOE 280128Z 30017G27KT 9999 FEW020 SCT045 13/03 Q1017 RMK 1CU020 3SC045 A3003 CWOB 290400Z AUTO 33005KT ////SM BKN028 OVC034 M08/M09 A2935 FNUG 281600Z 15006KT 9999 SCT020 BKN070 21/20 Q1012 KLGC 290355Z AUTO 00000KT 10SM CLR 10/09 A3010 RMK AO2 T00990094 CYQT 290400Z 06004KT 15SM BKN250 M03/M03 A2976 RMK CS5 SLP091 VTSB 290400Z 05014KT 9999 FEW018TCU SCT020 28/24 Q1012 SLLP 290400Z 07007KT 9999 FEW010 BKN200 08/03 Q1038 K54A 290350Z AUTO 00000KT 4SM BR SCT001 SCT044 18/18 A3005 RMK AO2 PAFE 290356Z AUTO 10012G18KT 10SM -RA OVC028 03/03 A2954 RMK AO2 RAE10B29 SLP016 P0000 T00330028 $ EFPO 290350Z AUTO 09002KT 9999 OVC026 M00/M02 Q1030 KSHL 290355Z AUTO 17003KT 10SM CLR 01/M01 A2991 RMK AO2 OJAI 290400Z 00000KT 6000 NSC 06/05 Q1020 NOSIG SASA 290400Z 27002KT CAVOK 22/19 Q1016 LIMC 290350Z 01003KT 7000 BKN035 06/04 Q1016 NOSIG OSDI 290400Z 21004KT 0300 FG 05/03 Q1021 CZSM 290400Z AUTO 15004KT M16/M18 RMK AO1 SOG 38 6024 SLP126 T11591178 CYDQ 290400Z AUTO 15006KT 130V210 9SM CLR M03/M08 A2999 RMK SLP203 ESOW 290350Z AUTO 33004KT 9999 OVC010/// M01/M03 Q1030 RKTI 260140Z 32001KT 3200 BR SCT150 04/04 A3034 SPTU 281800Z VRB02KT 8000 VCTS SCT022 SCT035 26/25 Q1010 RMK CB SE BIRD HAZARD RWY 01/19 PP000 KCNB 290355Z AUTO 21009KT 10SM CLR 07/M05 A2990 RMK AO2 T00721048 NCRK 290400Z AUTO 11002KT //// ////// 28/23 Q1009 YHAY 290400Z AUTO 20013KT 180V250 //// // ////// 29/06 Q1008 ENQC 290350Z AUTO 16017KT 9999NDV OVC046/// 08/04 Q1025 W///S5 KSDC 290355Z AUTO 23004KT 10SM CLR 03/M05 A3004 RMK AO2 HEBA 290300Z 00000KT 9999 SCT020 13/10 Q1018 NOSIG KCIN 290355Z AUTO 23011KT 10SM CLR 04/01 A2995 RMK AO2 KSTK 290355Z AUTO 24006KT 10SM CLR M01/M04 A3003 RMK AO2 KJYM 290355Z AUTO 22008KT 10SM CLR 02/M03 A3006 RMK AO2 T00201030 CYQA 290400Z AUTO 22006KT 9SM OVC160 01/M03 A2992 RMK SLP144 LKKB 290400Z 29004KT 9999 SCT036 M00/M01 Q1023 NOSIG KGWO 290353Z AUTO 00000KT 8SM CLR 08/07 A3013 RMK AO2 SLP202 T00830072 SBBV 290400Z 08004KT 9999 FEW040 FEW045TCU BKN080 27/23 Q1012 KNOG 290356Z AUTO 01011KT 3SM -RA BR BKN008 OVC012 18/17 A3001 RMK AO2 RAE35B56 CIG 004V010 SLP144 P0000 T01780172 TSNO $ WABB 242330Z VRB02KT 9000 -RA SCT018 OVC100 26/24 Q1010 LFVP 290100Z VRB01KT 1900 -RA BR SCT005 BKN046 06/06 Q1006 NOSIG KHRJ 290355Z AUTO 00000KT 10SM CLR 08/08 A3015 RMK AO2 T00770077 CWKO 290400Z AUTO 31017G25KT M05/M08 RMK AO1 SOG 06 1031 PK WND 32027/0327 SLP276 T10531075 KOSU 290353Z 21005KT 9SM CLR 02/M01 A3016 RMK AO2 SLP221 T00171011 KCKV 290352Z AUTO 00000KT 10SM CLR 02/M02 A3016 RMK AO2 SLP216 T00221022 CWIW 290400Z AUTO 31016KT M08/M11 RMK AO1 SOG 05 1034 PK WND 30019/0350 SLP256 T10791107 KAWG 290355Z AUTO 21009KT 10SM CLR 05/01 A3001 RMK AO2 KCXO 290353Z AUTO 03005KT 7SM -RA OVC004 14/13 A3004 RMK AO2 RAB09 SLP172 P0004 T01390128 KFLL 290353Z 19003KT 10SM SCT060 23/20 A3003 RMK AO2 SLP169 T02280200 $ CWLS 290400Z AUTO 22009KT 01/M02 RMK AO1 SLP168 T00111023 56001 KXER 290355Z AUTO 08014KT 10SM SCT014 BKN070 OVC090 24/21 A3002 RMK A01 YCNY 290400Z AUTO 36006KT 330V040 //// // ////// 38/13 Q1006 NIUE 290400Z AUTO 33006KT 300V010 // 24/24 Q1010 MDST 290400Z 10004KT 9999 BKN018 24/22 Q1015 PAWN 281356Z AUTO 02011G15KT 10SM CLR M13/M15 A2935 RMK AO2 SLP952 T11281150 FZRANO LCEN 290350Z 27005KT 9999 FEW025CB SCT030 11/09 Q1019 NOSIG RMK RWY11 27006KT LFKJ 290400Z AUTO VRB02KT CAVOK 11/10 Q1007 NOSIG CWWL 290300Z AUTO 16037G46KT 08/06 RMK AO1 PK WND 16049/0227 SLP148 T00810055 58016 KPQI 290356Z AUTO 24004KT 10SM BKN080 M01/M01 A2984 RMK AO2 SLP137 T10061006 PNO $ K0CO 290355Z AUTO 33022G28KT 10SM CLR M09/M20 A3021 RMK AO2 PWINO OPPS 290400Z 00000KT 3600 HZ FEW100 SCT200 11/04 Q1019 KAVK 290355Z AUTO 27008KT 10SM FEW043 BKN049 OVC055 06/02 A3014 RMK AO2 PWINO TSNO DAAD 281800Z 28018G28KT 9999 SCT026 SCT100 12/06 Q1006 LIVC 290355Z AUTO 07020KT //// M02/M02 Q1013 LZIB 290400Z 31005KT 9999 SCT042 02/M02 Q1022 CWPX 290400Z AUTO 14004KT ////SM //// OVC001 ///// A//// KOLY 290355Z AUTO 00000KT 10SM CLR 01/M02 A3017 RMK AO2 T00051018 LEMH 290400Z AUTO 35007KT 9999 FEW013/// 13/11 Q1007 EGSY 281250Z 06013KT 1500 BR OVC002 08/08 Q1016 KTIP 290355Z AUTO 21006KT 10SM CLR 02/00 A3013 RMK AO2 T00181003 LQMO 290400Z 13002KT 9000 -RA FEW040 BKN060 07/05 Q1014 LSZA 290350Z AUTO VRB01KT 1500 BR NCD 00/00 Q1017 REFZDZ KMNZ 290355Z AUTO 32011KT 10SM BKN007 OVC024 07/07 A3012 RMK AO2 T00730073 KVGC 290355Z AUTO 00000KT 7SM CLR M03/M03 A3004 RMK AO2 PHJH 282226Z 03015G20KT 10SM FEW026 FEW030 SCT050 26/19 A3001 DFFD 290400Z 35004KT CAVOK 24/06 Q1011 NOSIG KMZZ 290355Z AUTO 22003KT 10SM CLR 01/M03 A3016 RMK AO2 T00051027 KAJO 290356Z AUTO 12004KT 10SM CLR 13/M06 A3012 RMK AO2 SLP198 T01281061 KPIL 290353Z AUTO 29010KT 10SM OVC004 19/18 A2995 RMK AO2 SLP142 T01940183 KCCB 290355Z AUTO 36006KT 10SM CLR 16/M11 A3012 RMK AO2 LEZG 290400Z 14003KT 090V200 9999 FEW070 09/08 Q1013 CXTN 290300Z AUTO 22003KT M22/M25 RMK AO1 SOG 112 8017 SLP026 T12231247 ENSB 290350Z 24012KT 200V270 9999 -FZRA SCT015 BKN018 M04/M08 Q0993 RMK WIND 1400FT 23014KT SAZN 290400Z 23004KT 9999 FEW045 BKN100 20/08 Q1014 VOCP 290400Z 35005KT 6000 FEW010 SCT020 BKN080 24/23 Q1016 NOSIG KUIL 290353Z AUTO 00000KT 10SM CLR 03/00 A3034 RMK AO2 SLP277 T00280000 K1HW 290358Z AUTO 30011KT 10SM CLR M02/M10 A3003 RMK AO2 SLP196 T10241099 $ KFHB 290355Z AUTO 01008KT 10SM OVC006 17/ A3007 RMK AO2 T0174//// VOCL 290400Z 07002KT 5000 HZ FEW015 SCT080 29/22 Q1013 NOSIG ETHF 290320Z AUTO 10004KT 9999 // ////// 01/M03 Q1025 /// KPOF 290353Z AUTO 36003KT 10SM CLR 02/00 A3016 RMK AO2 SLP218 T00170000 CYYD 290400Z 14006KT 25SM BKN055 M02/M04 A3001 RMK SC7 LAST STFD OBS/NXT 291500Z SLP189 KRKS 290354Z AUTO 26013KT 10SM CLR M01/M11 A3022 RMK AO2 SLP265 T10111106 KCKZ 290355Z AUTO 33005KT 10SM BKN017 BKN023 04/M03 A3012 RMK AO2 OETF 290400Z 00000KT 6000 NSC 13/10 Q1021 NOSIG CYMM 290400Z AUTO 24007KT 9SM CLR M07/M10 A3001 RMK SLP198 SBEG 290400Z 30001KT CAVOK 25/24 Q1012 KMAF 290353Z 13004KT 10SM CLR 06/03 A3011 RMK AO2 SLP188 T00560033 KDTL 290355Z AUTO 29013G18KT 10SM CLR 06/M06 A2980 RMK AO2 KHON 290355Z AUTO 31009KT 10SM CLR 02/M07 A2996 RMK AO2 SLP155 T00221067 FMMT 290400Z VRB02KT 9999 VCSH SCT017TCU SCT033 25/23 Q1015 TEMPO SHRA KNGU 290359Z 00000KT 8SM CLR 07/06 A3015 RMK AO2 SLP211 T00720056 $ KLHB 290355Z AUTO 32006KT 4SM RA BKN005 OVC012 13/13 A3008 RMK AO2 P0005 T01310125 KSLC 290354Z 27003KT 10SM FEW230 M01/M06 A3034 RMK AO2 SLP294 T10111056 $ KARV 290355Z AUTO 00000KT 10SM CLR 00/M05 A2981 RMK AO2 T10011052 YFDF 290400Z AUTO 32014KT 9999 // NCD 38/11 Q1008 RMK KM25 290355Z AUTO 00000KT 10SM CLR 01/M02 A3019 RMK AO2 KLOT 290355Z AUTO 22010KT 10SM CLR 04/02 A3006 RMK AO2 T00420017 WADL 290400Z 17009KT 7000 FEW015CB BKN016 30/25 Q1008 NOSIG RMK CB TO N AND SW KFLO 290353Z AUTO 00000KT 1/4SM FG VV002 08/08 A3014 RMK AO2 SLP203 T00830083 VYMD 290330Z 32003KT 7000 NSC 24/19 Q1017 NOSIG KJMS 290356Z AUTO 30026G34KT 10SM CLR 05/M03 A2991 RMK AO2 PK WND 31037/0335 SLP140 T00501028 GVNP 290300Z 04008KT 9999 SCT017 23/17 Q1015 NOSIG ZUUU 290400Z 05002MPS 020V090 9999 FEW020 SCT040 10/06 Q1030 NOSIG YLLE 290400Z AUTO 28013KT 9999 // NCD 43/05 Q1004 RMK CXOY 290400Z AUTO 28017KT M09/M09 RMK AO1 PK WND 28019/0357 T10881092 KCTJ 290355Z AUTO 00000KT 10SM CLR 08/07 A3014 RMK AO2 T00810067 WAOO 290400Z 25006KT 9999 SCT016 27/25 Q1009 YBNS 290400Z AUTO 24020KT 9999 // SCT035 SCT047 BKN059 19/10 KDCU 290353Z AUTO 00000KT 9SM CLR 05/04 A3014 RMK AO2 SLP207 T00500044 RJAT 280221Z VRB06G18KT 9999 FEW015 SCT025 14/00 Q1010 RMK 2CU015 4CU025 A2984 CYFC 290402Z AUTO 21004KT 6SM BR FEW095 00/00 A2985 RMK SLP111 K8B0 290115Z AUTO 26005KT 1 1/4SM -SN BKN004 OVC013 00/00 A2987 RMK AO2 KJAS 290355Z AUTO 06003KT 10SM -RA OVC005 13/13 A3007 RMK AO2 T01310130 EGCK 290350Z AUTO 08003KT 7000 NCD 05/04 Q1023 CZFA 282200Z 14017G22KT 30SM BKN060 OVC087 M09/M12 A2937 RMK SC6AC2 LAST STFD OBS/NXT 291400Z PRESFR SLP008 LEAO 271900Z 07005KT 350V120 9999 BKN013 OVC038 08/07 Q1006 LIPF 281755Z /////KT 1000 BR FEW003 BKN040 05/04 Q1017 RMK BKN VIS MIN 1000 KPEO 290353Z AUTO 21015G20KT 10SM CLR 04/M06 A3004 RMK AO2 SLP178 T00441056 KMYJ 290355Z AUTO 20004KT 10SM CLR 00/M01 A3011 RMK AO2 ENEV 290350Z AUTO 19006KT 160V220 9999 -RA OVC025/// 06/02 Q1018 RMK WIND 1400FT 22022G32KT KMUI 260856Z AUTO 05003KT 5SM BR OVC008 09/09 A2998 RMK AO2 SLP156 60002 T00940094 57029 EHGG 290355Z AUTO 09008KT 050V120 9999 OVC009 01/M01 Q1026 EGJB 290350Z 08007KT CAVOK 09/07 Q1020 EGNR 281550Z 13003KT 2500 HZ OVC006 07/06 Q1020 PAPO 290405Z AUTO 04031KT 3SM -SN BKN020 M12/M14 A2950 RMK AO2 PK WND 04034/0404 P0000 FZRANO MMSL 290240Z 00000KT 8SM SKC 21/18 A2999 RMK CI KMLP 290353Z AUTO 20003KT 10SM CLR M05/M07 A3030 RMK AO2 SLP307 T10501067 $ PFSH 290356Z AUTO 01022KT 10SM BKN100 M08/M10 A2914 RMK AO2 PK WND 01030/0307 SLP867 T10831100 FZRANO KMCO 290353Z 00000KT 10SM BKN250 22/17 A3003 RMK AO2 SLP166 T02170167 OAHR 290355Z 00000KT 9999 FEW090 06/03 Q1028 RMK BKN120 A3037 BLU MWCR 290300Z 07005KT 9999 FEW025 26/22 Q1015 UWOR 290400Z 00000MPS 1600 0750W R25/1600N FZFG OVC003 M16/M18 Q1047 R25/390140 NOSIG RMK QBB090 QFE761/1015 KASE 290353Z AUTO 20006KT 10SM CLR M06/M11 A3022 RMK AO2 SLP258 T10611111 EIME 290400Z 21001KT 9999 FEW020 BKN022 07/06 Q1023 KGRB 290353Z 21005KT 10SM CLR 03/M01 A2990 RMK AO2 SLP131 T00281011 CWJU 290300Z AUTO 19017G35KT 07/06 RMK AO1 1PAST HR 6021 PK WND 21044/0220 SLP067 P0000 T00670061 50005 CXFM 290400Z AUTO 21006KT M08/M09 RMK AO1 T10811092 LSMD 290350Z AUTO 04006KT 350V070 9999NDV OVC010 02/M00 Q1018 RMK KRMN 290355Z AUTO 00000KT 10SM CLR 02/M01 A3020 RMK AO2 T00221011 KPMV 290355Z AUTO 17009KT 10SM CLR 05/00 A2999 RMK AO2 T00450000 MGRT 290000Z 22004KT 9999 BKN020 28/23 Q1012 A2988 VOL. SANTA MARIA Y SANTIAGUITO EN ACTIVIDAD KMHS 290256Z AUTO 00000KT 7SM CLR M01/M03 A3025 RMK AO2 SLP290 T10061033 58000 LFQG 281800Z AUTO VRB02KT 9999 FEW007 06/03 Q1014 EGYP 290350Z 30020KT CAVOK 07/02 Q1001 YREN 290400Z AUTO 23007KT 130V250 9999 // NCD 26/05 Q1012 RMK KUAO 290353Z 36004KT 4SM BR OVC003 06/05 A3036 RMK AO2 SLP281 T00610050 EPSY 290400Z 03005KT 9999 -SN FEW008 BKN011 01/M00 Q1020 CWJH 290400Z AUTO 28004KT M12/M16 RMK AO1 SOG 27 3024 SLP200 T11221160 KEMP 290353Z AUTO 19007KT 10SM CLR 06/M01 A3009 RMK AO2 SLP195 T00611011 $ OEDF 290400Z 15006KT CAVOK 19/16 Q1016 NOSIG LIRZ 290350Z AUTO 02012KT //// // NCD 10/06 Q1010 CYFS 290400Z 12005KT 090V160 15SM BKN100 BKN150 BKN180 OVC250 M16/M18 A2958 RMK AC5AC1AC1CI1 MOON DMLY VIS SLP037 KRYN 290245Z 30007KT 10SM CLR 11/M04 A3013 KSPG 290353Z AUTO 23004KT 10SM CLR 22/20 A3002 RMK AO2 SLP163 T02220200 CZMU 290400Z AUTO 21007KT M11/M11 RMK AO1 SOG 18 T11091109 VIDD 270700Z 23005KT 3500 HZ NSC 24/13 Q1021 NOSIG CYCA 290400Z AUTO 20005KT 9SM SCT090 M11/M12 A2985 RMK SLP112 SLJO 281700Z 09004KT 8000 VCSH SCT017 FEW023CB SCT080 31/25 Q1011 RPLL 290400Z 36007KT 9000 SCT023 BKN090 27/26 Q1011 RESHRA NOSIG RMK A2985 YTTI 290400Z AUTO 26010KT //// // ////// 33/25 Q//// RMK CYKJ 290400Z AUTO 31008KT 9SM OVC011 M16/M18 A2996 RMK SLP200 PAPM 290356Z AUTO 34021G25KT 10SM OVC012 M05/M07 A2909 RMK AO2 PK WND 34028/0332 UPB07E14SNB0257E07 SLP853 P0000 T10501067 FZRANO YGLS 290400Z AUTO 05005KT 360V150 9999 // NCD 37/11 Q1010 RMK WAJJ 290400Z 12006KT 8000 -RA SCT011CB FEW013 28/24 Q1005 NOSIG CWOD 290400Z AUTO 19003KT M01/M02 RMK AO1 SOG 07 3001 SLP067 T10101021 KWMC 290356Z AUTO 10SM CLR M06/M10 A3031 RMK AO2 SLP300 T10611100 KRCX 290355Z AUTO 16003KT 10SM 02/M02 A2985 RMK AO2 T00161020 SLPS 272200Z 00000KT 9999 FEW020 FEW030CB SCT200 29/25 Q1010 HCMF 281400Z 03010KT CAVOK 26/22 Q1011 KDNN 290355Z AUTO 00000KT 10SM CLR 08/05 A3014 RMK AO2 KAVP 290354Z 23004KT 10SM CLR 02/M03 A3010 RMK AO2 SLP195 T00221033 KHSV 290353Z 32004KT 10SM OVC250 06/04 A3013 RMK AO2 SLP202 T00610039 YNWN 290400Z AUTO 35009KT 300V020 9999 // ////// 39/11 Q1007 CYGH 290000Z 08004KT 25SM FEW100 FEW220 M25/M28 A2949 RMK AC1CI1 CI TR LAST STFD OBS/NEXT 291400UTC SLP001 VEKO 290300Z 00000KT 3000 HZ NSC 14/12 Q1020 OIBP 290400Z 12006KT 9999 FEW015 18/16 Q1017 A3004 PALP 290145Z 04008KT 10SM -SN OVC009 M16/M19 A2956 KTXW 290355Z AUTO 32010KT 4SM BR OVC004 18/17 A2999 RMK AO2 T01750165 KDLF 290356Z AUTO 33005KT 10SM CLR 08/06 A3011 RMK AO2 SLP196 T00790059 $ CZEL 290400Z AUTO 24014KT 01/M02 RMK AO1 PK WND 23018/0326 SLP177 T00121023 50000 KHNR 290355Z AUTO 20004KT 10SM CLR 02/M01 A2998 RMK AO2 GMFF 290400Z 18004KT 9999 SCT026 BKN200 07/04 Q1014 NOSIG KAID 290355Z AUTO 24003KT 10SM CLR 03/M03 A3016 RMK AO2 T00271031 VOTR 290400Z 04010KT 4000 BR SCT016 SCT020 28/24 Q1014 NOSIG SLAL 281700Z 00000KT 9999 SCT023 22/07 Q1029 KAQW 290352Z AUTO 28007KT 10SM CLR 03/M03 A3004 RMK AO2 SLP177 T00331028 EYPA 290350Z 04004KT 9999 FEW014 00/M00 Q1024 KBDN 290355Z AUTO 18005KT 10SM CLR 00/M05 A3034 RMK AO2 YPPD 290400Z AUTO 32014KT 9999 // ////// 33/22 Q1007 RF00.0/000.0 LIBR 290350Z AUTO 15011KT 9999 -RA OVC067 15/12 Q1011 REDZ KATS 290355Z AUTO 27006KT 10SM CLR 04/M02 A3012 RMK AO2 OEAR 290400Z 00000KT 9999 FEW040 21/14 Q1014 LIRP 290345Z 10009KT CAVOK 13/05 Q1011 NOSIG YSGE 290400Z AUTO 30009KT 9999 // NCD 40/04 Q1007 RMK ULLI 290400Z 09006MPS 9999 OVC013 M01/M03 Q1031 R10R/090060 NOSIG CWSK 290400Z AUTO 03002KT 03/03 RMK AO1 SLP295 T00330028 58003 KPVC 290356Z AUTO 29014G19KT 10SM CLR 08/02 A3001 RMK AO2 SLP160 T00780017 PNO $ CYAH 290409Z AUTO 22004KT 3SM -SN FEW013 SCT017 BKN034 OVC080 M04/M05 A2957 RMK SLP037 SULS 290400Z 25004KT CAVOK 20/18 Q1008 NGFU 290300Z 09004KT 9999 SCT015TCU BKN300 32/26 Q1008 KFVE 290406Z AUTO 00000KT 10SM FEW004 OVC110 M01/M02 A2979 RMK AO2 T10111022 KHKS 290353Z AUTO 00000KT 10SM BKN010 12/09 A3010 RMK AO2 SLP188 T01170089 LPST 271700Z 34008KT 9999 SCT040 15/10 Q1007 RJOT 290400Z 25014KT 210V280 9999 FEW025 13/06 Q1022 YSHT 290400Z AUTO 19018KT 9999 // BKN052 22/08 Q1010 RMK KPOE 290404Z AUTO 09003KT 8SM OVC005 12/11 A3007 RMK AO2 RAE04 SLP184 KTVR 290353Z AUTO 06005KT 10SM CLR 12/09 A3010 RMK AO2 SLP201 T01220094 SBBE 290400Z 02003KT 9999 FEW040 SCT090 24/23 Q1010 CYXY 290400Z 16013KT 15SM -SN DRSN SCT022 BKN100 M03/M04 A2915 RMK SC4AC1 SLP916 KUNV 290355Z AUTO 19003KT 10SM CLR 00/M04 A3013 RMK AO2 T00011043 400900001 KJYO 290355Z AUTO 00000KT 10SM CLR 04/M01 A3016 RMK AO2 KOWA 290353Z AUTO 24003KT 10SM CLR 02/M01 A2991 RMK AO2 KPNC 290353Z AUTO 36003KT 10SM FEW075 OVC095 06/02 A3013 RMK AO2 PRESFR SLP203 T00610022 $ NZAP 290400Z 26005KT 230V290 18KM FEW060 18/13 Q1001 RMK AUTO VATSIM USE ONLY FDMY 290200Z AUTO 00000KT //// // ////// 21/19 Q1022 GMFM 290400Z 17008KT 9999 BKN020 11/06 Q1013 NOSIG KVRB 290353Z AUTO 18004KT 10SM CLR 21/18 A3003 RMK AO2 SLP169 T02060178 KSSF 290353Z AUTO 34005KT 10SM OVC025 12/11 A3006 RMK AO2 SLP180 T01170106 $ K1A6 290355Z AUTO 00000KT 10SM CLR 01/01 A3018 RMK AO2 T00120012 KIIY 290355Z AUTO 00000KT 7SM OVC003 12/12 A3012 RMK AO2 FNUB 281600Z 33006KT 9999 SCT020 BKN070 20/// Q1020 KYIP 290353Z 22010KT 10SM CLR 03/M03 A3007 RMK AO2 SLP185 T00331028 DAUK 290400Z 21008KT CAVOK 12/10 Q1012 KMJQ 290355Z AUTO 24011KT 10SM CLR 06/M01 A2991 RMK AO2 UIAA 290400Z 09001MPS 9999 NSC M14/M18 Q1028 R29/CLRD60 NOSIG RMK QFE712/0949 YDGU 290400Z AUTO 32005KT 9999 // NCD 38/09 Q1008 RMK LJMB 290400Z AUTO 00000KT 5000 OVC037/// 00/M00 Q1021 OPMT 290400Z 00000KT 3000 FU FEW100 16/08 Q1019 TEMPO 3500 UHMA 290400Z 36004MPS CAVOK M16/M19 Q1011 R01/////// NOSIG RMK TDZ R01/36004G05MPS END R01/01003G04MPS QFE754/1006 KFET 290355Z AUTO 00000KT 10SM CLR 03/M01 A2997 RMK AO2 T00251006 YGTE 290400Z AUTO 32011KT 9999 // BKN056 BKN084 BKN100 33/22 CWNL 290300Z AUTO 27005KT 06/04 RMK AO1 T00630044 51006 KGOO 290355Z AUTO 00000KT 10SM CLR 07/M00 A3019 RMK A01 K1V6 290355Z AUTO 26009KT 10SM CLR 01/M07 A3006 RMK AO2 PABT 290353Z 36003KT 10SM CLR M18/M22 A2913 RMK AO2 SLP886 T11831217 PNO KMRB 290353Z AUTO 00000KT 10SM CLR 00/M04 A3014 RMK AO2 SLP210 T00001044 ESSV 290350Z AUTO 03004KT 9999 SCT019/// OVC032/// 03/03 Q1026 LFRT 282200Z AUTO 00000KT 1200 1000 BR NSC 07/06 Q1017 ENFB 290350Z AUTO 20022KT 9999NDV FEW046/// SCT170/// 08/03 Q1024 W///S5 KTTS 290406Z AUTO 00000KT 1 7/8SM BR CLR 21/20 A3001 RMK AO2 VIS 1 7/8V2 1/2 SLP167 $ ESDF 290350Z AUTO 36005KT 9999 FEW018/// M02/M02 Q1027 KOJA 290350Z AUTO 01005KT 10SM -RA BKN039 OVC047 04/02 A3014 RMK AO2 T00450020 KSXT 290356Z AUTO 00000KT 10SM CLR 06/M07 A3025 RMK AO2 SLP249 T00611072 SVCS 271902Z AUTO 10007KT NCD ///// Q1014 LIPY 290350Z AUTO 30003KT 240V020 2900 BR OVC006/// 09/09 Q1014 K33V 290339Z AUTO 13005KT 10SM CLR M10/M14 A3021 RMK AO1 KGDP 290351Z AUTO 23017KT 10SM CLR 04/M05 A3015 RMK AO2 SLP200 T00441050 $ KSHD 290355Z AUTO 00000KT 10SM CLR 00/M03 A3017 RMK AO2 T10051027 KJBR 290353Z AUTO 00000KT 10SM CLR 03/01 A3018 RMK AO2 SLP219 T00280006 TSNO $ K74V 290355Z AUTO 26005KT 10SM CLR M07/M12 A3030 RMK AO2 LSZH 290350Z 06005KT 360V120 9000 OVC010 02/M00 Q1019 NOSIG WMKN 290400Z 01005KT 330V070 9999 FEW018 30/25 Q1011 LEVS 290400Z AUTO VRB02KT 6000 BKN008 07/07 Q1013 DGAA 290400Z 28006KT CAVOK 25/24 Q1010 NOSIG EDNY 290350Z AUTO 05009KT 010V080 9999 // OVC012/// 02/M01 Q1019 KCOF 290356Z AUTO 17006KT 10SM CLR 22/17 A3002 RMK AO2 SLP170 T02210174 $ K06D 290355Z AUTO 32027G42KT 10SM OVC033 M01/M04 A2990 RMK AO2 KAOH 290353Z AUTO 23007KT 10SM CLR 02/M03 A3015 RMK AO2 RAB38E48 SLP215 P0000 T00221033 KMKO 290353Z AUTO 34005KT 7SM CLR 08/01 A3016 RMK AO2 SLP214 T00780006 PAMK 290356Z AUTO 02016KT 10SM OVC015 M07/M08 A2914 RMK AO2 SLP869 T10671083 FZRANO KBPI 290353Z AUTO 02010KT 10SM CLR M07/M16 A3024 RMK AO2 SLP296 T10721161 FOOK 281500Z 00000KT 9999 SCT015TCU 30/23 Q//// ETNW 290320Z AUTO 10003KT 7000 // ////// M01/M02 Q1026 /// YOOM 290400Z AUTO 20008KT 180V240 9999 // NCD 40/11 Q1004 RMK KELK 290355Z AUTO 36006KT 10SM RA BKN037 OVC043 04/02 A3012 RMK AO2 T00440017 VOPB 260400Z 08009KT 6000 FEW012 FEW018TCU SCT100 30/25 Q1012 NOSIG KEZZ 290355Z AUTO 20008KT 10SM CLR 03/M03 A3008 RMK AO2 T00331028 MMCV 290042Z 26003KT 6SM SCT020 24/16 A2991 RMK 8/500 HZ KGIC 290355Z AUTO 00000KT 7SM OVC048 00/M02 A3038 RMK AO1 KWDG 290355Z AUTO 30004KT 10SM SCT048 BKN060 OVC075 06/02 A3012 RMK AO2 KNJK 282256Z 21003KT 10SM CLR 21/M13 A3014 RMK SLP223 LAST T02061128 KVTN 290352Z AUTO 31009KT 10SM CLR 01/M09 A3002 RMK AO2 SLP185 T00061089 $ KRWI 290353Z AUTO 00000KT 9SM CLR 07/06 A3015 RMK AO2 SLP209 T00670056 K2I0 290355Z AUTO 00000KT 10SM CLR 02/M01 A3017 RMK AO2 T00201006 CWRU 290300Z AUTO 12019KT 06/04 RMK AO1 PK WND 12023/0228 SLP258 T00620041 56009 ENFL 290350Z AUTO 16016KT 9999NDV BKN038/// OVC047/// 07/03 Q1026 ENSR 271750Z 32002KT 9999 -SHRA SCT037 BKN065 02/M01 Q1014 RMK WIND 1119FT 28010KT BIRK 290400Z 07013KT 9999 -RA FEW022 BKN030 OVC052 02/M00 Q0992 KRTS 290355Z AUTO 35004KT 10SM CLR M02/M09 A3029 RMK AO2 SUMU 290400Z 33004KT CAVOK 19/16 Q1008 NOSIG CWEQ 290400Z AUTO 30011G16KT M04/M08 RMK AO1 SOG 07 2041 PK WND 29019/0307 SLP189 T10441075 KMNI 290355Z AUTO 00000KT 10SM CLR 09/09 A3013 RMK AO2 PAPG 290356Z 12003KT 5SM RA BR SCT009 BKN017 OVC022 03/02 A2964 RMK AO2 SLP040 P0022 T00280017 KLAM 290355Z AUTO 20005KT 10SM CLR 00/M03 A3015 RMK AO2 T00001030 YOOD 290400Z AUTO 19017KT //// // ////// 33/09 Q1009 RMK CWMQ 290400Z AUTO 25006KT M06/M08 RMK AO1 SOG 15 1020 SLP310 T10571079 ETNG 261850Z 11004KT CAVOK 05/03 Q1019 NOSIG KGFA 290358Z AUTO 35003KT 10SM FEW070 M04/M06 A3038 RMK AO2 SLP320 T10401061 $ K1DM 280259Z AUTO 27022KT M M M M M RMK AO2 PK WND 27035/12 SLPNO $ FALE 290400Z 18018G28KT CAVOK 22/14 Q1015 NOSIG SBRF 290400Z 12010KT 9999 BKN022 26/19 Q1014 CWBZ 290400Z AUTO 24009G15KT 04/00 RMK AO1 SLP136 T00440000 53002 LIPX 290350Z AUTO VRB02KT 4300 BR OVC040/// 06/05 Q1016 KFBL 290355Z AUTO 20004KT 10SM CLR 03/00 A2991 RMK AO2 VAAU 290300Z 07005KT 3000 HZ NSC 23/17 Q1019 NOSIG MMTG 290356Z 33004KT 6SM SCT020 BKN070 24/20 A2996 RMK 8/470 HZY KLTS 290356Z AUTO 05007KT 10SM -DZ FEW015 OVC037 06/ A3013 RMK AO2 RAE11DZB11E17DZB44 SLP207 P0000 $ KFFX 290357Z AUTO 22009KT 10SM CLR 05/03 A2997 RMK AO2 T00530032 LUKK 290400Z 34005KT 7000 -RA OVC009 03/02 Q1018 R08/290152 TEMPO 3800 BR BKN004 EDSB 290350Z 03013KT 9999 SCT015 BKN020 03/01 Q1021 RJSO 271752Z 28002KT 6000 -SHRA FEW006 SCT010 BKN015 01/00 Q1014 RMK 2ST006 4ST010 7CU015 A2996 LFTW 290400Z AUTO 03005KT 360V060 CAVOK 07/02 Q1012 NOSIG KFUL 290353Z 00000KT 10SM CLR 13/M03 A3010 RMK AO2 SLP191 T01331028 KFSD 290356Z 24003KT 10SM CLR 01/M04 A2993 RMK AO2 SLP151 T00061039 KNTU 290356Z 00000KT 6SM BR CLR 07/05 A3014 RMK AO2 VIS 3/4 RWY 5R SLP209 T00720050 $ KSTC 290353Z 24006KT 10SM CLR 04/M02 A2983 RMK AO2 SLP118 T00441022 $ UKHH 290400Z 12008MPS 7000 SCT017 01/00 Q1020 R07/290076 NOSIG CYDC 290100Z 00000KT 20SM FEW140 M01/M03 A3032 RMK AC1 AC TR LAST STFD OB/NEXT 29 1500UTC SLP299 KLYV 290355Z AUTO 00000KT 10SM M03/M05 A2994 RMK AO2 CYTL 290400Z AUTO 34003KT 300V020 9SM -SN OVC010 M14/M15 A2988 RMK SLP146 PAIG 290356Z AUTO 19010KT 2 1/2SM BR FEW008 OVC018 M04/M04 A2887 RMK AO2 SLP786 T10391044 PWINO FZRANO $ ESTL 290350Z AUTO 36002KT 9999 OVC010/// 00/00 Q1028 HEAT 290300Z 30004KT CAVOK 10/07 Q1020 NOSIG RJOA 290400Z 31008KT 270V350 9999 FEW025 BKN030 10/04 Q1022 ETMN 290320Z AUTO 09004KT 8000 // ////// M00/M01 Q1027 /// NCNS 290400Z AUTO 11002KT //// ////// 31/24 Q1009 SCHR 271900Z 22011KT 170V270 9999 BKN035 BKN070 12/03 Q0995 KHZL 290355Z AUTO 00000KT 10SM CLR 02/M05 A3012 RMK AO2 KSRR 290355Z AUTO 29017G22KT 10SM CLR 02/M05 A3015 RMK AO2 KDUB 290355Z AUTO 29011KT 10SM SCT080 M04/M17 A3022 RMK AO2 KPVE 290355Z AUTO 00000KT 10SM CLR 02/M01 A3015 RMK A01 LBBG 290400Z 21002KT 9999 FEW045 04/02 Q1018 NOSIG KMIE 290353Z AUTO 26004KT 10SM CLR 04/M03 A3015 RMK AO2 SLP212 T00391033 KFSO 290355Z AUTO 22004KT 10SM OVC080 05/00 A2996 RMK AO2 T00520000 KIKG 290355Z AUTO 33009KT 2 1/2SM DZ OVC005 19/ A3001 RMK AO2 T0188 KHDO 290351Z AUTO 02013KT 10SM -RA BKN017 OVC037 11/09 A3009 RMK AO2 SLP182 P0001 T01110094 $ CWVT 290400Z AUTO 20003KT M17/M18 RMK AO1 SOG 13 1007 SLP234 T11661184 KFKS 290336Z AUTO 20006KT 10SM CLR 07/02 A2990 RMK AO2 DIYO 290300Z 24004KT 8000 BKN010 23/22 Q1011 NOSIG KBMT 290350Z AUTO 08005KT 7SM OVC003 17/17 A3001 RMK AO2 T01700166 YSWH 290400Z AUTO 18014KT 170V240 9999 // NCD 26/03 Q1010 RMK RJCK 290400Z 26014KT 220V290 9999 FEW040 05/M08 Q1016 KJHW 290356Z AUTO 22007KT 10SM CLR 00/M05 A3008 RMK AO2 SLP207 T00001050 FZRANO KPTN 290356Z AUTO 09008KT 10SM OVC010 18/17 A3003 RMK AO2 CIG 008V015 SLP171 T01780172 $ VEIM 290400Z 10003KT 1000 BR SCT018 BKN100 15/11 Q1021 BECMG 1200 BR RJOZ 290249Z 29011KT 260V320 9999 FEW030 BKN040 BKN050 12/04 Q1024 RMK 1CU030 5CU040 7SC050 A3026 MHNO 290000Z 36006KT 9999 FEW040 24/20 LFBE 290400Z AUTO 08002KT 7000 NSC 02/02 Q1014 YSRI 290400Z AUTO 28028G41KT 9999 // NCD 38/15 Q1000 RF00/0/000/0 KBXA 290355Z AUTO 05005KT 10SM OVC012 16/14 A3007 RMK AO2 P0001 T01580142 KHSP 290355Z AUTO 27008KT 10SM CLR 04/M09 A3013 RMK AO2 T00351090 LATI 290350Z 15003KT 9999 SCT150 03/02 Q1014 NOSIG CWLC 290400Z AUTO 15045G53KT 08/05 RMK AO1 PK WND 15057/0343 T00770050 LFRQ 290400Z AUTO 05006KT CAVOK 08/05 Q1017 UKLR 290400Z 28004MPS 9999 SCT024CB SCT024 M02/M03 Q1017 NOSIG LSZG 290350Z AUTO 08007KT 7000 BKN010 02/02 Q1018 KGGP 290355Z AUTO 21008KT 10SM CLR 01/M02 A3014 RMK AO2 DRRM 290400Z 10002KT CAVOK 18/08 Q1013 KMOR 290355Z AUTO 00000KT 10SM CLR 05/03 A3012 RMK A01 NZPP 290400Z 17011KT 9999 NCD 17/11 Q1002 NOSIG RMK KAUKAU 16037KT AUTO NZWN VAT YHLC 290400Z AUTO 15009KT 150V300 9999 // NCD 38/15 Q1007 RMK MNCH 282300Z 27004KT 9999 FEW025 30/26 Q1009 LFMC 290400Z AUTO 00000KT 9999 ////// 06/04 Q1012 KRDD 290353Z 00000KT 10SM CLR 08/00 A3017 RMK AO2 SLP218 T00780000 CZFN 272300Z 23005KT 15SM BKN070 BKN150 BKN230 M17/M19 A2977 RMK AC4AC2CC1 LAST STFD OBS NEXT 301600 SLP094 VORY 290400Z 05006KT 6000 FEW018 27/18 Q1016 NOSIG LIMS 281755Z 25002KT 2000 BR FEW010 06/06 Q1016 RMK SCT VIS MIN 2000 WIND THR30 25002KT YLO LICB 290320Z AUTO VRB02KT 9999 BKN032/// 12/11 Q1008 SAZB 252220Z 32018KT 9999 TS FEW040CB FEW040 BKN060 26/05 Q1003 LYBT 290400Z 31007KT 280V340 5000 -DZ BR OVC004 01/01 Q1022 NOSIG KIKK 290356Z AUTO 22009KT 10SM CLR 03/01 A3009 RMK AO2 HTZA 290300Z 00000KT 9999 FEW014 24/23 Q1011 NOSIG EGPL 290350Z AUTO 17006KT 9999 SCT017/// BKN022/// OVC043/// 07/06 Q1022 RKSM 290300Z 32004KT 9999 BKN040 03/M07 A3041 KJAQ 290355Z AUTO 10003KT 10SM CLR 10/00 A3019 RMK AO1 T00970000 HKEL 290300Z 12009KT CAVOK 13/12 Q1023 KSVC 290355Z AUTO 34004KT 10SM CLR 00/M08 A3021 RMK AO2 T10031083 ESSL 290350Z AUTO 34005KT 9999 SG FEW010/// OVC013/// M00/M02 Q1029 KGPI 290355Z 00000KT 10SM CLR M03/M03 A3035 RMK AO2 SLP309 T10331033 FAPE 290400Z 27006KT 9999 FEW015 16/14 Q1018 NOSIG KRVJ 290355Z AUTO 00000KT 10SM OVC006 14/13 A3011 RMK AO2 T01370126 RJFK 290400Z 33012KT 9999 FEW030 BKN040 12/03 Q1024 RMK 1CU030 5CU040 A3024 KLDJ 290355Z AUTO 00000KT 10SM CLR 05/M01 A3012 RMK AO2 T00541013 KFNL 290356Z AUTO VRB03KT 10SM CLR 00/M07 A3005 RMK AO2 SLP191 T00001072 FZRANO SUSO 282200Z 18018G18KT 7000 RA BKN008 OVC083 18/17 Q1010 RETS PKMJ 272250Z 06012KT 15SM FEW015 SCT050 BKN120 BKN300 30/25 A2983 RMK LAST MMBT 282340Z 00000KT 7SM FEW040 27/23 A2984 RMK 8/400 HZY CU N OIMC 290400Z 06004KT 9999 FEW035 SCT100 05/01 Q1033 RJOK 290400Z 27007KT 230V340 9999 FEW030 16/02 Q1021 ZBAA 290400Z 33003MPS CAVOK 04/M11 Q1034 NOSIG KRSL 290353Z AUTO 22010KT 10SM OVC120 05/01 A3007 RMK AO2 SLP193 T00500006 KO22 290355Z AUTO 00000KT 10SM CLR 04/00 A3020 RMK A01 SPRU 282200Z 15009KT 8000 OVC080 19/16 Q1011 RMK TX20.9 BR QUAD N PP000 RJBB 290400Z 29008KT 9999 FEW025 SCT035 13/06 Q1022 NOSIG CXAG 290300Z AUTO 26007KT M07/M10 RMK AO1 T10721097 50004 LFRB 290400Z AUTO 04007KT 7000 NSC 07/06 Q1018 TEMPO 1500 BR BKN003 CWWE 290400Z AUTO 31007KT 03/03 RMK AO1 SLP111 T00320031 50004 LIEC 281118Z 09026KT 5000 -TSRA FEW014CB SCT020 BKN025 15/13 Q1004 RMK OVC QUK 5 QUL 0 VIS MAR 5 KM VIS MIN 5000 CWZQ 290400Z AUTO 35007KT 04/03 RMK AO1 SLP085 T00390026 58002 KTNB 290355Z AUTO 00000KT 10SM 01/01 A3018 RMK AO2 T00120010 KEUL 290356Z AUTO 27005KT 10SM CLR M03/M04 A3045 RMK AO2 SLP339 T10281039 FZRANO LOAN 281500Z 03012KT 5000 BR SCT007ST OVC010ST CYLA 281500Z 26017G25KT 15SM DRSN FEW017 M07/M10 A2942 RMK SC1 SC TR SWN CVR /TRACE LOOSE LAST STFD OBS/ NXT 291300Z PRESRR SLP966 KCDA 290355Z AUTO 11003KT 10SM BKN031 OVC044 02/00 A2995 RMK AO2 T00150000 FZQA 281200Z 12010KT 9999 BKN020 FEW030CB 30/17 Q1017 NOSIG YPOD 290400Z AUTO 21009KT 9999 // BKN033 OVC038 OVC045 15/08 MTCH 282053Z 04011KT 8000 SCT025CB 27/22 Q1014 RMK:CB/SE/SW KLCK 290355Z AUTO 21003KT 5SM BR CLR M01/M02 A3018 RMK AO2 T10101021 YBMA 290400Z AUTO 27007KT 220V290 9999 // NCD 41/07 Q1007 RF00.0/000.0 YBAF 290400Z AUTO 02015KT 9999 // NCD 31/17 Q1008 RMK KBAD 290356Z AUTO 09006KT 10SM OVC022 11/04 A3010 RMK AO2 SLP196 T01050040 $ YHML 290400Z AUTO 18013KT 9999 // SCT031 BKN044 OVC050 15/09 KODO 290353Z AUTO 11006KT 10SM CLR 04/02 A3011 RMK AO2 SLP188 T00440017 CYHI 282100Z 07005KT 5SM -SG VCSH FEW005 SCT006 BKN009 OVC012 M21/M24 A2972 RMK SC1ST3ST2ST1 SC TR CIG RAG FRO SN/CVR TR LOOSE AFT 21 UTC LST OBS/NXT 291500Z SLP072 SEGU 290400Z 22011KT CAVOK 24/19 Q1011 NOSIG RMK A2987 LIQC 290055Z 08008KT 9999 -RA SCT020 BKN026 14/11 Q1008 RMK OVC QUK / QUL / VIS MAR 10 KM VIS MIN 9999 FMNN 290400Z 00000KT 9999 BKN020 26/// Q1013 WMAU 290400Z VRB05KT 9999 FEW017CB 30/25 Q1011 UIUU 290400Z 35002MPS 320V030 9999 -SHSN SCT029CB M10/M14 Q1034 R26/490150 NOSIG RMK QFE730/0974 PHNG 290357Z 05012KT 10SM FEW030 SCT060 27/20 A2998 RMK AO2 SLP148 T02720200 $ GCTS 290400Z 33007KT 9999 FEW035 SCT100 17/10 Q1014 NOSIG UKDD 290400Z 15004MPS 110V190 9999 BKN021 05/03 Q1019 R08/090070 NOSIG EGNJ 290350Z AUTO 19003KT 3300 BR OVC003/// 09/09 Q1024 KGPH 290355Z AUTO 00000KT 10SM CLR 00/M01 A3010 RMK AO2 K2R9 290355Z AUTO 35011KT 5SM BR BKN006 OVC016 13/12 A3007 RMK AO2 T01270119 LIVD 281755Z /////KT CAVOK M01/M04 Q1017 RMK SKC VIS MIN 9999 BLU KBBB 290355Z AUTO 30004KT 10SM CLR 02/M02 A2987 RMK AO2 KGLS 290352Z AUTO 06012G19KT 10SM -RA OVC045 19/16 A3000 RMK AO2 SLP159 P0004 T01940161 WSSL 290400Z 34005KT 310V030 9999 FEW020 SCT150 BKN270 29/23 Q1010 MMGM 290140Z 00000KT 10SM SKC 21/08 A2992 KATP 290355Z AUTO 12011KT 10SM BKN075 24/21 A3000 RMK A01 KMHL 290355Z AUTO 21005KT 10SM CLR 03/M02 A3013 RMK AO2 KFDY 290353Z AUTO 22007KT 10SM CLR 02/M03 A3013 RMK AO2 SLP204 T00221028 KTMK 290355Z AUTO 00000KT 1/2SM FG OVC002 06/06 A3033 RMK AO2 YFTZ 290400Z AUTO 17005KT 170V270 //// // ////// 38/16 Q1006 KNAK 290354Z AUTO 00000KT 10SM CLR 08/00 A3015 RMK AO2 SLP212 T00780000 KTSP 290355Z AUTO 11007KT 10SM CLR 02/M14 A3024 RMK AO2 KMHT 290353Z 20003KT 10SM CLR 02/M02 A2998 RMK AO2 SLP169 T00221017 ESMX 290350Z AUTO 35009KT 9999 OVC011/// M01/M02 Q1028 CYQD 290413Z AUTO 32012G18KT 9SM OVC026 M08/M12 A3002 RMK SLP191 ESPE 290350Z AUTO VRB01KT 9999 NCD M16/M18 Q1026 SBSM 290300Z 26008KT 220V290 6000 -TSRA BKN010 SCT040 FEW045CB OVC080 21/21 Q1015 RERA SBME 290300Z 05005KT CAVOK 23/22 Q1020 K2J9 290355Z AUTO 07006KT 10SM FEW023 FEW055 BKN080 17/17 A3006 RMK AO2 CYSN 290200Z 24014G21KT 15SM SCT210 05/01 A3002 RMK CI3 LAST STFD OBS/NEXT 291200 UTC SLP171 KGNT 290355Z AUTO 31009KT 10SM CLR M01/M04 A3023 RMK AO2 T10151044 DTNH 290400Z 20009KT CAVOK 12/08 Q1004 NOSIG MDBH 282100Z 13014KT 9999 FEW020CB SCT024 28/24 Q1012 CB/SW ZGGG 290400Z 36006MPS CAVOK 19/09 Q1024 NOSIG CXEC 290400Z AUTO 23003KT M07/M09 RMK AO1 SOG 19 0006 SLP256 T10721091 KSEQ 290358Z AUTO 01011KT 10SM BKN011 OVC023 11/10 A3012 RMK AO2 RAE00 CIG 011V023 BKN V SCT SLP200 P0000 LFMY 290400Z AUTO 00000KT CAVOK 03/01 Q1012 CXRB 290400Z AUTO 25008KT M21/M24 RMK AO1 2PAST HR SOG 11 5000 SLP006 P0001 T12141239 50011 LPAR 281300Z 17009KT 9999 FEW012 SCT025 14/13 Q1005 KRFD 290354Z 20008KT 10SM CLR 07/00 A3003 RMK AO2 SLP173 T00670000 VEGT 290400Z 02006KT 3000 BR FEW020 20/19 Q1018 BECMG 5000 HZ KMLF 290352Z AUTO 36004KT 10SM CLR M07/M12 A3027 RMK AO2 SLP300 T10671117 KIND 290354Z 20006KT 10SM CLR 02/M04 A3015 RMK AO2 SLP214 T00221044 ZWWW 290400Z 32002MPS 0700 R25/0800N -SN FZFG SCT011 OVC020 M01/M02 Q1037 BECMG TL0450 1200 -SN BR KOZS 290355Z AUTO 18005KT 10SM CLR 07/M03 A3013 RMK AO2 GOOG 290000Z 04004KT CAVOK 22/11 Q//// LIBV 290355Z 10013KT 4000 RA BR SCT008 BKN030 13/12 Q1009 RMK OVC VIS MIN 4000 WIND THR32 12016KT WIND THR14 11013KT GRN BGTL 290408Z AUTO 26009KT 4400 -SN BR CLR M20/M20 A2951 RMK AO2 SNB0358 SLP984 TSNO $ SBMA 282130Z 02001KT 9999 FEW025TCU BKN090 28/25 Q1009 CXAK 290400Z AUTO 21011KT M09/M09 RMK AO1 T10921092 KFOE 290353Z AUTO 21007KT 10SM CLR 05/M01 A3008 RMK AO2 SLP191 T00501011 SPST 290000Z 33003KT 9999 SCT025 SCT090 25/23 Q1010 RMK BIRD HAZARD RWY 17/35 PP000 CXVW 290400Z AUTO 16008KT M09/M13 RMK AO1 T10871126 50004 KNUI 290353Z AUTO 00000KT 10SM CLR 06/03 A3015 RMK AO2 SLP208 T00610028 AGGM 280000Z 00000KT 9999 FEW018 BKN300 32/23 Q1008 RCKH 290400Z 22006KT 160V280 7000 FEW016 SCT028 BKN110 26/18 Q1018 NOSIG RMK A3008 KMYR 290356Z AUTO 35003KT 6SM BR CLR 12/12 A3012 RMK AO2 SLP200 T01220122 YLST 290400Z AUTO 05011KT 9999 // NCD 35/09 Q1008 RMK K5SM 290355Z AUTO 33003KT 10SM CLR M04/M17 A3029 RMK AO2 EFKE 290350Z AUTO 17012KT 140V200 9999 -SN OVC005 00/M00 Q1027 LFBD 290400Z AUTO 05004KT CAVOK 08/07 Q1014 TEMPO 0600 FG KLIC 290355Z AUTO 01008KT 10SM CLR M08/M12 A3005 RMK AO2 SLP204 T10831122 KEWB 290353Z AUTO 00000KT 10SM CLR 03/00 A3002 RMK AO2 SLP164 T00330000 LERI 281800Z 35003KT 260V030 9999 SCT058 15/07 Q1009 NOSIG YTRA 290400Z AUTO 07008KT 9999 // NCD 28/08 Q1011 RMK KILE 282356Z AUTO 10SM 09/09 RMK AO2 SLPNO 6//// T00940089 10144 20094 $ SBJP 290400Z 18004KT 9999 FEW020 23/22 Q1014 NCRG 290400Z AUTO 06009KT 9999 SCT013/// BKN024/// 27/24 Q1012 KTIF 290355Z AUTO 28008KT 10SM CLR M01/M07 A3000 RMK AO2 T10131075 EDLV 290350Z 08004KT 010V150 9999 BKN011 02/M00 Q1025 VGHS 290400Z 34004KT 4000 HZ NSC 25/20 Q1017 NOSIG RJBE 290400Z 27011KT 9999 FEW025 BKN035 12/06 Q1022 UWKE 290400Z 11003MPS 9000 OVC012 M05/M06 Q1042 R21/411045 NOSIG RMK QFE764/1019 KT82 290355Z AUTO 33008KT 10SM BKN008 OVC038 08/08 A3012 RMK AO2 T00800080 YKII 290400Z AUTO 24017KT 9999 // BKN023 BKN044 16/10 Q1011 EVRA 290350Z 02004KT CAVOK M01/M02 Q1025 R36/190095 NOSIG K4BM 290355Z AUTO 34009KT 10SM CLR M02/M20 A3021 RMK AO2 PAEL 290146Z 30010KT 7SM OVC025 07/02 A2934 RMK NOSPECI LAST PPIT 290356Z AUTO 34017KT 10SM OVC012 M07/M07 A2910 RMK AO2 SLP859 T10671072 FZRANO TSNO KJAU 290355Z AUTO 00000KT 10SM CLR 01/00 A3018 RMK A01 KHMN 290358Z AUTO 36008KT 10SM CLR 03/M06 A3018 RMK AO2 SLP210 T00251064 $ LFRC 290400Z AUTO 09006KT CAVOK 07/05 Q1021 MYGF 290000Z 03003KT 9999 SCT030 22/18 A3003 KGUS 290356Z AUTO 21006KT 10SM CLR 00/M01 A3012 RMK AO2 SLP211 T00011012 $ HTIB 290300Z 00000KT 9999 FEW020 FEW021CB SCT080 19/19 Q1015 KY31 290355Z AUTO 22006KT 10SM CLR 03/M01 A2992 RMK AO2 T00251006 VEGY 290400Z 00000KT 2000 HZ NSC 20/14 Q1020 NOSIG AAXX 22214 78073 42465 50909 10288 20234 40141 85902 333 06909 81916 85820 VTUK 290400Z 04007KT 010V110 9000 NSC 26/17 Q1018 NOSIG KHUM 290355Z AUTO 08006KT 7SM OVC011 18/17 A3004 RMK AO2 T01750165 KP69 290352Z AUTO 00000KT 00/M01 A3048 RMK AO1 SLP346 T00001011 KERI 290351Z AUTO 21007KT 10SM CLR 04/M03 A3010 RMK AO2 SLP199 T00391033 KHVS 290355Z AUTO 00000KT 6SM BR 08/07 A3014 RMK AO2 KQEX 290410Z AUTO 33005KT 9999 BKN048 06/M05 A3026 RMK A02 TSNO KSAC 290353Z 00000KT 10SM CLR 06/01 A3019 RMK AO2 SLP223 T00610006 SBKG 290300Z 11006KT CAVOK 21/19 Q1017 LFLW 290400Z AUTO 11004KT CAVOK 01/M00 Q1014 KEKO 290356Z AUTO 05004KT CLR M03/M09 A3031 RMK AO2 SLP311 T10331089 $ KP58 290357Z AUTO 24009G20KT 05/M03 A2994 RMK AO1 SLP145 T00501033 FAHS 290400Z AUTO 33002KT //// // ////// 23/19 Q1015 HTMT 290300Z 00000KT 9999 SCT020 FEW021CB 24/23 Q1011 KMBT 290355Z AUTO 00000KT 10SM CLR 03/01 A3014 RMK A01 K3I2 290355Z AUTO 00000KT 10SM CLR M01/M02 A3022 RMK AO2 T10071023 SBGL 290400Z 12005KT CAVOK 24/19 Q1017 KSPA 290355Z AUTO 00000KT 10SM CLR 08/06 A3013 RMK AO2 NZTG 290400Z 27009KT 230V300 31KM FEW027 SCT046 21/16 Q1000 RMK AUTO VATSIM USE TGPY 290400Z 09012KT 9999 FEW019 27/25 Q1013 NOSIG FIMP 290400Z 12010KT 9999 VCSH SCT016 26/21 Q1016 DNJO 282200Z 00000KT CAVOK 18/04 Q1021 EDDP 290350Z 36003KT 9999 BKN033 02/M00 Q1025 NOSIG KTFP 290355Z AUTO 05013G18KT 7SM OVC010 A2996 RMK AO2 PNO HRYR 290330Z 00000KT 9999 BKN025 BKN100 17/17 Q1020 NOSIG ROYN 290400Z AUTO 05020KT 6000 -RA FEW027 SCT030 BKN036 22/19 Q1021 UIBB 290400Z 27002MPS 7000 SCT020 M18/M20 Q1037 R30/821050 NOSIG RMK QFE733/0978 LEBL 290400Z 34008KT 9999 FEW020 12/10 Q1012 NOSIG KLBX 290353Z AUTO 08010G18KT 10SM OVC039 18/16 A2999 RMK AO2 RAE49 SLP155 P0002 T01830161 LGIO 290350Z AUTO VRB01KT //// // ////// 00/M00 Q1016 RE// KHWV 290356Z AUTO 30003KT 10SM CLR 05/M01 A3009 RMK AO2 SLP190 T00501011 TSNO ENZV 290350Z 12007KT 9999 OVC070 06/01 Q1029 SAAV 290135Z 00000KT 2000 R21/0450 BCFGBR NSC 18/17 Q1010 FKKR 271600Z 11004KT 080V140 CAVOK 35/04 Q1009 NOSIG CYDF 290400Z 04004KT 4SM -DZ BR OVC005 02/02 A2973 RMK ST8 SLP070 CYIV 290100Z 11006KT 15SM BKN150 M08/M11 A2981 RMK AC7 LAST STFD OB/NEXT 291600 UTC SLP113 KBYH 242158Z 15007G15KT 10SM OVC250 15/02 A3000 RMK LAST KEZF 290355Z AUTO 00000KT 10SM CLR 04/02 A3015 RMK AO2 T00360022 KJYR 290355Z AUTO 21006KT 10SM CLR 00/M02 A2997 RMK AO2 LSMM 290350Z AUTO 07013KT 040V100 9999NDV SCT011 BKN014 OVC020 01/M00 Q1017 RMK KCSV 290353Z AUTO 04004KT 10SM CLR 02/01 A3013 RMK AO2 SLP208 T00220006 LRSB 290400Z 08002KT 6000 OVC033 M02/M02 Q1019 MHTG 290400Z 24004KT 9999 SCT026 BKN080 20/15 Q1019 A3009 NOSIG KBYG 290353Z AUTO 36018G26KT 10SM CLR 03/M09 A3022 RMK AO2 PK WND 34026/0302 SLP234 T00281094 CYLK 282100Z 07005KT 10SM FEW100 M23/M26 A2991 RMK AC1 AC TR SNW CVR/HARD PACK/LAST STFD OBS/NEXT 291500 SLP152 CYWE 290402Z AUTO 11005KT 9SM OVC005 M20/M21 A2962 RMK ICG PAST HR SLP081 KSFB 290353Z 22003KT 10SM CLR 21/18 A3002 RMK AO2 SLP165 T02110178 SBIL 290200Z 17003KT CAVOK 25/22 Q1018 KARM 290355Z AUTO 07003KT 10SM -DZ SCT011 SCT035 OVC055 17/17 A3002 RMK AO2 T01680166 KEIK 290355Z AUTO 00000KT 10SM CLR M03/M07 A3004 RMK AO2 T10351066 UGMS 260530Z (AUTO) 18003KT 150V230 //// ////// M02/M03 Q1021= KBIX 290356Z AUTO 08005KT 10SM CLR 16/15 A3005 RMK AO2 RAE01RAB14E16 SLP179 P0000 T01580150 CXHD 290400Z AUTO 23013KT M10/M12 RMK AO1 T10951120 KOTG 290356Z AUTO 24008KT 10SM CLR 03/M02 A2993 RMK AO2 SLP151 T00331017 KIZA 290355Z AUTO 00000KT 10SM CLR 08/00 A3015 RMK AO2 CWHI 290400Z AUTO 26004KT M09/M12 RMK AO1 T10861120 K06C 290355Z AUTO 23006KT 10SM CLR 05/01 A3003 RMK AO2 T00510012 ETOU 290356Z AUTO 09006KT 9999 OVC019 02/M03 A3024 RMK AO2 SLP250 T00151028 ENRY 290350Z AUTO VRB02KT 1800NDV BR OVC001/// M01/M02 Q1030 CYYW 290400Z AUTO 00000KT 9SM OVC027 M03/M05 A2979 RMK SLP112 CWEU 290300Z 07002KT 15SM BKN080 M30/M34 A2951 RMK AC6 LAST STFD OBS/NEXT 290600Z SLP012 KTKI 290353Z AUTO 04007KT 9SM -RA BKN041 OVC050 08/07 A3010 RMK AO2 SLP201 P0009 T00780067 CYGQ 290400Z VRB02KT 15SM OVC024 M03/M06 A2980 RMK SC8 SLP112 CWGD 290400Z AUTO 21013G18KT 06/M00 RMK AO1 PK WND 22019/0341 SLP177 T00551001 53004 EGQM 290350Z AUTO 25002KT 1500 BR BKN002/// 07/06 Q1024 RERA PGWT 290355Z 09014KT 7SM SCT016 BKN120 31/26 A2978 KJNX 260135Z AUTO 15003KT 10SM SCT070 17/14 A3019 RMK AO2 CYOJ 290400Z 00000KT 15SM SKC M21/M23 A2985 RMK SLP151 ESGG 290350Z 06006KT 9999 OVC004 M02/M03 Q1029 R03/19//95 SBRB 290400Z 35002KT CAVOK 24/24 Q1013 VVPQ 290400Z 05011KT 010V100 9999 FEW015 SCT040 29/23 Q1011 NOSIG MSLU 281950Z 16004KT CAVOK 36/21 Q1008 A2979 KACP 290355Z AUTO 00000KT 7SM -RA OVC005 13/12 A3006 RMK AO2 P0003 KPIH 290353Z 00000KT 10SM CLR M06/M09 A3038 RMK AO2 SLP336 T10611089 $ KJDN 290348Z AUTO 32008KT M02/M06 A3031 RMK AO1 SLP291 T10221061 LTBA 290350Z 23009KT CAVOK 13/05 Q1019 NOSIG RMK RWY23 24008KT YPBO 290400Z AUTO 28016KT 210V300 9999 // NCD 40/11 Q1007 RMK KEFT 290355Z AUTO 20009KT 10SM CLR 03/00 A2996 RMK AO2 T00330000 KHKA 290353Z AUTO 00000KT 10SM CLR 04/00 A3017 RMK AO2 SLP216 T00390000 $ CYYU 290400Z 25005KT 15SM OVC030 M01/M04 A2978 RMK SC8 SLP098 OIMM 290400Z 17004KT 6000 FEW030 BKN170 04/03 Q1030 A3044 KDZB 290359Z AUTO 30004KT 7SM +RA SCT004 BKN009 OVC033 09/09 A3013 RMK AO2 P0001 LOWG 290350Z AUTO VRB01KT 5000 BR FEW003 BKN026 M01/M01 Q1021 KF17 290355Z AUTO 08003KT 10SM OVC013 11/08 A3009 RMK AO2 NZQN 290400Z 18012KT 140V200 44KM NCD 19/08 Q0998 RMK AUTO VATSIM USE ONLY KOLZ 290355Z AUTO 22009KT 10SM CLR 02/M00 A2997 RMK A01 FZNA 281000Z 18008KT 9000 SCT020 FEW022CB 26/16 Q1018 NOSIG KDVL 290356Z AUTO 30021G30KT 10SM BKN027 BKN034 00/M04 A2991 RMK AO2 PK WND 29038/0257 PRESRR SLP714 T00001044 FZRANO CXVM 290400Z AUTO 27008KT M08/M09 RMK AO1 T10751091 KRNT 290353Z 00000KT 1/4SM FG VV002 04/03 A3038 RMK AO2 SLP291 T00440033 $ KPCM 290355Z AUTO 00000KT 10SM CLR 19/19 A3006 RMK AO2 KRDK 290355Z AUTO 19007KT 10SM CLR 03/M00 A3001 RMK AO2 LTAE 290350Z 00000KT CAVOK M11/M13 Q1023 NOSIG RMK RWY21 03004KT PTYA 290350Z 12009G19KT 12SM VCSH SCT016CB BKN130 OVC300 29/27 A2967 RMK VCSH S CB SE-SW-W SLP049 T02930267 CXTV 290200Z AUTO 08003KT M22/M24 RMK AO1 SOG 10 T12221235 K1HM 290358Z AUTO 00000KT 10SM FEW065 M05/M08 A3034 RMK AO2 SLP307 T10511079 $ KFHU 290358Z AUTO 00000KT 10SM CLR 05/M12 A3017 RMK AO2 SLP198 T00511124 $ KOVE 290353Z AUTO 00000KT 10SM CLR 08/01 A3019 RMK AO2 SLP228 T00830011 KLSE 290353Z AUTO 14005KT 10SM CLR 05/00 A2993 RMK AO2 SLP144 T00500000 YMAY 290400Z AUTO 24015KT 9999 // NCD 25/10 Q1006 CZCR 290400Z AUTO 00000KT M00/M00 RMK AO1 SLP090 T10011001 56006 KPDK 290353Z AUTO 00000KT 8SM CLR 09/08 A3011 RMK AO2 SLP196 T00890083 RJTR 271643Z AUTO 31003KT 6SM BR OVC011 09/09 A2979 RMK AO2 SLP091 $ KRHI 290353Z AUTO 23005KT 10SM CLR 01/M04 A2983 RMK AO2 SLP119 T00111039 LSZC 290350Z AUTO 19004KT 9999 OVC011 02/M00 Q1018 KMKY 290356Z AUTO 03004KT 10SM CLR 21/19 A3006 RMK AO2 SLP177 T02110194 402890183 TSNO $ CWQH 290400Z AUTO 23007KT 03/M00 RMK AO1 SLP136 T00301002 51004 KOSC 290355Z AUTO 23011KT 10SM CLR 04/M01 A2992 RMK AO2 T00351006 KADW 290356Z AUTO 33004KT 10SM CLR 07/M04 A3015 RMK AO2 SLP217 T00661042 $ USNN 290400Z 00000MPS 9999 OVC006 M20/M23 Q1043 R03/420261 NOSIG RMK QFE778 SANT 290400Z 34006KT CAVOK 25/21 Q1010 UTNU 290400Z 07008KT CAVOK M02/M03 Q1041 R31/CLRD70 NOSIG GMTT 290400Z 16007KT 110V200 4000 -RA SCT006 BKN016 BKN023 14/14 Q1011 BECMG 8000 NSW OLBA 290400Z 12005KT CAVOK 15/09 Q1021 NOSIG VTSM 290400Z 04011KT 9999 FEW020 32/24 Q1012 NOSIG CXLB 290400Z AUTO 30008KT 04/04 RMK AO1 SLP098 T00410041 50003 RJSH 280032Z 29007KT 5000 -SHRA BR FEW010 SCT015 BKN025 02/01 Q1013 RMK 1ST010 4CU015 6CU025 A2992 KPIA 290354Z 21006KT 10SM CLR 03/M01 A3009 RMK AO2 SLP195 T00281006 KGFK 290353Z 28017G27KT 10SM BKN250 04/M03 A2980 RMK AO2 PK WND 29028/0303 SLP100 T00441028 ESNX 290350Z AUTO 00000KT 9999 NCD M14/M16 Q1024 KLIT 290353Z 06005KT 10SM BKN250 05/01 A3016 RMK AO2 SLP215 T00500011 PAUN 290356Z AUTO 13006KT 10SM OVC060 M14/M16 A2912 RMK AO2 SLP866 T11391156 FZRANO EGJA 281820Z 07014KT CAVOK 11/10 Q1017 RJFT 290400Z 33006KT 280V010 9999 BKN035 12/03 Q1024 GVBA 281900Z 05011KT 9999 FEW014 BKN200 24/16 Q1015 NOSIG KT20 290355Z AUTO 35012G17KT 10SM -DZ BKN007 BKN016 OVC025 12/12 A3007 RMK AO2 T01210121 K66R 290355Z AUTO 35006KT 10SM -RA OVC004 15/15 A3005 RMK AO2 P0003 T01530150 ZYTX 290400Z VRB02MPS CAVOK M04/M13 Q1031 NOSIG YCWR 290400Z AUTO 25011KT //// // ////// 28/10 Q1007 RMK KBCE 290353Z AUTO 00000KT 10SM CLR M08/M16 A3027 RMK AO2 SLP278 T10831156 PAHL 290356Z AUTO 31004KT 10SM CLR M15/M17 A2913 RMK AO2 SLP870 T11501167 FZRANO OMRK 290400Z 11011KT CAVOK 23/14 Q1019 A3009 KNEW 290353Z AUTO A3006 RMK AO2 SLP174 PWINO $ KBAC 290355Z AUTO 29022G29KT 10SM CLR 05/M03 A2989 RMK AO2 RJOC 290400Z 23013KT 9999 -SHRA FEW010 SCT035 BKN050 11/07 Q1023 SEQM 290400Z 16002KT 9999 OVC020 14/12 Q1027 NOSIG RMK A3035 EDHK 290350Z AUTO 32003KT 9999 // FEW010/// OVC026/// 02/01 Q1028 RJSN 290400Z 24005KT 180V280 9999 -SHRA FEW030 SCT040 BKN070 10/03 Q1022 KSNT 290351Z AUTO 00000KT M15/M17 A3035 RMK AO1 SLP357 T11501172 CYZP 290400Z AUTO 17012G18KT 9SM -RA SCT100 BKN120 OVC140 07/05 A2988 RMK SLP123 NTAA 290400Z 07012KT 040V100 9999 VCSH FEW015 SCT036 BKN300 27/24 Q1012 NOSIG PTSA 280250Z COR 09010KT 10SM BKN019 BKN130 BKN300 31/24 A2973 RMK LAST KSAW 290358Z AUTO 22004KT 10SM CLR 00/M04 A2980 RMK AO2 T00001040 ESGT 290350Z AUTO VRB03KT 9999 OVC008/// M00/M01 Q1030 KMEM 290354Z 04003KT 10SM FEW150 BKN250 07/M02 A3015 RMK AO2 SLP208 T00671022 $ KUDG 290410Z AUTO 00000KT 1/2SM FG CLR 08/08 A3015 RMK AO2 K1MW 290358Z AUTO 28007KT 10SM CLR M03/M10 A3004 RMK AO2 SLP208 T10301102 $ CYOW 290400Z 22009KT 15SM OVC040 03/M01 A2993 RMK SC8 SLP142 KTOP 290353Z AUTO 20005KT 10SM CLR 06/M02 A3009 RMK AO2 SLP194 T00561022 $ EFHA 290350Z AUTO 08003KT 9999 OVC011 M01/M01 Q1030 KCDC 290353Z AUTO 07004KT 10SM CLR M02/M11 A3025 RMK AO2 SLP275 T10221111 CYDP 290000Z 26006KT 15SM SKC M06/M12 A2976 RMK LAST STFD OBS/NXT 290900Z SLP080 HEBL 290300Z 35008KT CAVOK 13/05 Q1018 NOSIG CWWA 290400Z AUTO 03002KT 04/03 RMK AO1 SLP287 T00430031 57007 KRIV 290358Z AUTO 00000KT 10SM CLR 12/M11 A3013 RMK AO2 SLP200 T01211109 KRKP 290353Z AUTO 03011KT 5SM BR OVC010 19/18 A2997 RMK AO2 CIG 006V013 SLP150 T01890183 $ LFRH 290400Z AUTO 07009KT CAVOK 08/04 Q1017 NOSIG KLAN 290353Z 22009KT 10SM CLR 03/M01 A3004 RMK AO2 SLP180 T00331011 $ KMKT 290356Z AUTO 23006KT 10SM CLR 04/M01 A2992 RMK AO2 SLP140 T00441006 CWWX 290300Z AUTO 28014G28KT 07/03 RMK AO1 PK WND 30028/0255 SLP120 T00700026 53004 CWJT 290300Z AUTO 23002KT 01/01 RMK AO1 SLP126 T00120012 55004 YPED 290400Z AUTO 23017KT 9999 // NCD 22/09 Q1014 RMK KHSA 290150Z 01006KT 7SM OVC009 16/14 A3007 KFLG 290357Z AUTO 00000KT 10SM CLR M05/M12 A3025 RMK AO2 SLP251 T10501117 TSNO KPEX 290355Z AUTO 25007KT 10SM CLR 02/M01 A2985 RMK AO2 VOML 290400Z 06005KT 8000 FEW020 29/23 Q1013 NOSIG SPJE 271222Z 04003KT 5000 BR SCT030 OVC080 21/20 Q1016 CYUA 290400Z AUTO 08003KT ////SM OVC009 M17/M19 A2944 KGYR 290347Z 28004KT 10SM SKC 12/M02 A3011 RMK LAST PAQH 290356Z AUTO 32017KT 10SM OVC013 M06/M08 A2910 RMK AO2 SLPNO T10611078 FZRANO KW13 290355Z AUTO 00000KT 10SM CLR 01/M02 A3015 RMK AO1 T00091021 ZGOW 290400Z 06004MPS 350V100 9999 FEW040 23/13 Q1023 NOSIG CWHN 290400Z AUTO 24006KT 9SM CLR M12/M14 A3008 RMK ICG SLP232 ESSP 290350Z AUTO 33005KT 9999 OVC018/// 00/M02 Q1029 LTBG 280533Z 00000KT 6000 NSC M00/M01 Q1021 NOSIG RMK RWY18 22005KT ZSJN 242212Z 13001MPS 2000 PRFG BR NSC M03/M04 Q1029 NOSIG KTDF 290355Z AUTO 00000KT 10SM CLR 02/02 A3017 RMK AO2 K6R6 290351Z AUTO 00000KT 06/M01 A3015 RMK AO1 SLP200 T00561006 PAVC 290356Z AUTO 34010G20KT 10SM SCT040 BKN048 01/M06 A2932 RMK AO2 SNE34 SLP930 P0000 T00111056 FZRANO CYCD 290400Z 00000KT 15SM MIFG SCT270 01/01 A3039 RMK CI4 SLP292 CXSL 290400Z AUTO 24007KT M07/M10 RMK AO1 T10731096 MGGT 290400Z 34008KT 9999 OVC012 18/16 Q1026 A3030 DAUA 290400Z 11006KT CAVOK 08/M02 Q1015 KTNU 290355Z AUTO 22009KT 10SM CLR 05/02 A2999 RMK A01 ENKB 290350Z AUTO 10004KT 060V140 9999 NCD 04/M03 Q1025 RMK WIND 745FT 16012KT K1F0 290355Z AUTO 04004KT 10SM -RA BKN050 OVC055 07/06 A3011 RMK AO2 P0006 T00720057 KLUA 290355Z AUTO 00000KT 10SM CLR 01/M01 A3015 RMK AO2 VTPH 290400Z 02013KT 9999 FEW030 28/20 Q1014 NOSIG PAUT 290355Z AUTO 29024G27KT 10SM SCT026 BKN037 BKN048 02/M02 A2944 RMK AO2 T00231018 PWINO LFLX 290400Z AUTO 03003KT CAVOK 00/M00 Q1017 TEMPO 2000 BR LFOC 290400Z AUTO 36004KT 8000 ////// 02/00 Q1019 OEPS 290356Z 15011KT 9999 FEW050 SCT150 19/11 A3017 RMK AO2A SLP200 WND DATA ESTMD T01890106 KHOP 290356Z 00000KT 10SM CLR 04/M03 A3016 RMK AO2A SLP218 T00361026 SBAR 290400Z 10006KT 9999 FEW018 25/21 Q1014 KNMM 290356Z AUTO 00000KT 10SM CLR 10/08 A3011 RMK AO2 SLP208 T01000083 $ LGKC 271150Z 04012KT 9999 FEW020 SCT025 15/10 Q1021 TDCF 282000Z 30001KT 9999 BKN022 29/24 Q1011 KBKD 290355Z AUTO 29005KT 5SM BR OVC005 07/07 A3013 RMK AO2 T00670067 FLHN 271200Z 10009KT CAVOK 35/16 Q1014 NOSIG KM04 290350Z AUTO 00000KT 10SM CLR 02/M00 A3015 RMK A01 YCFS 290400Z AUTO 04021KT 9999 // NCD 29/19 Q1003 RF00.0/000.0 K0R0 290355Z AUTO 00000KT 6SM -RA BR OVC015 14/13 A3013 RMK AO2 P0001 YKMP 290400Z AUTO 21006KT //// // ////// 37/18 Q1002 RMK KSZT 290355Z AUTO 00000KT 10SM CLR M02/M02 A3040 RMK AO2 ESNU 290350Z AUTO 25002KT 9999 OVC018/// M00/M01 Q1029 KLUG 290355Z AUTO 00000KT 10SM CLR M00/M00 A3015 RMK A01 KSCF 290345Z AUTO 09019KT 9SM BKN012 OVC044 20/18 A3002 RMK A01 RJDM 262329Z 00000KT 9999 FEW040 BKN050 12/10 Q1023 RMK 1CU040 5SC050 A3021 K17J 290355Z AUTO 04008KT 10SM CLR 17/15 A3007 RMK AO2 T01690154 YSWG 290400Z AUTO 23018KT 9999 // NCD 28/04 Q1006 CYOO 290400Z AUTO 23006KT 9SM CLR 03/M01 A3000 RMK SLP163 KQEW 290410Z AUTO 27004G13KT 9999 OVC047 05/M06 A3033 RMK A02 TSNO SADP 281625Z 07017G30KT 9999 -DZ SCT030 OVC110 19/17 Q1008 RETSRA CYFO 290000Z 32012G17KT 12SM -SN DRSN OVC014 M08/M12 A2990 RMK SC8 LASTOBS/ NEXT291200UTC SLP148 FAGG 290400Z 34005KT 9999 FEW020 12/11 Q1019 ESGJ 290350Z AUTO 07003KT 010V100 9999 OVC009/// M01/M03 Q1028 KHTO 290355Z AUTO 34003KT 10SM CLR 06/M01 A3007 RMK AO2 T00551011 MMAS 290340Z 12004KT 10SM SCT200 17/M01 A3020 RMK 8/002 KDVO 290355Z AUTO 00000KT 10SM CLR 05/M01 A3020 RMK AO2 DAAP 290400Z 22003KT CAVOK 10/M03 Q1018 K49A 290355Z AUTO 05005KT 10SM CLR 10/05 A3014 RMK AO2 T00960046 KHFD 290353Z 00000KT 10SM CLR 03/M02 A3008 RMK AO2 SLP185 T00331017 MHLC 290400Z 03004KT 9999 FEW030 BKN070 25/23 Q1014 A2995 NOSIG KICL 290355Z AUTO 18005KT 10SM CLR 00/M01 A3004 RMK AO2 KUNO 290353Z AUTO 00000KT 10SM CLR 01/M02 A3016 RMK AO2 SLP216 T00111022 KAQO 290355Z AUTO 32005KT 10SM -RA FEW011 FEW016 OVC028 09/07 A3012 RMK AO2 P0001 VTSE 290400Z 03008G18KT 330V090 9999 SCT020 31/24 Q1012 NOSIG RJSI 290400Z VRB02KT 9999 FEW030 BKN040 BKN070 06/M01 Q1020 KOXD 290355Z AUTO 26003KT 10SM CLR 03/00 A3016 RMK AO2 T00301001 URWI 290400Z AUTO 12010MPS 9999 // ///006/// 04/04 Q1027 KBMQ 290353Z AUTO 32006KT 8SM -RA FEW008 BKN020 OVC046 08/07 A3013 RMK AO2 SLP198 P0005 T00830072 PKWA 290400Z AUTO 07018KT 7SM SCT025 SCT034 SCT046 30/25 A2973 RMK AO2 T03000251 KFVX 282355Z AUTO 00000KT 10SM CLR 07/04 A3010 RMK AO2 6//// T00650037 KS39 290355Z AUTO 10SM CLR M01/M06 A3033 RMK AO2 CXMI 290400Z AUTO 34006KT 04/03 RMK AO1 SLP098 T00410027 50003 YAYE 290400Z AUTO 11009KT 090V150 9999 // NCD 37/12 Q1009 KCQC 290353Z AUTO 29017KT 10SM CLR M02/M07 A3012 RMK AO2 SLP214 T10221072 MMTP 290240Z 00000KT 10SM BKN060 26/26 A2989 RMK SLP146 52026 905 8/500 EGPC 290350Z AUTO 24002KT 9999 NCD 04/03 Q1023 KAKO 290353Z AUTO 22013KT 10SM CLR 01/M04 A3003 RMK AO2 SLP186 T00111044 KAIA 290353Z AUTO 32007KT 10SM CLR M07/M12 A3004 RMK AO2 PRESRR SLP202 T10671117 KWLD 290354Z AUTO 15004KT 10SM FEW120 05/01 A3013 RMK AO2 SLP209 T00500011 UUMO 290400Z 11007MPS 9999 -SN OVC005 01/01 Q1025 R08/290050 NOSIG RMK QBB150 QFE754/1006 RJCH 290400Z 28012KT 250V320 9999 FEW012 SCT025 BKN040 04/M05 Q1019 KBWI 290354Z 00000KT 10SM CLR 05/M02 A3015 RMK AO2 SLP210 T00501022 KHVR 290353Z AUTO 29007KT 10SM CLR M03/M06 A3037 RMK AO2 SLP312 T10281061 KFKL 290356Z AUTO 22006KT 10SM CLR 01/M04 A3011 RMK AO2 SLP209 T00061044 FZRANO RJAA 290400Z 07006KT 9999 FEW030 BKN050 12/05 Q1021 NOSIG RMK 1CU030 7SC050 A3015 KIER 290355Z AUTO 00000KT 10SM OVC012 11/10 A3009 RMK AO2 T01080097 MMUN 290349Z 09006KT 7SM FEW015 26/21 A3000 RMK 8/100 AC KLCH 290353Z AUTO 07006KT 8SM OVC005 15/15 A3006 RMK AO2 RAE01B14E47 SLP186 P0003 T01500150 $ CYSC 290400Z AUTO 24006KT 9SM -RA FEW025 BKN031 OVC046 03/00 A2990 RMK SLP136 EFSI 290350Z AUTO 00000KT 9999 OVC016 M01/M02 Q1030 KINW 290356Z AUTO 19006KT 10SM CLR M03/M06 A3025 RMK AO2 SLP268 T10331056 $ KPNE 290354Z AUTO 33006KT 10SM CLR 05/M01 A3015 RMK AO2 SLP209 T00501011 CWJB 290400Z AUTO 22009G16KT 02/ RMK AO1 T0021 K9MN 290355Z AUTO 23009KT 210V270 10SM CLR 05/00 A2991 RMK AO1 T00530000 KCHK 290355Z AUTO 35011KT 10SM OVC065 05/04 A3011 RMK AO2 T00480042 WMKA 290400Z VRB06G16KT 9999 FEW020 31/25 Q1011 KMLB 290353Z 19006KT 10SM CLR 22/19 A3002 RMK AO2 SLP164 T02170194 EFMI 290350Z AUTO 07003KT 9999 OVC008 00/M01 Q1031 KNBG 290403Z AUTO 08004KT 10SM BKN009 OVC100 17/17 A3005 RMK AO2 T01720172 $ FMEE 290400Z AUTO 13015KT CAVOK 27/18 Q1015 NOSIG VEJS 290400Z 34004KT 2000 HZ NSC 23/12 Q1019 YBCS 290400Z AUTO 10009KT 9999 // BKN033 BKN039 BKN056 30/23 Q1009 KFDW 290355Z AUTO 00000KT 1/2SM FG OVC001 09/09 A3013 RMK AO1 VEBS 290330Z 01006KT 5000 HZ NSC 24/14 Q1018 NOSIG RJEB 290400Z 31004KT 9999 -SHSN FEW015 SCT030 BKN050 02/M02 Q1015 K27K 290355Z AUTO 00000KT 10SM CLR 00/M01 A3017 RMK AO1 K6R3 290355Z AUTO 00000KT 3SM RA OVC003 14/14 A3005 RMK AO2 P0003 T01430143 EGUL 290356Z AUTO 00000KT 8000 HZ OVC007 08/ M RMK AO2 SLPNO $ LEAB 290400Z 13003KT 9000 NSC 01/01 Q1014 NOSIG KBKN 290355Z AUTO 18005KT 10SM SCT060 OVC075 06/06 A3014 RMK AO2 KCVB 290355Z AUTO 35006KT 3SM -RA OVC005 13/12 A3010 RMK AO2 T01250122 KRNO 290355Z 00000KT 10SM CLR 01/M08 A3029 RMK AO2 SLP275 T00111078 $ LFKF 290400Z AUTO 06013KT 030V090 9999 FEW080 BKN120 14/11 Q1007 TEMPO 09025G42KT LIPK 271650Z 00000KT 1500 BR BKN005 BKN012 07/05 Q1022 NCMH 290400Z AUTO 10001KT //// ////// ///// Q1009 K08D 290355Z AUTO 33027G36KT 10SM OVC019 M02/M02 A3010 RMK AO2 KBDG 290355Z AUTO 02007KT 10SM M02/M10 A3028 RMK AO1 T10191104 UKKM 290400Z AUTO 18002MPS 0050 R15/0050N // ///001/// M03/M03 Q1017 KOMA 290352Z 14010KT 10SM CLR 03/M01 A2999 RMK AO2 SLP160 T00331006 $ KY51 290355Z AUTO 24005KT 10SM CLR 04/02 A2993 RMK AO1 T00360021 CWTY 290400Z AUTO 23012KT 03/01 RMK AO1 SLP117 T00320009 51007 K5R8 290355Z AUTO 00000KT 10SM -RA OVC004 14/14 A3005 RMK AO2 P0004 T01410136 PARC 290056Z AUTO 33005KT 10SM M22/M24 A2916 RMK AO2 SLPNO T12221244 FZRANO YJLC 290400Z AUTO 36006KT 9999 // SCT095 39/13 Q1006 RMK PHBK 290356Z AUTO 01011KT 10SM CLR 26/18 A3000 RMK AO2 RAB33E38 SLP161 P0000 T02560183 $ SBCP 282100Z 07020KT 9999 SCT020 25/21 Q1019 EKRS 290350Z AUTO 05004KT 340V120 2300 BR OVC002/// M01/M01 Q1028 K12N 290354Z AUTO 00000KT 01/M01 A3011 RMK AO1 SLP201 T00061011 VLPS 290400Z 36008KT 9999 SCT024 BKN050 26/19 Q1014 NOSIG KTKV 290355Z AUTO 23004KT 10SM CLR 01/M03 A2984 RMK AO2 T00101028 PWINO KAUH 290355Z AUTO 23006KT 10SM CLR 01/M03 A2997 RMK AO2 T00051027 CWSF 290400Z AUTO 14007KT 01/M02 RMK AO1 SLP082 T00131015 56007 KFYE 290355Z AUTO 00000KT 10SM CLR 03/M01 A3013 RMK A01 KPKB 290353Z 00000KT 10SM CLR M01/M03 A3019 RMK AO2 SLP227 T10061028 EBFN 290355Z AUTO 07008KT 0250 FG OVC002/// 03/03 Q1023 RED WBGG 290400Z 25007KT 170V320 9999 FEW015CB SCT016 31/24 Q1010 NOSIG OESK 290400Z 06003KT 3000 BR NSC 11/09 Q1022 LIVM 290355Z AUTO 29005KT 230V320 //// 07/06 Q1015 KUBE 290355Z AUTO 23010KT 10SM CLR 02/M02 A2983 RMK AO2 KSKF 290356Z AUTO 35010KT 10SM OVC024 12/10 A3005 RMK AO2 SLP175 T01190101 $ KQFB 290410Z AUTO 33006G11KT 9999 CLR 07/M05 A3036 RMK A02 TSNO SKBO 290400Z 03004KT 9999 SCT015 BKN070 12/11 A3038 REDZ NOSIG VHHH 290400Z 05006KT 350V080 CAVOK 21/10 Q1023 NOSIG KPTK 290353Z 23007KT 10SM CLR 03/M04 A3003 RMK AO2 SLP177 T00281044 KFOK 290353Z 00000KT 10SM CLR M02/M03 A3010 RMK AO2 SLP191 T10171033 KY63 290355Z AUTO 32005KT 10SM CLR 04/M03 A2986 RMK AO2 T00351028 KDED 290355Z AUTO 00000KT 10SM OVC120 21/20 A3004 RMK AO2 T02140199 LIEO 290350Z 04007KT 9999 FEW015 BKN030 14/13 Q1007 LFRS 290400Z AUTO 06008KT CAVOK 06/04 Q1017 NOSIG KCAG 290353Z AUTO 00000KT 10SM CLR M09/M12 A3025 RMK AO2 SLP322 T10941122 CPBT 290400Z AUTO 21007KT M08/M09 RMK AO1 T10811094 ENAT 290350Z AUTO 16011KT 9999 NCD 00/M05 Q1017 RMK WIND 700FT 17016KT KBYS 290358Z AUTO 04008KT 10SM CLR 06/M14 A3020 RMK AO2 SLP236 T00571142 $ EGAE 281550Z 03005KT 9999 FEW012 07/06 Q1020 KHEI 290353Z AUTO 32015G25KT 10SM CLR 01/M05 A3012 RMK AO2 PK WND 33032/0313 PRESRR SLP221 T00111050 KY23 290355Z AUTO 22006KT 10SM CLR 03/M02 A2985 RMK AO2 T00271016 KCEF 290356Z 25003KT 10SM CLR 02/M03 A3004 RMK AO2A SLP180 T00201035 KIKV 290355Z AUTO 20006KT 10SM CLR 06/00 A3000 RMK AO2 SLET 282200Z 32015KT 9999 FEW017 BKN200 30/20 Q1008 K82V 290355Z AUTO 00000KT 10SM CLR M05/M12 A3007 RMK AO2 DNKA 282300Z 09005KT CAVOK 22/07 Q1016 OITT 290400Z 09006KT 6000 -SHRA FEW015 FEW032CB OVC080 02/00 Q1022 A3019 TEMPO SHSN KICR 290353Z AUTO 30004KT 10SM CLR 03/M11 A3002 RMK AO2 SLP175 T00331111 SBPA 290400Z 09003KT 060V140 9999 FEW027 FEW040TCU 23/21 Q1009 KRZN 290355Z AUTO 25008KT 10SM CLR 07/M02 A2981 RMK AO2 T00711021 KCTY 290355Z AUTO 02007KT 10SM SCT011 BKN016 OVC023 18/17 A3005 RMK AO2 T01840172 KPUB 290353Z 27003KT 10SM CLR 01/M03 A3007 RMK AO2 SLP196 T00061033 SAAG 281210Z 07010KT 9999 TS FEW045 BKN100 BKN200 24/19 Q1011 SLTR 282300Z 00000KT 9999 FEW020 BKN200 30/23 Q1008 KSLK 290351Z AUTO 24008KT 10SM OVC017 02/M01 A2992 RMK AO2 SLP147 T00171006 YMGB 290400Z AUTO 36010KT //// // ////// 33/22 Q1005 RMK KSWF 290345Z 24005KT 10SM SKC 04/M02 A3009 KTKX 290355Z AUTO 00000KT 10SM CLR 03/02 A3016 RMK AO2 TSNO KPGA 290353Z AUTO 00000KT 10SM CLR 03/M12 A3023 RMK AO2 SLP240 T00331117 TSNO KAIG 290355Z AUTO 22005KT 10SM CLR 00/M04 A2986 RMK AO2 T10041037 400811055 ZSNB 290400Z 33004MPS 300V020 9999 SCT030 10/04 Q1031 NOSIG EGEO 281350Z 10004KT 9999 FEW024 08/04 Q1021 KOLM 290354Z AUTO 00000KT 7SM OVC015 03/03 A3037 RMK AO2 SLP286 T00330028 YBWW 290400Z AUTO 33008KT 9999 // NCD 36/07 Q1010 RF00.0/000.0 ENSE 290350Z AUTO 20024KT 9999NDV FEW040/// 08/03 Q1023 W///S5 OEAO 290400Z 30006KT 9999 SCT040 15/10 Q1019 RJFY 290144Z 26010KT 9999 FEW030 BKN050 14/03 Q1025 RMK 1CU030 5SC050 A3029 KEHO 290355Z AUTO 00000KT 10SM CLR 08/06 A3015 RMK AO2 T00800061 KGZS 290355Z AUTO 00000KT 10SM CLR 02/02 A3015 RMK A01 KAMN 290356Z AUTO 22009KT 10SM CLR 04/00 A3001 RMK AO2 T00401005 KBVY 290353Z AUTO 28004KT 10SM CLR 03/M01 A3000 RMK AO2 SLP154 T00331011 CXWN 290400Z AUTO 35010G17KT M01/M02 RMK AO1 PRESRR PK WND 16017/0344 SLP101 T10071015 53046 FXMM 281200Z 36016KT 9999 BKN030 21/12 Q1022 EPSC 290400Z 32004KT 9999 FEW016 BKN023 03/02 Q1024 K2M2 290355Z AUTO 00000KT 10SM CLR 03/02 A3014 RMK A01 HEMM 290300Z 00000KT CAVOK 11/09 Q1019 NOSIG LTBU 290350Z VRB01KT 2500 0900N R04/P1500D R22/P1500D BCFG NSC 05/05 Q1018 RMK RWY22 21003KT 180V260 KPOU 290353Z AUTO 00000KT 10SM CLR M01/M03 A3009 RMK AO2 SLP187 T10061028 TSNO PMDY 290356Z AUTO 05007KT 7SM BKN018 24/19 A3022 RMK AO2 SLP231 T02390194 KPIR 290353Z AUTO 33018KT 10SM CLR 07/M08 A3003 RMK AO2 SLP179 T00721078 KCWC 290355Z AUTO 35004KT 5SM BR SCT004 BKN016 OVC029 07/06 A3014 RMK AO2 T00650057 KTRL 290410Z AUTO 01008KT 4SM -RA BR SCT006 BKN011 OVC037 09/09 A3010 RMK AO2 P0000 T00890089 KSAF 290353Z AUTO 35007KT 10SM CLR M02/M04 A3014 RMK AO2 SLP207 T10171044 KPSC 290353Z 00000KT 9SM CLR M01/M02 A3043 RMK AO2 SLP309 T10061022 LFBL 290400Z AUTO 04008KT CAVOK 08/01 Q1014 NOSIG KMRN 290355Z AUTO 00000KT 10SM CLR 04/03 A3019 RMK AO2 T00390031 CYXH 290300Z 26008KT 15SM SKC M05/M07 A3032 RMK LAST STFD OBS/NEXT 291300Z SLP301 LIML 290350Z 20004KT 6000 BKN035 07/06 Q1016 NOSIG CWVQ 290400Z AUTO 24009KT 04/M00 RMK AO1 SLP134 T00441003 55002 YMTI 290400Z AUTO 36013KT 9999 // SCT054 BKN066 BKN077 33/23 DAUE 290400Z 34003KT CAVOK 05/M01 Q1017 SCNT 282300Z 29020KT 250V320 9999 -SHRA FEW016 OVC040 05/02 Q0998 ZSSS 290400Z VRB03MPS CAVOK 12/01 Q1031 NOSIG FBFT 290400Z 34004KT 320V020 CAVOK 20/19 Q1017 KTRI 290353Z 36003KT 10SM CLR 03/01 A3016 RMK AO2 SLP205 T00280011 $ KPXE 290355Z AUTO 00000KT 3 1/2SM BR 12/12 A3011 RMK AO2 T01250124 SAWH 290300Z 23015KT 9999 BKN030 SCT080 05/00 Q0989 KRIL 290353Z AUTO 24004KT 10SM CLR M04/M10 A3025 RMK AO2 SLP280 T10441100 KMCD 290355Z AUTO 23010G14KT 10SM CLR 05/01 A2985 RMK AO2 T00520013 400710000 KDMA 290358Z 00000KT 10SM CLR 13/M03 A3013 RMK AO2A SLPNO ALSTG ESTMD RVRNO FZRANO $ LTAY 290350Z 00000KT CAVOK M04/M06 Q1022 K63S 290355Z AUTO 00000KT 10SM SCT026 BKN032 BKN038 M03/M04 A3042 RMK A01 CWOY 290400Z AUTO 29009G15KT M08/M11 RMK AO1 SOG 04 3038 SLP242 T10811111 KANW 290355Z AUTO 30008KT 10SM CLR 02/M08 A2999 RMK AO2 T00171085 YCMT 290400Z AUTO 10007KT 070V150 9999 // NCD 35/06 Q1010 RMK UTDK 290400Z 00000MPS 5000 BR NSC 05/02 Q1033 R01/09//70 RMK QFE716/0955 LIQO 281755Z 10015KT 9999 FEW007 09/02 Q1010 RMK OVC SCT053 BKN070 VAL NIL NC VIS MIN 9999 KETH 290355Z AUTO 26007KT 10SM 06/M06 A2990 RMK AO2 KPZZ 290355Z AUTO 06019KT 6SM HZ BKN016 BKN023 OVC055 23/20 A3000 RMK A01 KJXN 290356Z AUTO 22013G23KT 10SM CLR 03/M03 A3005 RMK AO2 SLP185 T00331028 EINN 290400Z 13004KT 2500 BR FEW002 BKN003 09/08 Q1023 NOSIG OJAM 290400Z 00000KT 4000 BR NSC 08/07 Q1020 NOSIG CYDL 290400Z AUTO 20007G16KT 150V240 9SM FEW070 BKN093 BKN110 00/M06 A2944 RMK SLP019 KSVN 290356Z AUTO 03004KT 10SM BKN023 BKN032 15/13 A3007 RMK AO2 CIG 022 RWY10 SLP186 T01450125 $ KHHW 290355Z AUTO 07005KT 10SM SCT046 OVC075 08/02 A3009 RMK AO2 YMIN 290400Z AUTO 16013KT //// // ////// 21/08 Q1014 RMK YMAV 290400Z AUTO 18016KT 9999 // SCT034 SCT040 BKN046 17/11 Q1011 KCQB 290355Z AUTO 30009KT 10SM RA BKN050 OVC060 06/03 A3015 RMK AO2 P0001 T00620028 WALL 290400Z 19004KT 120V250 9999 SCT020 30/25 Q1008 KBLU 290352Z AUTO 04004KT 10SM CLR 09/M09 A3024 RMK AO2 SLP209 T00941094 UNKL 290400Z 00000MPS 3600 BR NSC M20/M24 Q1041 R29/CLRD65 NOSIG RMK QFE754 WMKE 290400Z VRB05KT 9999 SCT014 31/25 Q1010 KK62 290355Z AUTO 00000KT 10SM CLR 03/M01 A3019 RMK AO2 SBVH 282300Z 11002KT CAVOK 24/22 Q1013 PAMB 290356Z AUTO 28004KT 5SM -SN BR BKN025 M04/M06 A2890 RMK AO2 SLP791 P0000 T10441056 FZRANO $ YCIN 290400Z AUTO 24008KT 170V280 9999 // NCD 37/19 Q1005 RF00.0/000.0 DL-NE SLMG 282200Z 00000KT 9999 FEW015 SCT080 BKN200 26/24 Q1008 ETND 271020Z 11007KT 1600 VCFG BR OVC003 07/06 Q1021 YLO YLRE 290400Z AUTO 07011KT 9999 // NCD 38/08 Q1008 HKKI 281800Z 32005KT 9999 FEW018CB SCT019 BKN080 21/19 Q1016 KMQI 290355Z AUTO 00000KT 5SM BR CLR 08/08 A3015 RMK AO2 T00770076 YSHL 282300Z AUTO 33015KT 9999 // NCD 35/13 Q0997 RMK CXDW 290400Z AUTO 31021G28KT M01/M04 RMK AO1 PRESRR PK WND 27030/0337 SLP129 T10071035 53060 RPLI 290400Z 12010KT 070V150 9999 FEW018 SCT290 32/21 Q1012 NOSIG RMK A2988 RCSS 290400Z 08013KT 9999 -RA FEW008 BKN025 BKN045 21/18 Q1023 NOSIG RMK A3022 KMGW 290353Z 00000KT 10SM CLR 01/M03 A3018 RMK AO2 SLP230 T00061028 KTYQ 290355Z AUTO 00000KT 10SM CLR 01/M04 A3014 RMK AO2 T00101039 400771029 EGOM 290350Z AUTO 07004KT 0150 FG VV/// 05/05 Q1023 CWZZ 290400Z AUTO 28021KT ////SM NCD M09/M13 A2953 KJHN 290355Z AUTO 13005KT 7SM OVC016 03/03 A3010 RMK AO2 T00270027 YBRL 290400Z AUTO 05011KT 360V070 //// // ////// 38/18 Q1005 KVUO 290353Z AUTO 00000KT 10SM OVC016 07/04 A3036 RMK AO2 SLP280 T00670039 CWMT 290400Z AUTO 10004KT M22/M24 RMK AO1 SOG 15 8023 SLP046 T12161239 RKSY 290358Z AUTO 00000KT 9999 OVC041 02/M07 A3038 RMK AO2 SLP291 T00241067 $ KNPA 290256Z AUTO 03006KT 10SM FEW090 SCT110 18/15 A3005 RMK AO2 SLP176 6//// T01780150 50001 PNO $ RKTE 270032Z 19001KT 8000 BR BKN030 BKN100 04/02 A3027 RMK CIG030 FAEO 280724Z AUTO 36013KT //// // ////// 21/13 Q1026 PTRO 290350Z 29009G16KT 15SM BKN016TCU BKN120 BKN300 31/25 A2971 RMK TCU E KHEZ 290412Z AUTO 07005KT 10SM BKN007 BKN110 12/11 A3007 RMK AO2 LFLL 290400Z 35002KT 3500 BR FEW007 M01/M02 Q1016 NOSIG LGTS 290350Z VRB02KT 9999 FEW010 SCT025 06/05 Q1017 NOSIG DTTZ 290400Z 23020KT 6000 NSC 13/05 Q1008 KDRM 290355Z AUTO 20004KT 7SM CLR 00/00 A2985 RMK AO2 T00001004 GCLP 290400Z 30004KT 9999 FEW030 17/13 Q1014 NOSIG VABB 290400Z 11010KT 3000 FU NSC 30/19 Q1015 NOSIG PAKV 290353Z AUTO A2911 RMK AO2 SLPNO PWINO FZRANO TSNO $ CWVF 290400Z AUTO 13003KT 06/05 RMK AO1 T00620054 KMBY 290355Z AUTO 21004KT 10SM CLR 06/M05 A3010 RMK AO2 KPBG 290353Z AUTO 22004KT 10SM BKN090 05/M01 A2996 RMK AO2 SLP147 T00501006 YBTL 290400Z AUTO 06017KT 9999 // NCD 31/21 Q1010 LBPL 290400Z 00000KT 0200 FG 00/00 Q1019 KIXA 290355Z AUTO 00000KT 7SM CLR 05/05 A3015 RMK AO2 CWNP 290400Z AUTO 00000KT M00/M01 RMK AO1 SLP321 T10011007 53015 KPAM 290356Z AUTO 04005KT 10SM OVC140 19/16 A3004 RMK AO2 SLP176 T01900160 YSHW 290000Z AUTO 33015KT 9999 // NCD 38/08 Q0999 RMK YLTN 290400Z AUTO 01013KT 010V070 //// // ////// 31/08 Q1010 LICT 290355Z 12009KT 9999 FEW028 13/11 Q1005 RMK FEW VIS MIN 9999 WIND THR13 13009KT BLU KPCD 290355Z AUTO 00000KT 10SM CLR 00/M01 A3015 RMK AO2 T00011013 KTMT 290355Z AUTO 27005KT 10SM CLR M08/M15 A3031 RMK AO2 T10821150 ENNM 280950Z 02002KT 9999 FEW001 M02/M02 Q1024 VABO 290400Z 02006KT 6000 NSC 23/12 Q1017 NOSIG UTSK 290400Z 33002KT 7000 NSC 00/M02 Q1033 R16/CLRD70 KF45 280540Z AUTO 00000KT 10SM 18/18 A3005 RMK AO2 MMVA 290243Z 00000KT 7SM SKC 24/23 A2993 RMK SLP144 52010 962 LTBI 260638Z 00000KT 3200 R26/1000N R08/P1500N BR NSC M00/M01 Q1023 BECMG CAVOK RMK RWY08 00000KT RKJK 290356Z 24003KT 10SM BKN034 BKN045 05/M02 A3037 RMK AO2A SLP289 T00501021 FZRANO $ KJKJ 290355Z AUTO 29020G24KT 10SM CLR 08/M08 A2983 RMK AO2 K6S2 290355Z AUTO 00000KT 10SM CLR 07/06 A3029 RMK AO2 T00700056 LFRZ 290400Z AUTO 05009KT 9000 NSC 06/04 Q1017 NOSIG KEYW 290353Z AUTO 05003KT 10SM CLR 23/21 A3005 RMK AO2 SLP175 T02280211 CYHE 290400Z AUTO 08005KT 9SM FEW026 BKN035 OVC049 05/04 A3042 RMK SLP301 CXGH 290400Z AUTO 35008KT M01/M02 RMK AO1 PK WND 34019/0318 SLP099 T10091022 53037 KRUQ 290355Z AUTO 00000KT 10SM CLR 06/03 A3015 RMK AO2 T00560034 LTCP 290350Z 34004KT CAVOK 07/01 Q1019 RJEC 290400Z 22010KT 190V250 9999 -SHSN FEW015 SCT025 BKN045 01/M07 Q1016 KTOA 290153Z 26003KT 10SM SKC 14/M02 A3010 WIHH 290400Z 28005KT 6000 SCT020 31/22 Q1009 NOSIG OEBH 290400Z 00000KT CAVOK 15/15 Q1017 NOSIG GANR 290300Z 00000KT CAVOK 15/07 Q1013 CTCK 290400Z AUTO 24007KT 04/01 RMK AO1 SLP141 T00400005 53001 RJFF 290400Z 30009KT 270V340 9999 FEW030 SCT040 BKN050 12/04 Q1025 NOSIG RMK 1CU030 3CU040 5SC050 A3028 RPMZ 290400Z 18005KT 130V230 9999 FEW017 SCT090 31/25 Q1008 RMK A2977 CYYT 290400Z 07006KT 1/4SM R29/1200V1400FT/N R16/1200V1600FT/N FG VV001 08/08 A2969 RMK FG8 SLP058 HAAB 290400Z 09004KT 9999 FEW024 13/12 Q1026 CWQR 290400Z AUTO 32002KT M01/M02 RMK AO1 T10071019 SPSO 290400Z 21010KT 8000 NSC 18/16 Q1014 RMK PP000 VOMD 290400Z 07004KT 5000 HZ FEW018 SCT100 27/23 Q1015 NOSIG K9A5 290355Z AUTO 00000KT 10SM CLR 06/06 A3013 RMK AO2 T00560056 YBWX 290400Z AUTO 24013KT //// // ////// 30/21 Q1007 LOWI 290350Z AUTO 03003KT 340V080 9999 SCT005 BKN006 M01/M02 Q1019 KDQH 290355Z AUTO 07004KT 10SM OVC007 15/13 A3011 RMK AO2 T01460134 KHIE 290352Z AUTO 23003KT 10SM BKN050 BKN060 OVC075 02/00 A2994 RMK AO2 SLP150 T00170000 KGEV 290355Z AUTO 00000KT 10SM CLR 04/00 A3016 RMK AO2 T00380002 VOGO 290330Z 006009KT 6000 FEW090 27/20 Q1014 NOSIG KHZX 290355Z AUTO 20004KT 10SM CLR 01/M01 A2977 RMK AO1 USPP 290400Z 10001MPS 8000 -SN BKN005 M16/M18 Q1047 R21/090060 NOSIG RMK QBB150 QFE774 KRNP 290355Z AUTO 22007KT 10SM CLR 04/M01 A3002 RMK AO2 T00401014 KNIP 290353Z 36009KT 10SM OVC005 17/17 A3006 RMK AO2 SLP176 T01720167 MBPV 282100Z 15002KT 9999 SCT012CB 27/18 Q1013 ZSFZ 290400Z 03009MPS 9999 BKN021 OVC046 16/11 Q1026 NOSIG CYQY 290400Z 35007KT 10SM FEW012 OVC018 03/03 A2974 RMK SC2SC6 SLP075 KDLH 290355Z 24005KT 10SM SCT120 01/M04 A2975 RMK AO2 SLP091 T00111039 KSLI 290358Z AUTO 01003KT 10SM CLR 12/M03 A3010 RMK AO2 SLP196 T01221032 LESO 290400Z AUTO 17005KT 120V200 CAVOK 10/07 Q1012 KSBD 290350Z 13003KT 7SM SKC 13/M08 A3013 OICI 290400Z 12004KT 9000 3000SE BR FEW015 FEW030CB SCT040 OVC070 07/06 Q1019 A3010 KP92 290359Z AUTO VRB03KT 18/17 A3003 RMK AO1 SLP169 T01780172 KORS 290355Z AUTO 00000KT 8SM CLR 04/04 A3037 RMK AO2 KOPF 290353Z AUTO 00000KT 10SM CLR 22/19 A3004 RMK AO2 SLP174 T02170189 $ PHMU 262300Z 03020KT 10SM FEW018 25/16 A3010 HEMA 272000Z 29009KT CAVOK 19/12 Q1016 NOSIG KLAL 290355Z AUTO 00000KT 10SM CLR 18/16 A3004 RMK AO2 PNO UBBN 290400Z 27004KT 9999 FEW046 SCT100 00/M03 Q1024 R14R/CLRD// NOSIG RMK MT OP QFE693 KLGD 290356Z AUTO 18006KT 10SM OVC047 02/M03 A3041 RMK AO2 SLP319 T00221033 FZRANO PNO $ KASX 290353Z AUTO 22010KT 10SM CLR 04/M03 A2980 RMK AO2 SLP100 T00391028 KEBG 290355Z AUTO 31009KT 2SM BR OVC005 18/17 A3000 RMK AO2 T01750171 TSNO EHDV 290355Z AUTO 12011KT 9999 SCT008/// BKN009/// OVC010/// 08/06 Q1026 KPKV 290402Z AUTO 05015G21KT 7SM -RA BKN014 BKN025 OVC031 19/17 A3000 RMK AO2 ULAA 290400Z 18003MPS 150V220 9999 BKN004 M10/M12 Q1038 R08/920348 NOSIG RMK QBB140 QFE777/1037 MTPP 290359Z AUTO 11004KT 9000 ////// 25/22 Q1015 A2998 NOSIG YLTV 290400Z AUTO 23021KT 9999 // SCT029 SCT036 BKN042 16/11 KDEH 290355Z AUTO VRB04KT 10SM CLR 06/03 A2993 RMK AO2 KHYS 290356Z AUTO 25006KT 10SM BKN110 05/02 A3009 RMK AO2 SLP200 T00500017 KRKD 290356Z AUTO 30003KT 8SM FEW002 02/02 A2993 RMK AO2 SLP134 T00170017 FZRANO LGIR 290350Z VRB03KT 9999 FEW025 12/09 Q1018 NOSIG LFMI 290400Z AUTO 02007KT CAVOK 06/03 Q1012 NOSIG RJTL 260004Z VRB01KT 9999 FEW005 SCT007 BKN/// 11/09 Q1021 RMK 2ST005 4ST007 A3018 ETNH 290320Z AUTO 34001KT 8000 // ////// 00/M00 Q1028 /// KBKV 290353Z AUTO 09003KT 10SM CLR 19/18 A3003 RMK AO2 SLP169 T01940178 CWUW 290400Z AUTO 01010KT ////SM NCD M19/M21 A2940 SVBM 290402Z AUTO 09006KT NCD 22/22 Q1016 K2LS 290355Z AUTO VRB05KT 10SM FEW013 SCT075 OVC110 18/17 A3005 RMK AO2 CXMG 290400Z AUTO 17015KT M09/M12 RMK AO1 T10921123 KTOB 290355Z AUTO 24008KT 10SM CLR 01/M01 A2991 RMK AO2 PWINO KPSO 290355Z AUTO 00000KT 10SM CLR M05/M05 A3019 RMK AO2 T10461051 ENQR 290350Z AUTO 20024KT 9999NDV FEW024/// 08/// Q1023 W///S5 KGMJ 290355Z AUTO 00000KT 10SM CLR 03/01 A3014 RMK AO2 UARR 290400Z 15007MPS 7000 -SN BKN004 OVC016 M04/M05 Q1043 R22/820555 TEMPO 0700 FZFG VV002 RMK QBB130 QFE779/1038 KF44 290355Z AUTO 00000KT 4SM RA OVC012 11/10 A3008 RMK AO2 P0001 KTRM 290352Z AUTO 34004KT 10SM CLR 10/00 A3013 RMK AO2 SLP202 T01000000 $ YTAR 290400Z AUTO 19006KT //// // ////// 26/02 Q1013 RMK KCDD 290353Z AUTO 00000KT 10SM CLR M07/M08 A2972 RMK AO2 KHZR 290355Z AUTO 04005KT 10SM -RA BKN006 OVC010 16/16 A3005 RMK AO2 P0002 KSMD 290355Z AUTO 21008KT 10SM CLR 03/M03 A3013 RMK A01 YMMB 290400Z AUTO 21016KT 9999 // SCT025 BKN059 18/11 Q1012 FAVV 280200Z AUTO 01004KT //// // ////// 17/15 Q1025 LEST 290400Z VRB02KT 9999 FEW025 SCT038 11/06 Q1009 TEMPO 3000 RA KFOD 290356Z AUTO 21004KT 10SM CLR 03/00 A2995 RMK AO2 SLP181 T00280000 KPRG 290355Z 10SM CLR 02/M01 A3016 RMK AO2 T00241012 KILM 290353Z 00000KT 4SM BR CLR 10/09 A3012 RMK AO2 SLP200 LAST T01000094 KPHD 290353Z AUTO 00000KT 10SM CLR M01/M02 A3017 RMK AO2 SLP224 T10111022 CWIK 290400Z AUTO 31015KT M04/M07 RMK AO1 PK WND 31021/0346 SLP215 T10431070 51043 KEHY 290355Z AUTO 10SM CLR 01/M19 A3012 RMK AO2 PWINO KGVL 290353Z AUTO 00000KT 10SM CLR 11/07 A3012 RMK AO2 SLP194 T01060072 CXZV 290400Z AUTO 05004KT M02/M03 RMK AO1 3PAST HR SOG 39 6005 SLP085 P0001 T10221028 50003 GCGM 290400Z AUTO VRB02KT 9999 -SHRA SCT067 BKN080 17/12 Q1014 RMK R09/04004KT ARP/04004KT 010V070 EGDR 290350Z AUTO 08021KT 7000 // OVC007/// 10/10 Q1020 KFZG 290355Z AUTO 10005KT 10SM OVC004 16/15 A3012 RMK AO2 T01560151 KCWF 290350Z 07005KT 7SM -RA OVC004 15/14 A3006 RMK LAST KGGI 290355Z AUTO 22011KT 10SM CLR 08/02 A3001 RMK AO2 T00770016 KBZN 290356Z 19006KT 10SM CLR M03/M08 A3032 RMK AO2 SLP321 T10331083 $ YBRM 290400Z AUTO 23011KT 9999 // BKN020 BKN025 30/25 Q1007 LTCC 290350Z 21001KT CAVOK 02/00 Q1019 NOSIG RMK RWY16 00000KT CWBT 290400Z AUTO 34002KT M05/M06 RMK AO1 SLP088 T10521059 55005 SCSN 290400Z AUTO 00000KT 9999 NCD 10/09 Q1019 DAOR 290400Z 11002KT CAVOK 08/03 Q1016 KALW 290353Z AUTO 16004KT 10SM CLR 04/00 A3038 RMK AO2 SLP295 T00390000 KWWR 290355Z AUTO 29003KT 10SM SCT043 SCT055 OVC075 02/02 A3017 RMK AO2 CZPC 290400Z AUTO 28005KT 9SM M09/M11 A3027 RMK CLD MISG SLP307 LJLJ 290400Z VRB01KT 5000 -DZ BR FEW003 BKN010 OVC027 00/00 Q1020 NOSIG EGUB 290350Z AUTO 03004KT 3400 // OVC006/// 07/07 Q1024 KETC 290355Z AUTO 00000KT 5SM BR CLR 06/05 A3015 RMK AO2 T00560054 LZKZ 290400Z 18004KT 1500 -SN BR OVC007 M01/M01 Q1019 CYAB 282300Z 08004KT 060V130 10SM -SHSN FEW004 SCT015 BKN220 M25/M28 A2966 RMK SC1SC2CI2 VIS S-SW 5 -SHSN LAST STFD OBS/NXT 301200Z SLP049 EHVL 290355Z AUTO 10011KT 9000 BR OVC008 03/02 Q1026 GRN CYLW 290400Z AUTO 00000KT 9SM BKN014 M02/M02 A3039 RMK SLP318 KLXN 290355Z AUTO 29005KT 10SM CLR M03/M07 A2999 RMK AO2 T10311072 MHSR 282300Z 34008KT 9999 FEW025TCU 23/19 CYRV 290400Z AUTO 00000KT 9SM CLR M02/M03 A3044 RMK SLP331 KSAN 290351Z 00000KT 10SM CLR 14/01 A3012 RMK AO2 SLP198 T01440006 FQNP 281800Z 14006KT 080V170 9999 BKN020 27/20 Q1014 SKLT 290400Z 00000KT 9999 FEW012 SCT080 24/24 A2991 KVDI 290355Z AUTO 07006KT 10SM OVC007 14/12 A3011 RMK AO2 ROIG 290400Z 05019KT 9999 FEW030 BKN060 23/15 Q1021 PAGN 290356Z AUTO 00000KT 10SM -RA SCT040 BKN048 OVC065 02/02 A2950 RMK AO2 RAB29 SLP980 P0001 T00220017 FZRANO KMKL 290353Z AUTO 00000KT 10SM CLR 01/M02 A3016 RMK AO2 SLP214 T00111017 LGMT 290350Z 17005KT 9999 FEW020 11/07 Q1019 LSGS 290350Z AUTO 00000KT 6000 BKN005 M01/M02 Q1016 KDZJ 290355Z AUTO 00000KT 10SM CLR 05/04 A3014 RMK AO2 T00460043 KMPO 290353Z AUTO 28010KT 10SM CLR 01/M05 A3005 RMK AO2 SLP190 T00111050 SBAN 290300Z 10009KT CAVOK 21/14 Q1020 KHSD 290355Z AUTO 29004KT 5SM BR FEW026 SCT032 BKN047 05/04 A3017 RMK A01 HUSO 250900Z 19007KT 9999 BKN020 24/20 1019 RJNG 282012Z 29003KT 9999 FEW030 BKN180 BKN/// 04/01 Q1022 RMK 1CU030 5AC180 A3019 LFSL 290400Z AUTO 00000KT CAVOK 01/00 Q1014 NOSIG LTBJ 290350Z 00000KT CAVOK 02/M01 Q1020 NOSIG RMK RWY16 13003KT PAGL 290356Z AUTO 34008KT 10SM CLR M11/M13 A2919 RMK AO2 SLP880 T11111133 FZRANO PADK 290407Z AUTO 01006KT 10SM FEW026 OVC032 03/00 A2967 RMK AO2 EKCH 290320Z 01008KT 9999 BKN008 02/00 Q1028 NOSIG CYZV 290410Z 05006KT 3SM -SN OVC007 M02/M02 A2977 RMK SC8 SLP086 SBTD 271700Z 36020KT 9999 TS SCT030 FEW035CB SCT080 32/17 Q1014 ZGSZ 290400Z 01007MPS CAVOK 22/10 Q1023 NOSIG KGRD 290356Z AUTO 00000KT 1/2SM FG VV002 11/11 A3014 RMK AO2 SLP206 T01110111 KJFX 290355Z AUTO 00000KT 9SM CLR 08/07 A3012 RMK AO2 PWINO SBFL 290400Z 36009KT 9999 SCT030 24/22 Q1016 PACZ 290409Z AUTO 03020KT 1 1/2SM -SN OVC009 M04/M04 A2915 RMK AO2 SLP881 KMSS 290353Z AUTO 22005KT 10SM BKN055 03/M01 A2997 RMK AO2 SLP153 T00281011 YBCV 290400Z AUTO 30008KT 270V350 9999 // NCD 39/04 Q1008 KNFL 290356Z VRB04KT 10SM CLR M04/M10 A3030 RMK AO2 SLP220 T10391100 KMGM 290353Z 00000KT 10SM CLR 13/11 A3010 RMK AO2 SLP189 T01330111 MMTO 290347Z 00000KT 6SM SKC 11/06 A3038 RMK HZY CI KFLP 290356Z AUTO 00000KT 10SM CLR 02/00 A3016 RMK AO2 SLP215 T00170000 FZRANO WIII 290400Z 24018KT 9999 SCT020 33/23 Q1009 NOSIG KPSF 290354Z AUTO 19003KT 10SM CLR 00/M02 A3002 RMK AO2 SLP170 T00001022 YPKA 290400Z AUTO 32013KT 9999 // ////// 32/22 Q1007 RMK KLHW 290406Z AUTO 01005KT 9SM OVC014 14/13 A3008 RMK AO2 SLP189 $ K3N8 290355Z AUTO 27008KT 10SM CLR 03/M04 A2979 RMK AO2 T00301037 RJKI 290400Z AUTO 35014KT 9999 SCT032 BKN040 BKN043 20/13 Q1022 KCHD 290347Z 00000KT 10SM SKC 13/M01 A3011 RMK LAST KMLS 290353Z AUTO 34013KT 10SM OVC110 M01/M07 A3028 RMK AO2 SLP281 T10111067 $ KMBL 290356Z AUTO 22005KT 10SM CLR 06/03 A2992 RMK AO2 SLP136 T00610033 400941006 DTTA 290400Z 21008KT 9999 FEW026 14/07 Q1003 K1R7 290355Z AUTO 00000KT 10SM FEW060 FEW110 12/12 A3010 RMK AO2 PWINO EBOS 290350Z 08006KT 0400 R08/0600N R26/0750N FG BKN001 BKN002 03/02 Q1024 NOSIG KFGX 290355Z AUTO 00000KT 10SM CLR 01/M01 A3020 RMK AO2 T00111012 YSMI 290400Z AUTO 22023KT //// // ////// 17/08 Q1008 RMK FQPB 290400Z 30005KT 9999 FEW020 27/24 Q1013 LGLM 290350Z 21007KT 9999 FEW018 15/11 Q1017 UBBQ 290400Z 02006KT 7000 BKN037 02/00 Q1028 R16/CLRD// NOSIG RMK MT PT OBSC KDNL 290353Z AUTO 00000KT 1/2SM FG VV002 12/11 A3012 RMK AO2 SLP198 T01220111 CXYH 290300Z AUTO 16001KT M10/M13 RMK AO1 SLP028 T10971132 58027 LGKL 290350Z 35004KT 9999 SCT025 BKN080 11/09 Q1015 KEYF 290355Z AUTO 00000KT 10SM CLR 09/08 A3013 RMK AO2 T00890084 CYRQ 290400Z AUTO 23009KT 9SM SCT040 OVC075 02/02 A2987 RMK SLP121 UGTB 290400Z 00000KT 9000 NSC M00/M02 Q1030 NOSIG EFKU 290350Z AUTO 14006KT 100V160 9999 FEW007 OVC029 M01/M02 Q1032 K1J0 290358Z AUTO 05003KT 10SM CLR 17/16 A3005 RMK AO2 SLP135 T01720156 ZBYN 290400Z 20002MPS 160V250 4000 HZ NSC 03/M05 Q1030 NOSIG KCUH 290355Z AUTO 30004KT 10SM OVC080 06/02 A3016 RMK AO2 T00580018 KORE 290352Z AUTO 00000KT 10SM CLR M01/M02 A3003 RMK AO2 SLP175 T10061017 KMCJ 290355Z AUTO 12009KT 6SM BR BKN015 BKN019 OVC075 18/17 A2999 RMK A01 KJAC 290356Z AUTO 03007KT 10SM CLR M13/M15 A3033 RMK AO2 SLP389 T11331150 FZRANO SCTB 282300Z 27007KT CAVOK 25/05 Q1018 KTIW 290353Z AUTO 00000KT 9SM CLR 04/03 A3037 RMK AO2 SLP286 T00390028 KAEL 290355Z AUTO 22004KT 10SM CLR 03/00 A2992 RMK AO2 AYPY 290300Z 21012KT 9999 HZ FEW020 SCT040CB 32/24 Q1006 KMIB 290406Z AUTO 33023G28KT 10SM BKN021 OVC030 00/M04 A3005 RMK AO2 CIG 021V030 BKN V SCT SLP199 $ KAXV 290355Z AUTO 22004KT 10SM CLR 01/M02 A3015 RMK AO2 KFST 290353Z AUTO 21007KT 10SM CLR 07/01 A3013 RMK AO2 SLP185 T00720006 HUTO 250900Z 18012KT 9999 BKN018 FEW020CB 23/18 Q1019 LFRL 290400Z AUTO 05007KT CAVOK 09/06 Q1017 KBKE 290353Z AUTO 00000KT 10SM CLR M03/M06 A3041 RMK AO2 SLP331 T10281061 MSAC 282050Z 23004KT 9999 FEW030 31/21 Q1008 A2979 TKPK 282200Z 03005KT 9999 FEW022 26/21 Q1014 EFSA 290350Z AUTO 09004KT 9999 FEW011 SCT022 M02/M03 Q1032 SBPG 282000Z 06006KT 9999 SCT030 30/17 Q1016 KRCM 290355Z AUTO 18004KT 10SM CLR 03/M02 A3012 RMK AO2 OEJN 290400Z 03004KT 9999 FEW040 23/11 Q1014 NOSIG KGCM 290355Z AUTO 00000KT 10SM BKN120 05/00 A3016 RMK AO2 KGTR 290356Z AUTO 00000KT 10SM CLR 08/08 A3013 RMK AO2 SLP211 T00780078 KRVL 290355Z AUTO 22009KT 10SM CLR 05/M03 A3014 RMK AO2 KE16 290355Z AUTO 00000KT 10SM CLR 09/00 A3021 RMK AO2 UWWW 290400Z 18004MPS 8000 OVC005 M00/M01 Q1040 R15/420240 NOSIG RMK QFE768/1024 KBWG 290353Z AUTO 00000KT 10SM CLR 02/M02 A3018 RMK AO2 SLP222 T00221017 $ DTTB 290400Z 20007KT 9999 SCT020TCU SCT030 12/09 Q1002 KIAH 290353Z 02007KT 1SM -RA BR BKN004 OVC012 16/15 A3002 RMK AO2 SFC VIS 6 RAE0256B32 SLP166 CIG 003V006 P0000 T01610150 KL08 290355Z AUTO 00000KT 10SM FEW040 FEW049 08/M09 A3014 RMK AO2 UKLN 281700Z 20001MPS 6000 SCT///CB 01/01 Q1018 R15/290160 NOSIG= LCLK 290400Z 33006KT 9999 FEW030TCU 13/11 Q1019 NOSIG LICA 290350Z AUTO 10008KT 9999 OVC100/// 12/11 Q1007 KTCM 290403Z 00000KT 2SM R16/2800V4500FT BR SCT010 02/01 A3037 RMK AO2A SLP290 $ RJNS 290400Z VRB04KT 9999 FEW030 BKN140 14/M00 Q1019 KSSC 290356Z AUTO 00000KT 10SM CLR 08/07 A3013 RMK AO2 SLP205 T00780069 $ KHOB 290355Z AUTO 25006KT 10SM SCT032 BKN039 BKN045 03/M05 A3010 RMK AO2 KPVB 290355Z AUTO 23009KT 10SM CLR 05/02 A2998 RMK AO1 T00450020 SEST 282000Z METAR 19010KT 9999 -RA FEW010 OVC060 25/21 Q1009 RMK A2980 KCPC 290355Z AUTO 00000KT 7SM CLR 09/09 A3014 RMK AO2 T00910086 MGSJ 290000Z 00000KT 5000 SKC FU 27/24 Q1010 A2983 KRYY 290350Z AUTO 00000KT 10SM CLR 09/07 A3012 RMK AO2 SLP920 T00890067 401830089 PNO $ SAWU 251312Z 29010KT 9999 VCSH FEW008 BKN010 FEW015TCU 13/01 Q0992 LTAJ 290350Z 00000KT CAVOK 03/02 Q1019 NOSIG RMK RWY10 VRB02KT SKC CYRJ 290400Z 24005KT 20SM -SHSN FEW030 OVC054 01/M02 A2976 RMK SC1SC7 CVCTV CLD EMBD SLP087 BIVM 281900Z 22016KT 9999 BKN024 04/01 Q1004 K0V4 290355Z AUTO 10003KT 10SM CLR 04/01 A3014 RMK AO1 T00390008 YGLI 290400Z AUTO 29017KT 250V310 9999 // NCD 31/09 Q1014 RMK CWRJ 290400Z AUTO 25010KT M11/M13 RMK AO1 SOG 16 1030 SLP292 T11121130 EPPW 290400Z 03006KT 6000 -RA OVC006 02/02 Q1021 RMK 017 100 8/8= SUDU 282100Z 22005KT 4000 RABR SCT017 OVC070 19/18 Q1012 HTIR 290300Z 00000KT 9999 FEW018 17/14 Q1019 KIOB 290355Z AUTO 00000KT 10SM CLR 00/M01 A3019 RMK AO2 KBKX 290356Z AUTO 00000KT 10SM CLR 01/M04 A2993 RMK AO2 SLP164 T00061044 FZRANO LFGA 290400Z AUTO 35009KT 9999 BKN009 OVC013 02/01 Q1020 LELC 290400Z AUTO 26007KT 9000 NCD 10/06 Q1013 KPOC 290147Z 00000KT 10SM CLR 14/M08 A3013 RMK LAST VCBI 290310Z 06007KT 9999 FEW018 FEW020CB 28/24 Q1013 NOSIG RMK W LDDU 290400Z 05007KT 340V100 9999 SCT060 12/05 Q1013 NOSIG LTAN 290350Z 00000KT 5000 BR NSC M05/M07 Q1023 BECMG TL0500 4000 HECP 281800Z 00000KT CAVOK 16/09 Q1019 NOSIG SBGR 290400Z 08005KT CAVOK 20/18 Q1020 CYVP 290400Z 22003KT 15SM -SN OVC037 M08/M10 A2978 RMK SC8 SLP090 KCSM 290353Z AUTO 36006KT 10SM -RA SCT040 OVC050 05/02 A3013 RMK AO2 SLP207 P0001 T00500022 $ MNJU 282300Z 08004KT 9999 SCT020 29/21 Q1009 KAFW 290353Z 04008KT 10SM BKN007 OVC017 09/07 A3008 RMK AO2 RAE08 CIG 005V010 SLP186 P0000 T00890072 KM54 290355Z AUTO 00000KT 10SM CLR 01/M00 A3014 RMK A01 MHTE 290000Z 00000KT 9999 BKN028TCU 28/25 Q1006 LGKV 281920Z 07004KT 9999 FEW025 07/05 Q1018 KOAR 290355Z AUTO 00000KT 10SM CLR 07/M02 A3017 RMK AO2 EPWR 290400Z 32011KT 9999 FEW007 SCT009 BKN012 02/01 Q1022 UTFF 290400Z 13004KT 8000 NSC 00/M04 Q1039 R99/CLRD70 MMVR 290340Z 00000KT 7SM SKC 25/23 A2994 RMK HZY EKVJ 271450Z 16005KT 9999 FEW005 BKN030 07/05 Q1021 LFRV 290400Z AUTO 06009KT CAVOK 06/04 Q1017 DNMN 290200Z 05008KT CAVOK 24/13 Q1011 KEWK 290356Z AUTO 21009KT 10SM CLR 05/00 A3010 RMK AO2 SLP196 T00500000 SBCF 290400Z 09006KT CAVOK 21/16 Q1021 KCLL 290353Z 02004KT 9SM OVC006 14/13 A3006 RMK AO2 RAE21 SLP178 P0000 T01390133 CXHR 290400Z AUTO 22012KT M09/M09 RMK AO1 T10891092 TLPL 290400Z 07012KT 9999 FEW016CB BKN022 27/24 Q1014 NOSIG SLSB 261900Z 00000KT 8000 SCT015 OVC070 23/22 Q1007 KPWC 290355Z AUTO 26004KT 10SM CLR 06/M02 A2981 RMK AO2 EGPB 290350Z AUTO 23010KT 9999 BKN032/// 08/05 Q1023 KSOP 290356Z AUTO 00000KT 10SM CLR 06/06 A3016 RMK AO2 SLP217 T00610056 PNO $ LFRJ 290400Z AUTO 07006KT 3600 BR VV/// 07/06 Q1018 KALX 290355Z AUTO 00000KT 10SM CLR 12/10 A3009 RMK AO2 T01230097 SBST 282100Z 17007KT CAVOK 26/22 Q1015 UMMS 290400Z 03004G07MPS 9999 SCT007 M00/M01 Q1018 R31R/320139 R31L/////// NOSIG KBLV 290356Z AUTO 00000KT 10SM CLR 01/00 A3014 RMK AO2 VIS 1 5/8 RWY32R SLP213 T00071005 $ VEJH 290400Z 05002KT 3000 HZ NSC 23/11 Q1020 KCPR 290353Z 02007KT 10SM CLR M02/M13 A3017 RMK AO2 SLP235 T10171128 CYQZ 290400Z AUTO 00000KT 1/2SM FZFG VV002 M03/M04 A3027 RMK SLP285 YTEF 290400Z AUTO 29008KT 270V330 9999 // ////// 39/M26 Q1007 PACM 290356Z AUTO 33007KT 5SM -SN BR FEW012 OVC021 M04/M04 A2923 RMK AO2 SLP894 T10441044 FZRANO PNO $ PAPB 290405Z AUTO 34018G27KT 3/4SM -SN BKN019 BKN024 OVC033 M01/M04 A2948 RMK AO2 PK WND 34027/0359 P0000 T10111039 FZRANO TSNO KFWC 290355Z AUTO 00000KT 10SM CLR 00/M02 A3016 RMK AO1 T00001020 UUYY 290400Z 00000MPS 9000 NSC M18/M19 Q1046 R18/61D TEMPO 0300 FZFG RMK QFE775/1034 SBJV 282300Z VRB03KT 9999 SCT018 SCT035 24/22 Q1018 LFQB 290400Z AUTO VRB03KT 8000 NSC M00/M01 Q1019 YPAG 290400Z AUTO 13015KT 9999 // NCD 26/07 Q1012 RMK GGOV 282200Z VRB01KT CAVOK 23/18 Q1013 NOSIG CWNH 290400Z AUTO 18003KT M00/M01 RMK AO1 SLP095 T10021012 58005 MMMV 282240Z 10006KT 3SM BR OVC025 17/13 A3003 RMK 8/5// HZY EHMA 290355Z AUTO 11011KT 050V130 9999 OVC007 02/M00 Q1026 TJNR 290353Z AUTO 04009KT 10SM FEW027 SCT035 26/22 A3002 RMK AO2 SLP164 T02610222 402890211 KBAX 290355Z AUTO 10SM CLR 04/M03 A2997 RMK AO2 T00351033 CXTD 290400Z AUTO 33007KT 04/02 RMK AO1 SLP092 T00420024 58003 YBSU 290400Z AUTO 02020KT 9999 // ////// 28/20 Q1009 RMK FAPP 290400Z 00000KT 9999 FEW015 SCT120 19/17 Q1019 NOSIG CWSG 290400Z AUTO 24006KT 01/01 RMK AO1 5001 SLP085 T00050005 50005 SAWC 231524Z 27030KT 9999 RA SCT030 SCT060 13/01 Q0991 FYOW 290400Z AUTO 32001KT //// // ////// 20/14 Q1018 VRMM 290300Z 09004KT 9999 FEW019 BKN280 29/25 Q1011 NOSIG KPTV 290356Z AUTO 13005KT 10SM CLR 06/01 A3020 RMK AO2 SLP232 T00560011 EPRZ 290400Z 23006KT 4000 -SN BR BKN004 M01/M01 Q1018 SBSN 290400Z 08007KT CAVOK 27/26 Q1011 YMML 290400Z 19013KT 9999 FEW018 SCT028 BKN034 18/10 Q1012 SBCT 290400Z 09007KT 9999 BKN006 OVC009 18/18 Q1020 KVAY 290354Z AUTO 30003KT 10SM CLR 04/00 A3013 RMK AO2 SLP203 T00390000 CYGW 290400Z AUTO 00000KT 9SM -SN CLR M08/M10 A2970 RMK SLP058 LKMT 290400Z 22007KT 3500 -SN BR BKN014 OVC019 00/M00 Q1020 TEMPO 2500 -SN BR EPLK 290400Z 36004KT 310V030 8000 -RASN BKN005 OVC011 01/01 Q1019 RMK 009 100 8/ MMSP 290344Z 32003KT 8SM SCT230 15/08 A3017 RMK 8/009 KCXY 290356Z AUTO 26005KT 10SM CLR 04/M03 A3015 RMK AO2 SLP212 T00441033 YLEC 290400Z AUTO 21015KT 9999 // NCD 28/07 Q1010 RMK PAWG 290356Z 08019G28KT 6SM -RA BR OVC032 05/03 A2966 RMK AO2 PK WND 09029/0344 SLP043 P0014 T00500028 KHFF 290356Z AUTO 00000KT 10SM CLR 05/05 A3014 RMK AO2 SLP223 T00520046 $ CYZT 290400Z 18003KT 15SM OVC220 04/03 A3030 RMK CS8 SLP263 YBRY 290400Z AUTO 32010KT 9999 // NCD 37/11 Q1009 RMK KGEU 290148Z 00000KT 10SM SKC 16/M02 A3011 RMK LAST KDYL 290354Z AUTO 32003KT 10SM CLR 06/M02 A3012 RMK AO2 SLP201 T00561022 KBTV 290354Z 18005KT 10SM SCT060 OVC090 03/00 A2997 RMK AO2 SLP152 T00330000 PABE 290353Z 34012KT 10SM FEW012 OVC055 M07/M09 A2909 RMK AO2 SLP853 T10721089 UUDL 290400Z 09004MPS 9999 OVC006 M02/M03 Q1032 R23/590335 NOSIG RMK QFE766 KCOS 290354Z 35006KT 10SM CLR M02/M07 A3008 RMK AO2 SLP203 T10221072 LIRI 281550Z 01003KT 9999 SCT045 16/10 Q1012 LFPV 290400Z AUTO 03007KT CAVOK 05/02 Q1019 TEMPO 4000 BR KMYV 290353Z AUTO 00000KT 9SM CLR 05/00 A3019 RMK AO2 SLP228 T00500000 KEEO 290353Z AUTO 00000KT 10SM CLR M09/M13 A3024 RMK AO2 SLP298 T10891128 EGTC 281750Z 08007KT 2000 BR OVC005 08/08 Q1021 CPIR 290400Z AUTO 22006KT M07/M08 RMK AO1 T10691084 EFIV 290350Z AUTO 22019KT 9999 BKN017 M01/M04 Q1021 KEVU 290355Z AUTO 19007KT 10SM CLR 05/00 A3004 RMK AO2 T00480000 SEJD 272000Z 11002KT 9999 FEW020 OVC100 26/23 Q1010 RMK A2985 FOGM 281500Z /////KT 9999 TS FEW016CB OVC033 30/28 Q//// KPKD 290353Z AUTO 27008KT 10SM CLR 03/M04 A2977 RMK AO2 SLP095 T00281044 KBWW 290355Z AUTO 34017G25KT 10SM CLR M00/M06 A3015 RMK AO2 EGXU 290350Z AUTO 31004KT 1000 FEW003/// OVC006/// 07/06 Q1024 KUKF 290355Z AUTO 00000KT 10SM CLR 05/01 A3021 RMK AO2 KGCK 290354Z AUTO 19009KT 10SM BKN070 OVC085 02/02 A3012 RMK AO2 SLP209 T00220017 CYYR 290400Z 28003KT 15SM BKN050 M09/M10 A2983 RMK SC7 SLP105 YGFN 290400Z AUTO 03009KT 9999 // NCD 40/12 Q1003 RMK HKNW 290300Z 00000KT 9999 BKN019 16/15 Q1020 KOCH 290356Z AUTO 07005KT 10SM OVC009 11/09 A3007 RMK AO2 SLP188 P0001 T01110094 SEMC 282300Z 24002KT 9999 FEW020 SCT100 BKN300 21/19 Q1014 RMK A2995 K1A5 290355Z AUTO 00000KT 10SM CLR 03/02 A3019 RMK AO2 T00250019 VAPR 290400Z 05010G20KT 6000 NSC 26/08 Q1016 KULS 290355Z AUTO 00000KT 10SM SCT028 OVC060 02/02 A3010 RMK AO2 KLRJ 290355Z AUTO 18005KT 10SM CLR M01/M03 A2993 RMK AO2 KMRC 290350Z AUTO 24003KT 7SM CLR 02/02 A3014 RMK A01 SCGE 282200Z 28015KT 9999 BKN046 BKN110 21/09 Q1018 KMHR 290045Z 33003KT 10SM SKC 14/01 A3018 RJSM 290400Z 31013KT 9999 FEW030 BKN045 04/M01 Q1020 FYOO 290400Z AUTO 33001KT //// // ////// 21/18 Q1017 CWLI 290400Z AUTO 06009KT ////SM //// OVC034 ///// A//// CZMD 290400Z AUTO 08003KT 9SM BKN120 OVC140 M15/M16 A2986 RMK SLP139 LEVC 290400Z 24005KT 9999 BKN035 11/09 Q1013 NOSIG CWIZ 290400Z AUTO 24008KT 05/M00 RMK AO1 T00461004 URRP 290400Z 12008MPS 9999 BKN006 05/03 Q1024 R05/CLRD70 TEMPO 14010G17MPS 0300 FG RMK QFE763/1018 ETIH 290356Z AUTO 00000KT 9999 CLR M05/M06 A3019 RMK AO2 SLP257 T10471065 KLPR 290353Z AUTO 21007KT 10SM CLR 02/M04 A3012 RMK AO2 SLP206 T00171039 KFNT 290353Z 23008KT 10SM CLR 04/M03 A3003 RMK AO2 SLP175 T00441033 MDPC 290400Z 06005KT 9999 SCT018 24/22 Q1016 KMIA 290353Z 00000KT 10SM SCT060 23/20 A3004 RMK AO2 SLP172 T02280200 $ EPKT 290400Z 32006KT 290V350 3000 -SN BR BKN003 OVC004 00/M00 Q1018 RESN LROD 290400Z AUTO 29003KT 6000 FEW003/// BKN020/// 01/00 Q1021 FQBR 290400Z 32002KT 9999 FEW020 SCT070 25/24 Q1012 KGVQ 290356Z AUTO 26010G19KT 10SM CLR 04/M07 A3003 RMK AO2 SLP176 T00391067 CBBC 290400Z AUTO /////KT 9SM BKN045 BKN050 OVC110 06/01 A3023 RMK WND MISG SLP242 SBFS 281000Z 06008KT CAVOK 26/23 Q1020 SYEC 282200Z 04008KT 9999 FEW016CB SCT017 28/25 Q1010 NOSIG RMK CB S-W CYHK 290400Z AUTO 22016KT 2 1/2SM BR FEW005 M31/M34 A2988 RMK SLP125 KCZT 290355Z AUTO 00000KT 10SM OVC015 12/12 A3009 RMK AO2 GMMH 282100Z 36005KT 6000 NSC 18/14 Q1017 NOSIG OITK 281100Z 17002KT 9999 FEW030CB SCT035 BKN180 07/M03 Q1025 LYBE 290400Z 34006KT 4000 -DZ BR SCT002 OVC004 01/01 Q1022 TEMPO 2000 OVC002 KONX 290355Z AUTO 00000KT 5SM BR CLR 07/07 A3014 RMK AO2 T00700070 PADE 260253Z AUTO 07009KT 10SM FEW015 BKN025 OVC110 M02/M04 A2882 RMK AO2 SLP759 T10221039 53004 TSNO $ CWWU 271512Z 21009G17KT 15SM FEW009 SCT016 BKN024 OVC100 11/10 A3024 RMK SF2SC2SC3AC1 SLP241 KPBH 290355Z AUTO 22004KT 10SM CLR 02/M03 A2982 RMK AO2 T00231026 EGXW 290350Z AUTO 15004KT 0200 FG VV/// 07/06 Q1024 CXRH 290400Z AUTO 08002KT 02/02 RMK AO1 T00190018 KHPN 290356Z VRB04KT 10SM CLR 04/M02 A3009 RMK AO2 SLP191 T00441022 LFMK 290400Z AUTO VRB01KT 2000 1200 R10/1500D BR VV/// 07/06 Q1013 BECMG BKN010 LGMK 281750Z 00000KT CAVOK 15/02 Q1020 CYPE 290400Z 24020G25KT 15SM FEW230 M04/M09 A2998 RMK CI2 SLP189 MMLT 290140Z 36008KT 10SM SKC 21/07 A2996 SKRG 290400Z 05004KT 5000 RA BKN012 BKN080 14/14 A3034 REMPO FM0500 DZ KCAK 290351Z 22008KT 8SM CLR 01/M03 A3013 RMK AO2 SLP214 T00111028 OMAD 290400Z 12003KT CAVOK 21/14 Q1018 NOSIG KCRP 290351Z 01014KT 9SM -DZ BKN007 OVC011 18/18 A2998 RMK AO2 SLP150 P0000 T01830178 $ LIRL 281555Z 13009KT 9999 SCT060 16/07 Q1010 RMK BKN SCT090 MON LIB NC VIS MIN 9999 WIND THR12 /////KT WIND THR30 13008KT BLU KS52 290355Z AUTO 31003KT 5SM BR CLR M07/M08 A3043 RMK AO2 T10731081 KHST 290356Z 00000KT 10SM OVC060 22/21 A3003 RMK AO2A SLP172 $ URWW 290400Z 12007MPS 9999 OVC008 04/02 Q1031 R06/120060 TEMPO 0300 FG OVC002 RMK OBST OBSC KXWA 290403Z AUTO 32020G29KT 10SM FEW014 SCT028 OVC032 M02/M06 A3019 RMK AO2 PK WND 32029/0400 T10221056 OEAB 290400Z 00000KT CAVOK 12/11 Q1024 NOSIG TNCM 290400Z 06004KT 9999 FEW020 25/21 Q1017 MHRO 290400Z 06007KT 9999 SCT022TCU 26/24 Q1014 A2995 NOSIG PANN 290353Z AUTO 32005KT 10SM OVC100 M09/M15 A2890 RMK AO2 SLP800 T10941150 TSNO LTFC 290350Z 36003KT CAVOK M02/M06 Q1022 RMK RWY23 35003KT EFUT 290350Z AUTO 09006KT 9999 OVC008 00/M01 Q1030 SBRJ 290200Z 05002KT CAVOK 25/21 Q1018 GVSV 290400Z 07009KT 9999 FEW020 SCT200 23/16 Q1014 NOSIG CYMU 282200Z VRB17KT 15SM FEW048 SCT080 BKN110 BKN150 M09/M11 A2967 RMK SC2AS1AS2AS1 LAST STFD OBS/NEXT 291300 UTC SLP057 SARF 290400Z 16006KT CAVOK 28/25 Q1010 KCEY 290355Z AUTO 00000KT 10SM CLR 02/M03 A3016 RMK AO1 CZTB 290400Z AUTO 07004KT M03/M04 RMK AO1 SLP089 T10281036 58005 UWLW 290400Z 14004MPS 5000 BR OVC006 M00/M00 Q1039 R20/591040 NOSIG RMK QFE774 KBEC 290355Z AUTO 24006KT 10SM SCT120 05/00 A3011 RMK AO2 T00511005 KFAT 290353Z 00000KT 9SM CLR 10/00 A3020 RMK AO2 SLP227 T01000000 KPUW 290353Z AUTO 09008KT 10SM CLR 01/M02 A3039 RMK AO2 SLP313 T00111022 CTNK 290400Z AUTO 25001KT M02/M02 RMK AO1 SLP133 T10161024 53007 KRBW 290355Z AUTO 00000KT 10SM CLR 11/10 A3012 RMK AO2 KCDR 290353Z AUTO 04005KT 10SM CLR M01/M11 A3011 RMK AO2 SLP227 T10061111 CZMJ 290400Z AUTO 29012G17KT M06/M08 RMK AO1 SOG 01 3036 PK WND 30018/0305 SLP275 T10571081 UAKD 281002Z 28012G17MPS 8000 -SHSN BLSN SCT015CB M05/M08 Q1029 R22/450037 NOSIG RMK QFE738/0984= MGES 290000Z 03004KT 9999 SCT016 22/18 QFE 908.3 FQCH 290400Z 05005KT 9999 SCT010 SCT015 22/22 Q1018 CWCT 290400Z AUTO 24011G16KT M11/M13 RMK AO1 SOG 04 3014 SLP299 T11121134 KJFK 290351Z 32006KT 10SM CLR 07/00 A3012 RMK AO2 SLP199 T00670000 SABE 290400Z 27004KT CAVOK 19/17 Q1009 NOSIG KHMT 290355Z AUTO 01004KT 10SM CLR 08/M09 A3013 RMK AO2 T00781093 EHLW 290355Z AUTO 11006KT 030V150 9999 OVC009 02/00 Q1027 GRN GMFO 290400Z 17007KT 9999 SCT053 08/06 Q1014 NOSIG KFHR 290353Z AUTO 35003KT 10SM CLR 04/03 A3038 RMK AO2 SLP289 T00390028 TSNO LKCV 290400Z VRB03KT 8000 BKN040 M01/M02 Q1023 NOSIG RMK BLU BLU PAHN 290354Z AUTO 11011G22KT 8SM -RA SCT014 OVC018 03/01 A2936 RMK AO2 PK WND 12028/0317 SLP944 P0001 T00330011 TSNO YTRE 290400Z AUTO 31013KT 9999 // NCD 41/08 Q1000 KHGR 290353Z AUTO 00000KT 10SM CLR 04/M04 A3015 RMK AO2 SLP223 T00441044 KAQX 290355Z AUTO 00000KT 9SM CLR 11/11 A3011 RMK AO2 KANE 290245Z 21005KT 10SM CLR 06/M01 A2985 KFEP 290355Z AUTO 22015KT 10SM CLR 05/00 A3001 RMK AO2 T00500002 CYCY 290407Z AUTO 30019KT 2SM -SN OVC150 M21/M23 A2965 RMK SLP048 KAKQ 290407Z AUTO 00000KT 2 1/2SM BR BKN001 05/05 A3014 RMK AO2 T00500050 PAOR 290353Z 07003KT 10SM BKN038 OVC160 M18/M21 A2892 RMK AO2 SLP862 T11781206 SAZR 232044Z 14015KT 3000 BLDU SCT035 SCT060CB 36/17 Q1003 VOBM 290400Z 09010KT 6000 SCT007 SCT012 BKN080 22/19 Q1020 RJOB 290400Z 26007KT 230V290 9999 FEW025 BKN040 13/05 Q1021 ETSL 290320Z AUTO 07010KT 9999 // ////// M01/M02 Q1019 /// KADT 290355Z AUTO 29006KT 10SM CLR 05/M01 A3008 RMK AO2 T00471010 401691069 CWBY 280400Z AUTO 00000KT M00/M00 RMK AO1 SOG 04 6008 SLP114 T10041004 CYSB 290400Z 00000KT 15SM SCT020 OVC100 01/M01 A2983 RMK SC4AC4 SLP118 KMMV 290353Z AUTO 01003KT 7SM OVC007 07/06 A3035 RMK AO2 SLP277 T00670056 KMDT 290356Z 00000KT 10SM CLR 03/M02 A3015 RMK AO2 SLP210 T00331022 CXEG 290400Z AUTO 19010KT M10/M13 RMK AO1 SOG 18 0004 SLP266 T10951127 MUCC 290350Z 03001KT 9000 SCT020 20/19 Q1016 TTCP 290300Z 07003KT 9999 FEW016 26/24 Q1013 NOSIG CYPY 290400Z AUTO 06005KT 360V110 9SM CLR M18/M21 A2994 RMK SLP162 RKTF 232227Z 30001KT 9999 BKN120 01/M04 A3038 RMK CIG120 KSTP 290353Z AUTO 25004KT 10SM CLR 06/M02 A2989 RMK AO2 SLP124 T00561017 LUBM 261100Z VRB02KT 5000 BR NSC 07/01 Q1024 R25/CLRD65 KSQL 290350Z VRB04KT 10SM SKC 09/02 A3020 KT35 290355Z AUTO 33009KT 10SM -DZ OVC014 10/10 A3010 RMK AO2 P0003 T01010095 TSNO CZZJ 290400Z AUTO 26003KT M10/M11 RMK AO1 SOG 07 1002 SLP265 T10981107 LIRA 290350Z 06003KT 9999 BKN050 11/08 Q1008 REDZ KFRR 290355Z AUTO 00000KT 10SM CLR 02/M02 A3014 RMK AO1 DRRN 290400Z 33003KT CAVOK 25/11 Q1011 NOSIG HDAM 271600Z 10008KT 9999 FEW020 27/22 Q1015 RJSF 290400Z 33007KT 290V360 9999 FEW040 BKN140 BKN/// 10/M01 Q1020 PAWS 290356Z AUTO 07007G16KT 10SM BKN070 OVC085 00/M10 A2886 RMK AO2 SLP779 T00001100 FZRANO CWBO 290400Z AUTO 23004KT M07/M09 RMK AO1 SOG 11 2014 SLP306 T10681086 LIBF 281450Z VRB02KT 9999 BKN020 12/10 Q1016 KMMT 290406Z AUTO 00000KT 7/8SM BR FEW000 07/07 A3012 RMK AO2 SLP203 RVRNO $ KUXL 290355Z AUTO 07003KT 7SM DZ OVC006 16/15 A3005 RMK AO2 P0002 T01610154 KASJ 290355Z AUTO 00000KT 1/2SM FG BKN002 04/04 A3015 RMK AO2 T00350035 OEJB 290400Z AUTO 17008KT CAVOK 20/15 Q1016 NOSIG UTSB 290400Z 36010KT CAVOK 01/M03 Q1036 R01/CLRD70 NOSIG PAED 290356Z AUTO 00000KT 10SM BKN070 M06/M07 A2885 RMK AO2 SLP768 T10581073 $ LESA 290400Z AUTO 12004KT CAVOK 04/03 Q1011 K0J4 290358Z AUTO 01005KT 10SM FEW019 16/14 A3008 RMK AO2 SLP183 T01610139 OIBL 290400Z 09008KT 9999 FEW035 SCT100 23/17 Q1017 OINR 290400Z 00000KT 9999 FEW027 BKN160 09/06 Q1027 CWDQ 290400Z AUTO 13002KT 01/M01 RMK AO1 SOG 09 3005 SLP106 T00051010 KLNR 290356Z AUTO 26006KT 10SM CLR 05/01 A2995 RMK AO2 SLP143 T00500006 KAXX 290355Z AUTO 00000KT 5SM BR CLR M10/M12 A3014 RMK AO2 T11051116 KGNB 230618Z AUTO 34006KT 1SM SN BKN004 OVC010 M01/M05 A3013 RMK AO2 T10131048 CYCQ 290000Z 20007KT 15SM FEW020 BKN040 BKN100 OVC210 M00/M07 A3007 RMK SC2SC4AC1CI1 DIST PCPN W LAST STFD OBS/NEXT 291400Z SLP220 CYBK 290400Z 23002KT 15SM -SN BKN120 M27/M30 A3004 RMK AC6 SLP178 KSPS 290352Z AUTO 33006KT 7SM FEW018 OVC024 07/06 A3013 RMK AO2 SLP203 T00670056 KRMG 290353Z AUTO 00000KT 10SM CLR 08/06 A3011 RMK AO2 SLP192 T00780061 UDSG 290400Z 00000KT 9000 NSC M09/M12 Q1024 R02/CLRD70 NOSIG KCFS 250355Z AUTO 14008G14KT 7SM OVC007 02/01 A3003 RMK AO2 T00150010 VLVT 290400Z 14004KT 8000 NSC 28/17 Q1017 NOSIG KMQY 290356Z AUTO 00000KT 10SM CLR 02/01 A3017 RMK AO2 SLP228 T00220006 PNO $ KPSK 290355Z AUTO 00000KT 10SM CLR 02/00 A3018 RMK AO2 T00191003 KSUU 290358Z AUTO 00000KT 10SM CLR 03/M03 A3019 RMK AO2 SLP231 T00321027 $ CYBW 290400Z AUTO 16009KT 9SM CLR M09/M11 A3022 RMK SLP297 CWNK 290400Z AUTO 33015G22KT M01/M03 RMK AO1 PK WND 30023/0301 T10101030 SBAF 290200Z 15006KT CAVOK 26/20 Q1019 NFFN 290400Z 23009KT 9999 FEW033 BKN300 29/21 Q1009 NOSIG UATT 290400Z 15003MPS 9999 OVC032 M05/M07 Q1046 R13/450245 NOSIG RMK QFE764/1019 EKRN 290050Z AUTO 34002KT 9999 BKN021/// 04/03 Q1027 KORK 290355Z AUTO 05006KT 10SM CLR 05/M00 A3013 RMK AO2 EGOV 290350Z AUTO 08003KT 5000 BR FEW013/// OVC110/// 06/06 Q1023 KNKX 290355Z 05004KT 10SM CLR 09/M05 A3010 RMK AO2 SLP190 T00891050 $ RKNN 260302Z 34005KT 9999 FEW030 BKN160 11/M01 A3033 RMK CIG160 HEPS 290300Z 21003KT CAVOK 15/13 Q1019 NOSIG CYBL 290400Z 27002KT 15SM FEW180 BKN230 00/00 A3037 RMK AC2CS3 SLP289 KMVY 290353Z AUTO 30004KT 10SM CLR 06/00 A3002 RMK AO2 SLP165 T00610000 KAKH 290354Z AUTO 00000KT 10SM CLR 08/05 A3014 RMK AO2 SLP205 T00830050 CYZS 290400Z 36014KT 15SM IC SKC M23/M27 A2998 RMK SLP164 KSME 290355Z AUTO 00000KT 10SM CLR 00/M01 A3018 RMK AO2 EFLP 290350Z AUTO 11009KT 9999 OVC007 00/M01 Q1031 LTAW 271250Z VRB02KT CAVOK 10/M00 Q1023 NOSIG YBNA 290400Z AUTO 01014KT 9999 // NCD 30/19 Q1006 RMK LFKB 290400Z AUTO 31005KT 9999 BKN041 OVC047 13/11 Q1010 NOSIG KJES 290357Z AUTO 03003KT 7SM OVC004 15/14 A3010 RMK AO2 KANQ 290355Z AUTO 24009G18KT 10SM CLR 03/M02 A3009 RMK AO2 KJSY 290355Z AUTO 00000KT 10SM CLR M06/M08 A3039 RMK AO2 T10651083 400111068 DNKN 290400Z VRB02KT CAVOK 14/10 Q1016 NOSIG KVSF 290354Z AUTO 00000KT 6SM BR CLR M02/M02 A3000 RMK AO2 SLP166 I1000 T10171022 KDVK 290355Z AUTO 00000KT 10SM CLR 00/M01 A3018 RMK AO2 CYQB 290400Z 23008KT 5SM -RA BR OVC007 02/01 A2985 RMK SF8 SLP114 CYPQ 290400Z AUTO 22008KT 9SM CLR 02/M02 A2996 RMK SLP156 GMMC 281900Z 22008KT 9999 BKN016 17/12 Q1012 YGLB 290400Z AUTO 29025KT 9999 // ////// 25/09 Q1005 RMK KI75 290355Z AUTO 20009KT 10SM CLR 04/00 A3002 RMK AO2 T00440002 SBJE 282100Z 08013KT CAVOK 30/21 Q1009 KMMK 290353Z AUTO 00000KT 10SM CLR 01/M02 A3008 RMK AO2 SLP188 T00111017 EGHH 282050Z 04007KT 3000 BR NSC 07/07 Q1020 LELN 290400Z AUTO 36004KT 330V030 6000 OVC050 05/05 Q1012 ESNN 290350Z AUTO 31004KT 2100 -SN OVC005/// M03/M04 Q1029 RESG ESOH 290350Z AUTO 00000KT 9999 OVC005/// M03/M04 Q1029 REDZ WBKL 290400Z 15006KT 080V230 9999 FEW013 30/24 Q1009 KMOD 290353Z 00000KT 10SM CLR 08/01 A3019 RMK AO2 SLP224 T00830006 FGBT 290300Z 13002KT 9999 SCT010 26/26 Q1010 KPTW 290354Z AUTO 00000KT 10SM CLR 02/M03 A3014 RMK AO2 SLP207 T00221028 KUZA 290354Z AUTO 00000KT 10SM CLR 06/05 A3014 RMK AO2 SLP205 T00610050 UERP 290400Z VRB01MPS CAVOK M18/M20 Q1022 R35/490532 NOSIG RMK QFE723 K1H2 290355Z AUTO 00000KT 10SM CLR 00/M01 A3016 RMK AO2 T00001010 RJBD 290400Z 35005KT 320V020 9999 FEW030 BKN050 14/05 Q1021 LIBD 290350Z 08007KT 8000 RA BKN045 12/10 Q1011 LDRI 281830Z 06008KT 9999 BKN035 12/05 Q1017 ESNQ 290350Z AUTO 22007KT 9999 NCD M06/M08 Q1019 CWLE 290400Z AUTO 29015KT M08/M10 RMK AO1 SOG 10 2030 PK WND 28018/0305 SLP280 T10781101 KD55 290055Z AUTO 27013KT 10SM CLR 03/M01 A2969 RMK AO2 KSMX 290351Z 00000KT 9SM CLR 09/01 A3015 RMK AO2 SLP214 T00890006 UATG 290400Z 12009MPS 5000 BR NSC M03/M05 Q1040 R14/CLRD70 NOSIG RMK QFE782/1043 CYXN 282100Z 34007KT 5SM -SN OVC012 M19/M21 A2996 RMK SC8 S01 AFT 15Z/LAST STFD OBS/NXT 281500Z SLP148 GOGK 290300Z 00000KT 8000 NSC 18/16 Q1011 SLVG 251300Z 35006KT 6000 SCT023 22/16 Q1024 EGEC 290220Z 12007KT 9999 SCT040 03/02 Q1024 KP28 290356Z AUTO 29006KT 06/01 A3011 RMK AO1 SLP202 T00560011 SVBI 290402Z AUTO 02001KT NCD 24/24 Q1016 KMYZ 290355Z AUTO 20008KT 10SM CLR 05/00 A3004 RMK AO2 EGOP 290350Z AUTO 09005KT 2900 // FEW100/// 06/06 Q1023 KGSH 290353Z AUTO 22010KT 10SM CLR 03/M02 A3010 RMK AO2 SLP198 T00281017 LIEA 290350Z 03010KT CAVOK 12/10 Q1006 TJIG 282245Z 08007KT 10SM SCT045 27/23 A2995 EGHI 281750Z 02004KT 7000 FEW022 08/07 Q1019 KLEW 290356Z AUTO 00000KT 9SM CLR M01/M01 A2994 RMK AO2 SLP149 T10061006 400611011 FZRANO KONM 290355Z AUTO 00000KT 10SM CLR 03/M04 A3018 RMK AO2 T00331037 SBSV 290400Z 13011KT 9999 SCT020 SCT060 26/22 Q1015 KSLN 290353Z 21006KT 10SM FEW120 04/01 A3009 RMK AO2 SLP194 T00390006 URKK 290400Z 09001MPS CAVOK M01/M02 Q1022 R23L/290060 TEMPO 0500 FZFG BKN002 RMK QFE763 K6S8 290355Z AUTO 03007KT 10SM 01/M07 A3033 RMK A01 LAUREL KAVL 290354Z AUTO 00000KT 10SM CLR 06/03 A3017 RMK AO2 SLP209 T00560028 FYGB 290400Z AUTO 35002KT //// // ////// 19/15 Q1019 KS25 290355Z AUTO 31013G19KT 10SM BKN017 OVC033 M02/M05 A3020 RMK AO2 PWINO K2A0 290355Z AUTO 00000KT 10SM CLR 04/03 A3012 RMK A01 CWIG 290400Z AUTO 22008KT RMK AO1 KCKB 290353Z 00000KT 10SM CLR 00/M03 A3018 RMK AO2 SLP222 T00001028 KMMU 290355Z AUTO 00000KT 10SM CLR 00/M00 A3012 RMK AO2 NZAA 290400Z AUTO 24019KT 9999 SCT027/// 19/13 Q1003 NOSIG ZSOF 290400Z 03002MPS 340V070 8000 NSC 08/M00 Q1033 NOSIG KCDN 290355Z AUTO 00000KT 1/4SM FG OVC002 09/08 A3014 RMK AO2 GMMN 290400Z 21006KT 9999 BKN020 BKN090 14/14 Q1012 TEMPO 5000 SHRA BKN016 BKN026TCU LOAV 281500Z 35004KT 8000 BKN010ST 02/02 KWWD 290356Z AUTO 00000KT 10SM CLR 04/03 A3014 RMK AO2 SLP208 T00390033 CZSJ 290400Z AUTO 08006KT 9SM OVC100 M09/M11 A2983 RMK SLP124 LEVT 290400Z VRB01KT CAVOK 01/01 Q1013 ZLLL 290400Z 14003MPS CAVOK 02/M13 Q1028 NOSIG KEAT 290355Z AUTO 00000KT 10SM CLR M01/M01 A3040 RMK AO2 SLP307 T10061011 EBCV 290355Z AUTO 06010KT //// OVC003/// 03/03 Q1022 YLO RCTP 290400Z 03021KT 9999 FEW015 BKN030 BKN050 20/16 Q1022 NOSIG RMK A3020 CXCA 290400Z AUTO 04002KT M00/M03 RMK AO1 SOG 05 8001 SLP095 T10011034 LIMW 281550Z AUTO VRB02KT 9999 NCD 02/M01 Q1016 VASD 281030Z 09009KT 5000 HZ SCT025 BKN080 25/12 Q1015 NOSIG KXLL 290355Z AUTO 19005KT 10SM CLR 03/M02 A3014 RMK AO2 KLAF 290354Z AUTO 21003KT 10SM 02/M02 A3014 RMK AO2 SLP210 T00171022 $ EETN 290350Z 08006KT 9999 SCT008 M00/M01 Q1028 R08/19//95 NOSIG DNKT 281300Z 09006KT CAVOK 33/10 Q1014 UUEE 290400Z 09007MPS 4300 -SN BR OVC004 01/M00 Q1026 R06R/290051 R06L/290051 TEMPO 1000 SN BR EGOW 261450Z 30005KT 9999 SCT016 08/06 Q1020 RMK WHT CYKQ 271400Z 23008KT 15SM FEW038 SCT080 SCT200 M02/M06 A2987 RMK SC1AC2CI1 CI TR LAST STFD OBS/NEXT 291400UTC SLP118 KSUW 290355Z AUTO 23005KT 10SM CLR 02/M03 A2978 RMK AO2 T00151028 KOFF 290356Z AUTO 00000KT 10SM CLR M02/M04 A2999 RMK AO2 SLP169 T10191041 $ KMQE 290351Z AUTO 29008KT 02/M02 A2999 RMK AO1 SLP169 T00221017 LTAC 290350Z VRB02KT CAVOK M09/M12 Q1023 NOSIG RMK RWY21L VRB01KT RWY03L 00000KT RWY21R 00000KT K4F2 290355Z AUTO 05005KT 10SM OVC017 10/09 A3009 RMK AO2 T01000086 SKCG 290400Z 02005KT 360V060 9999 FEW015CB SCT070 27/27 A2986 RMK CB/W KHUF 290353Z 00000KT 10SM CLR 01/M03 A3016 RMK AO2 SLP217 T00061033 CYEG 290400Z 18010KT 20SM SKC M10/M12 A3017 RMK FROIN SLP267 K9D7 290355Z AUTO 32019G26KT 10SM OVC033 00/M04 A2993 RMK AO2 KCNU 290352Z AUTO 22007KT 10SM CLR 06/M01 A3014 RMK AO2 SLP210 T00611011 HBBA 281700Z 09004KT 9999 FEW025 BKN100 22/20 Q1012 NOSIG CWCI 290300Z AUTO 26004KT 04/02 RMK AO1 T00360023 53001 LHKE 290345Z 15002KT 5000 BR BKN020 01/M02 Q1021 R12/290095 NOSIG RMK WHT SCTE 290400Z 24003KT 9999 BKN035 07/06 Q1023 NOSIG KDCM 290355Z AUTO 00000KT 10SM CLR 08/08 A3014 RMK AO2 KENV 290356Z AUTO 00000KT 10SM CLR M07/M13 A3036 RMK AO2 SLP333 T10721133 FZRANO RJOP 280828Z 02008KT 330V060 9999 SCT025 BKN040 12/06 Q1019 RMK 3CU025 7CU040 A3011 KX26 290355Z AUTO 18005KT 10SM SCT049 20/18 A3004 RMK AO2 T02050184 KSUX 290352Z AUTO 09006KT 10SM CLR M01/M03 A2994 RMK AO2 SLP150 T10061028 CXBR 290400Z AUTO 33006KT M10/M11 RMK AO1 T10951111 LIRM 290355Z 04004KT 8000 -RA BKN030 12/11 Q1008 RMK OVC VIS MIN 8000 WIND THR06 03008KT BLU LQTZ 290400Z VRB02KT 3000 BR OVC007 01/01 Q1020 CYAT 290400Z AUTO 29004KT 9SM BKN080 M09/M10 A2978 RMK SLP083 CWKD 290300Z AUTO 17002KT M04/M05 RMK AO1 SLP064 T10411051 56011 EKAH 290350Z AUTO 03005KT 9999 OVC011/// 03/01 Q1029 VEPY 290400Z 18002KT 7000 NSC 17/05 Q1024 NOSIG YGTH 290400Z AUTO 25014KT 9999 // NCD 29/07 Q1007 RMK VAJJ 290400Z 00000KT 4000 FU NSC 28/16 Q1015 NOSIG KHRX 290355Z AUTO 36005KT 10SM OVC010 02/00 A3012 RMK AO2 T00200001 KCFV 290352Z AUTO 00000KT 10SM FEW120 05/01 A3013 RMK AO2 SLP207 T00500006 $ KVOA 290400Z AUTO 08011KT 9SM 25/18 A3004 RMK A01 YTNG 290400Z AUTO 01007KT 350V060 9999 // NCD 34/09 Q1010 RMK LESU 281600Z 00000KT 9999 FEW020 SCT059 10/05 Q1008 OEHL 290400Z 06004KT 7000 SCT015 10/09 Q1020 NOSIG FNGI 281600Z 05006KT 9999 FEW010 SCT020 32/13 Q1011 KMAN 290355Z AUTO 00000KT 10SM M02/M02 A3044 RMK A01 DGSI 290000Z 14001KT CAVOK 24/22 Q1013 NOSIG KJEF 290353Z AUTO 00000KT 10SM CLR 04/M02 A3014 RMK AO2 SLP202 T00391017 MMHO 290342Z 00000KT 10SM SKC 15/M03 A3001 RMK HZY KUTS 290353Z AUTO 05004KT 5SM -RA BR OVC004 13/12 A3005 RMK AO2 SLP175 P0004 T01330122 GQNO 290230Z 35010KT 8000 NSC 19/14 Q1013 NOSIG KSJN 290354Z AUTO 21003KT 6SM BR CLR M02/M04 A3024 RMK AO2 SLP251 I1001 T10221039 DTTN 290400Z 25009KT 8000 SCT020 SCT030 13/09 Q1004 GMML 290400Z 24005KT 8000 NSC 15/15 Q1014 NOSIG KBKF 290358Z 19007KT 10SM CLR 01/M08 A3005 RMK AO2A SLP178 T00061076 RJSS 290400Z 09005KT 050V130 9999 FEW020 SCT050 BKN/// 10/00 Q1020 KCCA 290355Z AUTO 00000KT 7SM CLR 01/01 A3018 RMK AO2 KBFI 290404Z 00000KT 10SM BKN014 04/04 A3038 RMK AO2 T00440039 KBAN 290352Z AUTO 00000KT 10SM CLR M03/M11 A3029 RMK AO2 SLP298 T10281111 FZRANO $ KMHE 290353Z AUTO 30009KT 10SM CLR M01/M07 A2996 RMK AO2 SLP157 T10111067 TSNO KHEF 290356Z AUTO 03004KT 10SM CLR 02/M02 A3016 RMK AO2 SLP218 T00221017 401610011 FZRANO KMEV 290355Z AUTO 00000KT 10SM CLR M04/M09 A3030 RMK AO2 HELX 290300Z 00000KT CAVOK 13/08 Q1018 NOSIG KC62 290355Z AUTO 24010G15KT 10SM 03/M02 A3010 RMK AO2 T00321022 CWGW 290400Z AUTO 33002KT M06/M09 RMK AO1 SOG 07 3020 SLP317 T10601087 WATT 290400Z 22004KT 190V270 9999 FEW018 30/27 Q1007 NOSIG KQEI 290410Z AUTO 17005KT 9999 BKN046 01/M10 A3030 RMK A02 TSNO KBQK 290355Z AUTO 01006KT 10SM OVC004 15/14 A3008 RMK AO2 P0002 T01510143 UAOO 290400Z 03003MPS 360V060 9999 OVC010 M04/M06 Q1046 R05/490245 NOSIG RMK QFE773/1030 HTKA 290300Z 00000KT 9999 RA FEW018 FEW019CB BKN070 21/20 Q1013 KNXP 290356Z AUTO 27009KT 10SM CLR 09/M12 A3025 RMK AO2 SLP233 T00891122 VLSK 290400Z 02004KT 9000 SCT020 FEW100 26/18 Q1018 NOSIG KPRB 290353Z AUTO 11006KT 10SM CLR 09/M05 A3017 RMK AO2 SLP219 T00891050 CWVU 280000Z AUTO 20002KT 08/ RMK AO1 SLP141 T0083 50006 KHYW 290355Z AUTO 00000KT 1SM BR VV007 09/09 A3013 RMK AO2 KIAG 290353Z 23016KT 10SM CLR 06/M01 A3003 RMK AO2 SLP180 T00561011 KLNN 290355Z AUTO 21004KT 10SM CLR 02/M04 A3011 RMK AO1 T00241045 KROG 290358Z AUTO 06003KT 10SM CLR 04/M01 A3014 RMK AO2 SLP209 T00441006 PNO $ K6A1 290355Z AUTO 00000KT 7SM CLR 13/13 A3011 RMK AO2 T01300130 LFMP 290400Z AUTO VRB01KT 9999 FEW082 10/07 Q1013 NOSIG NZCH 290400Z AUTO 20013KT 9999 BKN075/// 18/10 Q1002 NOSIG FACT 290400Z 19014KT CAVOK 16/11 Q1018 NOSIG KOVL 290355Z AUTO 23006KT 10SM CLR 01/M02 A2988 RMK AO2 K6S5 290355Z AUTO 00000KT 10SM BKN050 BKN055 M03/M05 A3037 RMK AO2 KBKT 290355Z AUTO 00000KT 10SM CLR 05/05 A3014 RMK AO1 T00520052 KABY 290353Z AUTO 05004KT 10SM OVC023 16/14 A3010 RMK AO2 SLP192 T01610144 $ CZEV 290400Z AUTO 04005KT M18/M20 RMK AO1 SOG 16 8019 SLP973 T11821204 KRCV 290355Z AUTO 25007KT 10SM CLR M04/M12 A3015 RMK AO2 T10431122 MUHA 290355Z 04002KT 9000 SCT040 20/20 Q1017 GMAD 290400Z 09006KT CAVOK 12/12 Q1013 NOSIG KXNX 290355Z AUTO 35004KT 10SM CLR 02/00 A3018 RMK A01 KMIW 290353Z AUTO 21009KT 10SM CLR 03/00 A2997 RMK AO2 SLP154 T00330000 LIMN 271755Z 15002KT 2000 BR NSC 05/04 Q1021 RMK BKN BKN070 VIS MIN 2000 YLO NCAI 290400Z AUTO 07005KT 040V110 // 27/24 Q1012 YWYY 290400Z AUTO 22016KT 190V260 9999 // OVC041 17/08 Q1007 FYKM 281200Z AUTO 12002KT //// // ////// 28/18 Q1016 NZRC 290400Z 24010KT 24KM NCD 15/06 Q1001 RMK AUTO NZNV VATSIM USE ONLY KMQB 290355Z AUTO 21007KT 10SM CLR 04/M01 A3010 RMK AO2 T00401007 CWDJ 290400Z AUTO 30018KT M06/M09 RMK AO1 PK WND 31024/0321 SLP252 T10571089 53030 LRAR 290400Z 05002KT 7000 BKN011 OVC014 01/01 Q1021 R09/29//95 KBNO 290353Z AUTO 26003KT 9SM CLR M07/M09 A3037 RMK AO2 SLP328 T10671089 CWPE 290400Z AUTO 30005KT 04/03 RMK AO1 SOG 01 3001 SLP116 T00440032 EGLL 290350Z AUTO 05005KT 010V080 8000 OVC005 09/08 Q1024 TEMPO BKN004 KLVJ 290353Z AUTO 12009G19KT 10SM -RA OVC060 18/16 A3002 RMK AO2 SLP163 P0003 T01830161 KPNS 290353Z 02004KT 10SM -RA BKN120 17/16 A3007 RMK AO2 RAB19 SLP184 P0000 T01720156 K46D 290355Z AUTO 30023G39KT 9SM BKN018 00/M04 A2997 RMK AO2 PASX 290356Z AUTO 00000KT 8SM FEW035 BKN048 M02/M04 A2888 RMK AO2 UPB0258E19SNB02E14 SLP788 P0000 T10221039 FZRANO CXHA 290400Z AUTO 24012G18KT 05/M01 RMK AO1 PK WND 24018/0354 SLP194 T00471012 55001 LIEE 290350Z 32005KT CAVOK 12/12 Q1003 RJBT 290400Z VRB01KT 9999 FEW020 SCT035 BKN045 11/05 Q1020 CYYE 290400Z 09003KT 090V220 15SM OVC110 M15/M18 A2967 RMK AC8 SLP088 MSSM 282150Z 16003KT CAVOK 32/25 Q1008 A2977 KMMH 290357Z AUTO 35003KT 10SM CLR M05/M14 A3031 RMK AO2 KRYW 290355Z AUTO 31005KT 7SM DZ OVC003 09/09 A3011 RMK AO2 T00890087 KBLF 290352Z AUTO 00000KT 10SM CLR 03/M01 A3015 RMK AO2 SLP214 T00281006 KMTO 290353Z AUTO 19004KT 10SM CLR 04/M01 A3013 RMK AO2 SLP208 T00391006 CWDK 290400Z AUTO 14004KT M09/M12 RMK AO1 SLP299 T10931120 50003 MMLM 290340Z 31007KT 10SM SKC 16/10 A2995 SARC 290000Z 00000KT 8000 BKN025 31/24 Q1008 EYSA 290350Z 04007KT 9999 OVC007 M00/M01 Q1023 R32R/29//95 R32L/19//95 GRN BECMG OVC005 YLO LZPP 290400Z AUTO VRB02KT 9999 OVC085/// 00/M02 Q1021 PAOM 290353Z 36009KT 10SM CLR M10/M14 A2923 RMK AO2 SLP898 T11001139 $ KTVL 290353Z AUTO 20003KT 10SM CLR M03/M06 A3028 RMK AO2 SLP283 T10281061 EBCI 290350Z 07011KT 0300 R24/0650N FG BKN001 02/01 Q1022 NOSIG KGEG 290353Z 20005KT 10SM CLR 00/M02 A3038 RMK AO2 SLP307 T00001022 KVIS 290356Z AUTO 00000KT 10SM CLR 06/M01 A3020 RMK AO2 SLP236 T00611006 KPNM 290355Z AUTO 00000KT 10SM CLR 05/M01 A2983 RMK AO2 KHWY 290355Z AUTO 00000KT 10SM CLR 02/M02 A3015 RMK AO2 T00201018 K1OW 290358Z AUTO 33011KT 10SM CLR M01/M10 A3004 RMK AO2 SLP193 T10091101 $ KEAN 290355Z AUTO 00000KT 10SM CLR 01/M12 A3012 RMK AO2 T00111116 KBUF 290354Z 21015KT 10SM CLR 04/M04 A3005 RMK AO2 SLP181 T00441044 VTPB 290400Z 35008KT 280V050 CAVOK 29/16 Q1016 NOSIG LIME 290350Z 03001KT 7000 BKN035 06/05 Q1016 NOSIG LRSM 290400Z AUTO 24003KT 4200 -SN OVC017/// 00/M00 Q1021 YMEN 290400Z AUTO 18014KT 9999 // SCT027 BKN032 BKN039 17/11 Q1011 EHAK 290355Z AUTO 14011KT 080V220 9999 BKN014/// OVC016/// 08/04 Q1027 PAEC 290147Z 01004KT 8SM BKN040 M05/M10 A2876 RMK NOSPECI LAST KOWI 290355Z AUTO 20006KT 7SM CLR 05/M01 A3010 RMK AO2 NLWW 290400Z AUTO 28003KT 230V340 9999 NCD 30/24 Q1009 TEMPO SHRA FEW020TCU OIGG 290400Z 00000KT 9999 SCT030 OVC080 09/08 Q1027 KINK 290353Z AUTO 00000KT 10SM CLR 06/M04 A3009 RMK AO2 SLP180 T00561039 KU42 290355Z AUTO 24006KT 10SM CLR M02/M05 A3034 RMK AO1 T10221050 KC35 290355Z AUTO 00000KT 10SM CLR 05/00 A2993 RMK AO2 T00450002 PWINO KD07 290356Z AUTO 33016KT 04/M08 A3010 RMK AO1 SLP214 T00391078 $ LFMO 290400Z AUTO VRB03KT CAVOK 06/02 Q1013 NOSIG CWGH 290400Z AUTO 25007G16KT 06/M00 RMK AO1 PK WND 25018/0322 SLP161 T00581001 53001 KEUF 290358Z AUTO 00000KT 8SM CLR 13/12 A3010 RMK AO2 SLP189 T01330122 KTAD 290354Z AUTO 16006KT 10SM CLR M02/M05 A3008 RMK AO2 SLP190 T10221050 KUOX 290355Z AUTO 02004KT 10SM CLR 05/03 A3014 RMK AO2 PWINO MGTU 290000Z 09004KT 9999 BKN018 29/22 FEW070 PASD 290356Z 31017G22KT 10SM SCT035 BKN050 01/M06 A2927 RMK AO2 PK WND 29027/0317 SLP915 LAST T00111056 PNO $ VDSV 290400Z 06011KT 9999 SCT015 30/22 Q1012 ENMH 272150Z 22010KT CAVOK 03/M00 Q1015 KBAF 290353Z AUTO 00000KT 10SM CLR 01/M02 A3004 RMK AO2 SLP178 T00061022 EGBJ 281620Z 07003KT 7000 BR BKN010 OVC015 09/09 Q1019 CYTE 290400Z AUTO 32012KT 9SM CLR M17/M21 A2984 RMK SLP112 KGNC 290350Z AUTO 00000KT 10SM CLR 03/00 A3015 RMK AO2 T00300004 KTPF 290355Z AUTO 00000KT 10SM CLR 22/18 A3004 RMK AO2 KOQU 282150Z 30011KT 10SM BKN060 10/02 A2994 RMK LAST KOWP 290355Z AUTO 00000KT 10SM BKN110 08/01 A3015 RMK AO2 T00760008 PWINO VTCT 290400Z 02008KT CAVOK 26/17 Q1020 NOSIG KBQX 290355Z AUTO 06016G23KT 3SM BR SCT009 BKN030 OVC050 20/19 A2996 RMK A01 LIBC 281850Z 14014KT 9999 FEW030 15/13 Q1014 UWOO 290400Z 13003MPS 9999 OVC005 M04/M05 Q1046 R08/850245 NOSIG RMK QBB170 QFE773/1031 EGXS 290350Z AUTO 14002KT 2900 // OVC009/// 08/07 Q1024 KIMT 290354Z AUTO 28003KT 10SM CLR 04/M04 A2981 RMK AO2 SLP105 T00391039 KGTU 290404Z AUTO 31004KT 10SM BKN007 OVC013 09/08 A3014 RMK AO2 SCCF 290400Z AUTO 14008KT CAVOK 09/M10 Q1027 SCIP 290400Z 13008KT 9999 SCT020 19/16 Q1023 NOSIG LTCI 290350Z 14004KT 9999 SCT035 BKN070 00/M02 Q1023 NOSIG ESUP 290350Z AUTO 20007KT 9999 // OVC003/// M05/M05 Q1024 RESN MMMX 290345Z 00000KT 8SM SKC 17/04 A3031 NOSIG RMK HZY ISOL CI UKOO 290400Z 00000MPS 4700 BR OVC020 02/02 Q1018 R16/090060 NOSIG FOOT 281500Z 00000KT 9999 SCT013 BKN030 31/24 Q//// YFLI 290400Z AUTO 26028KT 9999 // BKN058 18/12 Q1005 RMK OIFM 290400Z 08004KT 1000 R25/P2000 BR SCT035 OVC080 06/05 Q1023 A3021 OKAS 290358Z 13004KT 9999 BKN060 BKN075 OVC095 18/16 A2999 RMK AO2A SLP154 T01820161 $ LICR 282250Z 22021G31KT 9999 RA BKN030 15/12 Q1009 RMK VIS MIN 9999 LICD 290350Z AUTO 24019KT 9999 FEW029/// 18/11 Q1006 NGTA 290400Z 11014KT 9999 SCT020 30/25 Q1005 FWCL 271300Z 23013KT 9999 TS FEW030CB SCT035 BKN100 31/19 Q1014 TEMPO 8000 -TSRA NZNR 290400Z 17008KT 140V220 20KM BKN045 OVC060 20/13 Q0999 RMK AUTO VATSIM USE KTHA 290355Z AUTO 00000KT 10SM CLR 01/M00 A3013 RMK A01 EBDT 290355Z AUTO 04006KT 2100 BR OVC003/// 03/02 Q1023 YLO KEZM 290350Z AUTO 00000KT 10SM SCT011 BKN022 14/13 A3013 RMK AO2 T01350130 PAKT 290353Z 14022G40KT 3SM RA BR SCT013 OVC022 07/07 A2977 RMK AO2 PK WND 12050/0311 SLP083 HARBOR WND 13025G35KT ROOF WND 17030G55KT P0038 T00720067 ENRA 290120Z 18003KT 9999 -SHRASN FEW013 BKN020 00/00 Q1024 YNSM 290400Z AUTO 36017KT //// // ////// 26/09 Q1009 RMK SCAS 271900Z 26015KT 9000 -RA SCT026 OVC033 12/09 Q1003 LSME 290350Z AUTO 06003KT 030V100 9999NDV OVC014 02/M00 Q1018 RMK SYMB 271800Z 00000KT 6000 VCSH BKN014 FEW015CB BKN036 OVC080 ///// Q//// RETS NOSIG RMK CB-ALQDS KDRI 290355Z AUTO 05005KT 10SM OVC006 13/13 A3006 RMK AO2 P0001 T01250125 KBFL 290354Z 07003KT 10SM CLR 09/M02 A3019 RMK AO2 SLP224 T00891017 SANR 261511Z 18006KT 5000 DZ BKN035 OVC100 24/19 Q1015 SBSL 290400Z 05007KT 9999 FEW017 27/25 Q1012 EGMD 290350Z AUTO 36007KT 2700 BR NCD 05/05 Q1023 PATA 290352Z 00000KT 10SM CLR M19/M22 A2905 RMK AO2 SLP844 T11891217 MUCL 290205Z AUTO 11002KT 23/20 Q1016 KHHF 290355Z AUTO 00000KT 10SM SCT044 OVC060 03/02 A3013 RMK AO2 T00250021 LIMA 281550Z 19004KT 3000 BR NSC 07/04 Q1017 KCPT 290355Z AUTO 30007KT 4SM BR BKN003 OVC008 08/08 A3011 RMK A01 P0010 UDYZ 290400Z 00000KT 6000 NSC M04/M07 Q1025 R09/010070 NOSIG LFRO 290400Z AUTO 07006KT 040V100 6000 NSC 09/08 Q1020 KDDH 290354Z AUTO 23005KT 10SM CLR 02/M03 A3003 RMK AO2 SLP175 T00221033 CYGV 290400Z AUTO 00000KT 9SM OVC140 M03/M04 A2977 RMK SLP083 DAUU 290400Z 26005KT CAVOK 11/02 Q1014 KKY8 290355Z AUTO 00000KT 10SM CLR 01/M01 A3018 RMK A01 OMAL 290400Z 16010KT CAVOK 20/13 Q1020 NOSIG KONA 290355Z AUTO 00000KT 10SM CLR 00/00 A2993 RMK AO2 K3S8 290355Z AUTO 00000KT 1/2SM FG OVC002 01/01 A3037 RMK AO2 KOCF 290351Z AUTO 00000KT 10SM BKN100 20/19 A3004 RMK AO2 SLP173 T02000189 PHHN 262300Z 07007KT 10SM FEW028 FEW034 29/21 A3008 KM75 290355Z AUTO 30012KT 10SM CLR M03/M06 A3033 RMK A01 LIMF 290350Z 27007KT 6000 BKN030 04/02 Q1017 TRPG 282200Z 10010KT 9999 FEW018 26/23 Q1015 KOBE 290355Z AUTO 00000KT 10SM SCT048 19/18 A3004 RMK AO2 KFLD 290353Z AUTO 22010KT 10SM CLR 05/01 A2992 RMK AO2 SLP139 T00500006 $ KDEW 290353Z AUTO 29003KT 10SM CLR M03/M05 A3039 RMK AO2 SLP318 I1001 T10331050 URML 290400Z 15006MPS 9999 OVC014 09/07 Q1026 R14/190065 NOSIG RMK QFE769/1026 EDAH 281450Z 32002KT 9999 SCT032 03/03 Q1025 ESNG 290350Z AUTO VRB02KT 9999 OVC004/// M07/M08 Q1022 CYKL 290400Z AUTO 14004KT 9SM -SN FEW026 OVC033 M08/M09 A2965 RMK SLP084 UUOO 290400Z 14008MPS 9999 OVC012 02/00 Q1025 R12/190055 NOSIG RMK QFE754 K19S 290355Z AUTO 00000KT 10SM -RA SCT014 BKN035 OVC047 02/02 A3014 RMK AO2 T00240019 EPRA 290400Z AUTO 00000KT 5000 VV005 M00/M00 Q1018 RMK M001 098 ///= CWPK 290400Z AUTO 25003KT M01/M02 RMK AO1 SOG 05 3006 SLP100 T10121019 K40B 290316Z AUTO 00000KT M01/ A2982 RMK AO1 SLP115 T1007 54001 KC07 290355Z AUTO 31006KT 10SM CLR M07/M11 A3025 RMK AO2 KRVS 290353Z 00000KT 10SM FEW120 06/03 A3016 RMK AO2 RAB19E32 SLP219 LAST P0000 T00560028 KDVN 290352Z AUTO 21011KT 10SM CLR 06/00 A3004 RMK AO2 SLP175 T00610000 CWUS 290400Z AUTO 24003KT 01/M02 RMK AO1 SLP331 T00051020 53012 CWXI 290400Z AUTO 01/M00 RMK AO1 SLP068 T00091001 58008 KDAA 290356Z AUTO 00000KT 10SM CLR 03/00 A3016 RMK AO2 SLP216 T00321004 $ KNYL 290357Z AUTO 31006KT 10SM CLR 14/M06 A3011 RMK AO2 SLP195 T01391061 $ ESNZ 290350Z AUTO VRB01KT 0200 R12/P1500N R30/P1500N BCFG OVC001/// M05/M05 Q1026 KCJR 290355Z AUTO 00000KT 10SM CLR 01/M01 A3017 RMK AO2 T00131012 CYXE 290400Z 24011KT 15SM SKC M12/M14 A3020 RMK SLP268 YBUD 290400Z AUTO 02013KT 9999 // NCD 29/14 Q1011 CWAV 290400Z AUTO 23003KT M14/M15 RMK AO1 SOG 07 0002 SLP285 T11391152 KVDF 290355Z AUTO 00000KT 10SM CLR 18/17 A3004 RMK AO2 ENST 271950Z 18017KT 9999 SCT011 BKN014 06/04 Q1020 RMK WIND 300FT 17020KT LFBG 290400Z AUTO 05004KT CAVOK 05/04 Q1015 SECU 290400Z AUTO VRB02KT ////NDV NCD 12/11 Q1027 OEBA 290400Z 32006KT CAVOK 13/10 Q1021 NOSIG KGZL 290355Z AUTO 00000KT 10SM CLR A3013 RMK AO2 YEML 290400Z AUTO 04007KT 340V090 9999 // NCD 35/12 Q1010 RMK KBOS 290354Z 29010KT 10SM CLR 06/M01 A3002 RMK AO2 SLP163 T00561011 EGYM 290350Z AUTO 05003KT 3400 BR OVC006/// 08/07 Q1024 LPPD 290400Z 35020G34KT 320V020 9999 FEW018 BKN030 12/06 Q1018 KUGN 290355Z AUTO 24014G22KT 10SM CLR 08/00 A2999 RMK AO2 SLP160 T00780000 KGKJ 290353Z AUTO 21007KT 10SM CLR 01/M04 A3010 RMK AO2 SLP203 T00061044 ENSS 272050Z 23024KT CAVOK M01/M04 Q1016 RMK WIND 500FT 23031KT CWBA 290400Z AUTO 27001KT 02/02 RMK AO1 T00230016 KHQU 290355Z AUTO 00000KT 1 3/4SM BR VV007 11/ A3012 RMK AO2 T0109//// KVOK 290356Z AUTO 24005KT 10SM CLR 03/02 A2991 RMK AO2 SLP139 T00300018 KSEZ 290355Z AUTO 03011KT 10SM CLR 08/M08 A3019 RMK AO2 LTFH 290350Z 19003KT CAVOK 01/M01 Q1021 NOSIG ZSQD 290400Z 33003MPS 260V020 CAVOK 05/M06 Q1033 NOSIG CYNA 290400Z AUTO 35002KT 9SM OVC037 M00/M01 A2974 RMK SLP077 CXLL 290300Z AUTO 22002KT M11/M13 RMK AO1 SOG 29 SLP044 T11121131 EGDY 290350Z AUTO 04004KT 0050 FG BKN007/// 05/04 Q1023 PAHP 290356Z AUTO 35014KT 10SM OVC037 M03/M05 A2920 RMK AO2 UPB48E55SNE48 SLP886 P0000 T10281050 FZRANO $ ZGNN 290400Z 02004MPS 340V060 9999 FEW030 16/07 Q1026 NOSIG EGVP 290350Z AUTO 05009KT 3200 BR OVC005/// 07/07 Q1023 KRGA 290355Z AUTO 00000KT 10SM CLR 00/M00 A3017 RMK AO2 KAIZ 290356Z AUTO 00000KT 10SM CLR 01/M02 A3014 RMK AO2 SLP211 T00061017 FZRANO SBOI 282000Z 06003KT 9999 FEW025TCU SCT030 29/25 Q1010 ETNS 290320Z AUTO 01005KT 9999 // ////// 01/M00 Q1028 /// ENMS 281150Z VRB01KT CAVOK 01/00 Q1022 RMK WIND 412FT VRB02KT KCAE 290406Z 00000KT 1/4SM FG VV002 09/08 A3013 RMK AO2 T00890083 RVRNO KTIX 290147Z 00000KT 7SM SCT050 23/22 A3004 EGPU 290350Z AUTO 19012KT 9999 FEW014/// BKN019/// 09/07 Q1023 RJCN 290400Z 20008KT 150V240 9999 FEW025 BKN/// 04/M06 Q1015 CWSW 290000Z VRB02KT 20SM FEW080 M00/M07 A3029 RMK AC1 LAST STFD OBS/NXT 291400Z SLP295 KEMT 290245Z 00000KT 10SM CLR 14/M03 A3010 GQPP 290400Z 02011KT 8000 NSC 17/15 Q1015 NOSIG KMNM 290356Z AUTO VRB05KT 10SM CLR 04/M02 A2987 RMK AO2 SLP118 T00441022 $ CWYL 290400Z AUTO 21004KT M11/M13 RMK AO1 SOG 41 1007 SLP311 T11101127 KE41 290355Z AUTO 10003KT 10SM CLR 04/02 A3013 RMK AO2 T00350018 KLZU 290356Z AUTO 00000KT 5SM BR CLR 09/09 A3011 RMK AO2 SLP205 T00940094 402060094 PATK 290353Z AUTO 00000KT 10SM BKN100 M07/M10 A2887 RMK AO2 SLP781 T10721100 TSNO LIQW 271255Z 24001KT CAVOK 16/08 Q1019 RING CONNECT 115200 SATMTRNOG ALL TTAA00 KNOG 290356 METAR DABC 290400Z 27014KT 9999 FEW026 BKN033 10/06 Q1007 KFSE 290355Z AUTO 25007KT 10SM CLR 02/M06 A2977 RMK AO2 KYNG 290351Z 21006KT 10SM CLR 02/M04 A3012 RMK AO2 SLP208 T00171044 KRNM 290353Z 00000KT 10SM CLR 07/M06 A3012 RMK AO2 SLP198 T00721061 LIRX 281855Z 04015KT 9999 OVC050 11/09 Q1009 RMK OVC VIS MIN 9999 VIS MAR 25 KM KRNC 290355Z AUTO 00000KT 9SM CLR 02/00 A3014 RMK A01 KVBG 290358Z AUTO 14003KT 9SM CLR 05/03 A3015 RMK AO2 SLP215 T00480029 KQEP 290410Z AUTO 24006G11KT 9999 FEW040 03/M07 A3039 RMK A02 TSNO KLBF 290353Z AUTO 23003KT 10SM CLR M04/M09 A2999 RMK AO2 SLP182 T10391089 KOFK 290356Z AUTO 22003KT 10SM CLR 01/M04 A2994 RMK AO2 SLP150 T00111039 CWND M02/M02 RMK 0256Z SOG 02 3017 T10151015 RKJB 290400Z 35003KT 310V030 9999 BKN030 07/02 Q1029 NOSIG WIBB 290400Z 00000KT 8000 SCT015 28/22 Q1009 UGKO 290400Z 09019G30KT CAVOK 10/M02 Q1022 NOSIG KFPY 290355Z AUTO 10SM OVC009 18/17 A3006 RMK AO2 T01760171 402450176 MUVR 290350Z 15005KT 9000 FEW030 20/19 Q1017 FDOT 242000Z AUTO 13011KT //// // ////// 24/20 Q1011 CXSH 290400Z AUTO 22006KT 01/01 RMK AO1 SLP113 T00140006 51005 CZKD 290400Z AUTO 30004KT M11/M12 RMK AO1 SOG 53 2020 SLP140 T11071116 YWHA 290400Z AUTO 18015KT 9999 // NCD 21/08 Q1013 SCCI 290400Z 30020KT CAVOK 04/02 Q0995 NOSIG K1NM 280258Z AUTO 26023KT 10SM BKN230 07/M12 A2994 RMK AO2 PK WND 27026/24 SLP166 T00721123 53003 $ KRIC 290354Z 00000KT 10SM CLR 07/03 A3015 RMK AO2 SLP213 T00720033 KOMH 290355Z AUTO 00000KT 10SM CLR 01/00 A3015 RMK AO2 YIVO 290400Z AUTO 23005KT 190V280 //// // ////// 26/07 Q1009 SPCL 290000Z VRB02KT 9999 SCT015 BKN070 22/22 Q1010 RMK PP000 SBDN 290300Z 08005KT CAVOK 26/18 Q1015 CYPO 290403Z AUTO 33003KT 9SM -SN OVC018 M11/M12 A2986 RMK SLP116 KELM 290353Z AUTO 00000KT 10SM CLR M03/M04 A3008 RMK AO2 SLP194 T10281044 CYSK 272300Z 25029KT 3SM -SN DRSN OVC028 M05/M08 A2951 RMK SC8 LAST STFD OBS/NXT 301300Z SLP996 CXNM 290400Z AUTO 31007KT M01/M01 RMK AO1 SOG 01 T10121009 KLXV 290353Z AUTO 04005KT 10SM CLR M08/M15 A3021 RMK AO2 SLP226 T10831150 DNGO 281700Z 00000KT CAVOK 33/08 Q1012 KRSV 290355Z AUTO 00000KT 10SM CLR M01/M03 A3018 RMK AO2 T10101027 KTDR 290356Z AUTO 09004KT 10SM BKN140 18/16 A3004 RMK AO2 SLP176 T01840162 $ KSKX 290356Z AUTO 07006KT 10SM CLR M02/M05 A3017 RMK AO2 TSB25E26 SLP243 T10221050 FZRANO WAPP 290400Z 20008KT 9000 SCT017 30/24 Q1006 NOSIG LIRV 281755Z 05009KT CAVOK 10/06 Q1011 RMK SCT SCT080 MON E SE LIB NC VIS MIN 9999 WIND THR04 ///// KT BLU KMXO 290355Z AUTO 21007KT 10SM CLR 05/02 A2999 RMK AO2 KELO 290355Z AUTO 00000KT 10SM CLR M06/M07 A2971 RMK AO2 CYZF 290400Z 10010KT 15SM -SN OVC010 M14/M16 A2968 RMK SC8 CIG RAG SLP078 UADD 290400Z 01003MPS 2800 -SG BR OVC004 M04/M04 Q1040 R13/490250 NOSIG RMK QBB130 MT OBSC QFE722/0963 EDLN 290350Z AUTO 11008KT 9999 // OVC008/// 03/01 Q1024 FKKL 271600Z 01007KT CAVOK 32/07 Q1011 KAEJ 290355Z AUTO 32010G17KT 10SM CLR 01/M12 A3015 RMK AO2 T00061117 NSFA 290400Z 33006KT 9999 FEW023 31/24 Q1010 KBKL 290353Z 19010KT 10SM CLR 05/M03 A3011 RMK AO2 SLP200 T00501033 RCFN 290410Z 05009KT 010V100 8000 SHRA FEW010 BKN025 BKN030 23/18 Q1022 TEMPO 5000 SHRA RMK A3018 KSDF 290356Z 00000KT 10SM CLR 04/M01 A3016 RMK AO2 SLP215 T00441011 KLYO 290355Z AUTO 25006KT 10SM BKN120 05/01 A3008 RMK AO2 T00510015 YPKT 290400Z AUTO 32009KT //// // ////// 35/21 Q1005 RMK CXHP 290400Z AUTO 20009KT M03/M09 RMK AO1 T10261089 UTAV 290300Z 01006KT 6000 NSC M03/M05 Q1035 R31/CLRD70 NOSIG CWGZ 282100Z 07010KT 15SM FEW042 M26/M33 A2953 RMK SC1 S0 AFT 13UTC/LAST STFD OBS/NEXT 011300 UTC SLP008 KOXC 290351Z AUTO 00000KT 10SM CLR 02/M01 A3007 RMK AO2 SLP201 T00171011 FZRANO VTPT 290400Z /////KT 8000 FEW028 28/20 Q//// NOSIG KMRT 290355Z AUTO 23008KT 10SM CLR 01/M01 A3016 RMK AO2 T00131015 KRZL 290355Z AUTO 20007KT 10SM CLR 01/00 A3011 RMK AO2 CWST 290400Z AUTO 21007KT 03/M00 RMK AO1 SOG 01 8009 SLP091 T00281003 KDLN 290353Z AUTO 19009KT 10SM CLR M02/M08 A3029 RMK AO2 SLP302 T10221083 KRBD 290353Z AUTO 03004KT 3SM -RA BR SCT004 BKN009 OVC055 10/09 A3007 RMK AO2 SLP182 P0005 T01000089 $ HSSS 290400Z 36009KT CAVOK 17M02 Q1015 NOSIG K7S0 290355Z AUTO 16004KT 10SM 01/M03 A3037 RMK A01 Ronan CWJC 290000Z AUTO 12006KT M19/M22 RMK AO1 SOG 08 T11921215 OITR 290400Z 27002KT 0500 R21/1200 SN SCT005 FEW025CB SCT030 OVC070 00/00 Q1021 YHBA 290400Z AUTO 01013KT 9999 // NCD 28/// Q1011 RMK LYKV 290400Z 07001KT 1000 R31/2000D R13/1300U BR OVC002 01/01 Q1021 NOSIG K82C 290355Z AUTO 26004KT 10SM CLR 06/01 A2992 RMK AO2 T00550009 KPDT 290353Z AUTO 09005KT 10SM R26/3000V3500FT CLR 03/01 A3038 RMK AO2 SLP290 T00280011 YMNE 290400Z AUTO 36012KT 9999 // NCD 36/08 Q1008 RMK SCCC 271900Z 27017G29KT 9999 FEW040 BKN140 ///// Q0997 GVAC 290400Z 03008KT 9999 BKN014 BKN200 22/15 Q1015 NOSIG MMCB 290046Z 00000KT 10SM SKC 25/11 A3003 RMK ISOL CI KCFD 290355Z AUTO 34004KT 10SM OVC006 13/13 A3008 RMK AO2 T01320132 KSQI 290356Z AUTO 22005KT 10SM CLR 04/01 A3004 RMK AO2 SLP040 T00440006 KI67 290355Z AUTO 00000KT 10SM CLR 00/M01 A3019 RMK AO1 UEEE 290400Z 15002MPS CAVOK M30/M33 Q1024 R23L/450151 NOSIG RMK QFE759 KECS 282135Z AUTO 00000KT 10SM CLR 11/M12 A3000 RMK AO2 ZBHH 290400Z 33006MPS CAVOK M07/M16 Q1031 NOSIG UKLL 290400Z 28001MPS 7000 -SHSN BKN008 BKN016CB M02/M03 Q1018 R31/99 NOSIG ETNL 290320Z 36002KT 9999 BKN030 03/02 Q1026 BLU CWZG 290400Z AUTO 22004KT M06/M13 RMK AO1 SOG 03 2010 SLP305 T10591127 EGNV 281250Z VRB02KT 9000 FEW020 BKN042 05/03 Q1022 LEVD 290400Z AUTO 11004KT 4800 BR NSC 03/03 Q1012 KAFJ 290356Z AUTO 19003KT 10SM CLR A3019 RMK AO2 SLPNO FZRANO $ KEGE 290356Z AUTO 00000KT 10SM CLR M06/M08 A3027 RMK AO2 SLP320 T10561083 FZRANO PNO $ VTUW 290400Z 07011KT 030V110 9999 FEW040 27/16 Q1017 NOSIG KHQG 290355Z AUTO 28003KT 7SM DZ OVC022 02/02 A3011 RMK AO2 T00210020 KOQN 290355Z AUTO 30003KT 10SM CLR 05/M02 A3014 RMK AO2 KVPZ 290356Z AUTO 22006KT 10SM CLR 03/00 A3009 RMK AO2 SLP195 T00280000 FYOA 281700Z AUTO 07008KT //// // ////// 28/18 Q1012 CWOE 290400Z AUTO 32002KT M08/M09 RMK AO1 SOG 16 2028 SLP308 T10841091 LIPS 290355Z 06009KT 9000 BKN075 07/04 Q1016 RMK BKN VIS MIN 9000 WIND THR26 01010KT WIND THR08 04010KT BLU ETSI 290320Z AUTO 07006KT 8000 // ////// M01/M03 Q1021 /// YHUG 290400Z AUTO 07005KT 010V090 9999 // NCD 37/00 Q1008 RMK KBJC 290347Z 27007KT 10SM SKC 05/M09 A3004 YPPH 290400Z 23011KT 9999 FEW045 SCT200 BKN240 23/10 Q1010 DNIB 290300Z 27006KT 8000 BKN010 25/23 Q1011 LGSM 290350Z 00000KT 9999 FEW020 10/07 Q1019 KTCC 290253Z AUTO 14003KT 10SM OVC015 03/02 A3008 RMK AO2 SLP189 T00330017 55000 KHND 290356Z 19006KT 10SM CLR 06/M11 A3022 RMK AO2 SLP260 T00561111 CYMA 290400Z 04010KT 10SM OVC053 M04/M08 A2906 RMK SC8 SLP889 KPSN 290355Z AUTO 09003KT 10SM OVC010 11/11 A3008 RMK AO2 T01170110 CWJX 290400Z AUTO 24011KT M13/M15 RMK AO1 SOG 07 1023 SLP302 T11271154 VOHS 290400Z 10006KT 4000 BR SCT015 BKN100 23/21 Q1020 NOSIG KPWT 290356Z AUTO 00000KT 9SM CLR 01/00 A3037 RMK AO2 SLP292 T00060000 FZRANO $ UGSB 290400Z 14020KT CAVOK 09/01 Q1022 NOSIG KPYM 290352Z AUTO 28005KT 10SM CLR 04/M01 A3001 RMK AO2 SLP162 T00391011 ZSHC 290400Z VRB03MPS 9999 SCT030 11/03 Q1031 NOSIG K59K 290200Z 32012KT 12SM SKC 13/11 A3013 YBAS 290400Z AUTO 19006KT 120V220 9999 // NCD 35/12 Q1009 URMO 290400Z 12003MPS 9999 NSC M07/M08 Q1023 NOSIG RMK QFE723/0965 KBOW 290355Z AUTO 00000KT 10SM CLR 19/17 A3004 RMK AO2 KTEX 290355Z AUTO 12006KT 10SM CLR M04/M09 A3027 RMK AO2 KHIO 290353Z 30003KT 1 1/2SM BR OVC006 06/06 A3035 RMK AO2 SLP280 T00560056 YAMB 290400Z AUTO 03006KT 9999 // NCD 37/12 Q1007 UTDT 290400Z 00000MPS 0050 FG VV002 03/03 Q1033 R35/CLRD70 RMK QBB060 QFE734/0979 EGXE 290350Z AUTO 34002KT 0350 FG OVC002/// 07/07 Q1024 YMYB 290400Z AUTO 36011KT 9999 // NCD 31/17 Q1010 RMK LTAG 290350Z 02007KT CAVOK 06/02 Q1019 NOSIG RMK SKC GOGG 290300Z 36008KT CAVOK 22/19 Q1012 LFPN 290400Z AUTO 03007KT CAVOK 03/01 Q1019 KVBT 290356Z AUTO 08003KT 10SM CLR 07/01 A3015 RMK AO2 SLP216 T00670011 TSNO PNO $ LFAT 290400Z AUTO 17003KT 7000 NSC 04/03 Q1022 KTVY 290355Z AUTO 20004KT 10SM CLR M03/M06 A3035 RMK AO2 YPDN 290400Z 30006KT 250V320 9999 VCSH -SHRA FEW042 34/22 Q1006 OIMD 290400Z 00000KT 9999 FEW035 SCT100 06/03 Q1023 PABL 290356Z AUTO 33008KT 10SM CLR M17/M19 A2924 RMK AO2 SLP903 T11671189 FZRANO UTAM 290400Z 07004KT 6000 BKN230 01/M02 Q1037 R88/CLRD70 NOSIG KHQM 290353Z AUTO 09009KT 10SM CLR 06/04 A3034 RMK AO2 SLP276 T00610039 FALW 290300Z AUTO 21008KT //// // ////// 14/10 Q1017 LFPG 290400Z 01009KT CAVOK 04/02 Q1020 NOSIG SBUA 281700Z 25009KT 9999 -DZ SCT011 BKN100 25/23 Q1012 LFPB 290400Z AUTO VRB02KT CAVOK 03/01 Q1020 TEMPO 4000 BR BKN002 CZFS 290400Z AUTO 11007KT M16/M18 RMK AO1 SOG 14 8026 SLP037 T11561179 KWRL 290353Z AUTO 00000KT 10SM CLR M04/M10 A3019 RMK AO2 SLP277 T10391100 KHRT 290356Z AUTO 01006KT 10SM -RA BKN100 BKN120 17/15 A3005 RMK AO2 DZE0257RAB49 SLP178 P0000 T01730149 $ MGHT 290400Z 00000KT 9999 BKN020 17/14 YWGT 290400Z AUTO 21014KT 9999 // NCD 24/10 Q1008 EFKI 290350Z AUTO 18005KT 150V220 9999 OVC017 M02/M03 Q1031 SBML 271700Z 30010KT 9999 BKN035 34/15 Q1015 LDOS 290400Z 28004KT 9999 OVC010 01/00 Q1022 SBCR 282100Z 11011KT 9999 FEW050 FEW060TCU 36/20 Q1007 DNAA 290300Z 05002KT CAVOK 22/19 Q1012 NOSIG OITZ 290400Z 13010KT 4000 -RASN SCT015 SCT030CB OVC080 01/01 Q1019 A3010 KHUA 290358Z AUTO 04004KT 10SM CLR 06/04 A3012 RMK AO2 SLP202 T00640039 KSGT 290356Z AUTO 04006KT 10SM CLR 06/03 A3016 RMK AO2 SLP213 T00610028 UWKD 290400Z 12007MPS 7000 OVC005 M02/M04 Q1040 R11/450540 NOSIG RMK QFE769/1026 KORH 290354Z AUTO 20004KT 10SM CLR 02/M03 A3000 RMK AO2 SLP168 T00171033 LTCU 281250Z 04004KT 340V080 9999 SCT035 BKN100 07/01 Q1024 KLWT 290354Z AUTO 28007KT 10SM FEW055 SCT070 BKN090 M03/M06 A3033 RMK AO2 SLP292 T10331061 KIDI 290355Z AUTO 00000KT 10SM CLR M01/M03 A3018 RMK A01 MMPG 290040Z 33008KT 10SM BKN040 14/11 A3010 RMK 8/500 PADM 290402Z AUTO 32006KT 9SM -SN FEW022 BKN030 OVC095 M08/M10 A2914 RMK AO2 SNB0336 SLP873 P0000 T10781100 FZRANO LDZD 290400Z 07017KT 050V110 9999 FEW060 10/02 Q1014 NFTF 290400Z 27015KT 9999 SCT017 BKN270 28/22 Q1008 KRWL 290353Z AUTO 25012KT 10SM CLR M01/M12 A3017 RMK AO2 SLP241 T10111122 K24J 290355Z AUTO 05004KT 10SM OVC006 16/16 A3007 RMK A01 VOND 290300Z 11002KT 5000 HZ NSC 24/17 Q1019 NOSIG KMKS 290355Z AUTO 00000KT 7SM CLR 11/11 A3012 RMK AO2 YIFL 290400Z AUTO 08013KT 9999 // SCT029 BKN034 BKN041 29/22 LTCV 290350Z 23007KT 9999 FEW035 07/05 Q1017 SBVT 290400Z 34004KT 4000 -RA BR FEW010 BKN020 23/22 Q1019 KBRD 290353Z AUTO 23010KT 10SM CLR 04/M03 A2978 RMK AO2 SLP098 T00391028 KQAZ 290356Z AUTO 10006KT 9999 CLR 22/00 A2998 RMK AO2 SLP151 WND DATA ESTMD T02180000 KF00 290355Z AUTO 36003KT 7SM RA BKN029 OVC034 07/06 A3013 RMK AO2 P0006 T00710061 KDMN 290353Z AUTO 00000KT 10SM CLR 02/M08 A3019 RMK AO2 SLP213 T00221083 KBJI 290355Z AUTO 26012KT 10SM CLR 04/M04 A2973 RMK AO2 T00411040 ENSG 281250Z VRB02KT 9999 FEW045 M04/M05 Q1025 RMK WIND 3806FT 15011KT MHCA 290400Z 00000KT 9999 SCT022 SCT070 22/22 KMFI 290354Z AUTO 25008KT 10SM CLR 03/M02 A2988 RMK AO2 SLP131 T00281017 ESSB 290350Z AUTO 01005KT 330V030 9999 OVC004/// M01/M01 Q1029 KHQZ 290355Z AUTO 35007KT 10SM BKN007 BKN012 OVC027 09/09 A3010 RMK AO1 P0001 T00850085 NVVW 290300Z 15005KT 9999 BKN022 OVC110 26/21 Q1012 CYYY 290400Z 22005KT 10SM FEW003 BKN020 OVC130 00/00 A2978 RMK SF2SC3AC3 SLP090 EPGD 290400Z 05005KT 9999 FEW005 BKN014 02/02 Q1021 KDBN 290355Z AUTO 00000KT 7SM SCT006 OVC026 15/13 A3013 RMK AO2 CWNZ 290400Z AUTO 30002KT M02/M06 RMK AO1 SOG 14 3011 SLP107 T10161059 KDIK 290356Z AUTO 32020G29KT 10SM CLR M02/M07 A3013 RMK AO2 PK WND 33037/0324 SLP225 T10171067 WMKK 290400Z VRB02KT 9999 FEW018 30/22 Q1011 NOSIG YSHK 290400Z AUTO 21014KT //// // ////// 28/15 Q1008 RMK OIZC 270000Z 00000KT 5000 HZ NSC 12/04 Q1020 KGUY 290404Z AUTO 04004KT 10SM OVC005 02/02 A3010 RMK AO2 CIG 003V006 T00220017 CWIL 290400Z AUTO 19008KT 170V230 ////SM ////// M31/M33 A2988 KGLR 290353Z AUTO 23008KT 10SM CLR 04/M01 A2988 RMK AO2 SLP131 T00391011 KPMU 290355Z AUTO 00000KT 10SM CLR 05/04 A3013 RMK AO2 AGGL 282100Z 00000KT 9999 FEW015 FEW016CB SCT030 OVC100 25/24 Q1011 NZOH 290400Z 27009KT 25KM FEW024 SCT035 18/14 Q1000 RMK VATSIM USE ONLY GUCY 281200Z 18008KT 9999 FEW015 31/26 Q1011 NOSIG ESMK 290350Z AUTO 34006KT 9999 OVC015/// M00/M01 Q1028 KQDG 290356Z AUTO 26008KT 9999 BKN038 05/M01 A3014 RMK AO2 SLP208 T00461013 PWINO $ UNBB 290400Z 18003MPS 9999 SCT040 M08/M12 Q1035 R24/CLRD66 NOSIG RMK QFE754 LRBO 280700Z VRB02KT 1500 BR SCT006 BKN200 M07/M08 Q1020 AMB YLO K4U6 290355Z AUTO 29008KT 10SM M04/M07 A3027 RMK A01 Circle NVVV 290400Z 11010KT 9999 SCT025 BKN045 28/21 Q1011 DABT 290400Z 28010KT 9999 FEW010 BKN020 08/06 Q1008 LECH 290400Z AUTO 22002KT 9000 NSC 10/09 Q1012 LPBJ 290400Z 16007KT 9999 FEW015 09/08 Q1010 YMOR 290409Z AUTO 32015G25KT 300V360 9999 // SCT120 40/05 Q1006 KISQ 290355Z AUTO 00000KT 10SM CLR 03/01 A2983 RMK AO2 T00320005 400681030 CWMZ 290300Z AUTO 24029KT 06/02 RMK AO1 PK WND 24037/0236 SLP123 T00570016 KRPJ 290355Z AUTO 20007KT 10SM CLR 02/01 A3004 RMK AO2 T00180005 ENNO 281550Z 00000KT 9999 FEW042 M04/M05 Q1030 CYDA 282200Z 09004KT 20SM SCT120 OVC170 M19/M21 A2925 RMK AS3AS5 LAST STFD OBS/NXT 291300Z PRESFR SLP949 FMNM 290400Z 06004KT 030V090 9999 FEW010 FEW020CB SCT040 25/22 Q1012 NOSIG CWWB 290400Z AUTO 24007KT 05/01 RMK AO1 SLP169 T00450006 51002 KOZW 290355Z AUTO 23006KT 10SM CLR 03/M03 A3004 RMK AO2 T00251026 KAPA 290353Z 19004KT 10SM CLR 01/M07 A3005 RMK AO2 SLP195 T00061072 SBSJ 290300Z 14009KT 9999 FEW040 21/18 Q1020 KADU 290355Z AUTO 21008KT 10SM CLR 04/00 A2998 RMK AO2 KBAM 290355Z AUTO 00000KT 10SM CLR M05/M08 A3033 RMK AO1 OIYY 290400Z 14002KT 0800 FG VV025 06/06 Q1025 KSDA 290355Z AUTO 23004KT CLR 04/M00 A3001 RMK AO2 EDDH 290350Z VRB02KT 9999 BKN029 02/M00 Q1027 NOSIG PAIN 290356Z AUTO 00000KT 10SM OVC080 M11/M13 A2881 RMK AO2 SLP790 T11061133 FZRANO KHDC 290355Z AUTO 09003KT 10SM -RA OVC004 15/15 A3006 RMK AO2 KEKS 290355Z AUTO VRB05KT 10SM CLR M05/M11 A3034 RMK AO2 EEPU 271420Z 36006KT 320V030 9999 BKN009 01/01 Q1013 KCKP 290355Z AUTO 00000KT 10SM CLR 00/M01 A2995 RMK AO2 T10051012 KYKM 290353Z 27006KT 8SM SCT050 M01/M03 A3040 RMK AO2 SLP309 T10111033 YOLW 290400Z AUTO 29018KT //// // NCD 31/19 Q1007 RMK KFAM 290356Z AUTO 00000KT 10SM CLR 00/M01 A3015 RMK AO2 SLP226 T00001011 FZRANO VOBZ 290400Z 07014KT 6000 FEW020 SCT100 28/19 Q1016 NOSIG SBCG 290400Z 10006KT CAVOK 27/19 Q1014 KGEY 290353Z AUTO 30008KT 10SM CLR 02/M10 A3019 RMK AO2 SLP266 T00221100 CWHV 290400Z AUTO 25002KT 02/M00 RMK AO1 0003 SLP114 T00201004 50003 MMZC 290143Z 26005KT 10SM BKN200 17/03 A3020 RMK 8/001 KLBO 290355Z AUTO 21005KT 10SM CLR 05/M02 A3014 RMK AO2 KPIT 290351Z 19003KT 10SM CLR 01/M04 A3014 RMK AO2 SLP224 T00061044 K3J7 290355Z AUTO 13004KT 3/4SM BR OVC002 13/13 A3012 RMK AO2 KLWC 290352Z AUTO 00000KT 10SM CLR 03/M02 A3010 RMK AO1 SLP199 T00281017 ZSAM 290400Z 03004MPS 350V060 9999 BKN043 22/12 Q1023 NOSIG DAAJ 290400Z 35002KT CAVOK 12/M02 Q1017 KCII 290355Z AUTO 10SM M05/M06 A3035 RMK A01 Choteau CWDM 290300Z AUTO 36006KT M00/M00 RMK AO1 4PAST HR 8005 SLP073 P0002 T10041004 50007 ENBO 290350Z 20013KT 9999 FEW020 SCT035 BKN070 08/02 Q1020 UUBC 290400Z 11005MPS 5000 -RA OVC006 03/03 Q1022 R31/////// NOSIG RMK QBB190 QFE749/0999 CXSC 290400Z AUTO 25014KT M10/M10 RMK AO1 T11001101 50004 SVGU 290402Z AUTO 02001KT NCD 24/24 Q1014 WMKJ 290400Z VRB03KT 9999 FEW018 29/25 Q1010 YBMK 290400Z AUTO 09009KT 050V120 9999 // NCD 29/18 Q1011 RMK KDPA 290352Z 21010KT 10SM CLR 04/01 A3003 RMK AO2 SLP175 T00440011 KRFI 290355Z AUTO 06004KT 10SM OVC008 10/09 A3009 RMK AO2 T00950085 URMN 290400Z 00000MPS 0400 R24/0450 FZFG VV001 M02/M02 Q1023 R24/////// NOSIG RMK QBB040 MT OBSC OBST OBSC QFE730 KU69 290355Z AUTO 29004KT 10SM CLR M05/M12 A3026 RMK A01 VTBD 290400Z VRB02KT 9999 FEW040 29/19 Q1015 NOSIG KHYR 290353Z AUTO 00000KT 10SM CLR M03/M06 A2982 RMK AO2 SLP112 T10281056 KEXX 290355Z AUTO 00000KT 10SM CLR 06/06 A3014 RMK AO2 T00560056 LEMD 290400Z 14001KT 1800 R32R/P2000 BR BCFG SCT012 SCT014 05/05 Q1014 NOSIG KSDY 290356Z AUTO 31016KT 10SM CLR M03/M06 A3024 RMK AO2 SLP631 T10331061 FZRANO VGEG 290400Z 04004KT 5000 HZ NSC 25/19 Q1016 NOSIG KCNM 290353Z AUTO 27006KT 10SM CLR 04/M03 A3009 RMK AO2 SLP178 T00391028 LEBR 290400Z AUTO 02003KT 330V040 9999 NCD 07/06 Q1013 KLWS 290356Z 09007KT 10SM CLR 04/M01 A3039 RMK AO2 SLP302 T00441006 FKYS 290300Z 00000KT 7000 SCT003 BKN006 21/21 Q1016 TEMPO 4000 BR BKN006 LFOT 290400Z AUTO 04007KT 360V070 CAVOK 04/02 Q1018 NOSIG YBUN 290400Z AUTO 24008G19KT 9999 // NCD 18/10 Q1010 RMK SCFT 290400Z AUTO 28014KT 220V300 CAVOK 08/M03 Q1019 KCUL 290355Z AUTO 00000KT 10SM CLR 00/M02 A3016 RMK AO2 VTSR 290400Z VRB06KT 9999 BKN020 31/24 Q1011 NOSIG K79S 290400Z AUTO 00000KT 10SM M03/M07 A3040 NZSP 282350Z 03010KT 9999 IC FEW210 M30/ A2844 RMK CLN AIR 06010KT ALL WNDS GRID SDG/HDG ENOA 290350Z 18017KT 9999 -SHRA SCT015 BKN050 08/05 Q1025 W///S5 CAHR 290400Z AUTO 29003KT 01/M00 RMK AO1 SLP097 T00121001 58005 LRTR 290400Z VRB01KT 2500 -SNRA BR BKN004 OVC016 01/01 Q1021 LTAZ 290350Z 13006KT CAVOK M04/M07 Q1024 RMK RWY29 15004KT KAQV 290357Z AUTO VRB04KT 6SM -RA BR SCT005 OVC021 11/10 A3005 RMK AO2 SLP175 P0002 T01110100 KDLS 290353Z AUTO 00000KT 10SM OVC065 07/04 A3039 RMK AO2 SLP292 T00720044 K96D 290355Z AUTO 31021G33KT 10SM BKN021 OVC026 01/M02 A2980 RMK AO2 VOCB 290400Z 01003KT 3000 BR FEW012 SCT080 26/22 Q1017 BECMG 5000 HZ ESSD 290350Z AUTO 31002KT 9999 OVC004/// M04/M04 Q1028 VTBO 290400Z 03012G22KT 330V060 7000 FEW020 SCT100 27/20 Q1013 K1YT 290358Z AUTO 00000KT 10SM CLR 02/M02 A3037 RMK AO2 SLPNO T00171017 $ CYZH 290400Z AUTO 00000KT 9SM CLR M08/M11 A3007 RMK SLP223 KALN 290350Z VRB03KT 10SM CLR 00/M01 A3014 KLFT 290408Z AUTO 00000KT 6SM BR SCT005 BKN090 OVC120 17/16 A3005 RMK AO2 T01670156 ROMY 290400Z 05018G28KT 9999 SCT030 24/15 Q1021 FVFA 280900Z 05007KT 002V080 9999 SCT020 BKN090 25/20 Q1019 NOSIG KDMO 290353Z AUTO 20006KT 10SM CLR 04/M03 A3013 RMK AO2 SLP208 T00391033 VEDG 271330Z 35008KT 3000 HZ SCT020 SCT100 21/19 Q1018 NOSIG MMSD 290345Z 28006KT 12SM FEW230 19/11 A2998 RMK 8/008 LFOP 290400Z AUTO 04007KT CAVOK 04/03 Q1020 GCFV 290400Z AUTO 23004KT 200V350 9999 FEW029 18/13 Q1013 KGNA 290356Z AUTO 04003KT M01/M03 A2976 RMK AO1 SLP087 T10111033 KDTS 290353Z 06005KT 10SM CLR 18/16 A3005 RMK AO2 SLP174 T01830156 KNQI 290403Z AUTO 35010KT 7SM OVC007 18/17 A2998 RMK AO2 T01830172 ROTM 251256Z 03009KT 9999 BKN045 22/16 A3017 RMK SLP202 LAST T02170156 VTCP 290400Z VRB02KT 9999 FEW025 30/19 Q1017 NOSIG KGSO 290354Z 00000KT 10SM FEW250 06/03 A3015 RMK AO2 SLP207 T00610028 EHPG 290355Z AUTO 09012KT 3000 BR BKN001 OVC003 06/06 Q1024 KCMA 290355Z 06004KT 10SM CLR 12/04 A3012 RMK AO2 SLP209 T01170044 K14Y 290355Z AUTO 26006KT 10SM CLR 02/M02 A2983 RMK AO2 CWRX 290400Z AUTO 34009KT ////SM //// NCD M23/M25 A//// KPNT 290355Z AUTO 21009KT 10SM CLR 04/01 A3010 RMK AO2 T00430006 KH71 290355Z AUTO 00000KT 10SM 06/03 A3014 RMK AO2 KROX 290355Z AUTO 26014G19KT 10SM CLR 03/ A2967 RMK AO2 TSNO PWINO GABS 290330Z 05003KT CAVOK 19/09 Q1013 NOSIG CXBI 290400Z AUTO 25007KT 02/M03 RMK AO1 SOG 06 3002 SLP155 T00171034 NFNR 230300Z AUTO 02003KT //// 25/24 Q1007 ESNO 290350Z AUTO 26004KT 9999 OVC014/// M01/M02 Q1028 MMTC 290240Z 00000KT 10SM SCT030 SCT070 BKN200 22/04 A3003 RMK SLP097 52003 907 8/572 K7W4 290355Z AUTO 00000KT 10SM CLR 04/01 A3015 RMK AO1 T00360013 KAAT 290355Z AUTO 06005KT 10SM CLR M01/M04 A3029 RMK AO2 SLP288 T10061044 KORD 290351Z 22013G21KT 10SM CLR 06/02 A3003 RMK AO2 SLP172 T00610017 $ KQES 230020Z AUTO 9999 BKN022 10/02 / RMK A02 TSNO KCQF 290355Z AUTO 03005KT BKN120 16/15 A3007 RMK AO2 PWINO YCHK 290400Z AUTO 33013KT 9999 // NCD 39/11 Q1008 RMK CYXR 290400Z AUTO 23004KT 9SM OVC026 00/M02 A2981 RMK SLP110 KMOB 290356Z 06004KT 10SM SCT085 OVC110 15/14 A3006 RMK AO2 SLP179 T01500144 EBLG 290350Z 04008KT 0200 R22L/0650N R22R/0550N R04R/0750U FG BKN001 01/00 Q1023 NOSIG SBGO 290400Z 10012KT CAVOK 24/15 Q1017 GMTN 290400Z AUTO 23008KT 14/13 Q1012 CXBK 290400Z AUTO 30019G24KT M05/M07 RMK AO1 PK WND 30028/0306 SLP242 T10531073 53033 KFRI 290356Z AUTO 24006KT 10SM CLR 06/M01 A3007 RMK AO2 SLP186 T00641013 ZUGY 290400Z VRB01MPS 9999 -RA FEW016 06/04 Q1028 NOSIG OIIP 290400Z 12008KT 1500 -RA FEW020 SCT035 OVC090 04/03 Q1022 A3020 KCNK 290355Z AUTO 23013KT 10SM CLR 07/00 A3004 RMK AO2 SLP176 T00670000 $ BGGH 290350Z AUTO 21010KT 9999NDV SCT012/// BKN026/// M02/M03 Q1001 EPMO 290400Z 01005KT 9999 BKN008 BKN027 01/01 Q1019 KSUE 290356Z AUTO 24012G18KT 10SM CLR 06/M01 A2988 RMK AO2 SLP123 T00611006 KP60 290356Z AUTO 29003KT M12/M13 A3032 RMK AO1 SLP332 T11171128 YROM 290400Z AUTO 34011KT 9999 // NCD 38/M03 Q1009 RMK VELP 290400Z 00000KT 5000 HZ NSC 26/16 Q1018 NOSIG KLOM 290355Z AUTO 00000KT 10SM CLR 02/M01 A3014 RMK AO2 T00161008 UKWW 290400Z 00000MPS 3800 BR OVC006 M01/M01 Q1017 NOSIG KBMC 290355Z AUTO 00000KT 10SM CLR M02/M07 A3035 RMK AO1 T10241069 YMND 282200Z AUTO 31011KT 9999 // NCD 33/10 Q1003 RMK DTTK 290400Z 23006KT 8000 SCT023 SCT030 14/07 Q1004 CYKG 282200Z 31025G32KT 8SM -SN DRSN FEW010 OVC024 M10/M14 A2953 RMK ST2SC6 SNW CVR/MED PACK/LAST STFD OBS/NXT OBS 291300 UTC SLP017 YJAB 290400Z AUTO 02007KT 360V060 9999 // NCD 38/19 Q1004 RMK EEEI 271450Z 36011KT 9999 -RA BKN018 OVC030 02/M00 Q1015 R06/190095 TEMPO 5000 SNRA BKN015 KEDU 290355Z AUTO 29003KT 10SM CLR 05/M01 A3020 RMK AO1 EBBE 290355Z AUTO 06008KT 2000 BR BKN002/// 02/02 Q1023 AMB EICK 290400Z 06006KT 1800 BR FEW001 BKN002 BKN010 10/10 Q1023 NOSIG LBWB 271200Z 18010KT 9999 SKC 12/08 Q1020 UTSS 290400Z 14012KT 9999 NSC 01/M04 Q1034 R09/CLRD70 NOSIG SVJM 290402Z AUTO 36003KT NCD 23/23 Q1014 DNYO 261200Z 12013KT CAVOK 37/08 Q1010 NOSIG LEBZ 290400Z AUTO 14003KT 9999 0600NW BCFG NSC 10/10 Q1010 K20V 290355Z AUTO 00000KT 10SM CLR M10/M12 A3026 RMK AO2 WMKM 290400Z VRB03KT 9999 FEW020 30/24 Q1011 KVKS 290355Z AUTO 00000KT 10SM FEW010 11/11 A3009 RMK A01 SPJR 282100Z 14010KT 9999 -RA SCT023 BKN043 16/12 Q1024 RMK PPTRZ YBPN 290400Z AUTO 13011KT 9999 // NCD 31/15 Q1010 RMK KPGV 290355Z AUTO 00000KT 3SM BR CLR 07/07 A3016 RMK AO2 FASB 280755Z 26010KT 9999 FEW010 16/06 Q1019 SUCA 282200Z 30009KT 9999 SCT040 BKN100 20/17 Q1007 MMDO 290152Z 26006KT 10SM SCT200 17/M10 A3012 RMK 8/001 NZPM 290400Z 36007KT 33KM FEW045 BKN060 18/15 Q1000 RMK AUTO VATSIM USE ONLY OIKB 290400Z 04006KT 9999 FEW030 BKN190 19/13 Q1019 A3010 NOSIG KTCS 290353Z AUTO 31003KT 10SM CLR 07/M08 A3018 RMK AO2 SLP194 T00671078 $ KCCR 290353Z 17003KT 10SM CLR 08/01 A3019 RMK AO2 SLP209 T00830006 SBPF 272300Z 10016KT 9999 FEW010 SCT020 21/20 Q1017 LFBO 290400Z AUTO 06005KT CAVOK 10/08 Q1013 TEMPO 0300 FG VV/// USSS 290400Z 11001MPS 4400 BR FEW002 M22/M25 Q1047 R26R/410250 NOSIG RMK QFE764/1018 VIAR 290330Z VRB02KT 1300 R34/2000 BR FEW040 SCT100 12/09 Q1020 NOSIG CWWK 290400Z AUTO 02003KT RMK AO1 SOG 01 8007 FZIC 281500Z 00000KT 9999 SCT013 BKN300 25/21 Q1010 NOSIG K57C 290355Z AUTO 22007KT 10SM CLR 05/01 A2997 RMK AO2 T00500010 ENRO 290350Z AUTO 00000KT 9999NDV BKN002/// M20/M23 Q1027 KGKT 290355Z AUTO 00000KT 10SM CLR 04/04 A3013 RMK A01 SBSG 290400Z 24003KT 210V290 9999 SCT021 24/22 Q1013 KMKN 290355Z AUTO 31006KT 10SM OVC024 06/06 A3013 RMK AO2 T00620062 KKNB 290355Z AUTO 07005KT 10SM CLR M04/M16 A3028 RMK A01 LFSG 290400Z AUTO 03011KT 3200 BR OVC002 01/01 Q1018 OICM 290400Z 12002KT 5000 BR SCT035 OVC070 15/14 Q1014 MUGM 290351Z 33008KT 10SM FEW030 SCT060 24/19 A3000 RMK AO2 SLP160 T02390194 $ KPVW 290355Z AUTO 02007KT 10SM -RA OVC046 02/00 A3010 RMK AO2 T00190003 KRLD 290355Z AUTO 00000KT 7SM CLR 00/00 A3043 RMK AO2 T00011002 LMML 290345Z 26010KT 9999 FEW039 17/10 Q1008 NOSIG RJOM 290400Z 28004KT 200V360 9999 FEW030 SCT040 BKN060 13/04 Q1023 KCKN 290355Z AUTO 30018G22KT 10SM CLR A2978 RMK AO2 FNUE 281500Z 36006KT 9999 TS BKN020 FEW031CB 22/19 Q1014 LRTM 290400Z AUTO 00000KT 4400 SG SCT004/// M00/M01 Q1020 CYBD 290100Z 00000KT 3SM BR FEW003 SCT018 OVC028 01/01 A3033 RMK SF1SC2SC5 WND EST LAST STAFFED OBS/NXT 291500 VIA CYXY SLP275 KSPF 290355Z AUTO 29007KT 10SM CLR 01/M10 A3019 RMK AO2 PWINO EPPR 290400Z 10004KT 9999 -SHRA BKN020 02/00 Q1023 RMK 023 086 7/7= KGYF 290355Z AUTO 16018KT 10SM SCT016 25/22 A2992 RMK AO2 T02510218 PAMD 290359Z AUTO 11015KT 10SM FEW015 BKN025 OVC100 04/01 A2888 RMK AO2 KSCX 290355Z AUTO 00000KT 10SM CLR 02/01 A3015 RMK A01 ENDU 290350Z AUTO 14005KT 090V190 9999 FEW031/// OVC057/// 06/M00 Q1016 RERA RMK WIND 1100FT 18015KT WIND 2200FT 21032KT CWXC 290200Z AUTO 18002KT M01/M02 RMK AO1 T10091015 KISM 290356Z AUTO 00000KT 10SM CLR 20/18 A3004 RMK AO2 SLP173 T02000178 $ CYNE 290400Z AUTO 34011G21KT 1 1/2SM -SN OVC028 M07/M08 A2988 RMK SLP138 KEDJ 290355Z AUTO 00000KT 10SM CLR 00/M02 A3016 RMK AO1 SBCX 281200Z 03006KT CAVOK 24/18 Q1020 VOTV 290400Z 00000KT 6000 FEW015 32/23 Q1012 NOSIG KORB 290353Z AUTO 15003KT 10SM CLR M01/M04 A2967 RMK AO2 DNIL 282300Z 00000KT CAVOK 25/22 Q1013 WMKC 290400Z 36003KT 310V040 9999 SCT018 29/24 Q1011 KGCN 290354Z 00000KT 10SM CLR M08/M17 A3025 RMK AO2 SLP273 T10781172 LDZA 290400Z 00000KT 9999 -RA SCT005 OVC014 01/00 Q1022 NOSIG SCIC 290400Z AUTO 20007KT 9999 NCD 16/08 Q1018 KAXH 290355Z AUTO 13006KT 7SM DZ OVC008 19/18 A3001 RMK AO2 T01850177 YSMH 290400Z AUTO 04010KT 9999 // NCD 30/14 Q1011 RMK K2V5 290355Z AUTO 24009KT 10SM CLR 01/M03 A3001 RMK AO2 KT41 290355Z AUTO 12013KT 10SM SCT010 BKN050 OVC070 18/18 A3000 RMK AO2 P0002 T01840177 SPHI 290000Z 18019KT CAVOK 20/15 Q1011 RMK BIRD HAZARD RWY 19/01 PP000 KA39 290355Z AUTO 00000KT 10SM CLR 10/M03 A3015 RMK AO2 HESG 290300Z 35006KT CAVOK 11/05 Q1018 NOSIG KVCT 290351Z 36005KT 10SM OVC012 18/17 A3003 RMK AO2 RAB02E37 SLP165 P0000 T01780167 $ HTMW 290300Z 00000KT 9999 TS FEW019 FEW020CB SCT090 20/19 Q1016 NOSIG LTDA 290350Z 35001KT 0800 R22/0600N R04/0800U FG NSC 04/04 Q1021 BECMG TL0450 1200 BCFG KGGE 290355Z AUTO 00000KT 1/2SM FG VV005 10/09 A3013 RMK AO2 KHMP 290355Z AUTO 00000KT 7SM CLR 10/10 A3014 RMK AO2 T00980096 CWPO 290400Z AUTO 32018G27KT M01/M04 RMK AO1 PRESRR PK WND 33028/0309 SLP150 T10111039 53060 WAHQ 290300Z 21006KT 8000 FEW015 28/23 Q1010 NOSIG KQEQ 290410Z AUTO 30003KT 9999 SCT036 02/M07 A3042 RMK A02 TSNO KQTZ 290355Z VRB04KT 8000 BR FEW040 BKN080 14/14 A3003 RMK SLP172 YSTH 290400Z AUTO 14010KT 9999 // OVC055 16/12 Q1003 RMK LRBC 290400Z VRB01KT 5000 BR FEW005 SCT013 BKN020 02/02 Q1019 KVTI 290355Z AUTO 21009KT 10SM CLR 07/01 A2998 RMK AO2 T00700012 KMTC 290356Z 22009KT 10SM CLR 04/M03 A3003 RMK AO2A SLP179 T00391027 $ PAFA 290353Z 03003KT 10SM SCT075 BKN110 OVC150 M12/M14 A2892 RMK AO2 SLP806 T11171139 ESSA 290350Z 35005KT 0900 R01L/P1500N R19R/P1500N R01R/P1500N R19L/P1500N BR VV002 M02/M02 Q1029 R01R/19//95 R08/19//95 TEMPO FEW004 BKN020 MGMT 290000Z 00000KT CAVOK 28/24 FEW070 LFLP 290400Z AUTO 03008KT 9999 OVC011 03/01 Q1016 TEMPO OVC008 CWHP 290200Z AUTO 31004KT RMK AO1 58006 LGZA 281750Z VRB02KT 9999 SCT018 13/11 Q1018 MPMG 290400Z AUTO VRB02KT //// R01///// // FEW034/// BKN091/// 25/24 Q1011 YVRD 290400Z AUTO 23004KT 190V280 //// // ////// 40/15 Q1005 USCC 290400Z 28003MPS 3900 BR NSC M18/M20 Q1046 R27/450342 NOSIG RMK QFE764 KTPL 290401Z AUTO 32006KT 10SM BKN007 BKN015 OVC027 09/09 A3011 RMK AO2 CIG 006V010 FBSP 290300Z 00000KT CAVOK 22/21 Q1016 UAII 290400Z 09001MPS CAVOK M05/M06 Q1041 R28/320145 NOSIG RMK QFE742/0990 RKTU 290400Z 23005KT CAVOK 04/M05 Q1028 KRKW 290355Z AUTO 00000KT 10SM CLR 03/02 A3013 RMK A01 KADC 290355Z AUTO 26008KT 10SM CLR 04/M03 A2980 RMK AO2 K1BW 290358Z AUTO 32016KT 10SM CLR 02/M13 A3009 RMK AO2 SLP201 T00211128 $ LTBF 290350Z 00000KT 3200 BR NSC M02/M03 Q1021 BECMG TL0500 2000 LIPR 290350Z AUTO 29013KT 4000 BR OVC009/// 08/06 Q1014 KBPK 290353Z AUTO 00000KT 10SM CLR 06/M02 A3014 RMK AO2 SLP207 T00561022 RKTN 290400Z 32016KT 9999 FEW040 08/M06 Q1027 KMYF 290353Z 01004KT 10SM CLR 14/M04 A3010 RMK AO2 SLP193 T01441039 RJTE 272150Z 29016G26KT 9999 FEW045 SCT080 17/11 Q1008 RMK 1SC045 4AC080 A2978 KDRA 290353Z AUTO 03003KT 10SM CLR 04/M12 A3021 RMK AO2 SLP226 T00391122 KISP 290356Z 30005KT 10SM CLR 05/M01 A3009 RMK AO2 SLP190 T00501006 KCUT 290353Z AUTO 02007KT 10SM CLR 02/M13 A3009 RMK AO2 SLP186 T00171133 KFYG 290335Z AUTO 00000KT 10SM CLR 02/01 A3013 RMK AO2 K7L2 290355Z AUTO 32019G30KT 10SM CLR 04/M06 A3006 RMK AO2 KECU 290355Z AUTO 01011KT 10SM OVC003 06/06 A3015 RMK AO2 ESNV 290350Z AUTO 00000KT 9999 OVC004/// M09/M11 Q1026 KAND 290356Z AUTO 00000KT 1/4SM FG VV002 10/09 A3014 RMK AO2 SLP202 T01000094 KOGA 290355Z AUTO 29003KT 10SM CLR M04/M08 A3001 RMK AO2 T10431082 KBDU 290348Z AUTO 00000KT 10SM CLR 05/M10 A3003 RMK AO2 OTBH 290356Z 15005KT 9999 OVC140 22/19 A3006 RMK AO2A SLP181 T02220190 $ CYYF 290400Z 33003KT 15SM SKC M02/M03 A3042 RMK SLP319 KLAS 290356Z 20004KT 10SM CLR 08/M10 A3020 RMK AO2 SLP230 T00831100 KOEL 290355Z AUTO 24013KT 10SM CLR 02/00 A3007 RMK AO1 T00230000 KEVV 290354Z 00000KT 10SM CLR 02/M02 A3017 RMK AO2 SLP219 T00171022 LTAI 290350Z 32003KT 290V350 CAVOK 08/01 Q1020 NOSIG RMK RWY18C 34006KT RWY36R 31007KT RWY18L 35004KT 310V020 KRXE 290353Z AUTO 00000KT 10SM CLR M09/M12 A3038 RMK AO2 SLP360 T10941122 OMAA 290400Z 12007KT CAVOK 19/14 Q1018 NOSIG UUBP 290400Z 13002MPS 5000 BR OVC012 03/03 Q1017 R16/290150 NOSIG RMK QFE745/0993 KFMN 290353Z 36004KT 10SM CLR M04/M10 A3020 RMK AO2 SLP260 T10441100 $ FKKD 290300Z 07002KT 8000 FEW013 FEW016CB 25/25 Q1010 NOSIG PAMH 290356Z AUTO 00000KT 10SM OVC110 M09/M13 A2890 RMK AO2 SLP797 T10941128 FZRANO CYGK 290400Z 26011G19KT 15SM FEW120 05/01 A3000 RMK AC2 LAST STFD OBS/NXT 291100Z SLP164 VELR 290300Z 07005KT 7000 21/15 Q1020 ETSN 290320Z 03004KT 8000 BKN025 M01/M02 Q1021 BLU DNCA 281400Z VRB02KT 6000 SCT012 31/25 Q1009 DTTD 290400Z AUTO 25012G22KT 200V280 NCD 13/00 Q1012 KMTN 290355Z AUTO 00000KT 10SM CLR 04/00 A3016 RMK AO2 VOTK 290400Z 02008KT 5000 HZ SCT020 SCT100 29/24 Q1014 NOSIG CWKG 290300Z AUTO 30002KT 02/02 RMK AO1 SLP115 T00230023 53004 CYIK 282200Z 35015KT 7SM -SN DRSN FEW015 SCT021 BKN028 OVC034 M09/M13 A2974 RMK ST2SC1SC2SC2 SN CVR HARD PACK LAST STFD OBS/NEXT 291300UTC SLP078 YKSC 290400Z AUTO 15009KT 9999 // BKN041 OVC046 20/10 Q1015 KVIH 290353Z AUTO 17006KT 10SM CLR 05/M02 A3014 RMK AO2 SLP209 T00501022 KARA 290353Z AUTO 00000KT 10SM OVC008 18/17 A3007 RMK AO2 RAB12E22 CIG 006V011 SLP182 P0000 T01780172 K3T5 290355Z AUTO 32015G20KT 4SM RA OVC004 14/14 A3004 RMK AO2 P0002 T01420142 KI68 290355Z AUTO 00000KT 10SM CLR 03/M01 A3018 RMK AO1 T00311008 VVCR 290400Z 04014KT 2500 +RA FEW007 SCT010 FEW015CB BKN040 25/24 Q1014 NOSIG LEAG 290400Z AUTO 21006KT 120V270 9999 -RA NCD 15/12 Q1013 KGXF 290403Z AUTO 14005KT 2SM HZ CLR 10/M07 A3009 RMK AO2 SLP188 ESCF 290350Z AUTO 32005KT 8000 -SN FEW006/// OVC013/// M01/M02 Q1029 LYTV 290400Z 21002KT 9999 SCT046 OVC080 10/09 Q1014 LHSM 290345Z AUTO 30007KT 1400 BR VV002 M01/M01 Q1022 NCSW 290400Z AUTO 10001KT //// ////// 27/25 Q1009 EPLY 290400Z AUTO 33002KT 02/01 Q1020 RMK 020 095 8/6= K79J 290356Z AUTO 02003KT 10SM OVC021 17/13 A3007 RMK AO2 SLP180 T01720133 FZWA 281600Z 00000KT 9999 FEW022 FEW028CB BKN300 27/21 Q1011 NOSIG KGRR 290353Z 20006KT 10SM CLR 03/00 A3003 RMK AO2 SLP174 T00330000 SPTN 281900Z 23008KT 170V280 9999 FEW033 SCT230 24/15 Q1014 RMK PP000 BGBW 290350Z AUTO 00000KT 9999NDV BKN018/// BKN021/// M01/M05 Q1006 SCJO 290400Z AUTO 35002KT CAVOK 05/05 Q//// KLVK 290353Z AUTO 09003KT 10SM CLR 08/M01 A3019 RMK AO2 SLP223 T00781011 KLHQ 290353Z AUTO 00000KT 6SM BR CLR M02/M03 A3018 RMK AO2 SLP228 I1001 T10171033 $ KDTA 290355Z AUTO 07011KT 10SM CLR M03/M09 A3031 RMK AO1 SBTT 282200Z 01004KT 9999 FEW025 SCT100 28/23 Q1007 MMCP 290341Z 10005KT 7SM SCT080 25/22 A2997 RMK 8/030 DABS 290400Z 28017KT 9999 SCT030 10/04 Q1006 PAGA 290356Z AUTO 32003KT 10SM CLR M12/M13 A2910 RMK AO2 SLP860 T11171133 FZRANO EGJJ 290350Z AUTO 08012KT 9999 NCD 08/06 Q1020 EGWC 251550Z 29001KT 9999 FEW022 07/05 Q1015 RMK BLU LFOJ 290400Z AUTO 04001KT CAVOK 01/M00 Q1018 NCPL 290400Z AUTO 03001KT //// ////// 30/25 Q1011 KOXI 290355Z AUTO 21009KT 10SM CLR 03/00 A3009 RMK AO1 KAMA 290353Z 31004KT 10SM OVC012 02/01 A3009 RMK AO2 SLP198 T00170006 CWFF 290400Z AUTO 30007KT M10/M13 RMK AO1 SOG 32 3035 SLP231 T10951130 EGQL 290350Z 29002KT 7000 BR OVC027 01/01 Q1025 RMK WHT LICJ 290350Z 16008KT CAVOK 15/09 Q1006 FMCZ 290400Z AUTO 35006KT 310V020 CAVOK 28/23 Q1012 TEMPO 02015G25KT 4000 TSRA FEW015CB SCT020TCU ETHN 290320Z 10007KT 9999 OVC007 M02/M03 Q1021 GRN KRDU 290351Z 00000KT 10SM CLR 06/05 A3014 RMK AO2 SLP207 T00610050 KCNI 290355Z AUTO 00000KT 10SM CLR 08/07 A3013 RMK AO2 VOAT 290400Z 11004KT 6000 FEW015 29/24 Q1012 NOSIG KQEJ 290410Z AUTO 25003G10KT 9999 SCT046 02/M09 A3029 RMK A02 TSNO KDXR 290353Z AUTO 00000KT 10SM CLR 00/M02 A3009 RMK AO2 SLP192 T00001017 K3F3 290355Z AUTO 06005KT 10SM OVC014 11/09 A3012 RMK AO2 T01100085 KLNP 290355Z AUTO 00000KT 10SM CLR 02/00 A3016 RMK AO2 SAAP 281530Z 16019KT 2000 TSRA FEW050CB OVC050 22/20 Q1011 KESC 290356Z AUTO 25006KT 10SM CLR 01/M03 A2984 RMK AO2 SLP114 T00111028 FZRANO SBLO 290400Z 14002KT CAVOK 25/20 Q1017 ESIB 290350Z AUTO 18003KT 9999 SCT007/// OVC010/// M00/M01 Q1030 OIAM 290400Z 04006KT 5000 BR SCT030CB BKN035 17/16 Q1016 RESH EGLF 290350Z AUTO 04007KT 010V080 5000 HZ OVC006/// 09/07 Q1023 KUNI 290355Z AUTO 00000KT 10SM CLR M02/M02 A3019 RMK AO2 T10181018 YBBN 290400Z 03020KT CAVOK 28/20 Q1009 KCCU 290355Z AUTO CLR M04/M15 A3025 RMK AO2 PWINO KTPH 290356Z AUTO 35009KT 10SM CLR 02/M13 A3026 RMK AO2 SLP263 T00221133 KRNH 290355Z AUTO 22009KT 10SM CLR 04/M01 A2986 RMK AO2 T00351011 UHMM 290400Z 35004G09MPS 9999 NSC M09/M20 Q1011 R10/92//50 NOSIG RMK QFE744 R28/02005MPS OEKM 290400Z 00000KT CAVOK 13/10 Q1024 NOSIG PANC 290353Z 00000KT 10SM BKN050 BKN070 OVC110 M02/M06 A2885 RMK AO2 SLP773 T10171061 $ HTSO 290300Z 07008KT 9999 FEW018 18/15 Q1014 CYLJ 290000Z 27012KT 15SM SKC M09/M13 A3006 RMK LAST STFD OB/NXT291200UTC SLP213 KSBM 290353Z AUTO 23012KT 10SM CLR 08/01 A2992 RMK AO2 SLP136 T00780011 KIMS 290355Z AUTO 00000KT 10SM CLR 00/00 A3018 RMK AO1 KGYL 290355Z AUTO 22005KT 10SM CLR 03/M01 A2989 RMK AO2 T00331011 SYCJ 290400Z 10004KT 9999 FEW016 BKN100 25/25 Q1013 NOSIG KBRG 290355Z AUTO 00000KT 10SM CLR 00/M02 A3020 RMK AO2 T00031023 OIBJ 290400Z 00000KT 9999 SCT040 17/14 Q1021 A3016 KCOE 290356Z AUTO 09003KT 10SM CLR M03/M04 A3040 RMK AO2 SLP335 T10281044 FZRANO KSLH 290355Z AUTO 21007KT 10SM CLR 05/00 A2985 RMK AO2 LELL 290400Z AUTO 33003KT 300V020 9999 FEW066 10/09 Q1012 LFRD 290400Z AUTO 09008KT 9000 NSC 06/04 Q1019 TEMPO 0500 FG KBAB 290358Z AUTO 09004KT 10SM CLR 06/01 A3017 RMK AO2 SLP220 T00580006 FZRANO $ KMTW 290356Z AUTO 25008KT 10SM CLR 07/01 A2991 RMK AO2 SLP132 T00670011 HTKJ 290300Z 00000KT 9999 BKN024 19/19 Q1017 NOSIG RJSY 290400Z 25011KT 9999 -SHRA FEW005 SCT030 BKN050 09/03 Q1021 UTNN 290400Z 05012KT 8000 OVC003 M02/M03 Q1042 R33/CLRD60 NOSIG RMK BASE330 KCKI 290355Z AUTO 00000KT 4SM BR CLR 08/07 A3013 RMK AO2 NCAT 290400Z AUTO 07003KT //// ////// ///// Q//// KDUJ 290353Z AUTO 22004KT 10SM CLR 00/M05 A3010 RMK AO2 SLP208 T00001050 FTTY 281500Z 06006KT CAVOK 31/// Q//// LIMK 271055Z 00000KT CAVOK 06/02 Q1021 RMK SKC VAL FOSCHIA SKC SUP VIS MIN 9999 KMLC 290353Z AUTO 01007KT 10SM SCT095 OVC120 10/01 A3011 RMK AO2 SLP195 T01000011 KGAF 290315Z AUTO 30016G23KT 10SM CLR 05/M02 A2976 RMK AO2 PWINO MNRS 282300Z 12004KT CAVOK 28/24 Q1009 FDMS 260900Z VRB02KT 9999 SCT035 23/16 Q1018 NOSIG SBNT 290300Z 14010KT 9999 FEW025 26/22 Q1013 EGBB 290350Z 10003KT 1000 R15/P1500 BR OVC002 07/07 Q1024 LIBN 290355Z 15010KT 7000 RA OVC020 14/14 Q1011 RMK OVC VIS MIN 7000 WIND THR14 15009KT WIND THR32 15009KT WHT KRZR 290355Z AUTO 00000KT 9SM CLR 04/04 A3011 RMK A01 EGVO 290350Z AUTO 03007KT 4100 HZ OVC005/// 08/07 Q1023 KQN3 290356Z AUTO 00000KT 9999 CLR 24/12 A2987 RMK AO2 SLP104 WND DATA ESTMD T02420121 CYWL 290400Z 12006KT 15SM BKN110 M02/M05 A3022 RMK AC6 SLP284 K20U 290355Z AUTO 33013G19KT 10SM CLR M04/M07 A3023 RMK AO2 K4MR 290358Z AUTO 16005KT 10SM FEW070 01/01 A3010 RMK AO2 SLP198 T00130005 $ SBUR 290000Z 07009KT CAVOK 27/12 Q1019 YSTW 290400Z AUTO 32021G35KT 9999 // NCD 39/08 Q1007 RF00.0/000.0 YWBR 290400Z AUTO 09008KT 060V130 //// // ////// 34/12 Q1010 OIMB 290400Z 08010KT 9999 FEW040 BKN100 12/M06 Q1025 AYNZ 290300Z 21007KT 9999 SCT050 33/21 Q1005 DIAP 290400Z 19004KT 9000 FEW011 BKN040 25/24 Q1010 TEMPO 2000 BR KO69 290355Z AUTO 00000KT 10SM CLR 05/00 A3020 RMK A01 MUI 282330Z AUTO 31028KT 9999 // NCD 29/08 Q1011 RMK OIIK 290400Z 11004KT 3000 RA BKN040 OVC100 03/03 Q1023 KSAD 290351Z AUTO 11007KT 10SM CLR 06/M07 A3015 RMK AO2 SLP206 T00561067 KS21 290355Z AUTO 00000KT 10SM CLR M04/M06 A3036 RMK AO2 KSLB 290355Z AUTO 23009KT 10SM CLR 03/00 A2992 RMK AO2 KIGQ 290355Z AUTO 22007KT 10SM CLR 03/01 A3008 RMK AO2 T00270005 YMER 290402Z AUTO 20019G29KT 9999 // NCD 26/12 Q1002 CWAQ 290400Z AUTO 31017KT M04/M07 RMK AO1 PK WND 31027/0346 SLP264 T10361071 52036 KSPD 290356Z AUTO 23005KT M02/M02 A3006 RMK AO1 SLP184 T10171022 UTO8 M M M 045/-20/-23/2916/M/ PK WND 2918 0234Z SOG 35 1018 57MM KHHG 290355Z AUTO 22005KT 10SM CLR 02/M05 A3014 RMK AO2 T00211046 KOSA 290355Z AUTO 09006KT 10SM SCT028 BKN043 11/04 A3010 RMK AO1 T01100035 CWIJ 290300Z AUTO 00000KT M20/M22 RMK AO1 SOG 15 SLP086 T12021215 LPMA 290400Z 30005KT 9999 SCT015 14/08 Q1012 RJCC 290400Z 28008KT 250V310 9999 FEW030 BKN050 05/M05 Q1018 RMK 1CU030 5CU050 A3007 KRUT 290356Z AUTO VRB04KT 10SM CLR 02/M01 A3000 RMK AO2 SLP162 T00221011 FZRANO PNO $ CYMO 290400Z AUTO 25006KT 9SM -SN FEW020 BKN039 BKN049 OVC065 M02/M03 A2974 RMK SLP077 KMJX 290356Z AUTO 00000KT 10SM CLR M01/M02 A3013 RMK AO2 SLP206 T10111022 FZRANO KPEZ 290355Z AUTO 35007KT 10SM OVC022 13/12 A3008 RMK AO2 T01300117 CXAJ 290400Z AUTO 22005KT M08/M10 RMK AO1 SOG 12 T10821102 KCBF 290355Z AUTO 20009G14KT 10SM CLR 07/M01 A2997 RMK AO2 KFIN 290355Z AUTO 02005KT 10SM SCT009 BKN029 20/19 A3004 RMK AO2 T02020194 LBWN 290400Z 00000KT 2300 BR OVC007 05/04 Q1018 NOSIG LPPS 290400Z 29010KT 9999 SCT014 FEW016CB 15/09 Q1012 KGGG 290353Z AUTO 09006KT 10SM BKN018 OVC026 09/07 A3008 RMK AO2 RAE41 SLP186 P0001 T00890067 ESCM 290350Z AUTO 35004KT 0900 0600// R03/P2000N R21/1700D BR VV001 M02/M02 Q1029 LFOH 290400Z AUTO 07004KT CAVOK 05/03 Q1021 RKNW 252247Z 35001KT 4800 BR BKN200 M03/M03 A3037 RMK CIG200 KCWN 290358Z AUTO 32007KT 10SM CLR 03/M13 A3002 RMK AO2 SLP064 T00341129 PWINO $ MMPB 290145Z 21005KT 9SM SKC 14/02 A3027 RMK HZY YCNK 282200Z AUTO 33012KT //// // ////// 32/11 Q1002 RMK ENAL 290350Z AUTO 18006KT 9999 FEW045/// 06/02 Q1025 KMSO 290353Z 00000KT 10SM OVC055 M01/M03 A3037 RMK AO2 SLP326 T10061028 LGSA 290350Z 00000KT 9999 FEW020 09/09 Q1018 KAIT 290355Z AUTO 23008KT 10SM CLR 06/M03 A2976 RMK AO2 EGLC 290350Z AUTO VRB03KT 2800 BR SCT002 OVC006 09/09 Q1024 KOAJ 290356Z AUTO 03003KT 10SM CLR 08/07 A3015 RMK AO2 SLP211 T00830072 KSAZ 290355Z AUTO 26009KT 10SM CLR 06/M03 A2981 RMK AO2 KLWA 290355Z AUTO 22010G18KT 10SM CLR 07/02 A3005 RMK AO2 T00650018 KGFL 290353Z AUTO 17005KT 10SM CLR 02/M03 A3003 RMK AO2 SLP174 T00221028 KO32 290350Z AUTO 00000KT 10SM CLR 08/00 A3020 RMK AO2 MMOX 290147Z 01002KT 7SM SCT210 22/02 A3015 RMK 8/006 MHYR 290000Z 00000KT 9999 SCT023 25/19 MMEP 290041Z 00000KT 8SM FEW250 22/19 A3002 RMK 8/001 ZSNJ 290400Z VRB02MPS CAVOK 08/01 Q1033 NOSIG KLQK 290355Z AUTO 00000KT 10SM CLR 06/06 A3013 RMK AO2 T00580058 KSEF 290355Z AUTO 20003KT 10SM CLR 20/17 A3004 RMK AO2 T01960169 KCGZ 290356Z AUTO 00000KT 8SM CLR 10/M04 A3012 RMK AO2 SLP201 T01001039 KGBG 290355Z AUTO 20007KT 10SM CLR 02/M02 A3007 RMK AO2 P0055 T00161022 PLCH 290400Z 10008KT 9999 FEW020 SCT040 26/21 Q1010 KMLT 290353Z AUTO 00000KT 10SM CLR M01/M02 A2989 RMK AO2 SLP130 I1000 T10111017 CWJI 290400Z AUTO 29017KT M05/M09 RMK AO1 SOG 03 3034 PK WND 30025/0316 SLP274 T10531088 UMKK 290400Z 06005MPS 9999 BKN015 02/M00 Q1023 R06/CLRD95 NOSIG RMK QFE766/1021 LFLU 281800Z AUTO 02007KT CAVOK 07/04 Q1012 SPGM 282000Z 03004KT 9999 FEW040 SCT100 31/21 Q1010 RMK PP000 KABQ 290352Z 02006KT 10SM CLR 03/M09 A3018 RMK AO2 SLP221 T00331089 NCMG 290400Z AUTO 05003KT //// ////// ///// Q//// CYVL 290400Z AUTO 00000KT 9SM CLR M24/M26 A2935 RMK SLP978 YLBD 290400Z AUTO 28010KT 9999 // NCD 33/25 Q1007 RMK VVCI 290400Z 04004KT CAVOK 21/12 Q1023 NOSIG KDAB 290353Z 03005KT 10SM BKN120 22/22 A3003 RMK AO2 SLP167 T02220217 CXFR 290400Z AUTO 21008KT M06/M09 RMK AO1 T10551090 LIMZ 290350Z AUTO 26003KT 3600 BR FEW022/// SCT026/// 04/03 Q1017 KRCE 290355Z AUTO 34006KT 7SM -RA FEW003 SCT035 OVC044 05/04 A3015 RMK AO2 KSRB 290355Z AUTO 00000KT 6SM BR CLR M01/M01 A3013 RMK A01 KC29 290355Z AUTO 00000KT 10SM CLR 06/01 A2996 RMK AO1 T00570005 KSJS 290355Z AUTO 00000KT 10SM CLR 03/01 A3017 RMK AO2 T00260007 PNO PADG 290059Z 02018KT 15SM FEW100 M15/M19 A2925 RPVP 290400Z 09010KT 9999 FEW019 OVC240 31/26 Q1009 RMK A2980 EGQS 290350Z 00000KT CAVOK M01/M02 Q1024 RMK BLU SACO 290400Z 01003KT 350V050 CAVOK 18/18 Q1013 NOSIG CYYG 290400Z 31004KT 15SM FEW070 BKN140 01/01 A2981 RMK AC2AC3 SLP099 YPEA 290400Z AUTO 25016KT 9999 // NCD 24/09 Q1010 SCGZ 271900Z 28024G35KT 9999 VCSH SCT040 BKN050 07/02 Q0976 RESHRA RESHGR LEMO 290400Z 18006KT 150V230 9999 -SHRA FEW020CB FEW023 14/13 Q1011 NOSIG MUSC 290350Z 11002KT 9000 SKC 20/19 Q1017 YBWP 290400Z AUTO 10005KT 070V140 9999 // SCT049 BKN073 BKN097 34/21 Q1005 KNBT 290356Z AUTO A3014 RMK AO2 SLP212 PWINO $ BIKF 290400Z 05014KT 9999 -RA OVC010 02/01 Q0992 LFBA 290400Z AUTO VRB02KT 9000 NSC 03/03 Q1013 CWNC 290400Z AUTO 26018G26KT 06/02 RMK AO1 SOG 01 1009 PK WND 25029/0304 SLP163 T00560019 PHSF 290358Z AUTO 22003KT 10SM CLR 11/07 A3027 RMK AO2 SLP167 T01070070 $ PAPC 241950Z 360004KT 20SM FEW100 M24/ A2959 RMK LAST TLPC 290000Z 10006KT 9999 FEW021 26/24 Q1013 NOSIG KLVL 290355Z AUTO 00000KT 10SM CLR 05/04 A3015 RMK AO1 T00470042 MRPV 290000Z 34003KT 9999 -DZ BCFG SCT010 BKN030 21/20 A2999 NOSIG KSHV 290356Z 08009KT 10SM OVC021 11/04 A3009 RMK AO2 SLP187 T01110039 EPPO 290400Z 25009KT 9999 OVC011 03/02 Q1022 LIVR 290355Z 34003KT CAVOK M01/M03 Q1012 RMK SKC MON LIB VIS MIN 9999 SBCO 290300Z 09004KT 9999 FEW040 FEW045TCU SCT100 21/19 Q1010 KGPZ 290356Z AUTO VRB03KT 10SM CLR 03/M03 A2976 RMK AO2 SLP091 T00331028 URMM 290400Z VRB01MPS 9000 OVC010 M01/M02 Q1024 R12/090070 NOSIG RMK MT OBSC QFE740/0986 KSDM 290353Z 13003KT 10SM CLR 11/M02 A3010 RMK AO2 SLP192 T01111017 KJST 290354Z AUTO 25005KT 10SM CLR 01/M06 A3011 RMK AO2 SLP214 T00061056 KMGR 290350Z AUTO 07003KT 10SM OVC012 16/15 A3009 RMK AO2 K42J 290355Z AUTO VRB05KT 10SM OVC004 17/17 A3005 RMK A01 TSNO KMG 290400Z AUTO 17015KT 9999 // SCT017 BKN024 BKN044 14/11 ESOE 290350Z 31004KT 270V340 9000 -SN OVC006 M02/M02 Q1030 FVJN 281500Z 12010KT CAVOK 26/17 Q1018 CPFI 290400Z AUTO 21005KT M04/M06 RMK AO1 T10351059 KPBX 290355Z AUTO 01004KT 10SM CLR 04/00 A3018 RMK AO2 T00440000 LFOB 290400Z AUTO 29003KT 3000 BR NSC 00/00 Q1020 BECMG 0200 FG VV/// NZDN 290400Z 13011KT 110V170 16KM SCT060 15/09 Q1002 RMK SWAMPY 18014KT AUTO VAT NZMC 290400Z 09007KT 040V130 19KM FEW026 OVC041 14/08 Q1003 RMK AUTO NZTU VATSIM KAYS 290355Z AUTO 03007KT 5SM HZ OVC003 15/12 A3009 RMK AO2 T01480122 KSIY 290353Z AUTO 06005KT 10SM CLR M01/M04 A3030 RMK AO2 SLP297 T10111039 DTMB 290400Z 20014KT 8000 NSC 13/06 Q1005 CYQH 290400Z 13006KT 100V180 20SM BKN180 M06/M08 A2940 RMK CI6 SLP015 KPDX 290405Z 33003KT 10SM BKN007 OVC014 07/05 A3036 RMK AO2 T00670050 CXMY 290400Z AUTO 04/03 RMK AO1 T00410031 50002 KBRO 290353Z 30010KT 10SM OVC007 20/17 A2996 RMK AO2 SLP145 T02000172 $ YNTN 290400Z AUTO 16004KT 9999 // SCT070 SCT082 36/18 Q1006 KARR 290352Z AUTO 20009KT 10SM CLR 04/02 A3004 RMK AO2 SLP177 T00390017 KRQE 290353Z AUTO 02003KT 10SM CLR M01/M12 A3023 RMK AO2 SLP232 T10061122 TSNO KCIR 290355Z 10SM CLR 01/M02 A3017 RMK AO2 T00141021 KGNR 290356Z AUTO 29009G16KT 260V330 02/M02 A2983 RMK AO1 SLP115 T00171022 YCOE 290400Z AUTO 09010KT //// // ////// 31/20 Q1007 RMK KQYD 241755Z AUTO 10/M21 A3044 RMK AO2 SLP308 WND DATA ESTMD T01041212 10073 20012 58008 PWINO PNO TSNO $ KHKY 290353Z AUTO 00000KT 10SM CLR 10/02 A3015 RMK AO2 SLP198 T01000017 K0E0 290355Z AUTO 32008KT 10SM CLR M01/M06 A3016 RMK AO2 T10071065 LESB 290400Z AUTO 04003KT 350V100 9999 FEW040/// 12/11 Q1010 KNRS 290356Z AUTO 10SM CLR A3011 RMK AO2 SLP197 $ ENAN 290350Z AUTO 23015KT 9000 DZ ///040/// 06/04 Q1015 CWER 290400Z AUTO 24008KT RMK AO1 KDGW 290353Z AUTO 29005KT 10SM CLR M02/M13 A3016 RMK AO2 SLP243 T10171128 K5H4 290355Z AUTO 31024G30KT 10SM OVC019 M01/M04 A3001 RMK AO2 PAJZ 290356Z AUTO 30005KT 9SM OVC017 M04/M06 A2890 RMK AO2 SNE34 SLP794 P0000 T10391061 FZRANO $ KCGF 290345Z 22006KT 20SM CLR 03/M03 A3011 KGLW 290355Z AUTO 00000KT 10SM CLR 00/M01 A3018 RMK AO2 T10011015 401151004 OIMQ 290400Z 07008KT 9999 FEW035 BKN190 07/03 Q1028 YMOG 290400Z AUTO 32018KT 260V330 9999 // NCD 36/M02 Q1007 RMK ENHF 290350Z 23009KT 9999 SCT048 04/M01 Q1012 RMK WIND 1254FT 21016KT PGSN 290354Z 09018KT 10SM FEW021 SCT029 31/26 A2979 RMK AO2 SLP109 T03060261 $ CYKD 280400Z 12003KT 15SM BKN040 M19/M21 A2969 RMK SC6 SLP056 ETEB 290356Z AUTO 09006KT 9999 OVC017 M02/M02 A3018 RMK AO2 SLP263 T10161016 $ SBSR 290300Z 13005KT 9999 FEW030 27/15 Q1017 PAVD 290356Z 08004KT 7SM FEW001 BKN019 OVC055 M01/M02 A2903 RMK AO2 SNE55 SLP829 P0000 T10111017 SESA 282300Z 24006KT 9999 BKN013 23/19 Q1010 RMK A2983 PAAD 290355Z AUTO 05012KT 10SM BKN003 OVC024 M15/M16 A2949 RMK AO2 T11501165 KHBI 290355Z AUTO 00000KT 10SM CLR 07/03 A3018 RMK AO2 T00720034 EGYD 290350Z AUTO 14003KT 0350 // VV/// 07/07 Q1024 CYMH 290400Z AUTO 33004KT 300V360 9SM OVC008 M02/M03 A2983 RMK SLP102 WMKB 290400Z VRB02KT 9999 FEW020 30/24 Q1011 NOSIG EHVK 290410Z AUTO 08011KT 050V120 5000 BR FEW006 BKN008 OVC009 02/00 Q1024 GRN CWGX 290400Z AUTO 11002KT M15/M17 RMK AO1 SOG 41 1016 SLP147 T11481168 URFF 290400Z 14004MPS CAVOK 04/00 Q1019 R19/090095 NOSIG DXXX 290400Z 00000KT 8000 FEW010 25/23 Q1011 NOSIG KGAO 290355Z AUTO 07006KT 10SM BKN010 BKN022 OVC110 18/17 A3004 RMK AO2 T01830173 KLUL 290355Z AUTO 35005KT 10SM SCT013 OVC023 13/11 A3013 RMK A02 T01270108 OMDB 290400Z 10007KT CAVOK 21/15 Q1018 NOSIG KHEQ 290355Z AUTO 27006KT 10SM CLR M02/M07 A3002 RMK AO2 KPWG 290356Z AUTO 30007KT 10SM 09/09 A3011 RMK AO2 SLP195 T00940089 $ OIZB 290400Z 31004KT CAVOK 09/03 Q1027 K24A 290355Z AUTO 13003KT 10SM CLR 08/04 A3017 RMK AO2 T00760036 MMAA 290247Z 28004KT 6SM SCT300 27/23 A2985 RMK SLP103 52021 953 8/001 HZY WMBA 290400Z VRB04KT 9999 FEW020 31/26 Q1011 PPIZ 290356Z AUTO 06017KT 8SM -SN OVC018 M13/M16 A2957 RMK AO2 SLP018 P0000 T11331161 FZRANO KMUO 290358Z AUTO 25003KT 10SM CLR M05/ A3042 RMK AO2 SLP336 $ LGRX 290350Z 07007KT 9999 FEW080 13/08 Q1015 RMK SCT180 BLU KCHS 290356Z 35003KT 8SM SCT120 12/12 A3011 RMK AO2 SLP196 T01220117 CZCP 290400Z AUTO 11009KT ////SM //// OVC004 M18/M20 A2951 VDPP 290400Z 03011KT 350V050 9999 SCT015 SCT040 28/21 Q1012 LKNA 290400Z 31008KT CAVOK M01/M03 Q1020 NOSIG RMK BLU BLU LIVO 281755Z 00000KT CAVOK M01/M02 Q1017 RMK FEW FEW080 VIS MIN 9999 LIRT 290255Z 15008KT 0000 -RA FG VV000 07/05 Q1011 RMK MON INVIS VAL INVIS VIS MIN 0000 PTTP 290350Z 08003KT 14SM -SHRA SCT017TCU BKN120 OVC300 26/25 A2973 RMK SHRAB11 TCU ALQDS SLP068 T02630253 KSFM 290356Z AUTO 27009KT 10SM CLR 04/01 A2996 RMK AO2 SLP152 T00390006 400940006 YSRN 290400Z AUTO 23012KT 9999 // SCT028 BKN036 BKN044 16/10 PFYU 290356Z 00000KT 10SM CLR M21/M23 A2914 RMK AO2 SLP889 T12061228 KGRY 290355Z AUTO 11013KT 7SM SCT016 SCT025 OVC075 24/21 A3000 RMK A01 KBYL 290355Z AUTO 00000KT 4SM FEW120 00/00 A3016 RMK AO1 KVQQ 290150Z 36008KT 10SM BKN004 17/16 A3005 YWLM 290400Z AUTO 31021G34KT 9999 // NCD 40/10 Q0998 K18H 290355Z AUTO 00000KT 6SM HZ SCT018 BKN025 BKN030 27/22 A2997 RMK A01 OICS 290400Z VRB02KT 3000 -SNRA SCT015 BKN030 OVC070 01/M00 Q1020 A3014 KPPQ 290355Z AUTO 21003KT 10SM CLR 03/00 A3011 RMK AO2 T00341004 RKPC 290400Z 34007KT 300V020 9999 BKN040 10/04 Q1029 NOSIG RPLB 290400Z 08013KT 9999 FEW020 BKN080 28/23 Q1012 NOSIG RMK A2988 WSAP 290400Z 35006KT 9999 FEW018 SCT150 BKN270 30/24 Q1010 KLNA 290355Z AUTO 00000KT 10SM CLR 22/21 A3005 RMK AO2 T02170205 402830185 PNO KSMP 290356Z AUTO 00000KT 9SM CLR 00/M02 A3031 RMK AO2 SLP287 I1001 T00001017 PATL 290355Z AUTO 00000KT 10SM OVC130 M11/M12 A2894 RMK AO2 SLP825 T11101121 SLPO 271600Z 06012KT 9999 SCT017 16/06 Q1037 OSLK 290300Z 03004KT 9999 FEW030 SCT100 13/07 Q1019 K1BM 290358Z AUTO 02003KT 10SM BKN070 M04/M08 A3035 RMK AO2 SLP315 T10361076 $ KMER 290355Z AUTO 00000KT 10SM CLR 03/03 A3020 RMK AO1 SBTK 262000Z AUTO 31005KT 250V010 9999 SCT035 31/23 Q1006 MDPP 290300Z 00000KT 9999 SCT018 SCT070 23/22 Q1016 KAHQ 290355Z AUTO 15003KT 10SM SCT110 01/M01 A2997 RMK AO2 T00081011 LEMG 290400Z 29001KT 9999 SCT035 13/12 Q1013 NOSIG MMPR 290350Z 00000KT 12SM SKC 23/21 A2989 SERO 282000Z 23001KT 9999 FEW010 SCT200 27/21 Q1008 KVEL 290353Z AUTO 29004KT 10SM CLR M07/M12 A3026 RMK AO2 SLP294 T10721117 KGDV 290356Z AUTO 33014KT 10SM CLR M04/M06 A3026 RMK AO2 SLP272 T10391061 FZRANO UAAA 290400Z 00000MPS 9999 SCT043CB BKN100 M02/M05 Q1040 R88/3///50 NOSIG LGRP 290350Z 00000KT 9999 FEW020 13/10 Q1019 NOSIG KCQX 290352Z AUTO 31006KT 10SM CLR 07/M01 A3001 RMK AO2 SLP162 T00721006 SCRG 282200Z /////KT CAVOK 27/08 Q1017 PAGM 290356Z AUTO 01030G39KT 10SM OVC031 M03/M08 A2946 RMK AO2 PK WND 01040/0335 SNE42 SLP983 P0000 T10331083 FZRANO KCVC 281110Z AUTO 00000KT 10SM OVC060 10/10 A3005 RMK AO2 KZPH 290355Z AUTO 00000KT 10SM CLR 18/17 A3005 RMK A02 T01830173 KPOY 290355Z AUTO 32017G23KT 10SM CLR 00/M13 A3022 RMK AO2 PAFR 290358Z AUTO 00000KT 10SM FEW055 OVC080 M06/M07 A2882 RMK AO2 SLP770 T10651073 FZRANO $ EHJR 290355Z AUTO 00000KT //// // ///////// 07/06 Q1025 RE// W///H8 KESF 290353Z AUTO 06003KT 5SM -RA BR OVC006 12/11 A3007 RMK AO2 RAB17 SLP181 P0002 T01170106 KWAL 290354Z AUTO 27003KT 10SM CLR 04/04 A3015 RMK AO2 SLP207 T00440039 KBGM 290353Z AUTO 23007KT 10SM CLR 01/M04 A3004 RMK AO2 SLP185 T00061044 SBMN 290400Z 09002KT CAVOK 26/25 Q1011 CXPA 290300Z AUTO 19008KT M04/M09 RMK AO1 T10411086 50016 EHAM 290355Z 09006KT 060V120 3100 BR SCT003 BKN004 04/03 Q1025 BECMG 5000 BKN005 LTFM 290350Z 16005KT CAVOK 09/06 Q1019 NOSIG RMK RWY17L 20007KT RWY34L 23002KT RWY16R 21006KT RWY36 22005KT RWY18 21008KT HESH 290300Z 35007KT CAVOK 18/10 Q1017 NOSIG FQLC 281500Z 08014KT 9999 BKN020 27/12 Q1019 KEED 290356Z AUTO 30008KT 10SM CLR 12/M10 A3016 RMK AO2 SLP202 T01171100 $ KCSQ 290355Z AUTO 21011KT 10SM CLR 04/00 A3001 RMK AO2 KROW 290351Z AUTO 24009KT 10SM CLR 06/M02 A3009 RMK AO2 SLP171 T00561022 YWLU 290400Z AUTO 01010KT 320V030 9999 // NCD 38/07 Q1007 RMK GMMB 290400Z AUTO 20009KT 9999NDV ////// 15/10 Q1012 NOSIG YTNK 290400Z AUTO 34007KT 300V020 9999 // NCD 39/14 Q1008 SBLP 262000Z AUTO /////KT ///V/// //// // ///////// ///// Q//// SBES 282100Z 07019KT 9999 FEW015 25/23 Q1018 KMTK 290350Z AUTO VRB05G12KT 10SM SCT020 OVC029 23/20 A3003 RMK A01 KMFV 290155Z AUTO 00000KT 7SM CLR 05/04 A3013 RMK AO2 T00450039 CYXL 290400Z 08005KT 050V120 15SM OVC077 M02/M05 A2972 RMK AC8 SLP087 KDRT 290353Z AUTO VRB04KT 10SM CLR 10/06 A3012 RMK AO2 SLP191 T01000061 EKRK 290350Z AUTO 04003KT 0550 R11/P1500D R29/P1500N -SN FG OVC002/// M01/M01 Q1028 REFZRA UTAK 290400Z 10012KT CAVOK 01/M01 Q1029 R16R/CLRD70 NOSIG NZWS 290400Z 25013KT 210V290 16KM FEW012 17/12 Q1001 RMK AUTO NZHK VATSIM USE ON VQPR 290330Z VRB01KT 9999 SKC 08/M04 Q1031 CYHM 290400Z CCA 24007KT 15SM SKC 01/M01 A3003 RMK SLP177 OISR 290400Z 00000KT 9999 FEW040 SCT100 12/11 Q1020 A3014 NOSIG LGKZ 290350Z AUTO 34004KT //// // ////// 01/M04 Q1017 RE// ENSH 281250Z 21013KT 9999 -SHRA FEW018 BKN022 07/06 Q1019 RMK WIND 150FT 18013KT OEDM 282100Z 21010KT 7000 SCT030 SCT080 18/13 Q1016 NOSIG CYQR 290400Z 29020KT 15SM SKC M06/M08 A3017 RMK SLP255 KU55 290355Z AUTO 14004KT 10SM CLR M07/M13 A3028 RMK A01 KY50 290356Z AUTO 00000KT 10SM CLR M03/M04 A2992 RMK AO2 SLP140 T10281039 FZRANO $ CYUB 290400Z 13004KT 10SM BKN035 M15/M17 A2949 RMK SC7 SLP990 KVCV 290345Z 00000KT 10SM SKC A3021 CYQG 290400Z AUTO 23013G19KT 9SM CLR 03/M02 A3006 RMK SLP188 FWKI 281400Z 11013KT 9999 SCT035 29/11 Q1016 NOSIG OIKM 281600Z 36008KT 9999 SCT100 17/M01 Q1025 KDYB 290355Z AUTO 00000KT 9SM CLR 11/11 A3011 RMK AO2 KNHK 290352Z AUTO 24004KT CLR A3015 RMK AO2 CIG 110 RY24 SLP211 $ KLFK 290353Z AUTO 05003KT 10SM -RA OVC006 12/11 A3006 RMK AO2 SLP178 P0000 T01220111 KSAR 290400Z AUTO 14003KT 10SM CLR 03/M01 A3017 RMK AO2 LRBM 290400Z AUTO 07002KT 4200 -SN VV009 M00/M01 Q1021 KAKR 290354Z AUTO 20008KT 10SM CLR 03/M03 A3013 RMK AO2 SLP207 T00281028 CYLC 272000Z 12019G25KT 1/2SM BLSN OVC008 VV014 M03/M05 A2909 RMK ST4BLSN4 LASTSTFD OBS/NXT 301200Z SLP858 PHKO 290353Z 12011KT 10SM SCT055 27/18 A2995 RMK AO2 SLP139 T02670183 KOPL 290355Z AUTO 36005KT 7SM -RA OVC004 14/14 A3006 RMK AO2 P0002 T01390137 LFRU 281800Z AUTO 08006KT CAVOK 11/09 Q1014 MMTM 290242Z 09008KT 7SM FEW015 25/24 A2992 RMK 8/400 METAR COR ENHD 290350Z AUTO 15012KT 9999 FEW025/// OVC074/// 06/02 Q1028 PASK 290356Z AUTO 27003KT 6SM -SN BR CLR M16/M17 A2925 RMK AO2 SLP903 P0000 T11561172 FZRANO KBPT 290353Z AUTO 10010KT 10SM -RA BKN004 OVC080 17/17 A3000 RMK AO2 SLP159 P0001 T01670167 GOOK 290000Z 04006KT CAVOK 25/14 Q1016 ESST 290350Z AUTO 30004KT 9999 OVC009/// M03/M04 Q1030 KAXN 290353Z AUTO 27014KT 10SM CLR 07/M04 A2985 RMK AO2 SLP121 T00671044 KSZL 290356Z AUTO 21005KT 10SM CLR 03/M03 A3008 RMK AO2 SLP194 T00321032 $ KOXR 290351Z 00000KT 10SM CLR 13/01 A3013 RMK AO2 SLP201 T01280006 $ CYFT 282100Z 25008KT 15SM FEW220 M05/M09 A2981 RMK CI1 LAST STFD OBS/NEXT 291000Z SLP100 LFML 290400Z AUTO 14005KT CAVOK 06/04 Q1012 NOSIG KAFP 290355Z AUTO 00000KT 7SM CLR 06/05 A3015 RMK AO2 T00600051 CWYJ 290400Z AUTO 01002KT 05/04 RMK AO1 SLP287 T00540035 56010 KJSL 290340Z AUTO 15013KT 10SM FEW022 FEW032 25/21 A2999 RMK A01 KOKV 290355Z AUTO 00000KT 10SM CLR 01/M03 A3013 RMK AO2 SKCL 290400Z 03007KT 9999 FEW030 SCT150 21/19 A3000 NOSIG CWQO 290400Z AUTO 22010KT 01/01 RMK AO1 T00050005 CWSL 290400Z AUTO 16001KT M02/M02 RMK AO1 SLP320 T10161023 53009 KSLE 290356Z 34004KT 8SM OVC004 06/04 A3034 RMK AO2 SLP274 T00560044 CYVO 290300Z 22005KT 15SM OVC049 M01/M01 A2977 RMK SC8 LAST STFD OBS/NEXT 291100UTC SLP103 K0A0 290355Z AUTO 02007KT 10SM CLR 00/M08 A3018 RMK AO2 UWKS 290400Z 14007MPS 5000 -SN BKN005 M02/M03 Q1037 R06/450735 TEMPO 2000 SN BR RMK QFE762 SPZO 290000Z 36002KT 9999 SCT050 BKN100 13/05 Q1030 NOSIG RMK BIRD HAZARD RWY 28 PP00 FYWW 290400Z AUTO 17006KT //// // ////// 20/M02 Q1020 K8D3 290356Z AUTO 29012KT 08/M06 A2989 RMK AO1 SLP128 T00831061 EFKS 290350Z AUTO 21009KT 9999 -SN OVC010 M03/M05 Q1028 KLMT 290353Z 33003KT 10SM CLR M03/M04 A3030 RMK AO2 SLP294 LAST T10281044 $ KLAW 290353Z AUTO 36010KT 10SM OVC046 06/03 A3013 RMK AO2 SLP206 T00610033 CXDI 290400Z AUTO 26004KT 05/M00 RMK AO1 SLP188 T00481001 53001 KJER 290353Z AUTO 31003KT 10SM CLR M01/M05 A3039 RMK AO2 SLP325 T10111050 ENSL 290350Z AUTO 20015KT 9999NDV FEW043/// 09/04 Q1026 W08/S4 LIPI 271055Z VRB01KT CAVOK 10/05 Q1022 RMK FEW FEW200 VIS MIN 9999 WIND THR06 13002KT WIND THR24 13003KT BLU KSGU 290356Z AUTO 00000KT 10SM CLR 04/M12 A3024 RMK AO2 SLP252 T00441122 KNZY 290352Z 00000KT 10SM CLR 13/03 A3010 RMK AO2 SLP192 T01280033 KLBB 290353Z 02005KT 10SM OVC065 03/02 A3010 RMK AO2 SLP194 T00330017 KLLQ 290353Z AUTO 00000KT 10SM CLR 07/02 A3014 RMK AO2 SLP207 T00720022 YBHI 290400Z AUTO 17012KT 9999 // NCD 24/06 Q1011 RMK MHPL 282100Z 00000KT 9999 SCT026TCU SCT080 // Q1011 RERA YWTN 290400Z AUTO 02006KT 360V070 9999 // NCD 39/08 Q1007 RMK VISM 290300Z 00000KT 6000 SCT060 15/07 Q1024 CYGP 290400Z 29003KT 15SM OVC060 M00/M01 A2979 RMK SC8 SLP090 ENVA 290350Z 13005KT CAVOK M04/M06 Q1028 RMK WIND 670FT 11007KT CWDO 290300Z AUTO 06005KT 01/01 RMK AO1 SLP075 T00090007 58004 KIKW 290355Z AUTO 22007KT 10SM CLR 04/M01 A2998 RMK AO2 T00351014 VIBR 280630Z 00000KT 5000 HZ FEW100 14/03 Q1024 KANJ 290404Z AUTO 08003KT 10SM SCT013 01/M02 A2984 RMK AO2 T00061017 KARB 282253Z 22006KT 10SM CLR 04/M04 A3007 RMK AO2 SLPNO T00391039 $ KSVH 290355Z AUTO 00000KT 10SM CLR 09/02 A3015 RMK AO2 T00890023 UUDD 290400Z 11005MPS 9999 -RASN BKN003 OVC013 01/00 Q1026 R14R/550140 NOSIG EDDE 290350Z VRB02KT 9999 OVC028 00/M03 Q1024 EGKK 290350Z 04004KT 3000 BR BKN004 07/07 Q1023 KFRH 290355Z AUTO 03003KT 10SM CLR 01/M03 A3016 RMK AO1 KAUG 290353Z AUTO 30007KT 7SM FEW002 01/01 A2993 RMK AO2 SLP139 I1000 T00060006 LTBQ 290350Z 00000KT CAVOK M03/M03 Q1020 NOSIG K2G9 290355Z AUTO 00000KT 10SM CLR 00/M05 A3013 RMK AO2 CYFB 290400Z 34034G44KT 1/2SM R34/1200V2000FT/N -SN BLSN VV003 M18/M21 A2959 RMK BLSN8 VIS VRB 3/8-5/8 SLP024 KIAD 290352Z 00000KT 10SM CLR 03/M02 A3015 RMK AO2 SLP211 T00281022 KMXF 290356Z AUTO 05003KT 10SM CLR 14/ A3008 RMK AO2 SLP188 PNO $ KATY 290353Z AUTO 26011KT 10SM CLR 03/M05 A2992 RMK AO2 SLP145 T00281050 BKPR 290400Z 34008KT 7000 SCT080 M02/M05 Q1017 NOSIG RMK 17010095 ELLX 290350Z 06012KT 2000 BR BKN002 01/01 Q1021 NOSIG KPTT 290355Z AUTO 23010KT 10SM BKN090 OVC120 06/02 A3012 RMK AO2 T00580022 KLBL 290356Z AUTO 25003KT 10SM OVC027 02/02 A3013 RMK AO2 RAE37 SLP218 P0001 T00170017 FZRANO KMDD 290355Z AUTO 14005KT 5SM BR CLR 06/04 A3012 RMK AO2 T00640038 UKLU 281600Z 00000MPS 5000 -SN BR OVC010 01/M00 Q1021 R10/690330 NOSIG= SBPS 290400Z 25004KT 9999 FEW020 BKN070 21/20 Q1017 LEAM 290400Z 34010KT 9999 FEW025 12/05 Q1013 KLHZ 290355Z AUTO 00000KT 7SM CLR 04/04 A3017 RMK AO2 DGLE 290000Z 14002KT CAVOK 29/21 Q1011 NOSIG EDDL 290350Z 11004KT 9999 FEW009 BKN013 03/01 Q1024 BECMG SCT015 CPXL 290400Z AUTO 20005KT M06/M07 RMK AO1 T10611070 SBBR 290400Z 09005KT CAVOK 21/15 Q1019 MMIA 290040Z 27010KT 5SM SCT065 24/20 A2996 RMK 8/400 KREO 290352Z AUTO 07004KT M04/M06 A3035 RMK AO1 SLP316 T10391061 EDTY 290350Z AUTO 08011KT 9999 // OVC009/// M01/M03 Q1021 LYVR 290400Z AUTO 00000KT 7000 OVC010/// 01/00 Q1022 BGJN 290350Z AUTO VRB02KT 9999NDV BKN150/// M11/M18 Q0998 SCEL 290400Z AUTO 12003KT 060V160 9999 NCD 18/04 Q1018 KMIV 290354Z AUTO 25003KT 10SM CLR 00/M02 A3014 RMK AO2 SLP205 T00001017 KELP 290351Z 26005KT 10SM CLR 09/M06 A3016 RMK AO2 SLP191 T00891056 LFBT 290400Z AUTO 18004KT CAVOK 05/04 Q1013 TEMPO 0800 FG VV/// KP68 290353Z AUTO 00000KT M08/M14 A3029 RMK AO1 SLP302 T10831144 KTQE 290354Z AUTO 14003KT 10SM CLR M01/M02 A2997 RMK AO2 SLP153 T10061017 KGLE 290355Z AUTO 09006KT 2 1/2SM DZ SCT009 OVC016 07/07 A3010 RMK AO2 P0007 T00730070 KSTS 290353Z AUTO 00000KT 10SM CLR 07/00 A3020 RMK AO2 SLP220 T00670000 K22N 290355Z AUTO 00000KT 10SM CLR M01/M01 A3014 RMK AO2 KGZN 290340Z AUTO 30009KT 10SM OVC004 06/05 A3010 RMK AO2 RKSI 290400Z 31010KT 9999 BKN025 02/M03 Q1029 NOSIG TDPD 282200Z 29003KT 9999 BKN014 25/24 Q1014 KAHN 290351Z AUTO 00000KT 1/2SM FG VV003 11/09 A3012 RMK AO2 SLP197 T01060094 LEAL 290400Z 25004KT 210V300 CAVOK 11/06 Q1012 NOSIG LGNX 271350Z 02008KT 9999 FEW025 18/08 Q1019 LTAU 290350Z 10001KT CAVOK M07/M09 Q1023 NOSIG RMK RWY07 10002KT ESNL 290350Z AUTO 16001KT 9999 NCD M12/M14 Q1027 EDFM 281950Z 00000KT 5000 BR FEW004 M01/M01 Q1021 KASL 290355Z AUTO 10007KT 080V140 10SM OVC020 10/06 A3011 RMK AO1 T01000056 WBKT 290400Z 24005KT 190V320 9999 FEW014 30/25 Q1009 SUAA 282200Z 27005KT 210V310 9999 FEW030 BKN100 23/16 Q1006 KLUF 290358Z AUTO 00000KT 10SM CLR 12/M02 A3009 RMK AO2 SLP188 T01221024 $ CYER 290400Z AUTO 28005KT 9SM -SN OVC027 M10/M11 A2991 RMK SLP130 SECA 281900Z 22005KT 180V250 9999 BKN040 OVC200 29/17 Q1015 CPSV 290400Z AUTO 21005KT M09/M10 RMK AO1 T10871095 LTFD 290350Z 12003KT 070V150 9999 SCT035 BKN100 05/02 Q1020 KFWA 290354Z 22008KT 10SM CLR 01/M03 A3013 RMK AO2 SLP209 T00111028 LBIA 290400Z 00000KT 9999 FEW009 BKN200 00/M03 Q1018 KENL 290355Z AUTO 00000KT 5SM BR CLR 00/00 A3015 RMK AO2 T00001005 KMCX 290355Z AUTO 20006KT 10SM CLR 01/M03 A3013 RMK AO2 T00141026 MZBZ 282300Z 09006KT 9999 FEW026 28/24 A2989 Q1012 NOSIG RMK COR TEMP NZHN 290400Z 26016KT 27KM NCD 19/10 Q1002 RMK AUTO VATSIM USE ONLY EKSB 290350Z AUTO 02007KT 9999NDV OVC010/// 02/00 Q1028 MSV 282100Z AUTO 34022KT 9999 // NCD 27/12 Q1003 RMK KBDE 290353Z AUTO 24005KT 10SM CLR M01/M03 A2965 RMK AO2 SLP057 T10111033 LOWL 290350Z AUTO 04002KT 9999 BKN034 M01/M04 Q1022 KMCI 290353Z 21010KT 10SM FEW200 06/M02 A3009 RMK AO2 SLP192 T00561022 KDAY 290356Z 23007KT 10SM CLR 03/M02 A3017 RMK AO2 SLP224 T00281022 KHII 290355Z AUTO 34007KT 10SM CLR 15/M10 A3014 RMK AO2 KL52 290355Z AUTO 00000KT 9SM CLR 05/04 A3015 RMK A01 NZKI 290400Z 03017KT 010V070 20KM NCD 19/11 Q1000 RMK AUTO NZWB VATSIM USE ONLY KSTL 290351Z 00000KT 10SM FEW200 04/M01 A3014 RMK AO2 SLP210 T00441011 ETIK 290356Z AUTO 07007KT 9999 OVC016 00/00 A3022 RMK AO2 SLP254 T10041004 MMZO 290141Z 00000KT 8SM FEW020 BKN210 27/24 A2987 RMK 8/106 HZY KDEQ 290353Z AUTO 05004KT 10SM CLR 07/04 A3010 RMK AO1 SLP191 T00670044 YWBL 290400Z AUTO 21015KT 9999 // SCT027 17/10 Q1014 RMK SBFZ 290400Z 10016KT 9999 BKN025 27/22 Q1012 K5M9 290355Z AUTO 00000KT 10SM CLR 03/M03 A3017 RMK AO2 T00301030 EEKE 290350Z AUTO 04008KT 360V070 9999NDV FEW014 SCT023 OVC029 02/01 Q1027 SLVM 281900Z 36017G30KT 9999 NSC 35/22 Q1005 KSPB 290405Z AUTO 00000KT 10SM FEW006 OVC013 07/05 A3036 RMK AO2 T00670050 URKA 290400Z AUTO 11002MPS 9999 NCD 02/00 Q1021 RMK QFE762/1016 KSTJ 290353Z AUTO 20004KT 10SM CLR 03/M02 A3008 RMK AO2 SLP189 T00331017 $ KRCA 290356Z 32015KT 10SM CLR 04/M10 A3013 RMK AO2A SLP220 T00371104 $ URMT 290400Z 16003MPS 6000 BKN005 OVC020 01/01 Q1023 R07/010070 NOSIG RMK QFE727 CYWJ 290000Z 09006KT 40SM FEW007 FEW080 M18/M20 A2952 RMK ST1AC1 LAST STFD OBS/NXT 291800 UTC SLP024 VIJP 290400Z VRB02KT 2000 HZ NSC 21/10 Q1021 NOSIG DRRT 290200Z 08002KT CAVOK 24/08 Q1013 KBXK 290355Z AUTO 33007KT 9SM 08/M09 A3011 RMK A01 CYRA 280100Z 01004KT 15SM SKC M22/M25 A2969 RMK LAST STFD OBS/NEXT 281600 Z SLP081 KIEN 290352Z AUTO 01017G26KT 9SM CLR 07/M12 A3010 RMK AO2 PK WND 02026/0351 SLP202 T00671122 OINE 290400Z 00000KT 9999 FEW100 BKN200 05/04 Q1026 YTWB 290400Z AUTO 30008KT 280V360 9999 // NCD 33/04 Q1013 RMK OETB 290400Z 18004KT 9999 FEW040 08/02 Q1019 NOSIG KFMY 290353Z AUTO 00000KT 10SM CLR 22/21 A3003 RMK AO2 SLP172 T02220211 KJAX 290356Z 35004KT 6SM BR OVC004 16/16 A3007 RMK AO2 SLP181 T01610156 $ KIBM 290355Z AUTO 30011KT 10SM CLR 00/M11 A3005 RMK AO2 T00031114 RJOO 290400Z 21007KT 170V260 9999 FEW025 SCT035 14/06 Q1021 RMK 1CU025 4CU035 A3017 KLAA 290353Z AUTO 20003KT 10SM CLR M04/M06 A3006 RMK AO2 SLP198 T10441056 KGGW 290400Z AUTO 31012KT 10SM BKN017 M03/M07 A3031 RMK AO2 PRESRR T10281067 KNOW 290355Z AUTO 22003KT 10SM CLR 03/02 A3038 RMK AO2 T00300021 K8A0 290355Z AUTO 00000KT 7SM CLR 07/06 A3012 RMK AO2 CWNQ 290400Z AUTO 22006KT 03/M00 RMK AO1 SLP124 T00271004 51005 RJNW 290400Z 33003KT 270V040 9999 FEW020 SCT030 BKN035 08/02 Q1021 KHOU 290353Z 12010KT 9SM -RA BKN009 OVC015 19/17 A3001 RMK AO2 SLP168 P0001 T01940172 $ K3AU 290355Z AUTO 22005KT 10SM SCT120 05/00 A3012 RMK AO2 SCQP 290400Z 27004KT CAVOK 09/09 Q1023 KDTW 290353Z 22013KT 10SM CLR 04/M03 A3007 RMK AO2 SLP187 T00391033 $ MMMY 290342Z 30010KT 6SM OVC015 16/13 A3004 RMK 8/5// KSMF 290353Z 00000KT 10SM CLR 07/02 A3019 RMK AO2 SLP221 T00720017 TNCA 290400Z 09008KT 9999 FEW016 26/25 Q1013 NOSIG KGZH 290353Z AUTO 03003KT 10SM CLR 15/13 A3007 RMK AO2 SLP179 T01500128 NZHK 290400Z 25013KT 210V290 16KM FEW012 17/12 Q1001 RMK AUTO VATSIM USE ONLY KTYL 290355Z AUTO 00000KT 10SM CLR M04/M06 A3025 RMK AO2 KNYG 290356Z AUTO 36004KT 10SM CLR 10/M02 A3017 RMK AO2 SLP216 T01001022 $ VTUL 290400Z VRB03KT 9999 FEW030 26/17 Q1018 NOSIG KCFE 290355Z 10SM CLR 05/M01 A2987 RMK AO2 T00461015 GBYD 290400Z VRB03KT CAVOK 20/17 Q1010 KBGD 290351Z AUTO 02004KT 10SM FEW003 OVC014 03/00 A3012 RMK AO2 SLP208 T00280000 KCRE 290402Z AUTO 00000KT 1/4SM FG CLR 11/11 A3012 RMK AO1 T01110111 KBCB 290355Z AUTO 00000KT 10SM CLR 01/00 A3018 RMK AO2 T00110001 KANK 290355Z AUTO 28006KT 10SM CLR M01/M10 A3022 RMK AO1 T10071101 LEGT 282000Z 12003KT 8000 NSC 08/08 Q1011 KWHP 280355Z 00000KT 10SM SKC 13/M09 A3019 UBEE 290400Z 31005KT 7000 SCT048 OVC100 03/01 Q1029 R30/CLRD// NOSIG LTFG 290250Z 13005KT CAVOK 08/07 Q1020 EHLE 290355Z AUTO 08007KT 040V110 6000 OVC007 03/02 Q1026 LKPR 290400Z 32003KT 9999 BKN035 M00/M01 Q1023 NOSIG K41U 290355Z AUTO 00000KT 10SM CLR M08/M11 A3031 RMK AO1 T10821112 OIBB 290400Z 12014KT 8000 TS SCT030CB SCT040 OVC090 22/17 Q1016 A3001 RKNO 260735Z 01007KT 8000 -RA BR BKN010 07/05 A3031 RMK CIG010 KMGJ 290354Z AUTO 22003KT 10SM CLR 01/M03 A3009 RMK AO2 SLP189 T00061028 SBTF 282245Z 24002KT 9999 SCT013 FEW025TCU BKN100 27/25 Q1009 MPPA 290300Z 34004KT 9999 FEW016 25/24 Q1011 HTTB 290300Z 00000KT 9999 SCT017 BKN070 19/19 Q1018 NOSIG ENNE 290350Z AUTO 20020KT 9999NDV SCT026/// BKN063/// BKN072/// 07/05 Q1019 W///S5 CYGL 290400Z 30007KT 5SM -SN BKN006 OVC083 M08/M09 A2964 RMK SF5AC3 /S01/ SLP055 CWMM 290400Z AUTO 00000KT 03/02 RMK AO1 SLP295 T00290023 58003 EIWF 282030Z 06002KT 4000 BR BKN004 10/09 Q1020 R03/1///// KD95 290355Z AUTO 23007KT 10SM CLR 04/M04 A3003 RMK AO2 T00371040 EDDM 290350Z 04006KT 360V060 8000 FEW003 OVC020 M02/M03 Q1021 R08R/290195 NOSIG KOFP 290354Z AUTO 00000KT 10SM CLR 04/02 A3016 RMK AO2 SLP215 T00440022 EPCE 290400Z 02004KT 330V040 9999 BKN008 OVC046 03/02 Q1022 RMK 027 096 8/6= KSBN 290354Z 22013KT 10SM CLR 04/M01 A3009 RMK AO2 SLP195 T00391006 OIAG 290400Z 16006KT 6000 RA SCT030CB SCT035 OVC090 19/17 Q1016 EKBI 290350Z AUTO 06004KT 020V140 9999 OVC012/// 01/M01 Q1029 SBPK 282100Z 08015KT 9999 SCT040 28/23 Q1009 KDLO 290355Z AUTO 00000KT 10SM CLR 03/M03 A3020 RMK AO2 T00291027 HTMP 290300Z 30004KT 9999 SCT018 20/18 Q1018 KPRC 290353Z 00000KT 10SM CLR 01/M11 A3021 RMK AO2 SLP226 T00061111 KILG 290351Z AUTO 30005KT CLR 06/M02 A3015 RMK AO2 SLP209 T00561022 $ YARG 290400Z AUTO 19004KT 140V310 9999 // NCD 39/16 Q1006 YWUD 290400Z AUTO 15005KT 100V210 //// // ////// 24/04 Q1014 KHNB 290356Z AUTO 06003KT 8SM CLR 02/M01 A3017 RMK AO2 SLP222 T00171011 401061022 FZRANO KMRH 290358Z AUTO 03004KT 10SM CLR 11/09 A3014 RMK AO2 SLP206 I1000 T01060094 KRBL 290354Z AUTO 29006KT 10SM CLR 08/M04 A3018 RMK AO2 SLP223 T00831039 KVTP 290355Z AUTO 28007KT 10SM CLR M04/M12 A3015 RMK AO2 EGFF 290350Z AUTO 07011KT 5000 BR OVC006 09/08 Q1023 BIBD 281129Z 21014KT 9999 BKN035 01/M05 Q0999 RMK SANDED RWY LIEB 290255Z 11005KT 8000 BKN020 FEW025CB 14/11 Q1003 RETS RMK BKN QUK / QUL / VIS MAR 8 KM MON INVIS VIS MIN 8000 DNMM 290200Z 00000KT 9999 FEW010 26/25 Q1012 NOSIG FOOL 290405Z 29006KT 8000 -TSRA SCT016 FEW020CB BKN030 26/24 Q1011 TEMPO 3000 TSRA KJZI 290355Z AUTO 35006KT 10SM CLR 14/13 A3011 RMK AO2 KTYR 290353Z AUTO 10008KT 10SM OVC013 11/09 A3006 RMK AO2 SLP178 T01060089 KEFK 290401Z AUTO 16004KT 10SM BKN033 BKN043 OVC050 03/M01 A2994 RMK AO2 KGUC 290356Z AUTO 05003KT 10SM CLR M12/M13 A3026 RMK AO2 SLP349 T11171133 FZRANO MMPN 290140Z 00000KT 4SM SCT090 21/17 A3014 RMK 8/030 HZY CI LTCB 290350Z 26002KT CAVOK 06/03 Q1021 SLSI 282300Z 00000KT 9999 SCT017 31/21 Q1009 CXHM 290400Z AUTO 26006KT 03/M00 RMK AO1 SLP172 T00341001 53001 KPTD 290355Z AUTO 22009KT 10SM BKN027 BKN034 BKN041 03/00 A2997 RMK AO2 KEKY 290356Z AUTO 35004KT 10SM CLR 09/08 A3011 RMK AO2 SLP046 T00940078 PNO $ KOIN 290355Z AUTO 24015G19KT 10SM CLR 05/00 A3007 RMK AO1 T00480000 OOSA 290350Z 34002KT CAVOK 24/16 Q1016 NOSIG KCVG 290352Z 28004KT 10SM CLR 03/M02 A3017 RMK AO2 SLP220 T00281022 KCOD 290356Z AUTO 01010KT 10SM SCT110 03/M12 A3026 RMK AO2 SLP276 T00331122 LHBP 290400Z VRB01KT 0350 R31L/0450N R31R/0400N FZFG VV001 M02/M02 Q1020 NOSIG KPOB 290356Z AUTO 00000KT 10SM CLR 06/06 A3014 RMK AO2 SLP210 T00610060 $ KSJX 290355Z AUTO 22008G14KT 10SM CLR 07/03 A2984 RMK AO2 T00680031 LFBH 290400Z AUTO 06007KT CAVOK 07/05 Q1015 NOSIG KVNY 290351Z 00000KT 10SM CLR 16/M11 A3011 RMK AO2 SLP193 T01561106 K2IS 290355Z AUTO 20006KT 10SM CLR 20/18 A3006 RMK AO2 T01960183 OEWD 290400Z 07010KT 9999 FEW030 20/17 Q1016 NOSIG KCZL 290355Z AUTO 00000KT 10SM CLR 07/07 A3014 RMK AO2 MKJS 290400Z 20003KT 9999 FEW022 24/22 Q1014 K65S 290355Z AUTO 00000KT 10SM CLR M01/M03 A3039 RMK AO2 HTAR 290300Z 00000KT 9999 SCT008 BKN018 16/15 Q1020 NOSIG SBTC 282000Z 22005KT 9999 FEW020 BKN070 29/23 Q1017 LKKU 271500Z 26003KT 220V300 3500 BR OVC004 01/00 Q1023 OEYN 290400Z 00000KT CAVOK 16/11 Q1013 NOSIG KQD3 290355Z 20003KT 9999 FEW040 24/22 A2997 RMK AO2A WND DATA ESTMD T02370215 SBBI 290100Z 08004KT 9999 OVC008 20/18 Q1022 KCID 290352Z 21007KT 10SM CLR 04/00 A2999 RMK AO2 SLP162 T00390000 KBHC 290355Z AUTO 07007KT 10SM OVC004 13/13 A3010 RMK AO2 CWSP 290400Z AUTO 05004KT 07/02 RMK AO1 SLP282 T00720023 56010 PAKP 290356Z AUTO 05017G22KT 1 1/4SM -SN BR OVC008 M22/M24 A2920 RMK AO2 SLP967 P0000 T12171239 FZRANO LHSN 290345Z 19004KT 5000 BR BKN020 01/01 Q1021 NOSIG RMK WHT EFRO 290350Z AUTO 19012KT 9999 -SN OVC005 M03/M03 Q1025 KROS 290355Z AUTO 24005KT 10SM CLR 07/M01 A2983 RMK AO2 T00651015 KNOZ 290359Z AUTO 35008KT 10SM CLR 11/M08 A3012 RMK AO2 SLP149 T01111083 DAAY 290200Z 18008KT 8000 SCT020 SCT030 06/04 Q1018 VABP 290400Z 10007KT 4000 HZ NSC 21/09 Q1021 NOSIG KCLM 290353Z AUTO 00000KT 10SM OVC025 01/01 A3037 RMK AO2 SLP288 T00110006 KSNK 290355Z AUTO 04003KT 7SM CLR 03/03 A3012 RMK AO2 T00340034 LIRN 290320Z 04004KT CAVOK 12/11 Q1009 NOSIG YLHR 290400Z AUTO 11012KT 9999 // NCD 31/23 Q1007 RMK HESW 280520Z 35005KT 0200 R29R/0200 R11L/0200 FG NSC 08/07 Q1020 OING 290400Z 00000KT 9999 SCT090 BKN190 05/04 Q1028 LIRK 290355Z AUTO 10022KT 050V130 //// 02/M00 Q1010 ZBAD 290400Z VRB01MPS CAVOK 03/M09 Q1034 NOSIG KAAS 290355Z AUTO 00000KT 10SM CLR 01/M01 A3021 RMK AO1 CWEW 290400Z AUTO 25004KT 03/00 RMK AO1 SLP138 T00300000 55000 KEBS 290355Z AUTO 22009KT 10SM CLR 03/00 A2994 RMK AO2 KUES 290355Z AUTO 21007KT 10SM CLR 04/00 A2997 RMK AO2 KBIV 290353Z AUTO 22014G22KT 10SM CLR 07/02 A3003 RMK AO2 SLP172 T00670022 YTEE 290400Z AUTO 22005KT 9999 // NCD 39/06 Q1007 RMK KBYI 290353Z AUTO 36004KT 10SM CLR M01/M06 A3036 RMK AO2 SLP311 T10111056 GQPA 280900Z 02006KT 8000 NSC 18/M04 Q1018 LRTC 290400Z AUTO 28002KT 1400 R34/1600U FG VV002 00/M00 Q1019 RKSQ 290042Z 34003KT 8000 BR BKN005 BKN030 00/M01 A3043 RMK CIG005 KHTH 290355Z AUTO 20006KT 10SM CLR 00/M11 A3030 RMK A01 CXKE 290400Z AUTO 23004KT 03/01 RMK AO1 SLP145 T00290005 52011 CWHO 290400Z AUTO M06/M09 RMK AO1 SLP106 T10591088 54000 KFOT 241755Z AUTO 15004KT 10SM CLR 08/07 A3019 RMK AO1 KTTF 290355Z AUTO 23008KT 10SM CLR 04/M03 A3008 RMK AO2 T00371033 400721025 ETHL 290320Z AUTO 05012KT 2800 // ////// M01/M01 Q1019 /// CXMD 290400Z AUTO 32015G25KT 00/M04 RMK AO1 PRESRR PK WND 33025/0359 SLP120 T00001036 53056 PARS 290403Z AUTO 31004KT 5SM BR FEW025 OVC031 M08/M09 A2907 RMK AO2 PWINO FZRANO $ KCAV 290355Z AUTO 20007KT 10SM CLR 01/01 A2995 RMK A01 SARI 290400Z 05004KT 9999 TS SCT030 FEW045CB BKN080 26/21 Q1013 LHPA 290345Z 00000KT 3000 BR BKN047 M02/M01 Q1021 NOSIG RMK YLO CYXU 290400Z 22007KT 15SM SKC 02/M02 A3004 RMK SLP183 SBGW 282200Z 04005KT 9999 FEW035 28/15 Q1017 VOMM 290400Z 04005KT 6000 SCT020 SCT100 29/26 Q1015 NOSIG LIRS 290355Z 02011KT 9999 FEW015 SCT030 BKN060 12/07 Q1010 RMK OVC VIS MIN 9999 WIND THR03 03010KT WIND THR21 03008KT BLU YNAR 290400Z AUTO 25015KT 9999 // NCD 30/04 Q1007 RMK KDHN 290353Z AUTO 07003KT 10SM OVC024 17/14 A3010 RMK AO2 SLP188 T01670144 MHGS 290000Z 00000KT 9999 SCT040 23/19 AGGH 290400Z 05016KT 9999 -TS SCT017 FEW018CB BKN028 27/24 Q1008 KTVC 290353Z AUTO 21009KT 10SM CLR 06/01 A2989 RMK AO2 SLP126 T00560011 LFYR 290400Z AUTO VRB02KT //// // NSC 02/01 Q1017 OPKC 290355Z 05007KT 5000 HZ NSC 19/03 Q1020 NOSIG GOSM 290300Z 36002KT CAVOK 21/11 Q1011 CWFQ 290400Z AUTO 19003KT 02/01 RMK AO1 SLP138 T00150006 50000 SBBW 282000Z 09004KT 9999 SCT020 36/19 Q1011 KCNC 290355Z AUTO 21008KT 10SM CLR 04/01 A3002 RMK AO2 LFSO 290400Z AUTO 06013KT 3300 BR OVC003 01/01 Q1019 UTST 290400Z 32002KT 2500 BR NSC 03/02 Q1033 R88/CLRD70 TEMPO 2000 BR KSSI 290353Z AUTO 36009KT 10SM BKN006 OVC020 16/16 A3008 RMK AO2 SLP187 T01560156 KOQT 290353Z AUTO 00000KT 10SM CLR 05/02 A3016 RMK AO2 SLP217 T00500022 SGCO 281000Z 11003KT CAVOK 23/22 Q1012 MMCN 290043Z 28005KT 10SM SKC 20/01 A2989 RMK ISOL CI HZY KFAR 290353Z 29020KT 10SM CLR 07/M04 A2982 RMK AO2 PK WND 28026/0346 SLP108 T00671044 KCEU 290354Z AUTO 00000KT 10SM CLR 11/07 A3014 RMK AO2 SLP203 T01060067 VYNT 290400Z 33008KT 7000 NSC 26/22 Q1015 NOSIG KOZR 290356Z AUTO 01003KT 10SM FEW022 15/14 A3006 RMK AO2 SLP180 T01530140 KEHR 290356Z AUTO 00000KT 10SM CLR M01/M02 A3017 RMK AO2 SLP220 T10061017 FZRANO KVAD 290356Z AUTO 03006KT 10SM OVC006 16/14 A3008 RMK AO2 SLP187 T01560138 $ K1IM 280259Z AUTO 23011G20KT M M M M M RMK AO2 PK WND 24027/0153 SLPNO $ ZHCC 290400Z 36002MPS 270V060 3000 HZ NSC 07/01 Q1032 BECMG TL0440 2500 OIAH 290400Z 00000KT 3000 RA FEW030CB SCT035 OVC070 13/13 Q1021 KMDH 290352Z AUTO 00000KT 10SM CLR 01/M02 A3016 RMK AO2 SLP217 T00061022 WADD 290400Z 27008KT 9999 SCT016 30/24 Q1008 NOSIG KY19 290355Z AUTO 33024G34KT 10SM CLR 01/M04 A3008 RMK AO2 LIRH 271755Z 34002KT 3500 BR NSC 11/09 Q1020 RMK FEW FEW200 MON INVIS NC VIS MIN 3500 WIND THR16 /////KT YLO KFAF 290356Z AUTO 00000KT 10SM CLR 08/06 A3013 RMK AO2 SLP206 T00750055 $ EVLA 290350Z AUTO 03005KT 9999 OVC050/// 02/01 Q1025 KEQY 290353Z AUTO 00000KT 10SM CLR 08/06 A3013 RMK AO2 SLP216 T00780061 $ KEAR 290356Z AUTO 24007KT 10SM CLR 04/M04 A2998 RMK AO2 SLP163 T00391039 GOBD 290400Z 01011KT CAVOK 21/17 Q1011 NOSIG KABR 290353Z AUTO 29012KT 10SM CLR 07/M08 A2997 RMK AO2 SLP159 T00671078 KOPN 290355Z AUTO 00000KT 10SM CLR 13/12 A3012 RMK AO2 CWLP 290400Z AUTO 13018KT 07/06 RMK AO1 PK WND 14022/0336 SLP256 T00690058 56010 UNOO 290400Z 36004MPS 6000 -SN BKN006 M13/M15 Q1039 R25/450245 NOSIG RMK OBST OBSC QFE771 SVVA 282300Z /////KT 9999 SCT016 25/22 Q1012 KDVT 290353Z 04005KT 10SM CLR 12/M04 A3011 RMK AO2 SLP188 T01221039 KACY 290354Z 25003KT 10SM CLR 04/01 A3013 RMK AO2 SLP203 T00440006 KCMX 290353Z AUTO 00000KT 10SM CLR M02/M05 A2977 RMK AO2 SLP093 T10221050 K8A3 290355Z AUTO 00000KT 10SM CLR 03/00 A3013 RMK A01 KOCQ 290355Z AUTO 25005KT 10SM CLR 04/M01 A2987 RMK AO1 T00411015 CYPW 290300Z 00000KT 20SM FEW130 FEW250 02/02 A3038 RMK AC2CS1 CS TR LAST STFD OBS NEXT OBS 291500 UTC SLP295 FCPP 290000Z 00000KT 8000 FEW010 BKN020 26/25 Q1011 NOSIG UHHH 290400Z 25008MPS 9999 FEW024 M08/M16 Q1019 R23L/090060 NOSIG RMK QFE758/1010 SPJC 290400Z 15012KT 9999 BKN010 18/16 Q1014 NOSIG RMK PP000 MMRX 290040Z 30010KT 10SM OVC015 19/15 A2996 RMK 8/7// KHWD 290354Z 06005KT 10SM CLR 12/00 A3018 RMK AO2 SLP231 T01170000 YLEO 290400Z AUTO 02008KT 9999 // NCD 32/07 Q1008 RMK SCSE 290400Z AUTO VRB02KT CAVOK 13/11 Q1016 LELO 290400Z AUTO 17002KT 8000 FEW060 05/04 Q1013 KRAW 290355Z AUTO 20003KT 10SM CLR 03/M02 A3014 RMK AO2 T00311021 KPRO 290355Z AUTO 18007KT 10SM CLR 01/M01 A2997 RMK AO2 T00051015 401341025 KMNH 290355Z AUTO 21008KT 10SM CLR M03/M07 A3009 RMK AO2 KBMI 290356Z 20011KT 10SM CLR 02/01 A3011 RMK AO2 SLP200 T00220006 CYXT 290400Z 17021KT 6SM -RA BR FEW006 SCT020 OVC040 02/02 A3003 RMK SF1SC3SC4 SLP181 VTCC 290400Z 03004KT 330V080 9999 FEW035 27/17 Q1018 NOSIG CWHL 290400Z AUTO 14030G38KT 07/04 RMK AO1 4PAST HR 6015 PK WND 14038/0327 SLP148 P0002 T00660044 50012 YBLN 290400Z AUTO 24013KT 9999 // NCD 19/09 Q1011 RF00.0/000.0 KGRK 290408Z AUTO 31005KT 3SM -RA BR BKN008 BKN017 OVC033 09/08 A3009 RMK AO2 CIG 008V035 BKN008 V FEW SLP190 SAZS 290400Z 30012KT 9999 FEW040 06/M02 Q1018 KIOW 290352Z AUTO 21003KT 10SM CLR 04/00 A3003 RMK AO2 SLP175 T00440000 KLMO 290355Z AUTO 27003KT 10SM CLR 01/M07 A3006 RMK AO2 T00101072 LDSP 290400Z AUTO 34006KT 9999 -SHRA OVC063/// 11/08 Q1014 NOSIG CYBG 290400Z 09002KT 2SM -SHSN OVC020 M01/M01 A2977 RMK SN2SC6 VIS VRB 1 1/2-2 1/2 /S01/ SLP088 CWDT 290300Z AUTO 05001KT RMK AO1 3PAST HR 8010 P0001 50006 YCEE 290400Z AUTO 16012KT 120V180 //// // ////// 19/07 Q1015 SCFA 290400Z 20009KT 9999 FEW007 OVC040 17/15 Q1015 KBIH 290356Z AUTO 32007KT 10SM CLR 01/M16 A3025 RMK AO2 SLP252 T00111161 KPWD 290355Z AUTO 32020G28KT 10SM BKN021 OVC026 M03/M06 A3020 RMK A01 Plentywood KHNZ 290355Z AUTO 00000KT 10SM CLR 03/03 A3015 RMK AO2 T00300029 HESC 290300Z 00000KT CAVOK 02/02 Q1023 NOSIG SPNC 281800Z 07014KT 9999 FEW040 BKN100 29/13 Q1019 RMK PP000 KMFR 290353Z 00000KT 1/4SM R14/2000V2400FT FG VV002 01/01 A3033 RMK AO2 SLP281 T00110006 SPHY 281900Z 36011KT 8000 SCT012TCU BKN050 16/08 Q1033 RMK BIRD HAZARD RWY03/21 PP000 KEDE 290355Z AUTO 00000KT 7SM CLR 09/09 A3015 RMK AO2 T00850085 MMML 290340Z 29006KT 10SM SKC 12/M08 A3013 EBFS 290355Z AUTO 05008KT 0050 FG OVC002/// 01/01 Q1021 RED CWWZ 290400Z AUTO 00000KT 06/03 RMK AO1 SOG 02 0003 SLP174 T00590027 RJAW 290400Z 06014KT 9999 FEW015 SCT045 BKN230 26/20 Q1015 RMK 2CU015 4SC045 A2998 KAZO 290353Z AUTO 21009KT 10SM CLR 04/M02 A3006 RMK AO2 SLP187 T00391017 DNPO 290100Z 00000KT 1500 BR SCT008 24/23 Q1011 TEMPO 0800 FG VV005 UNTT 290400Z 12002MPS CAVOK M14/M17 Q1036 R21/420145 NOSIG RMK QFE762 CYXQ 282200Z CCA 34004KT 20SM FEW050 SCT130 OVC240 M17/M19 A2897 RMK SC2AS2CI4 /LAST STFD OBS/NXT 291600Z/ SLP879 OEKJ 290400Z 15013KT 9000 FEW050 19/11 Q1020 PASI 290353Z 17010G20KT 9SM SCT020 BKN048 OVC055 07/02 A2948 RMK AO2 RAE46 SLP983 P0000 T00670022 PAKN 290401Z 18006KT 10SM SCT007 OVC013 M05/M06 A2887 RMK AO2 T10501061 GOOD 290300Z 36002KT 8000 NSC 21/16 Q1012 PAKK 281756Z AUTO 36009G17KT 10SM SCT032 M11/M13 A2914 RMK AO2 SLP879 60000 T11111133 11083 21117 55007 FZRANO CYLD 290200Z 23006KT 15SM BKN030 BKN140 00/M01 A2978 RMK SC7AC1 AC TR LAST STFD OBS/NXT 291100Z SLP109 KBFM 290353Z AUTO 04008KT 10SM -RA OVC110 17/15 A3007 RMK AO2 RAB36 SLP183 P0000 T01720150 K4I3 290355Z AUTO 22005KT 7SM CLR 01/00 A3016 RMK AO2 SBRP 290400Z 15003KT 120V180 CAVOK 24/15 Q1017 ENOV 280920Z VRB03KT 9999 FEW050 BKN075 06/M01 Q1023 RMK WIND 2175FT 15021KT K4O4 290355Z AUTO 05007KT 10SM OVC070 07/03 A3009 RMK AO2 KDNS 290355Z AUTO 18005KT 10SM CLR 04/M00 A2998 RMK AO2 KIFP 290355Z AUTO 02014KT 10SM CLR 15/M09 A3015 RMK AO2 EFTU 290350Z AUTO 10006KT 9999 OVC032 01/M01 Q1029 K1K1 290355Z AUTO 25004KT 10SM CLR 05/M01 A3012 RMK AO2 T00511007 SFAL 281350Z 28025KT 9999 SHRA FEW035CB BKN035 08/02 Q0995 DAUZ 290400Z 26003KT CAVOK 07/M03 Q1017 KBBG 290355Z AUTO 00000KT 10SM CLR 05/M02 A3014 RMK AO2 SYLT 271200Z 08012KT 9999 FEW020 SCT100 28/24 Q//// NOSIG KVTA 290354Z AUTO 00000KT 4SM HZ CLR M01/M03 A3016 RMK AO2 SLP221 T10061033 SCPQ 290400Z AUTO 22005KT CAVOK 05/03 Q1023 LQSA 290400Z VRB02KT 1500 BR SCT015 BKN030 M00/M00 Q1017 KAFK 290355Z AUTO 19009KT 10SM CLR 03/00 A3001 RMK AO2 T00251001 KHZD 290355Z AUTO 00000KT 9SM CLR 01/M01 A3015 RMK A01 KTME 290355Z AUTO 33005KT 6SM -RA SCT005 BKN010 OVC017 17/17 A3004 RMK AO2 KRBG 290353Z AUTO 00000KT 10SM CLR 02/01 A3032 RMK AO2 SLP273 T00220006 OEDR 290400Z 24006KT 9999 FEW040 BKN080 21/17 Q1015 MMMT 290049Z 04006KT 10SM FEW020 FEW080 27/24 A2986 RMK 8/110 HZY KSNH 290355Z AUTO 00000KT 10SM CLR 03/03 A3013 RMK A01 K0F2 290355Z AUTO 36003KT 10SM BKN009 OVC020 07/06 A3010 RMK AO2 T00700062 ENWV 290350Z AUTO 15014KT 9999NDV BKN017/// OVC058/// 08/04 Q1027 W///S3 TQPF 282300Z 05004KT 9999 FEW019 25/21 Q1014 KOVS 280553Z AUTO 00000KT 10SM CLR M03/M06 A3017 RMK AO2 SLP224 T10281056 10022 21039 400611039 55002 KSJT 290402Z AUTO 00000KT 1/2SM FG CLR 01/00 A3013 RMK AO2 T00110000 RVRNO ENML 290350Z AUTO 04007KT 9999NDV NCD M00/M04 Q1026 LTFA 250827Z 05018G28KT CAVOK 15/04 Q1018 RMK RWY17 05018KT KMEB 290352Z AUTO 01003KT 9SM CLR 07/06 A3014 RMK AO2 SLP205 T00720056 CWQK 290400Z AUTO 03010KT 07/ RMK AO1 SLP284 T0069 56009 LIPO 290350Z AUTO 30005KT //// // OVC038/// 06/06 Q1016 KCLK 290355Z AUTO 04007KT 10SM RA SCT045 OVC050 05/02 A3015 RMK AO2 LPMT 290400Z 12009KT 9999 FEW025 11/10 Q1008 LFOV 290400Z AUTO 35003KT 7000 NSC 03/02 Q1018 CWRT 290400Z AUTO 29001KT M08/M10 RMK AO1 T10821097 KCMD 290355Z AUTO 00000KT 10SM CLR 06/04 A3014 RMK AO2 T00550037 YBCG 290400Z AUTO 36016KT 9999 // NCD 28/20 Q1008 CYSF 290400Z AUTO 31002KT 9SM CLR M23/M24 A3001 RMK SLP195 LIMJ 290350Z 04016KT 8000 NSC 09/05 Q1013 LCPH 290400Z 01008KT 9999 FEW060 12/08 Q1019 YPWR 290400Z AUTO 19009KT 9999 // NCD 26/05 Q1012 RF00.0/000.0 KLNQ 290355Z AUTO 03007KT 10SM OVC012 19/17 A3007 RMK AO2 T01850170 SBCA 281400Z 02018KT CAVOK 29/20 Q1019 KNQA 290355Z AUTO 00000KT 10SM FEW019 03/M00 A3015 RMK A01 KECP 290353Z AUTO 35004KT 10SM CLR 18/16 A3003 RMK AO2 SLP181 T01830161 SAVC 290400Z 27016KT CAVOK 11/M05 Q1011 KASG 290248Z 00000KT 10SM CLR 07/00 A3013 HUKB 250900Z 09004KT 9999 SCT018 OVC118 19/16 KAUO 290356Z AUTO 04006KT 10SM CLR 13/09 A3011 RMK AO2 SLP218 T01330094 URMG 290400Z 30002MPS 260V340 CAVOK M06/M07 Q1025 R26/090070 NOSIG RMK QFE754/1005 KAEX 290353Z 36004KT 7SM -RA OVC006 11/11 A3006 RMK AO2 SLP182 P0002 T01110106 KCGE 290355Z AUTO 00000KT 10SM CLR 04/03 A3016 RMK A01 KGYY 290345Z 20005KT 10SM CLR 05/01 A3008 SCON 290400Z AUTO 29004KT CAVOK 05/03 Q1024 ZHHH 290400Z 28002MPS 240V320 5000 BR NSC 09/04 Q1032 NOSIG SBPJ 290400Z 07003KT CAVOK 28/21 Q1012 UAAT 290400Z 23007MPS 5000 -SHSN SCT013 BKN040CB M05/M05 Q1040 R20/490231 NOSIG RMK QFE727/0969 KCQW 290355Z AUTO 00000KT 1/2SM BR VV005 07/07 A3014 RMK AO2 VIS 1/4V5 KONT 290353Z 00000KT 10SM CLR 12/M09 A3012 RMK AO2 SLP200 T01171089 CWBV 290400Z AUTO 36016KT 05/03 RMK AO1 PK WND 34019/0333 T00480032 EDQM 281750Z 05006KT 010V080 4000 BR OVC003 M02/M02 Q1021 KCAO 290355Z AUTO 00000KT SCT110 M04/M04 A3005 RMK AO2 SLP198 T10391044 $ GOSS 290300Z 02004KT 330V050 CAVOK 20/18 Q1012 KFKN 290355Z AUTO 00000KT 1/4SM FG OVC001 05/05 A3015 RMK AO2 T00500046 YCNM 290400Z AUTO 28020G32KT //// // ////// 41/13 Q1004 KHLC 290353Z AUTO 24010G20KT 10SM CLR 06/01 A3006 RMK AO2 SLP185 T00560006 SAEZ 290400Z 31004KT 9000 NSC 18/17 Q1009 TEMPO 5000 MIFG BR NSC EHRD 290355Z AUTO 06007KT 020V110 1100 R06/1400N BR OVC001 04/04 Q1025 BECMG 1500 BR OVC002 KHAF 290355Z AUTO 00000KT 9SM CLR 07/01 A3018 RMK AO2 KC65 290355Z AUTO 22005KT 10SM CLR 04/M01 A3009 RMK A01 CYBQ 290400Z AUTO 33002KT 9SM -SN BKN055 OVC078 M18/M20 A2991 RMK SLP162 KRPD 290355Z AUTO 19004KT 10SM CLR 03/M02 A2985 RMK AO2 T00261016 KCDH 290355Z AUTO 00000KT 10SM FEW037 06/05 A3014 RMK AO2 ETNT 290320Z AUTO 09002KT 6000 // ////// M01/M03 Q1027 /// KD39 290355Z AUTO 25010KT 10SM CLR 04/M02 A2984 RMK AO2 T00411025 KMCF 290356Z AUTO 28004KT 10SM CLR 20/19 A3003 RMK AO2 SLP172 T02040192 FZRANO $ KAPC 290354Z AUTO 36003KT 10SM CLR 06/M01 A3019 RMK AO2 SLP215 T00561011 KSHN 290353Z AUTO 00000KT 1/2SM FG VV002 01/01 A3035 RMK AO2 SLP282 T00110011 KHFJ 290355Z AUTO 17003KT 10SM CLR 05/M01 A3014 RMK AO2 LFOA 290400Z AUTO 06007KT CAVOK 03/01 Q1016 CYPH 290400Z AUTO 08011KT 9SM OVC043 M09/M11 A2983 RMK SLP104 CWAF 290400Z AUTO 22013KT 02/01 RMK AO1 T00230014 KW31 290355Z AUTO 00000KT 10SM CLR 04/03 A3013 RMK AO1 T00430033 LOWS 290350Z AUTO 14003KT 110V180 9999 SCT008 BKN012 00/M01 Q1020 MYSM 290400Z AUTO 16002KT CAVOK 21/21 A3003 VERC 290400Z 03004KT 3000 HZ NSC 21/09 Q1022 NOSIG KAWO 290407Z AUTO 00000KT 1/4SM FG BKN002 03/03 A3038 RMK AO2 KM40 290355Z AUTO 36003KT 2 1/2SM BR CLR 06/07 A3014 RMK AO2 CWEL 290400Z AUTO 31002KT 06/05 RMK AO1 SLP287 T00590047 56006 EGYE 271450Z 12002KT 9999 FEW020 SCT045 ///// Q1018 RMK BLU KHLB 290400Z AUTO 00000KT 10SM CLR M01/M01 A3016 RMK A01 LTCT 281450Z 22004KT 9999 FEW100 01/M07 Q1027 KFNB 290353Z AUTO 19005KT 10SM CLR 05/M01 A3003 RMK AO2 SLP175 T00501011 PAOO 290405Z AUTO 31007KT 10SM SCT019 SCT043 M06/M07 A2920 RMK AO2 FZRANO TSNO $ KCDI 290355Z AUTO 00000KT 10SM CLR M02/M02 A3019 RMK AO2 T10221023 KHPT 290355Z AUTO 23010KT 10SM CLR 03/01 A2994 RMK AO2 K0R4 290355Z AUTO 04004KT 10SM CLR 13/11 A3006 RMK AO2 T01280113 VOHB 290400Z 08007KT 5000 BR SCT007 SCT012 BKN080 22/20 Q1020 RKSO 290358Z 28005KT 7SM OVC031 03/M04 A3038 RMK AO2A SLP292 T00311039 $ SPPY 281900Z 12012KT 9999 BKN025 BKN070 19/11 Q1026 RMK PP000 YMES 290400Z AUTO 24018KT 9999 // BKN035 BKN042 BKN048 21/12 SLJE 282200Z 00000KT 9999 FEW017 33/23 Q1011 MHTR 290000Z 00000KT 9999 SCT022TCU SCT080 26/23 LFCK 290400Z AUTO 12005KT CAVOK 06/05 Q1014 GCLA 290400Z AUTO 26005KT 9999 FEW027 17/13 Q1014 KDWU 290356Z AUTO 11010KT 10SM CLR 01/01 A3021 RMK AO2 SLP234 T00110006 401060006 FZRANO PNO $ PASC 290353Z 02013KT 5SM BR OVC016 M14/M16 A2950 RMK AO2 SLP992 T11441161 RORY 290400Z AUTO 35015KT 9999 SCT035 SCT044 OVC060 21/13 Q1022 KTQH 290355Z AUTO 00000KT 10SM CLR 05/01 A3015 RMK AO2 EIDL 281900Z VRB04KT CAVOK 07/05 Q1021 UTAT 290400Z 09010KT CAVOK M02/M03 Q1041 R08/CLRD70 NOSIG RJNT 290400Z 03005KT 340V140 9999 FEW030 SCT/// 11/01 Q1021 DXSK 290300Z 00000KT CAVOK 23/22 Q//// NZRO 290400Z 30003KT 44KM FEW040 SCT060 18/14 Q1001 RMK AUTO VATSIM USE ONLY VOBG 290400Z 07003KT 3000 BR SCT008 SCT012 BKN080 21/19 Q1019 NOSIG KDNA 290355Z AUTO 26005KT 10SM 06/M06 A3019 RMK AO2 K1CM 290358Z AUTO 29007KT 10SM BKN065 M03/M07 A3033 RMK AO2 SHSNE17 SLP303 T10301075 $ YBYU 290400Z AUTO 22007KT 9999 // SCT024 31/24 Q1006 DTTX 290400Z 21013KT 7000 NSC 14/05 Q1006 LTCR 280850Z 11011KT 9999 BKN040 BKN100 16/06 Q1022 KAPY 290355Z AUTO 32005KT 5SM BR OVC005 16/16 A3007 RMK AO2 T01640162 TSNO CYNM 290405Z AUTO VRB02KT 9SM -SN OVC034 M02/M03 A2974 RMK SLP091 KTYS 290353Z 36004KT 10SM FEW100 FEW250 08/04 A3012 RMK AO2 SLP198 T00780039 UKBB 290400Z 15002MPS 6000 NSC M01/M01 Q1018 R88/290050 NOSIG EDVE 290350Z AUTO VRB02KT 9999 // OVC032/// 01/M01 Q1026 CWSS 290300Z AUTO 00000KT M00/00 RMK AO1 SLP117 T10030000 57001 NCPY 290400Z AUTO 05005KT //// ////// 29/23 Q1010 LSZR 290350Z AUTO 12002KT 9999 OVC016 02/00 Q1019 YHID 290400Z AUTO 05011KT 9999 // NCD 31/23 Q1006 RF00.0/000.0 KUCP 290356Z AUTO 00000KT 10SM CLR M01/M03 A3015 RMK AO2 SLP233 T10061033 PWINO FZRANO $ KY49 290355Z AUTO 25007KT 10SM CLR 05/M04 A2975 RMK AO2 T00451037 EPDA 290400Z 01008KT 310V080 9999 BKN020TCU 06/03 Q1024 RMK 057 083 7/7 = KTTD 290353Z 00000KT 10SM OVC006 07/06 A3036 RMK AO2 SLP280 T00720061 KJWG 290355Z AUTO 31004KT 10SM -DZ OVC060 04/03 A3017 RMK AO2 T00440033 RJSA 290400Z 24004KT 9999 VCSH FEW010 BKN050 02/00 Q1020 UHBB 290400Z 36005MPS 9999 FEW033 M09/M18 Q1021 R36/090060 NOSIG RMK QFE748/0998 UACP 290400Z 34004MPS 3500 -SHSN BKN012 OVC023CB M12/M14 Q1042 R23/4/0545 NOSIG RMK QFE769/1025 LFRI 290400Z AUTO 05008KT CAVOK 06/04 Q1016 KAVQ 290355Z AUTO 00000KT 10SM CLR 10/M04 A3012 RMK AO2 T01011043 CYJT 290406Z 33003KT 15SM -SHRA SCT010 OVC037 02/01 A2972 RMK SF3SC5 CVCTV CLD EMBD SLP066 WBGS 290400Z VRB05KT 9999 SCT016 31/25 Q1010 CYCB 290400Z 16009KT 1SM BR OVC002 M24/M27 A2977 RMK FG1ST7 VIS VRB 3/4-1 1/4 FROIN SLP086 EDDF 290350Z 05010KT 9999 BKN021 02/M03 Q1024 NOSIG KJWY 290355Z AUTO 00000KT 7SM -RA SCT035 OVC047 09/09 A3010 RMK AO2 P0004 T00900090 KASD 290353Z AUTO 04005KT 10SM BKN006 OVC110 17/16 A3005 RMK AO2 RAB32E40 SLP174 P0000 T01670156 MGQZ 290000Z 18010KT 9999 BKN020 16/14 QFE 771/9 K1V4 290354Z AUTO 01/01 A2994 RMK AO1 SLP148 T00110006 PAFM 290356Z AUTO 02012KT 10SM CLR M13/M17 A2922 RMK AO2 SLP905 T11281172 FZRANO K4A6 290355Z AUTO 00000KT 10SM CLR 07/07 A3013 RMK AO2 KLLJ 290355Z AUTO 00000KT 10SM CLR M07/M12 A3036 RMK AO2 SLP346 T10721122 KGCY 290355Z AUTO 00000KT 10SM CLR 07/03 A3013 RMK A01 CWEH 290400Z AUTO 29011KT M10/M11 RMK AO1 SOG 17 1025 SLP303 T10971113 KCWI 290156Z AUTO 21010KT 10SM CLR 06/01 A3003 RMK AO2 SLP180 T00560011 OIMT 290400Z AUTO 16002KT //// // ////// 09/02 Q1023 GOTT 290300Z 00000KT CAVOK 20/06 Q1010 EGWU 290350Z AUTO 05006KT 3800 // OVC003/// 08/08 Q1024 CYQV 290400Z AUTO 31015G28KT 9SM OVC030 M04/M08 A3003 RMK PRESRR SLP208 KSXU 290355Z AUTO 25003KT 10SM CLR 00/M01 A3009 RMK AO2 T10051010 CXAT 290400Z AUTO 15008KT M22/M26 RMK AO1 SOG 03 3006 SLP060 T12231255 50003 KAUM 290355Z AUTO 00000KT 10SM CLR 02/00 A2992 RMK AO2 KBTM 290353Z AUTO 01003KT 10SM CLR M05/M09 A3033 RMK AO2 SLP314 T10501094 CYZY 290400Z AUTO 16011G16KT 9SM OVC110 M03/M04 A3009 RMK SLP245 LOXZ 290350Z 00000KT 10KM BKN020SC M03/M03 Q1019 KMCB 290353Z AUTO 03005KT 7SM -RA OVC005 14/13 A3008 RMK AO2 SLP184 P0004 T01390133 KK82 290355Z AUTO 24009KT 10SM 04/01 A3004 RMK AO2 ENCN 290350Z AUTO 05003KT 9999 OVC033/// 02/01 Q1030 OINN 290400Z 18002KT 9999 SCT025 BKN180 09/06 Q1027 EDTL 281250Z 01005KT 340V050 3000 BR OVC002 01/01 Q1019 K6S0 290355Z AUTO 07005KT 10SM CLR M01/M08 A3032 RMK A01 KFTW 290353Z 00000KT 10SM -RA OVC005 09/08 A3009 RMK AO2 SLP190 P0002 T00890083 KPLR 290355Z AUTO 00000KT 8SM CLR 09/08 A3011 RMK A01 KVER 290355Z AUTO 00000KT 10SM CLR 04/M02 A3013 RMK AO2 T00361022 DAUO 290400Z 25008KT 6000 NSC 12/04 Q1010 CYZR 290400Z AUTO 20008KT 9SM CLR 03/M02 A3002 RMK SLP175 KRUE 290353Z AUTO 00000KT 10SM CLR 03/01 A3013 RMK AO2 SLP201 T00280011 K1P1 290355Z AUTO 27004KT 3SM BR SCT075 00/00 A2998 RMK AO2 T10011002 400711006 MDSD 290400Z 00000KT 9999 SCT016 BKN070 23/22 Q1016 VOHY 290400Z 05006KT 4000 BR SCT015 SCT100 23/21 Q1021 BECMG 5000 HZ PANW 290356Z AUTO 35009KT 5SM -SN OVC012 A2886 RMK AO2 SLPNO P0000 FZRANO $ SCAP 290400Z AUTO 23008KT 180V320 9999 ////// 08/M04 Q1022 YNHL 290400Z AUTO 20015KT //// // ////// 22/06 Q1012 RMK MBGT 282200Z 08003KT 9999 FEW018 25/18 Q1015 SVGD 290402Z AUTO 27003KT NCD 23/23 Q1014 ENHV 281020Z 17017KT CAVOK 02/M00 Q1019 CWOC 290400Z AUTO 27001KT 01/M00 RMK AO1 1PAST HR 6004 SLP090 P0000 T00071004 50001 KT70 290358Z AUTO 34007KT 10SM CLR M A3006 RMK AO2 SLPNO $ WBGB 290400Z 27005KT 190V360 9999 SCT014 31/26 Q1010 K77S 290355Z AUTO 00000KT 10SM CLR 02/02 A3031 RMK A01 LTCE 290350Z 06004KT 040V100 CAVOK M06/M09 Q1024 NOSIG RMK RWY08R VRB02KT RWY26R 06004KT RWY08L 04004KT CWXL 290400Z AUTO 21004KT M09/M10 RMK AO1 SLP316 T10881099 53017 ENVR 280650Z 20012KT 9999 FEW013 SCT023 08/04 Q1020 K13K 290355Z AUTO 20006KT 10SM CLR 05/M01 A3013 RMK AO2 T00481010 SMJP 290400Z VRB02KT 9999 FEW018 23/23 Q1013 NOSIG CYJF 272300Z 06007KT 15SM FEW060 SCT100 M07/M11 A2975 RMK SC2AC1 AC TR LAST STFD OBS/NXT 301500Z SLP089 KPAN 290355Z AUTO 00000KT 10SM CLR 05/M10 A3021 RMK AO2 KW78 290355Z AUTO 10SM CLR 03/02 A3014 RMK AO1 T00340024 KLGF 290358Z AUTO 01007KT 9SM R36/5500FT CLR 14/M09 A3010 RMK AO2 SLP193 T01391093 $ VNKT 290350Z VRB02KT 5000 BR FEW015 14/06 Q1026 NOSIG NZWP 290400Z 24019KT 9999 SCT027 19/13 Q1003 NOSIG RMK AUTO NZAA VATSIM USE ONLY EGXZ 290350Z AUTO 35002KT 1400 FEW003/// OVC006/// 06/06 Q1025 KD50 290355Z AUTO 32021G27KT 10SM FEW017 SCT033 OVC044 M02/M04 A3014 RMK AO2 SBCJ 282300Z 00000KT CAVOK 23/20 Q1014 LIRQ 290350Z AUTO VRB07KT 9999 NCD 12/06 Q1012 UTFA 271300Z 00000KT 0700 FG OVC008 02/M01 Q1024 R88/09//70= YESP 290400Z AUTO 01012KT 9999 // NCD 26/09 Q1010 RMK KBDH 290355Z AUTO 24005KT 10SM CLR 03/M02 A2990 RMK AO2 LTCF 290350Z 29005KT CAVOK M10/M11 Q1024 KNFG 290355Z AUTO 00000KT 10SM CLR 09/M06 A3010 RMK AO2 SLP193 T00941061 $ DAAE 290400Z 26009KT 8000 FEW020 SCT040 BKN090 13/11 Q1008 CYCG 290100Z 00000KT 15SM SKC M00/M01 A3038 RMK LAST OBS/NEXT291400Z SLP310 SBJU 290200Z 17008KT 9999 SCT020 26/17 Q1017 K2D5 290355Z AUTO 30018KT 10SM CLR 05/M06 A2992 RMK AO2 KETN 290355Z AUTO 31007KT 10SM OVC005 05/05 A3013 RMK AO2 P0002 T00500045 CWCF 290400Z AUTO 30006KT M02/M03 RMK AO1 4PAST HR SOG 30 3019 SLP120 P0002 T10151033 50019 GMMZ 290400Z VRB01KT CAVOK 05/00 Q1015 NOSIG KRTN 290353Z AUTO 31007KT 10SM CLR M04/M07 A3007 RMK AO2 SLP205 T10441067 CYKO 282200Z 06008KT 4SM -SN OVC020 M10/M12 A2976 RMK SC8 SN CVR MUCH LOOSE LST OBS/NXT 291300Z SLP080 YLIS 290400Z AUTO 36013KT 9999 // NCD 38/11 Q1005 RMK NZMF 290300Z 32012KT 290V020 60KM FEW055 18/09 Q1000 RMK VATSIM USE ONLY VAKP 290400Z 07008KT 2800 BR SCT012 BKN080 22/19 Q1019 KLWD 290353Z AUTO 21009KT 10SM CLR 03/M02 A3003 RMK AO2 SLP176 T00331017 VVDN 290400Z 36014KT 2200 RA BR FEW005 BKN010 OVC050 23/22 Q1019 BECMG TL0430 3200 RA BR SLCO 281700Z 01004KT 9999 SCT023 31/24 Q1011 KCWV 290355Z AUTO 00000KT 7SM OVC012 15/13 A3011 RMK AO2 T01460134 LTAT 290350Z 21004KT CAVOK M01/M02 Q1022 NOSIG RMK RWY03 22004KT EGDM 290350Z AUTO 02006KT 2600 BR BKN004/// 06/06 Q1023 EDMO 290350Z AUTO 07006KT 050V120 9999 // OVC008/// M01/M02 Q1019 SAVV 252123Z 23017KT 9999 FEW025 FEW035CB SCT050 16/09 Q1004 FASI 270900Z AUTO 00000KT //// // ////// ///// Q1027 UTFN 290400Z 00000KT 4000 BR NSC 01/M01 Q1039 R28/CLRD70 NOSIG KMSP 290353Z 23010KT 10SM FEW200 05/M01 A2988 RMK AO2 SLP125 T00501011 LEBG 290400Z AUTO 03003KT CAVOK 03/01 Q1013 KMCE 290353Z AUTO 00000KT 8SM CLR 07/01 A3019 RMK AO2 SLP226 T00720011 ENOL 290350Z 14017KT 9999 FEW040 SCT070 02/M02 Q1025 CXNP 290400Z AUTO 14002KT 03/03 RMK AO1 SLP104 T00290029 58006 OEGN 290400Z 14008KT 9999 SCT030 FEW035CB 26/22 Q1012 NOSIG CWZW 290400Z AUTO 07001KT M03/M05 RMK AO1 SOG 36 6009 SLP958 T10261053 KJGG 290355Z AUTO 00000KT 7SM CLR 07/07 A3016 RMK AO1 CWRK 290400Z AUTO 13001KT M02/M03 RMK AO1 SOG 01 3005 SLP142 T10161034 K2J3 290355Z AUTO 00000KT 1 1/4SM BR BKN028 13/ A3011 RMK AO2 VIS 1/2V2 T0130//// KAVX 290351Z AUTO 31007KT 10SM CLR 15/M14 A3014 RMK AO2 SLP196 T01501139 $ CYQI 290400Z 31004KT 15SM FEW022 05/03 A2989 RMK CU1 SLP124 ZLXY 290400Z VRB01MPS 4000 HZ FEW033 08/M00 Q1033 NOSIG EFOU 290350Z AUTO 17007KT 150V210 9999 -SHSN OVC015 M02/M03 Q1029 PHOG 290354Z 05005KT 10SM FEW025 SCT060 23/18 A2998 RMK AO2 SLP158 T02280183 LHPR 290345Z AUTO 26004KT 5000 BR NSC M01/M01 Q1021 SBMK 290300Z 00000KT 9999 FEW030 20/16 Q1019 YPKG 290400Z AUTO 36010KT 350V050 9999 // NCD 28/09 Q1009 RF00.0/000.0 KSUZ 290355Z AUTO 00000KT 10SM 06/01 A3014 RMK A01 KSMS 290355Z AUTO 00000KT 1/4SM FG OVC001 07/07 A3014 RMK AO2 DAAT 290400Z 34008KT CAVOK 10/M09 Q1018 KOUN 290355Z AUTO 01009KT 10SM -RA OVC065 06/04 A3011 RMK AO2 P0002 T00590041 VLLB 290400Z 04008KT 9999 FEW020 26/14 Q1019 NOSIG RJFM 290400Z 29008KT 250V320 9999 FEW030 16/01 Q1022 MSLP 290350Z VRB01KT 9999 SHRA FEW023 SCT060 25/25 Q1012 A2990 NOSIG CYFR 232300Z 16005KT 10SM -SN OVC018 M12/M14 A2983 RMK SC8 LAST STFD OBS/NEXT301500Z SLP118 YARM 290400Z AUTO 29020KT //// // NCD 31/09 Q1013 RMK KTUS 290353Z 21003KT 10SM CLR 09/M06 A3014 RMK AO2 SLP196 T00941061 $ KLYH 290354Z AUTO 00000KT 10SM CLR 03/00 A3014 RMK AO2 SLP207 T00330000 KGRF 290358Z AUTO 00000KT 9SM CLR 03/03 A3036 RMK AO2 SLP287 T00320032 $ AYMH 290400Z VRB04KT 9999 -SHRA SCT020 BKN050 21/18 Q1014 CYKA 290400Z 10010KT 40SM FEW060 BKN190 02/M01 A3037 RMK SC3AC3 SLP302 UTDL 290400Z 02001MPS 3000 BR NSC 01/M01 Q1039 R26/29//50 NOSIG RMK QFE740/0987 HTPE 232000Z 12005KT 9999 FEW017 BKN080 27/24 Q1013 LPFR 290400Z 05005KT 9999 FEW020 12/11 Q1010 DAUH 290400Z 21011KT CAVOK 08/01 Q1014 CYMJ 272312Z 26011KT 15SM FEW120 BKN280 01/M02 A2978 RMK AC1CI6 LAST OBS/NEXT 301000 UTC SLP110 KPLU 290355Z AUTO 00000KT M1/4SM -DZ OVC002 03/03 A3037 RMK AO2 KFDK 290355Z AUTO 00000KT 10SM CLR 01/00 A3015 RMK AO2 CYTR 290400Z AUTO 25017G24KT 9SM CLR 05/01 A2998 RMK SLP157 KFPR 290353Z AUTO 00000KT 10SM CLR 19/19 A3004 RMK AO2 SLP171 T01940189 FAUP 290400Z 23005KT CAVOK 18/04 Q1015 NOSIG KAVC 290355Z AUTO 00000KT 10SM CLR 04/03 A3019 RMK AO2 T00350025 OIZH 281600Z 01008KT CAVOK 10/M04 Q1028 A3036 KITR 290353Z AUTO 25011KT 10SM CLR 01/M03 A3006 RMK AO2 SLP185 T00061028 ENBN 290350Z AUTO 18015KT 9999NDV -SHRA OVC026/// 07/01 Q1024 TBPB 290400Z 10013KT 9999 BKN016 27/24 Q1013 NOSIG K3R7 290355Z AUTO 03006KT 10SM -RA OVC005 15/15 A3005 RMK AO2 T01500150 PAKX 290355Z AUTO 00000KT 10SM SCT008 BKN080 OVC120 M01/M02 A2882 RMK AO2 NZWB 290400Z 03017KT 010V070 20KM NCD 19/11 Q1000 RMK AUTO VATSIM USE ONLY KI69 290355Z AUTO 00000KT 10SM CLR 01/M01 A3019 RMK AO2 T00081015 DXNG 290300Z 12004KT 9999 FEW007 24/16 Q1013 NZWK 290400Z 29008KT 250V340 18KM BKN007 OVC013 17/16 Q1001 RMK AUTO VATSIM USE KEKM 282250Z 21005KT 10SM SKC 05/M01 A3008 RMK AO2 LAST YMRY 290400Z AUTO 04010KT 010V070 9999 // NCD 25/18 Q0999 RMK TNCB 290355Z AUTO 08011KT 9999 // FEW017/// SCT034/// 27/24 Q1013 RE// CYBN 290400Z AUTO 23006KT 9SM FEW093 03/M03 A2996 RMK SLP153 NZHS 290400Z 17008KT 140V220 20KM BKN045 OVC060 20/13 Q0999 RMK AUTO NZNR VATSIM KJQF 290250Z 00000KT 10SM CLR 06/04 A3016 CWEK 270900Z AUTO 07011KT 05/04 RMK AO1 T00520039 58011 KPIE 290353Z 19005KT 10SM CLR 21/19 A3003 RMK AO2 SLP169 T02110189 $ YPAD 290400Z 22019KT CAVOK 20/08 Q1014 NZWR 290400Z 24012KT 190V280 19KM SCT025 BKN032 21/16 Q1005 RMK AUTO VATSIM USE YCKN 290400Z AUTO 10015KT 9999 // BKN025 BKN029 BKN073 31/23 PACV 290353Z 09007KT 10SM -RASN SCT016 BKN024 OVC039 02/01 A2898 RMK AO2 RAB14SNB52 SLP815 P0002 T00220006 $ CYSP 282200Z 27004KT 240V310 15SM FEW012 BKN018 BKN110 OVC120 01/M00 A2974 RMK SC2SC3AC2AC1 LAST STFD OBS/NEXT 291300UTC SLP089 EGHE 281020Z 11016KT 9999 SCT018 13/12 Q1011 VEAT 290400Z 00000KT 1000 BR NSC 23/20 Q1017 BECMG 1500 BR TTPP 290300Z 00000KT 9999 FEW016 26/24 Q1013 NOSIG LFSN 290400Z AUTO 06014KT 6000 OVC006 02/01 Q1020 OISY 290400Z 00000KT 3000 RA FEW030CB SCT035 OVC070 07/07 Q1024 KMNN 290353Z AUTO 20007KT 9SM CLR 01/M03 A3015 RMK AO2 SLP218 T00061028 SBJR 282100Z 25002KT 9999 FEW025 27/21 Q1015 SVMC 290402Z AUTO 03005KT NCD 27/23 Q1012 CYCX 290400Z AUTO 21005KT 9SM FEW094 02/01 A2985 RMK SLP110 ENLK 281350Z 19011KT 9999 FEW015 SCT025 BKN050 07/04 Q1017 HTMU 290300Z 00000KT 9999 FEW014 FEW015CB BKN080 21/19 Q1017 KAGC 290353Z AUTO 20006KT 10SM CLR 03/M04 A3015 RMK AO2 SLP222 T00281039 $ KBIL 290353Z 03005KT 10SM BKN100 02/M07 A3031 RMK AO2 SLP285 T00171072 KI19 290355Z AUTO 22003KT 10SM CLR 02/M02 A3019 RMK AO2 T00171020 KSYN 290355Z AUTO 21006KT 10SM CLR 02/M01 A2989 RMK AO2 T00161007 MDCY 290000Z 00000KT 9999 SCT018 23/25 Q1014 KQFX 290410Z AUTO 34001KT 9999 SCT041 BKN047 04/M07 A3035 RMK A02 TSNO VTBU 290400Z 04010KT 9999 FEW025 SCT100 29/19 Q1013 NOSIG MMMZ 290341Z 34004KT 10SM SCT220 20/15 A2991 RMK 8/002 YBTH 290400Z AUTO 30005KT 270V350 9999 // SCT053 SCT070 BKN105 CYGE 290000Z 01003KT 20SM FEW070 M02/M04 A3033 RMK CU1 LAST STFD OBS/NEXT 291400Z SLP306 KPIB 290412Z AUTO 02006KT 10SM SCT012 OVC017 13/12 A3011 RMK AO2 ENHE 290350Z 22022KT 4000 -RADZ OVC006 07/06 Q1019 W///S5 VOCI 290330Z 05002KT 4000 BR FEW015 28/23 Q1012 NOSIG KDUX 290355Z AUTO 00000KT 10SM OVC013 01/00 A3011 RMK AO2 T00110000 KGLH 290353Z AUTO 05007KT 10SM CLR 08/04 A3011 RMK AO2 SLP205 T00830039 RJTI 290400Z VRB02KT 9999 FEW030 BKN050 BKN080 12/03 Q1020 ESND 290350Z AUTO 30003KT 9999 NCD M13/M14 Q1028 KHZY 290353Z AUTO 22007KT 10SM CLR 03/M03 A3011 RMK AO2 SLP203 T00281028 KGXY 290356Z AUTO 31005KT 10SM CLR M05/M10 A3005 RMK AO2 SLP225 T10501100 FZRANO KHJH 290355Z AUTO 23007KT 10SM CLR 06/00 A3000 RMK AO2 T00550000 PASM 290356Z AUTO 36017G21KT 10SM OVC010 M08/M09 A2914 RMK AO2 SLP878 T10781089 FZRANO BIIS 281500Z 23017KT 9999 VCSH SCT020 OVC030 02/M06 Q0998 R88/790132 KLWV 290353Z AUTO 00000KT 10SM CLR 01/M01 A3017 RMK AO2 SLP218 T00111006 $ RJSC 290400Z 34007KT 9999 -SHRA FEW020 SCT040 BKN050 07/04 Q1021 KBBD 290355Z AUTO 34006KT 10SM OVC010 07/06 A3012 RMK AO2 KLRF 290356Z AUTO 00000KT 10SM CLR 03/01 A3015 RMK AO2 SLP214 T00280007 $ SCCH 290400Z AUTO 23006KT //// R/////// NCD 13/12 Q1020 KCQM 290356Z AUTO 21003KT 10SM CLR 00/M03 A2969 RMK AO2 VERP 290300Z 04005KT 2000 HZ NSC 21/13 Q1019 NOSIG LFBP 290400Z AUTO 09003KT CAVOK 06/06 Q1013 TEMPO 0300 FG VV/// LIBG 281850Z 11006KT 9999 SCT020 12/10 Q1015 KBAK 290250Z 00000KT 10SM CLR 01/M02 A3019 RMK LAST KRDM 290356Z AUTO 18003KT 10SM CLR 01/M06 A3032 RMK AO2 SLP289 T00111061 CWSA 290400Z AUTO 33011G17KT 9SM OVC022 09/07 A2972 RMK SLP064 K1FW 290358Z AUTO 33011KT 10SM CLR M03/M11 A3006 RMK AO2 SLP194 T10331111 $ PAQT 290355Z 36006KT 6SM -SN BR OVC012 M16/M18 A2956 RMK (SCC FSS) USCM 290400Z 00000MPS 3200 0300N FZFG OVC001 M18/M20 Q1045 R36/090060 TEMPO 0200 FZFG RMK QBB030 QFE744 PALJ 290151Z 07004KT 25SM OVC060 03/M03 A2877 RMK LAST RPT EST PASS OPN NOSPECI YCAS 290400Z AUTO 36015KT //// // ////// 40/10 Q1004 K18A 290355Z AUTO 00000KT 7SM CLR 11/10 A3014 RMK AO2 T01100099 ESKN 290350Z 33005KT 9999 BKN017 M00/M01 Q1028 R08/290195 KOEB 290355Z AUTO 24009KT 10SM CLR 03/M02 A3008 RMK AO2 T00301016 KHYI 290356Z AUTO 34011KT 10SM FEW008 OVC022 11/11 A3010 RMK AO2 SLP189 T01110106 KBLM 290356Z AUTO 30005KT 10SM CLR 04/01 A3013 RMK AO2 SLP202 T00440006 SBPL 290400Z 17008KT CAVOK 23/19 Q1016 KMHK 290352Z 22005KT 10SM CLR 06/M02 A3009 RMK AO2 SLP194 T00561017 LFPM 290400Z AUTO 35005KT CAVOK 01/00 Q1019 MGMM 290400Z 00000KT 9999 BKN020 25/23 Q1015 A2997 CXCS 290400Z AUTO 26017KT M09/M12 RMK AO1 PK WND 27020/0359 T10851120 KDIJ 290356Z AUTO 05005KT 10SM SCT065 M13/M14 A3035 RMK AO2 SLP377 T11281144 FYLZ 290400Z AUTO 17013KT //// // ////// 15/11 Q1012 URWA 290400Z 10007MPS CAVOK M01/M03 Q1033 R09/010070 NOSIG RMK QFE777/1036 GAKD 290300Z 08006KT CAVOK 18/10 Q1012 KEZS 290355Z AUTO 00000KT 10SM CLR 03/M02 A2988 RMK AO2 T00281021 KDET 290353Z 23011KT 10SM CLR 04/M04 A3006 RMK AO2 SLP182 T00441039 CYZU 290400Z 34002KT 15SM SKC M09/M09 A3014 RMK SLP255 GOGS 290300Z 36006KT CAVOK 23/19 Q1011 KHLR 290408Z AUTO 32010KT 4SM -RA BR SCT004 BKN014 OVC021 09/08 A3011 RMK AO2 CIG 004V014 SLP195 MGZA 290000Z 09010KT 9999 FEW035 27/19 QFE 986/6 KAQP 290353Z AUTO 27007KT 10SM CLR 04/M03 A2987 RMK AO2 LFCR 290400Z AUTO 15003KT CAVOK 01/00 Q1014 NOSIG CWGL 290400Z AUTO 24015KT 04/M01 RMK AO1 PK WND 24019/0309 SLP132 T00441008 53003 PHNY 290356Z AUTO 04019KT 10SM CLR 21/19 A3002 RMK AO2 SLP146 T02060194 KPVJ 290355Z AUTO 06008KT 10SM -RA BKN070 OVC080 06/05 A3009 RMK AO2 P0002 T00620050 PAIW 290356Z AUTO 02025G34KT 4SM -SN BR OVC019 M07/M09 A2938 RMK AO2 PK WND 02037/0257 SNB48 SLP951 P0000 T10671089 FZRANO K4S1 290355Z AUTO 05006KT 7SM CLR 08/02 A3023 RMK AO2 CWME 290300Z AUTO 05007KT 04/03 RMK AO1 SLP254 T00370032 KMSV 290356Z AUTO 31005KT 10SM CLR M01/M02 A3007 RMK AO2 SLP195 T10061022 FZRANO CWMJ 290400Z AUTO 22004KT 01/M00 RMK AO1 SOG 02 3004 SLP125 T00141003 VTCH 290400Z 00000KT 9999 FEW025 27/19 Q1017 NOSIG KPPO 290355Z AUTO 22008KT 10SM CLR 03/00 A3009 RMK AO2 T00270001 KHRL 290352Z 31010KT 6SM BR OVC004 19/19 A2996 RMK AO2 CIG 003V007 SLP145 T01890189 EHSA 290355Z AUTO 08012KT 2800 BR ///////// 06/06 Q1024 W10/H7 KSAA 290355Z AUTO 12004KT 10SM CLR M08/M13 A3021 RMK AO2 YNBR 290400Z AUTO 33018G32KT 9999 // NCD 41/06 Q1006 KENW 290353Z AUTO 24016G23KT 10SM CLR 07/01 A2998 RMK AO2 SLP157 T00720006 KXMR 290356Z AUTO 19003KT 10SM CLR 20/19 A3000 RMK AO2 SLP162 T01970185 $ KOTH 290356Z 16005KT 10SM CLR 07/05 A3029 RMK AO2 SLP256 T00670050 PFNO 290356Z AUTO 05008KT 8SM CLR M14/M17 A2925 RMK AO2 SLP989 T11441172 FZRANO KMRY 290354Z AUTO 12006KT 10SM CLR 08/M02 A3017 RMK AO2 SLP229 T00831017 PADQ 290353Z 27005KT 10SM BKN095 OVC120 M02/M03 A2885 RMK AO2 SLP769 T10171033 $ ORSU 290400Z 06008KT 9999 BKN040 OVC100 08/05 Q1020 VAJB 290330Z 00000KT 3000 HZ NSC 19/11 Q1021 K4R5 290355Z AUTO 22005KT 10SM CLR 03/M02 A2978 RMK AO2 T00301021 LTFK 271250Z 35008KT CAVOK 15/09 Q1020 CZPS 282000Z AUTO 28009KT M04/M06 RMK AO1 T10411056 RJAF 290400Z VRB03KT 9999 FEW025 BKN/// 07/M01 Q1019 EDMA 290350Z AUTO 06005KT 030V090 9999 // OVC018/// M00/M02 Q1020 EYKA 290350Z 03005KT 350V060 9999 BKN007 OVC014 01/M01 Q1022 R08/290095 CWCJ 290400Z AUTO 05003KT 01/M01 RMK AO1 SLP105 T00051009 51009 LRBS 290400Z 09003KT 050V130 1800 BCFG BR OVC002 M00/M00 Q1019 TEMPO 0600 FZFG PAZK 290356Z AUTO 30003KT 10SM CLR M11/M12 A2878 RMK AO2 SNE19 SLP807 P0000 T11061117 FZRANO CYQF 290400Z AUTO 20008KT 9SM CLR M09/M12 A3021 RMK SLP288 LTCO 281150Z 34006KT 310V010 CAVOK 06/M08 Q1024 FYRU 290400Z 00000KT 9999 FEW030 BKN070 ///// Q1018 LIPA 271855Z 03004KT 8000 NSC 02/01 Q1021 RMK SKC VIS MIN 8000 WIND THR05 /////KT WIND THR23 /////KT A3017 BLU KLXL 290321Z AUTO 15003KT 10SM CLR 00/M03 A2982 RMK AO2 FAJB 281900Z AUTO 00000KT //// // ////// 17/14 Q//// KLND 290353Z AUTO VRB04KT 10SM CLR M01/M13 A3018 RMK AO2 SLP262 T10111128 KF70 290355Z AUTO 00000KT 10SM CLR 11/M07 A3013 RMK AO1 KSMQ 290353Z AUTO 00000KT 10SM CLR 01/M01 A3011 RMK AO2 SLP198 T00061011 CWGT 290400Z AUTO 13007KT 06/05 RMK AO1 SLP286 T00640049 56007 ENTO 290350Z AUTO 35004KT 0800 R18/P2000N R36/P2000N FZFG SCT001/// OVC003/// M02/M02 Q1030 EGNT 290350Z AUTO VRB01KT 0250 FG OVC002/// 06/05 Q1025 KSYM 282355Z AUTO 00000KT 10SM CLR 05/M01 A3020 RMK AO2 LTCW 281450Z 16005KT 3600 BR FEW012 SCT030 BKN070 M04/M05 Q1025 KRUG 290355Z AUTO 32023G30KT 10SM BKN018 BKN027 M01/M04 A2997 RMK AO2 KQAJ 290356Z 00000KT 8000 BR FEW085 SCT120 18/17 A3001 RMK AO2A SLP174 WND DATA ESTMD T01820170 CWLM 290400Z AUTO 04005KT 05/04 RMK AO1 SLP284 T00530038 56010 UUWW 290400Z 10007G12MPS 6000 -SN OVC005 01/00 Q1025 R06/290050 NOSIG KETB 290355Z AUTO 24011G16KT 10SM CLR 06/00 A2993 RMK AO2 NCMK 290400Z AUTO 08003KT //// ////// 27/24 Q1011 KTVI 290355Z AUTO 08005KT OVC014 17/15 A3009 RMK AO2 PWINO KOGB 290353Z AUTO 00000KT 4SM BR CLR 11/11 A3012 RMK AO2 SLP200 T01060106 CWDV 290400Z AUTO 17003KT M06/M06 RMK AO1 SOG 15 5008 SLP089 T10561062 NFKD 240200Z AUTO 10011KT //// 27/24 Q1010 CYVT 290400Z AUTO 22007KT 9SM CLR M16/M18 A3006 RMK SLP219 EKYT 290350Z AUTO 03002KT 9999 BKN007/// 02/00 Q1030 R88/D LKKV 290400Z 04004KT 9999 OVC020 M02/M02 Q1022 KMTJ 290353Z AUTO 15007KT 10SM CLR M03/M06 A3027 RMK AO2 SLP265 T10281061 OAKB 290357Z VRB03KT 4000 1200S HZ NSC 04/M01 Q1028 RMK A3038 GRN VYYY 290400Z 32006KT 8000 NSC 29/21 Q1014 NOSIG KOYM 290355Z AUTO 00000KT 10SM CLR 00/M03 A3013 RMK AO2 RJFG 290400Z 32012KT 9999 FEW025 14/06 Q1023 KSTF 290355Z AUTO 00000KT 10SM CLR 07/06 A3013 RMK AO2 KTLH 290353Z 03003KT 10SM SCT120 BKN200 18/17 A3005 RMK AO2 SLP174 T01830167 $ FTTJ 290400Z 01005KT 8000 NSC 16/01 Q1012 NOSIG KJCT 290351Z AUTO 33003KT 10SM OVC009 08/06 A3014 RMK AO2 SLP191 T00780056 VOBL 290400Z 07006KT 3000 BR SCT008 SCT012 22/21 Q1020 BECMG 6000 KFWZ 290350Z AUTO 03005KT 10SM CLR 00/M17 A3013 RMK AO2 KPTS 290355Z AUTO 00000KT 10SM CLR 03/00 A3014 RMK AO2 T00321005 TISX 290053Z 36004KT 10SM FEW027 24/22 A2999 K9L2 290358Z AUTO 28004KT 10SM CLR 01/M17 A3021 RMK AO2 SLP245 T00101172 FZRANO EFJY 290350Z AUTO 11003KT 9999 OVC005 M01/M01 Q1030 PABI 290353Z 12018KT 10SM SCT080 BKN100 BKN150 M07/M13 A2889 RMK AO2 PK WND 11026/0324 SLP815 T10721133 $ OIHH 290400Z 32006KT 7000 -RA FEW035CB SCT040 OVC090 02/02 Q1018 NZFX 280512Z 08006KT 9999 FEW190 M08/M11 A2885 RMK GRID25006KT SDG/HDG LAST KJKL 290353Z AUTO 00000KT 10SM CLR 05/M01 A3017 RMK AO2 SLP220 T00501011 KZZV 290353Z AUTO 21003KT 10SM CLR M01/M02 A3017 RMK AO2 SLP224 T10061022 KMHV 290340Z AUTO 33009KT 10SM BKN027 04/M04 A3021 RMK A01 KPSM 290356Z 26005KT 10SM CLR 03/00 A2997 RMK AO2A SLP152 T00331002 KSLG 290356Z AUTO 00000KT 7SM CLR 06/01 A3014 RMK AO2 SLP209 T00610006 TSNO EGHC 281020Z 11015KT 8000 FEW004 SCT012 12/12 Q1011 LGKP 290400Z AUTO VRB03KT //// // ////// 17/12 Q1019 RE// KAWM 290353Z AUTO 03004KT 10SM CLR 05/01 A3014 RMK AO2 SLP207 T00500011 LTBY 290350Z 00000KT CAVOK M09/M10 Q1023 PAKH 290356Z AUTO BKN012 OVC018 A2896 RMK AO2 SLPNO PWINO FZRANO $ KTRK 290358Z AUTO 00000KT 10SM CLR M03/M08 A3029 RMK AO2 KMWN 290355Z 30045G50KT 0SM FZFG DRSN VV000 M09/M09 RMK VRY LGT ICG CTRA 290400Z AUTO 05001KT M03/M04 RMK AO1 SOG 10 6011 SLP067 T10271044 KEDC 290355Z AUTO 32007KT 2SM -RA BKN006 OVC020 10/10 A3012 RMK AO2 OITL 281400Z 00000KT 8000 FEW080 BKN170 M06/M08 Q1027 OMDW 290400Z 08004KT CAVOK 17/14 Q1019 NOSIG OETR 290400Z 04004KT CAVOK 06/05 Q1020 NOSIG ENTC 290250Z 22020KT 9999 OVC030 06/01 Q1015 RMK WIND 2600FT 18029KT CWEZ 290300Z AUTO 03003KT 06/05 RMK AO1 SLP287 T00590046 58003 VTUD 290400Z 07009KT 030V100 CAVOK 28/16 Q1018 NOSIG KFWN 290353Z AUTO 00000KT 10SM CLR 00/M02 A3010 RMK AO2 SLP194 T00001022 $ SLRB 282300Z 00000KT 9999 NSC 32/22 Q1011 LFOK 290400Z AUTO 04010KT 8000 NSC 01/M00 Q1019 NOSIG CYOY 290412Z AUTO 24007KT 200V270 2 1/2SM OVC004 OVC050 01/01 A2983 KDWX 290355Z AUTO 14003G15KT 10SM CLR M08/M13 A3028 RMK AO2 T10821126 DBBB 290000Z 24006KT 9999 SCT012 27/25 Q1011 NOSIG DNMA 280600Z 12003KT CAVOK 20/11 Q1013 NOSIG KAJZ 290355Z AUTO 05005KT 10SM CLR M02/M09 A3026 RMK AO2 T10211092 DAAV 290400Z 26006KT 6000 RA SCT016 FEW026CB BKN030 13/12 Q1007 CWVN 290400Z AUTO 25004KT M11/M13 RMK AO1 SLP310 T11121134 51035 KLUX 290355Z AUTO 22003KT 1/4SM FG OVC002 10/10 A3014 RMK AO2 KRAP 290352Z 32014KT 10SM CLR 03/M10 A3014 RMK AO2 PK WND 33030/0334 SLP221 T00281100 CYUX 290400Z AUTO 30009KT 9SM CLR M28/M32 A2986 RMK SLP115 KACV 290353Z AUTO 11003KT 8SM CLR 03/03 A3023 RMK AO2 SLP244 T00280028 OIBS 290400Z 09016KT 9999 FEW025 BKN100 26/16 Q1018 KEKX 290355Z AUTO 00000KT 10SM CLR 00/M02 A3016 RMK AO2 T00041022 KGYB 290355Z AUTO 33011G16KT 4SM DZ BKN004 OVC010 09/09 A3008 RMK AO2 P0002 T00930086 LEEC 271400Z 21003KT 180V250 9999 FEW032 15/08 Q1006 ZPPP 290400Z 22006MPS 180V240 7000 SCT020 BKN040 12/08 Q1028 NOSIG YMBA 290400Z AUTO 07010KT 9999 // SCT045 SCT050 BKN058 28/18 CYWK 290300Z 08002KT 12SM -SN BKN012 OVC042 M08/M09 A2967 RMK SC5SC3 LAST STFD OBS/NEXT 291100 UTC SLP086 K9V9 290355Z AUTO 34009KT 10SM CLR 06/M08 A2999 RMK AO2 T00611077 KVLL 290355Z AUTO 23008G15KT 10SM CLR 04/M03 A3006 RMK AO2 T00351031 KFYV 290353Z AUTO 00000KT 10SM CLR 03/01 A3014 RMK AO2 SLP209 T00330011 RJFU 290400Z 30018KT 9999 FEW030 SCT050 13/02 Q1025 KHEG 290355Z AUTO 35006KT 1 1/4SM BR OVC002 16/16 A3009 RMK AO2 CYHU 290400Z AUTO 23015KT 9SM OVC050 05/M00 A2992 RMK SLP133 KSGF 290352Z 15003KT 10SM CLR 03/M01 A3012 RMK AO2 SLP205 T00331006 SBLE 262000Z AUTO /////KT ///V/// //// // ///////// ///// Q//// SBIH 282100Z 00000KT 9999 FEW023 FEW025TCU 29/25 Q1007 FQIN 281800Z 00000KT 9999 SCT020 25/22 Q1015 YSCO 282130Z AUTO 35010KT 9999 // NCD 32/07 Q1006 RMK KODX 290353Z AUTO 29003KT 10SM CLR M01/M06 A2995 RMK AO2 SLP159 T10111061 TAPA 290400Z 07006KT 9999 FEW018 25/21 Q1015 NOSIG KALK 290356Z AUTO 10003KT 10SM CLR 07/M11 A3018 RMK AO2 SLP180 T00671106 PAKU 290345Z 02006KT 10SM R06/P6000FT -SN OVC008 M16/M19 A2953 RMK LAST PKMR 290353Z 06014KT 15SM FEW015 SCT050 OVC300 30/25 A2969 RMK SLP056 T03020245 SBGM 281900Z 19008KT 9999 SCT049 SCT100 32/24 Q1009 RJSR 290400Z 21003KT 160V250 9999 FEW020 BKN040 05/02 Q1020 FAIR 290345Z 16004KT 9999 OVC025 17/16 Q1021 OIKQ 290400Z 07006KT 9999 FEW030 BKN100 21/17 Q1018 NOSIG KEWR 290351Z VRB03KT 10SM CLR 07/M01 A3011 RMK AO2 SLP197 T00671011 YBLT 290400Z AUTO 21010KT 9999 // SCT027 SCT035 OVC044 16/08 KEVW 290353Z AUTO 26009KT 10SM CLR M03/M09 A3029 RMK AO2 SLP287 T10281094 KDFW 290402Z 04009KT 3SM -RA FEW006 BKN041 OVC095 09/08 A3007 RMK AO2 SFC VIS 7 P0001 T00890078 LEXJ 290400Z AUTO 11005KT 8000 NCD 15/06 Q1011 KGJT 290353Z 06004KT 10SM CLR M03/M10 A3024 RMK AO2 SLP265 T10281100 $ ZMUB 290400Z 00000MPS 6000NW SCT100 M17/M20 Q1032 NOSIG RMK QFE664.8 77 NW MO WAMM 290400Z 17004KT 140V230 8000 SCT020 27/25 Q1008 RERA NOSIG KMHP 290350Z AUTO 00000KT 10SM CLR 13/13 A3011 RMK AO2 T01290127 LIRF 290350Z 08007KT 9000 -RA BKN050 11/10 Q1008 NOSIG EETU 290350Z AUTO 07005KT 9999 BKN009/// OVC010/// 01/M01 Q1027 DAUT 290400Z 12002KT CAVOK 07/M01 Q1016 KMDZ 290355Z AUTO 22006KT 10SM CLR 02/M02 A2985 RMK AO2 T00161016 KDKX 290350Z AUTO 00000KT 7SM CLR 05/05 A3015 RMK A01 K1CW 290358Z AUTO 24007KT 10SM CLR 01/M12 A3011 RMK AO2 SLP207 T00091124 TSNO $ YGEL 290400Z AUTO 20018KT 9999 // ////// 24/15 Q1010 RF00.0/000.0 LFOZ 290400Z AUTO 02005KT CAVOK 02/01 Q1018 KBIS 290352Z AUTO 32022G33KT 10SM CLR 03/M04 A3008 RMK AO2 PK WND 33038/0255 SLP201 T00281044 RJTF 290400Z 12004KT 100V160 9999 FEW030 BKN060 12/M01 Q1020 CWRZ 290400Z AUTO 25006KT 01/M00 RMK AO1 SLP087 T00081001 58005 KLPC 290356Z AUTO 00000KT 10SM CLR 05/02 A3016 RMK AO2 SLP215 T00500017 LFSX 290400Z AUTO VRB02KT 9000 OVC007 01/00 Q1018 DIBK 290300Z 20004KT 8000 NSC 23/22 Q1013 NOSIG PAHO 290353Z 00000KT 9SM BKN049 00/M01 A2884 RMK AO2 SLP768 T00001011 FNSO 281200Z 00000KT 8000 SCT008 FEW011CB BKN030 ///// Q//// KHLN 290353Z AUTO 27010KT 10SM FEW065 04/M07 A3031 RMK AO2 SLP316 T00441072 SBEK 271900Z 27005KT 9999 FEW025TCU BKN100 32/24 Q1007 DAOI 290400Z 00000KT 9999 SCT026 11/11 Q1013 FNMA 281200Z 25004KT 9999 SCT012 OVC060 25/22 Q1016 KMWA 290355Z AUTO 00000KT 10SM CLR 00/M02 A3018 RMK AO2 T10011019 KJVW 290355Z AUTO 00000KT 10SM BKN011 A3010 RMK AO2 UHWW 290400Z 35003MPS 9999 NSC M05/M14 Q1025 R25L/810160 NOSIG RMK QFE768 PANV 290356Z AUTO 36003KT 10SM CLR M11/M12 A2903 RMK AO2 SLP927 T11061122 FZRANO TSNO FMNA 290400Z 14008KT 9999 FEW020 27/18 Q1012 KESN 290355Z AUTO 00000KT 10SM CLR 06/01 A3018 RMK AO2 T00600012 KADG 290353Z AUTO 24007KT 10SM CLR 01/M03 A3010 RMK AO2 SLP201 T00111028 TSNO KCVO 290409Z AUTO 04005KT 1SM BR BKN002 OVC005 05/04 A3035 RMK AO2 RVRNO KGAI 290356Z AUTO 32004KT 10SM CLR 04/M04 A3015 RMK AO2 SLP225 T00441044 ENRS 280920Z 18017KT 9999 VCSH SCT012 SCT018 07/05 Q1019 KSLO 290355Z AUTO 00000KT 10SM CLR 01/01 A3015 RMK AO2 T00140008 PAPN 231656Z AUTO 32032G37KT 1 1/2SM -SN BR BKN007 OVC012 00/00 A2882 RMK AO2 PK WND 32041/1630 RAE12SNB12 CIG 004V011 SLP774 P0000 T00000000 FZRANO ULOO 290400Z AUTO 03003MPS 9999 // ///009/// 01/M00 Q1027 RMK QFE766 YKNT 290400Z AUTO 19008KT 120V190 //// // ////// 40/07 Q1007 KUKI 290356Z AUTO 00000KT 10SM CLR 06/00 A3020 RMK AO2 SLP226 T00560000 YCDO 290400Z AUTO 24013KT //// // ////// 27/11 Q1008 RMK CYZW 290000Z CCA 10011G17KT 10SM SCT047 BKN100 OVC170 M03/M08 A2933 RMK SC4AC2AS2 LAST STFD OBS/NXT 291600Z SLP983 SBBQ 282300Z 08003KT 030V120 CAVOK 20/15 Q1024 GOSP 290300Z 04002KT CAVOK 20/10 Q1013 CWDC 290400Z AUTO M16/M18 RMK AO1 SOG 49 8006 SLP179 T11581175 CWVI 290400Z AUTO 20010KT M10/M13 RMK AO1 SOG 32 3011 SLP266 T11021126 KCRW 290354Z 00000KT 10SM CLR 02/00 A3019 RMK AO2 SLP228 T00170000 RPVM 290400Z 05009KT 9999 FEW020 31/23 Q1009 RMK A2980 LLHA 281750Z VRB02KT CAVOK 16/12 Q1018 CXBA 290400Z AUTO 25010KT M09/M11 RMK AO1 T10911111 RJCW 290400Z 24013KT 5000 -SHSN FEW010 SCT020 BKN035 M02/M05 Q1016 LEJR 290400Z AUTO 15009KT 110V180 9999 FEW010 BKN021 OVC031 14/14 Q1011 KEYE 290353Z AUTO 00000KT 10SM CLR 02/M04 A3014 RMK AO2 SLP212 T00171044 CYXX 290400Z 02007KT 15SM FEW055 SCT220 BKN230 04/03 A3038 RMK SC1CI3CS3 SC TR SLP292 CYKP 290402Z AUTO 34005KT 9SM BKN016 M10/M12 A2983 RMK SLP119 KPWM 290351Z 31004KT 10SM BKN150 01/01 A2996 RMK AO2 SLP145 T00110011 PAGB 251555Z 11029KT 10SM SKC M07/ A2917 RMK LAST KPLD 271915Z AUTO 26005KT 10SM SCT021 BKN100 OVC120 08/01 A3006 RMK AO2 MDJB 282100Z 36010KT 8000 VCSH FEW018CB SCT018 26/23 Q1012 CB/NE RJAI 272245Z 36003G15KT 9999 FEW015 11/06 Q1011 RMK 1CU015 A2986 KRPH 290355Z AUTO 00000KT 2 1/2SM -DZ BKN004 BKN008 BKN044 06/06 A3011 RMK AO2 P0001 T00610061 K1M5 290355Z AUTO 00000KT 10SM CLR 01/M00 A3015 RMK A01 KSPI 290352Z AUTO 19010KT 10SM CLR 04/00 A3011 RMK AO2 SLP200 T00390000 CYWH 290400Z 36003KT 15SM BKN220 05/04 A3038 RMK CI5 SLP288 EGPN 281550Z 00000KT CAVOK 04/02 Q1023 KVJI 290355Z AUTO 10003KT 10SM CLR 03/M01 A3016 RMK AO2 T00301010 KAAF 290353Z AUTO 04004KT 10SM CLR 19/18 A3004 RMK AO2 SLP173 T01890178 CYCO 290400Z 21006KT 12SM IC SKC M24/M26 A2964 RMK SLP042 KTKC 290342Z AUTO 24010KT 10SM CLR 04/M04 A2990 RMK AO2 KBHM 290353Z 00000KT 10SM OVC250 09/07 A3013 RMK AO2 SLP199 T00940067 $ YANG 290400Z AUTO 31007G17KT 280V340 9999 // SCT100 37/11 LPFL 281830Z 36025KT 9999 SCT028 SCT038 13/08 Q1029 CWHQ 290400Z AUTO 25002KT 01/01 RMK AO1 T00110009 CYLL 290400Z 25012KT 15SM SKC M10/M12 A3017 RMK SLP263 LFBZ 290400Z AUTO 07005KT CAVOK 08/07 Q1012 TEMPO 0300 FG VV/// KAUW 290354Z AUTO 20006KT 10SM CLR 03/M02 A2986 RMK AO2 SLP127 T00331017 FAMM 290400Z 20004KT CAVOK 16/14 Q1019 NOSIG K48A 290355Z AUTO 10006KT 5SM BR OVC004 14/14 A3011 RMK AO2 T01420140 KGNV 290353Z AUTO 04006KT 10SM OVC004 18/18 A3008 RMK AO2 SLP182 T01830183 YCDU 290400Z AUTO 20014KT 9999 // NCD 20/10 Q1015 RMK ESPA 290350Z AUTO 24005KT 9999 FEW014/// M02/M04 Q1027 CYIO 290400Z AUTO 16006KT 9SM OVC046 M30/M33 A2972 RMK SLP077 SPMS 282000Z 00000KT 9999 FEW015 BKN080 27/22 Q1009 RMK BIRD HAZARD RWY 09/27 PP000 KCOQ 290355Z AUTO 21005KT 10SM CLR 01/M03 A2975 RMK AO2 TSNO LPAZ 290400Z 33030G40KT 9999 SCT024 FEW030TCU 14/05 Q1018 KBGF 290355Z AUTO 00000KT 10SM CLR 03/03 A3013 RMK A01 YHOO 290400Z AUTO 20006KT 150V220 //// // ////// 40/12 Q1006 KBVS 290355Z AUTO 03005KT 10SM FEW017 04/03 A3038 RMK A01 CYMT 290413Z AUTO 30006KT 280V340 9SM -SN SCT008 BKN012 OVC020 M02/M04 A2971 RMK SLP082 ETAR 290356Z 05008KT 9999 OVC011 01/01 A3017 RMK AO2A SLP233 T00140014 FZRANO KE38 290355Z AUTO 25005KT 10SM CLR 06/M07 A3020 RMK AO2 T00561073 LBPD 290400Z AUTO 13002KT 9999 NCD 02/M02 Q1018 TEMPO 5000 BR KBRL 290353Z AUTO 20006KT 10SM CLR 05/M01 A3006 RMK AO2 SLP182 T00501006 KUNU 290355Z AUTO 20006KT 10SM CLR 02/00 A2995 RMK AO2 T00190000 CWKK 290400Z AUTO 03005KT M00/M04 RMK AO1 SOG 04 0006 SLP087 T10041041 FAUT 290400Z 19004KT 9999 BKN015 15/12 Q1019 GCXO 290400Z AUTO 28005KT 3400 RA BR FEW007 BKN013 BKN019 12/11 Q1015 CXMO 290400Z AUTO 20007KT M12/M12 RMK AO1 T11201120 CYZG 282217Z 33012KT 3SM -SHSN DRSN BKN018 OVC030 M11/M15 A2965 RMK SN2SC3SC3 VIS VRB 1-5 LST STFD OB/NXT 291300Z SLP066 LBPG 290400Z 01002KT 9999 BKN200 M00/M04 Q1018 KLNK 290354Z 20006KT 10SM CLR 04/M02 A3000 RMK AO2 SLP165 T00391022 KIJD 290352Z AUTO 26003KT 10SM CLR 01/M02 A3006 RMK AO2 SLP180 T00061017 K1A9 290355Z AUTO 00000KT 10SM CLR 13/10 A3008 RMK AO2 T01300098 KGPC 290355Z AUTO 20005KT 10SM CLR 02/M05 A3015 RMK AO2 T00191049 KSNS 290353Z AUTO 36003KT 10SM CLR 10/03 A3017 RMK AO2 SLP225 T01000033 KHSE 290351Z AUTO 02003KT 10SM CLR 12/10 A3014 RMK AO2 SLP205 T01220100 UUOL 290400Z 14009MPS 9999 OVC008 01/00 Q1026 R15/290150 NOSIG EGNO 281420Z 10006KT 6000 -DZ FEW015 BKN030 07/06 Q1019 VVTS 290400Z 05005KT 360V070 9000 SCT015 BKN050 28/25 Q1011 NOSIG KAIK 290355Z AUTO 00000KT 1/4SM FG OVC001 09/09 A3014 RMK AO2 T00890088 VIGG 280800Z 24002KT 6000 FEW100 23/07 Q1023 KHYX 290355Z AUTO 22010KT 10SM CLR 02/M01 A3000 RMK AO2 KDAN 290353Z AUTO 00000KT 10SM CLR 04/02 A3014 RMK AO2 SLP202 T00390022 YBKE 290400Z AUTO 27015KT //// // ////// 42/09 Q1004 RMK WAHS 290400Z 03006KT 7000 SCT013 30/24 Q1008 NOSIG KTQK 290355Z AUTO 10SM CLR 03/01 A3008 RMK AO1 T00300011 KEKQ 290356Z AUTO 25009KT 6SM BR CLR M03/M03 A3019 RMK AO2 SLP229 T10281028 400941028 KGDB 290355Z AUTO 22005KT 7SM CLR 03/M02 A2990 RMK AO2 T00301021 FZAA 281930Z 00000KT 6000 -RA ST016 FEW028CB BKN080 25/22 Q1013 RETS NOSIG KHRO 290353Z AUTO 00000KT 10SM CLR 03/M02 A3013 RMK AO2 SLP206 T00331022 VABV 290300Z 02005KT 2500 FU NSC 23/16 Q1016 KRST 290354Z AUTO 24011KT 10SM CLR 04/M01 A2992 RMK AO2 SLP142 T00391006 MMNL 290140Z 33006KT 3SM -DZ OVC004 15/15 A3008 RMK 60005 8/7// -DZB30 ENKR 290350Z AUTO 18010KT 130V230 9999 SG FEW010/// OVC017/// M01/M03 Q1019 RMK WIND 731FT 22028KT OBBI 290400Z 15007KT CAVOK 24/19 Q1017 NOSIG MMAN 290343Z 35007KT 5SM OVC020 15/10 A3008 RMK 8/5// MSGTX MMMY KBVO 290353Z AUTO 00000KT 10SM SCT110 06/01 A3016 RMK AO2 SLP211 T00560006 KEGV 290355Z AUTO 00000KT 10SM CLR M02/M05 A2982 RMK AO2 T10201046 LFLC 290400Z AUTO VRB01KT CAVOK 00/M03 Q1016 TEMPO 4000 BR KILN 290354Z AUTO 22004KT 9SM CLR 00/M03 A3017 RMK AO2 SLP241 T00001028 YYNG 290400Z AUTO 25010KT 9999 // NCD 27/09 Q1007 RMK CYYB 290340Z AUTO 23007KT 9SM SCT014 OVC025 02/01 A2983 RMK SLP119 KMWH 290352Z 34005KT 9SM CLR 00/M02 A3041 RMK AO2 SLP311 T00001022 KLVS 290353Z AUTO 00000KT 10SM CLR 02/M07 A3007 RMK AO2 SLP176 T00171067 LFMD 290400Z AUTO 01006KT 310V060 CAVOK 08/05 Q1011 NOSIG EGYH 261450Z 23004KT 8000 HZ FEW020 SCT050 08/06 Q1021 RMK BLU SVMG 290402Z AUTO 05006KT NCD 26/24 Q1014 LIPC 290355Z 28011KT 2000 BR BKN010 07/05 Q1015 RMK BKN VIS MIN 2000 WIND THR11 29009KT WIND THR29 /////KT YLO PAVL 290405Z AUTO 01024KT 2 1/2SM -SN CLR M16/M19 A2931 RMK AO2 PK WND 01028/0405 SNB0356 P0000 T11611189 TSNO KLVN 290355Z AUTO 24006KT 10SM 05/M02 A2989 RMK AO2 TJSJ 290356Z 06008KT 10SM SCT026 SCT060 26/22 A3001 RMK AO2 SLP161 T02610222 402830228 SKSM 241900Z 27004KT 9999 FEW020 BKN200 34/26 A2977 DTTG 290300Z 24022KT 3000 BR NSC 13/03 Q1009 NOSIG KCMH 290351Z 17003KT 8SM CLR 02/M01 A3017 RMK AO2 SLP223 T00171006 ENSF 290350Z AUTO 20023KT //// FEW045/// 10/03 Q1023 W///S5 KCBE 290355Z AUTO 00000KT 10SM CLR 00/M03 A3020 RMK AO2 T00041026 KINL 290354Z AUTO 12005KT 10SM CLR M04/M06 A2966 RMK AO2 SLP061 T10441061 KPBF 290353Z AUTO 04004KT 10SM CLR 07/01 A3015 RMK AO2 SLP208 T00670011 GAMB 290300Z 02004KT CAVOK 21/06 Q1012 KMSY 290353Z 11006KT 10SM -RA SCT009 BKN070 OVC100 18/16 A3004 RMK AO2 RAB48 SLP176 P0000 T01780161 KMPV 290351Z AUTO VRB04KT 10SM FEW070 OVC090 02/M01 A2998 RMK AO2 SLP164 T00171006 LTCA 290350Z 28003KT CAVOK M02/M04 Q1022 NOSIG ORBI 290400Z 31005KT 6000 BKN030 14/13 Q1017 NOSIG SAOU 240125Z 14008KT 9999 SCT040 FEW045CB SCT100 28/16 Q1006 RETSRA RMK CB OBS TO W SCRM 290400Z 25018KT 9999 BKN020 M01/M03 Q0975 NOSIG LEZL 290400Z AUTO 20008KT 150V240 8000 RA FEW007 BKN029 BKN038 14/13 Q1012 KCOM 290355Z AUTO 00000KT 10SM 06/04 A3013 RMK AO2 T00620041 KLOR 290408Z AUTO 35003KT 10SM BKN023 OVC190 15/14 A3007 RMK AO2 CIG 023V190 BKN V SCT SLP165 KMWL 290353Z AUTO 30006KT 10SM OVC009 07/06 A3010 RMK AO2 CIG 005V011 SLP192 T00720061 KEUG 290354Z 05003KT 8SM BKN006 05/04 A3033 RMK AO2 SLP274 T00500039 YMHU 290400Z AUTO 11009KT 090V170 9999 // SCT085 39/13 Q1005 FDSK 281400Z 03015KT 9999 FEW035 28/18 Q1012 NOSIG SBTA 282100Z 14010KT 110V170 9999 FEW025 26/19 Q1016 KX07 290355Z AUTO 00000KT 10SM CLR 18/18 A3005 RMK A01 RJFS 290400Z 30014KT 9999 FEW035 13/03 Q1025 KTPA 290353Z 00000KT 10SM OVC240 22/19 A3003 RMK AO2 SLP170 T02170194 OJAQ 290400Z 00000KT CAVOK 14/10 Q1018 NOSIG KMOT 290354Z 29023G34KT 10SM SCT031 SCT038 00/M05 A3005 RMK AO2 PK WND 29034/0346 SLP197 T00001050 KOOA 290355Z AUTO 22007KT 10SM CLR 05/01 A3003 RMK AO2 T00450010 VTPM 290400Z 04007KT 350V080 CAVOK 29/18 Q1016 NOSIG KJAN 290354Z 03003KT 10SM FEW009 12/10 A3011 RMK AO2 SLP193 T01170100 LRIA 290400Z 27003KT 1500 -DZ BR VV002 01/01 Q1019 R14/29//95 LDPL 290400Z 06009KT CAVOK 09/04 Q1014 DTTR 290400Z AUTO 23005KT NCD 10/03 Q1014 EGXV 290350Z AUTO 31002KT 0900 FG OVC005/// 08/08 Q1024 OIMS 290400Z 09020KT 9999 FEW035 BKN200 08/M01 Q1027 KCBG 290355Z AUTO 21003KT 10SM CLR 06/M02 A2983 RMK AO2 KCYS 290353Z 33007KT 10SM CLR 02/M12 A3007 RMK AO2 SLP181 T00171117 RKNY 290400Z 28012KT 230V300 CAVOK 05/M08 Q1024 NOSIG DNZA 251400Z 04004KT CAVOK 34/10 Q1012 EBBR 290350Z 07007KT 2000 BR BKN003 03/02 Q1023 NOSIG CWEB 290400Z AUTO 12006KT 05/05 RMK AO1 SLP272 T00510049 56010 FVMV 280900Z 16008KT 9999 BKN030 25/18 Q1021 UTTT 290400Z 06002KT CAVOK 00/M05 Q1040 R08R/CLRD70 NOSIG PALU 290355Z AUTO 06019KT 10SM -SN OVC016 M12/M14 A2955 RMK AO2 PK WND 07026/0333 SNB0255 SLP008 P0000 T11201144 KSNC 290355Z AUTO 00000KT 10SM CLR 04/M02 A3006 RMK AO2 KEVB 290247Z 10SM SCT050 RMK AWOS OTS, LAST. VAAH 290400Z 06007KT 3500 FU NSC 22/07 Q1018 BECMG 5000 KAMG 290353Z AUTO VRB03KT 10SM OVC006 14/12 A3009 RMK AO2 SLP189 T01390122 PAAK 290356Z AUTO 30013KT 9SM FEW020 02/M01 A2965 RMK AO2 SLP041 T00221006 FZRANO KCPW 290355Z AUTO 34005KT 10SM CLR M04/M22 A3027 RMK AO2 LICC 290350Z 24003KT 200V270 9999 FEW040 13/12 Q1007 OMSJ 290400Z 12005KT CAVOK 22/14 Q1018 NOSIG KAAA 290355Z AUTO 20003KT 10SM CLR 03/00 A3011 RMK AO2 T00321002 UKLI 290400Z 00000MPS 3400 -SHSN SCT016CB BKN030 M01/M02 Q1018 KMVE 290355Z AUTO 29003KT 10SM CLR 06/M05 A2988 RMK AO2 KRSP 290354Z AUTO 30008G16KT 10SM CLR 03/M05 A3009 RMK AO2 SLP205 T00331050 PNO $ ESMT 290350Z AUTO 01007KT 9999 SG OVC017/// M00/M01 Q1029 RESG KDNV 281015Z AUTO 00000KT 10SM CLR M01/M03 A3021 RMK AO2 T10131029 KTOR 290353Z AUTO 33012KT 10SM CLR 00/M11 A3007 RMK AO2 SLP207 T00001111 KSAV 290402Z 36004KT 10SM FEW016 SCT021 BKN080 14/13 A3010 RMK AO2 T01440128 EEKA 280850Z 03010KT 9999 FEW013 BKN033CB 04/01 Q1025 CZHY 290400Z AUTO 20010KT M10/M14 RMK AO1 SOG 08 6012 SLP079 T10991144 PAGK 290353Z AUTO 22004KT 10SM FEW023 FEW041 M07/M08 A2891 RMK AO2 SNE41 SLP825 P0002 T10671083 TSNO CYYL 290400Z AUTO 31007KT 9SM -SN OVC095 M13/M15 A2994 RMK SLP174 CYMX 290400Z 24005KT 25SM OVC038 03/M01 A2991 RMK SC8 SLP134 SERB 271900Z 04006KT 9999 BKN033 OVC100 15/11 Q1027 DAOF 290400Z 26009KT CAVOK 09/07 Q1014 LOWW 290350Z 32005KT 9999 BKN042 01/M01 Q1022 NOSIG LTBO 271350Z 08006KT CAVOK 14/M09 Q1019 SMZO 290000Z 00000KT 9999 FEW010 SCT020 24/23 Q1012 NOSIG OIKK 290400Z 00000KT 4000 BR SCT100 06/04 Q1025 A3029 KCSG 290351Z AUTO 00000KT 10SM CLR 13/12 A3009 RMK AO2 SLP187 T01330117 CYWY 272300Z 30008KT 7SM -SN FEW015 SCT050 BKN070 OVC210 M14/M16 A2977 RMK SF1SC3AS3CS2 SF TR VIS 15 SW / LAST STFD OBS / NXT 301500Z SLP099 KTIK 290356Z AUTO 02006KT 10SM CLR 06/04 A3012 RMK AO2 RAE21 SLP212 P0004 T00560042 KCGI 290353Z AUTO 00000KT 10SM CLR 01/M02 A3016 RMK AO2 SLP216 T00111017 YMHB 290400Z 24021KT 9999 FEW050 SCT058 19/04 Q1003 RF00.0/000.8 KDAG 290350Z AUTO 29004KT 10SM CLR 06/M14 A3020 RMK AO2 SLP229 T00611139 KMUT 290355Z AUTO 21008KT 10SM CLR 06/00 A3004 RMK AO2 KINJ 290350Z AUTO 32005KT 4SM RA SCT028 BKN040 OVC047 10/10 A3009 RMK AO2 T00950095 KBLH 290352Z AUTO 28007KT 10SM CLR 13/M12 A3013 RMK AO2 SLP201 T01281117 OEPA 290400Z 30006KT 9999 BKN015 17/16 Q1017 NOSIG KSNY 290353Z AUTO 31012KT 10SM CLR M03/M08 A3002 RMK AO2 SLP186 T10281078 KTUL 290353Z 00000KT 10SM BKN110 OVC130 08/01 A3016 RMK AO2 SLP213 T00780011 SCCY 290400Z AUTO 27007KT 220V340 9999 -RA NSC 07/M01 Q1016 KEGI 290356Z AUTO 02003KT 10SM CLR 17/13 A3006 RMK AO2 SLP179 T01650128 $ KCXE 290355Z AUTO 00000KT 10SM CLR 04/03 A3014 RMK AO1 T00440032 401670044 EKVD 290350Z AUTO 01004KT //// ///////// 02/01 Q1029 TKPN 282000Z 07007KT 9999 FEW024 28/23 Q1013 CWVP 290400Z AUTO 30007KT M08/M09 RMK AO1 SOG 32 3023 SLP279 T10791093 CYYZ 290400Z 25013KT 15SM SKC 03/M02 A3000 RMK SLP167 LPCS 281900Z 25005KT 9999 FEW020 13/09 Q1005 DAON 290400Z 17004KT 9999 SCT026 12/07 Q1014 KXNA 290353Z 00000KT 10SM CLR M17/ A3013 RMK AO2 SLP217 T1172 $ YSCR 290400Z AUTO 32011KT 220V350 9999 // NCD 30/06 Q1008 RMK KDPL 290355Z AUTO 00000KT 3SM BR CLR 06/05 A3015 RMK AO2 YCCY 290400Z AUTO 04010KT 040V110 9999 // NCD 40/08 Q1006 KOLF 290353Z AUTO 32015KT 10SM CLR M03/M07 A3029 RMK AO2 PK WND 33027/0254 SLP288 T10281067 K1LW 290358Z AUTO 32018KT 10SM CLR 00/M11 A3005 RMK AO2 SLP189 T00031106 $ KELA 290355Z AUTO 01004KT 10SM DZ SCT008 BKN020 OVC065 17/16 A3003 RMK AO2 P0001 T01700163 CYBC 290400Z AUTO 25005KT 1/4SM R10/1200FT/N FZFG VV002 M00/M00 A2978 RMK SLP085 CXCP 290400Z AUTO 14003KT M09/M10 RMK AO1 T10891103 KNJM 290357Z AUTO 04005KT 10SM CLR A3014 RMK AO2 SLP211 $ VOTP 290400Z 00000KT 4000 BR FEW010 SCT015 FEW025CB SCT090 25/23 Q1016 BECMG 5000 BR LIPZ 290350Z 03010KT 9999 FEW060 07/02 Q1016 NOSIG PAJN 290353Z 09014KT 7SM FEW007 BKN060 OVC120 03/01 A2944 RMK AO2 PK WND 12026/0300 SLP971 T00280011 $ ZWSH 290400Z 08004MPS 040V110 8000 NSC M01/M06 Q1028 NOSIG KMDJ 290355Z AUTO 05017KT 10SM BKN037 OVC095 21/19 A3005 RMK A01 KHVE 290355Z AUTO 00000KT 10SM CLR M05/M20 A3026 RMK AO2 CYXS 290404Z AUTO 18015KT 3SM -SN OVC020 M01/M02 A3018 RMK SLP267 SGES 290400Z 11003KT 9999 FEW030 SCT070 27/20 Q1013 NFNA 290400Z 21011KT 9999 FEW020TCU BKN300 28/23 Q1009 CXEA 290400Z AUTO 07004KT M02/M04 RMK AO1 SOG 06 5002 SLP076 T10171035 LTFJ 290350Z 00000KT CAVOK 08/03 Q1019 NOSIG RMK RWY24 00000KT YPCC 290400Z AUTO 08016KT 9999 // SCT012 SCT044 28/25 Q1010 LRCV 290400Z 00000KT 2500 BR SCT002 BKN009 M00/M00 Q1018 YDPO 290400Z AUTO 25018KT 9999 // NCD 20/08 Q1005 RMK KOMN 282350Z 00000KT 7SM BKN120 23/20 A3002 RMK LAST KHBG 290353Z AUTO 35004KT 10SM OVC015 14/12 A3011 RMK AO2 RAB13E25 SLP193 P0000 T01390122 LFRG 290400Z AUTO 05003KT CAVOK 04/03 Q1021 MYNN 290400Z VRB02KT 9999 FEW025 20/17 A3006 ENSO 271550Z 12011KT 9999 FEW040 04/M02 Q1021 YSOL 290400Z AUTO 32010KT 280V360 9999 // NCD 36/12 Q1009 RMK DNSO 281800Z 06006KT CAVOK 31/14 Q1014 KRBO 290355Z AUTO 02011G18KT 7SM OVC007 19/19 A2999 RMK AO2 T01920186 DGTK 290000Z 00000KT 9999 FEW011 25/25 Q1012 NOSIG PATQ 290356Z AUTO 04007KT 9SM -SN OVC016 M14/M16 A2956 RMK AO2 SLP015 T11441156 FZRANO TSNO PNO $ MRLB 290400Z 20002KT CAVOK 24/23 A2988 CWKX 290400Z AUTO 20009G15KT 01/M06 RMK AO1 SOG 26 6026 PK WND 20021/0305 SLP037 T00061062 LKPD 290400Z 26004KT 9999 OVC040 00/M01 Q1022 NOSIG RMK BLACK BLU KN38 290355Z AUTO 23009KT 10SM CLR 01/M04 A3006 RMK AO2 KPTB 290355Z AUTO 00000KT 7SM CLR 03/02 A3015 RMK AO2 T00250016 KBLI 290353Z 00000KT 10SM CLR 03/02 A3038 RMK AO2 SLP296 T00330017 LGPZ 290350Z 10005KT 9999 FEW018 15/09 Q1014 RMK FEW070 BKN180 BLU ENBS 281850Z 20020KT CAVOK M04/M07 Q1018 KMOP 290355Z AUTO 22007KT 10SM CLR 05/00 A2997 RMK AO2 T00471001 KEPH 290353Z AUTO 00000KT 10SM CLR M02/M03 A3039 RMK AO2 SLP308 T10171033 KIJX 290355Z AUTO 00000KT 10SM CLR 04/00 A3011 RMK AO2 T00371002 KGAG 290353Z AUTO 00000KT 10SM -RA FEW040 OVC050 03/03 A3014 RMK AO2 RAE0255B30 SLP212 P0000 T00330028 $ KJZP 290355Z AUTO 00000KT 10SM CLR 09/05 A3015 RMK AO2 T00890054 CXOL 290400Z AUTO 21012KT M08/M10 RMK AO1 T10821096 PFCL 290356Z AUTO 01004KT 9SM -SN BKN007 OVC012 M03/M04 A2890 RMK AO2 SLP779 P0000 T10331039 FZRANO TSNO PTPN 280550Z 10005KT 15SM SCT018 OVC300 31/26 A2975 RMK LAST VDSR 290400Z 02011KT 9999 SCT015 BKN040 27/19 Q1012 KPLN 290354Z AUTO 20005KT 10SM CLR 05/01 A2987 RMK AO2 SLP121 T00500006 KPHX 290351Z 29003KT 10SM CLR 16/M02 A3009 RMK AO2 SLP182 T01561017 $ LEBA 290400Z AUTO 07008KT 9999 -RA BKN031 OVC040 11/10 Q1013 K00U 290355Z AUTO 01008KT 10SM OVC075 01/M07 A3032 RMK A01 VIDP 290400Z 25003KT 2500 FU NSC 16/08 Q1022 NOSIG KAAO 290354Z AUTO 22009KT 10SM FEW120 06/M01 A3012 RMK AO2 SLP205 T00561011 KBDR 290352Z AUTO 29004KT 10SM CLR 06/00 A3010 RMK AO2 SLP191 T00560000 KRZT 290355Z AUTO 23003KT 5SM CLR M01/M01 A3019 RMK AO2 PWINO EGGW 290350Z AUTO 04005KT 0150 R07/0400 FG VV/// 07/07 Q1024 HUJI 250900Z 23008KT 9999 SCT018 FEW021CB OVC100 21/18 Q1020 FAEL 290400Z 30006KT 260V320 CAVOK 17/15 Q1017 KVYS 290355Z AUTO 00000KT 10SM CLR 03/01 A3006 RMK AO2 T00280006 MMMD 290346Z 11009KT 7SM BKN020 24/23 A2999 RMK 8/700 OCNL DROPS CZVL 290400Z AUTO 28004KT 210V320 9SM CLR M08/M09 A3016 RMK SLP256 CYYC 290400Z 19004KT 15SM SKC M06/M09 A3023 RMK SLP298 UERR 290400Z VRB01MPS CAVOK M22/M25 Q1030 R25/390232 NOSIG RMK QFE741/0988 KACJ 290350Z AUTO 00000KT 4SM BR SCT005 15/13 A3012 RMK AO2 K6L4 290355Z AUTO 00000KT 10SM CLR 04/01 A3018 RMK AO2 UCFO 290400Z 19002MPS 3500 1500W BR FU NSC M01/M04 Q1037 R12/1///95 NOSIG KHXD 290355Z AUTO 06009KT 10SM OVC027 16/13 A3011 RMK AO2 KCLS 290355Z AUTO 00000KT 10SM OVC028 07/06 A3037 RMK AO2 NSTU 290350Z 31006KT 12SM SCT018 BKN100 BKN220 30/24 A2981 RMK SLP097 T03040241 ZSPD 290400Z 01005MPS 340V060 CAVOK 12/03 Q1031 NOSIG KDKB 290355Z AUTO 20008KT 10SM CLR 01/00 A3004 RMK AO2 T00100002 KCTB 290356Z AUTO 25004KT 10SM CLR M07/M09 A3032 RMK AO2 SLP304 T10671089 KPO1 290400Z AUTO 32015G22KT 10SM M03/M07 A3027 KBKW 290351Z AUTO 00000KT 10SM CLR 00/M02 A3016 RMK AO2 SLP231 T00001022 TSNO KBUU 290355Z AUTO 22008KT 10SM CLR 06/01 A2998 RMK AO2 T00550010 PWINO KBYY 290355Z AUTO 07010KT 10SM -RA OVC037 17/16 A2998 RMK AO2 P0004 T01760168 LSMA 290350Z AUTO 19003KT 9999NDV OVC010 02/00 Q1018 RMK KHUT 290352Z 21004KT 10SM BKN110 07/M01 A3009 RMK AO2 SLP187 T00671006 YDBY 290400Z AUTO 24009KT 9999 // NCD 37/20 Q1006 RMK KALM 290355Z AUTO 01006KT 10SM CLR 03/M06 A3018 RMK AO2 KSMO 260551Z AUTO 00000KT 10SM CLR 12/09 A3006 RMK AO2 SLP177 T01170094 10156 20117 53002 KBOI 290353Z 00000KT 10SM CLR M02/M04 A3042 RMK AO2 SLP328 T10221039 ORMM 290400Z 10008KT 9999 FEW030 SCT035 18/18 Q1016 NOSIG ANYN 281700Z 06003KT 9999 FEW020 27/23 Q1008 CYLU 282200Z 28009G16KT 240V300 12SM -SN FEW026 OVC038 M06/M10 A2967 RMK SC2SC6 LAST OBS/NEXT 291300UTC SNW CVR/MUCH LOOSE. SLP053 SEGS 282100Z 11014KT 9999 BKN023 24/18 Q1014 A2996 KCEW 290353Z AUTO 00000KT 10SM CLR 17/15 A3007 RMK AO2 SLP181 T01670150 KOKB 290352Z AUTO 00000KT 10SM CLR 06/00 A3010 RMK AO2 SLP191 T00610000 OENG 290400Z 33002KT CAVOK 17/10 Q1019 NOSIG VTSS 290400Z 07007KT 9999 SCT020 SCT100 30/25 Q1011 NOSIG K46U 290355Z AUTO 00000KT 10SM SCT100 M10/M11 A3036 RMK A01 KPDC 290355Z AUTO 24004KT 10SM CLR 08/00 A2996 RMK AO2 T00750001 LICG 281950Z 18025G36KT CAVOK 16/09 Q1005 EYVI 290350Z 05007KT 9999 -SNRA OVC005 00/M00 Q1020 R01/2///95 TEMPO 1500 SNRA BR CYZE 290400Z AUTO 24002KT 9SM OVC140 02/01 A2986 RMK SLP122 EGNS 290350Z 09007KT 8000 OVC009 10/09 Q1024 KSTE 290355Z AUTO 20004KT 10SM CLR 00/M03 A2990 RMK AO2 T10021030 SBCI 262000Z AUTO 12004KT CAVOK 31/21 Q1008 KGUR 290358Z AUTO 28009KT 8SM CLR 01/M13 A3016 RMK AO2 SLP245 T00141127 LFPO 290400Z 35003KT CAVOK 03/01 Q1019 NOSIG SKSP 290400Z 07013KT 9999 SCT016 28/24 A2990 YEWA 290400Z AUTO 30007KT 9999 // NCD 37/12 Q1009 RMK EDDG 290350Z 11003KT 010V160 9999 BKN013 02/M01 Q1026 BECMG NSC EFVA 290350Z AUTO 13003KT 9999 OVC021 M01/M02 Q1030 REFZRA BGKK 290350Z AUTO 32006KT 9999NDV BKN046/// M08/M15 Q1004 KGCD 290355Z AUTO 11006KT 10SM CLR 00/M04 A3036 RMK AO2 T00041037 SLTJ 281900Z 13007KT 9999 FEW036 FEW040CB SCT100 BKN200 28/16 Q1015 HKJK 231200Z 06011KT 9999 BKN027 27/13 Q1019 NOSIG GMAT 281800Z 30008KT 8000 BKN016 17/14 Q1013 NOSIG CWGR 290400Z AUTO 31006KT 03/01 RMK AO1 SLP087 T00310009 58007 SBMT 290200Z 13005KT CAVOK 22/17 Q1022 CYVR 290400Z 10004KT 15SM FEW045 BKN240 04/04 A3038 RMK SC1CS5 SC TR SLP290 CYPD 290403Z AUTO 33006KT 300V030 9SM BKN026 03/02 A2976 RMK SLP083 LIBP 290350Z AUTO 23005KT 6000 OVC014/// 10/09 Q1012 EIKY 281900Z 12007KT 100V160 9999 OVC039 11/09 Q1018 FAOB 290400Z AUTO 26001KT //// // ////// 11/09 Q1019 PALH 290353Z 00000KT 10SM BKN060 OVC080 M04/M06 A2887 RMK AO2 SLP776 T10391056 KCHA 290353Z 00000KT 10SM SCT250 08/06 A3014 RMK AO2 SLP203 T00780061 BGSF 290350Z AUTO 06008KT 9999NDV BKN080/// BKN100/// M14/M18 Q0998 LSZB 290350Z AUTO VRB02KT 9999 OVC014 01/M01 Q1017 KMCW 290353Z AUTO 23008KT 10SM CLR 05/01 A2994 RMK AO2 SLP142 T00500006 $ HTMG 290300Z 00000KT 9999 BKN020 23/22 Q1014 KSMN 290356Z AUTO 17004KT 10SM BKN060 M06/M09 A3042 RMK AO2 SLP367 T10561089 FZRANO UNNT 290400Z 00000MPS 7000 NSC M19/M21 Q1037 R25/810160 R16/810160 NOSIG RMK QFE768/1024 CXTO 290400Z AUTO 04/M02 RMK AO1 SLP172 T00421021 51005 GEML 290400Z AUTO 00000KT CAVOK 12/09 Q1013 KF46 290355Z AUTO 02007KT 10SM RA BKN005 BKN010 OVC041 08/08 A3010 RMK AO2 P0001 T00770077 YRTI 290400Z AUTO 21019KT //// // ////// 19/13 Q1011 RMK KU68 290355Z AUTO 04013KT 10SM CLR 03/M08 A3023 RMK AO2 EHBK 290355Z AUTO 07008KT 040V100 2500 BR OVC002 01/01 Q1023 VVNB 290400Z 01007KT 320V090 CAVOK 20/07 Q1024 NOSIG PAEI 290356Z AUTO 00000KT 10SM OVC075 M13/M15 A2891 RMK AO2 SLP806 T11301153 YOLD 290400Z AUTO 18013KT 9999 // NCD 28/06 Q1010 RMK CPST 290400Z AUTO 21009KT M08/M10 RMK AO1 T10831101 ROAH 290400Z 01018KT 9999 FEW030 BKN060 22/13 Q1022 RMK 1CU030 5SC060 A3021 LPMR 290400Z 14006KT 9999 SCT018 10/09 Q1008 SCAR 282300Z 21005KT 180V240 CAVOK 19/16 Q1014 LGAD 290350Z 10006KT 9999 SCT018 SCT080 14/08 Q1014 MPTO 290400Z 27003KT 9999 SCT018 24/23 Q1011 NOSIG CWZL 290300Z AUTO 17031G36KT 08/ RMK AO1 PK WND 16038/0234 SLP138 T0082 58017 KHTS 290351Z 00000KT 10SM CLR 02/M01 A3018 RMK AO2 SLP225 T00171011 KI43 290355Z AUTO 00000KT 10SM CLR M01/M01 A3021 RMK AO2 UOOO 290400Z 20012MPS 0650 R19/1100U SN BLSN VV002 M14/M16 Q1027 R19/35//50 RMK QFE754/1005 SBNM 262000Z AUTO 11010KT 9999 -RA FEW005 20/20 Q1014 FADY 270942Z 34003KT CAVOK 26/00 Q1021 HKML 290300Z 00000KT 0200 +FG FEW018 25/24 Q1011 KW96 290355Z AUTO 00000KT 10SM CLR 05/04 A3015 RMK AO1 T00500040 FEFF 290300Z VRB02KT 6000 NSC 22/19 Q1012 NOSIG UTAA 290400Z 10008KT 9000 FEW099 03/00 Q1032 R88/CLRD70 NOSIG CWLY 290400Z AUTO VRB03KT 9SM CLR 02/01 A3036 RMK SLP289 KIRK 290355Z AUTO 21008KT 10SM CLR 06/M02 A3007 RMK AO2 SLP191 T00561022 EPTM 290400Z AUTO 36008KT VV007 00/M01 Q1019 RMK 002 091 ///= RJCA 270125Z 18005KT 7000 -SHSN FEW005 BKN020 BKN030 M00/M03 Q1019 RMK 1ST005 5CU020 7CU030 A3011 LIPL 290355Z 30003KT 1200 R31/P2000N BR BKN038 05/03 Q1016 RMK OVC VIS MIN 1200 WIND THR31 30004KT WIND THR13 30003KT AMB KELY 290353Z AUTO 17007KT 10SM CLR M08/M16 A3028 RMK AO2 SLP307 T10831156 KBFF 290353Z AUTO 31006KT 10SM CLR M01/M11 A3005 RMK AO2 SLP201 T10111111 CYTQ 281300Z 26021KT 12SM -SN DRSN FEW010 FEW040 BKN110 M05/M08 A2945 RMK SF1SC1AC5 SF TR VRY LGT PCPN LAST OBS/NEXT 291300UTC SLP976 DAFH 281800Z 29018KT CAVOK 11/04 Q1012 EGNX 290350Z 12004KT 100V160 1200 BR OVC002 07/07 Q1024 LIPQ 290350Z AUTO 09005KT 030V140 9999 OVC078/// 08/01 Q1016 KNID 290356Z AUTO A3021 RMK AO2 SLPNO PWINO $ CYEN 290400Z AUTO /////KT 9SM BKN037 M03/M06 A3011 RMK WND MISG SLP229 KSOA 290355Z AUTO 00000KT 9SM CLR 04/04 A3017 RMK AO2 KC09 290355Z AUTO 22010KT 10SM CLR 05/02 A3006 RMK AO2 T00470015 SLCA 282300Z 00000KT 9999 SCT070 30/16 Q1011 KATT 290406Z AUTO VRB04KT 9SM SCT011 OVC030 11/09 A3012 RMK AO2 RAE04 P0000 T01110089 KBNL 290355Z AUTO 00000KT 3SM BR CLR 11/11 A3013 RMK AO2 KWVL 290356Z AUTO 29005KT 10SM CLR M01/M01 A2990 RMK AO2 SLP155 T10111011 FZRANO KRIW 290353Z AUTO 34006KT 10SM CLR M01/M14 A3018 RMK AO2 SLP264 T10111144 KHWO 290353Z AUTO 00000KT 10SM CLR 22/21 A3005 RMK AO2 SLP176 T02170211 KNLC 290356Z AUTO 29007KT 10SM CLR 06/M05 A3020 RMK AO2 SLP229 T00561050 PNO $ UCFM 290400Z 11002MPS 360V130 3300 BR SCT010 M04/M05 Q1040 R08/2///95 NOSIG HUKA 250900Z 00000KT 5000 RA BKN017 FEW019CB OVC090 19/19 Q///// EDJA 290350Z AUTO 07012KT 6000 // OVC004/// M01/M01 Q1018 OPNH 290400Z 36004KT 3000 FU NSC 14/08 Q1020 NOSIG UBBB 290400Z 11006KT 9999 BKN026 09/06 Q1028 R88/CLRD// NOSIG KORG 290355Z AUTO 11007KT 10SM -DZ BKN003 BKN050 OVC080 17/16 A3004 RMK AO2 P0001 T01650157 VTCL 290400Z 36004KT 290V060 CAVOK 29/18 Q1018 NOSIG SBBU 290100Z 07011KT CAVOK ///// Q1018 FAWB 290300Z AUTO 09002KT //// // ////// 19/17 Q1018 K1U7 290355Z AUTO 15004KT 10SM CLR M08/M08 A3030 RMK A01 NZTU 290400Z 09007KT 040V130 19KM FEW026 OVC041 14/08 Q1003 RMK AUTO VATSIM USE YTMO 290400Z AUTO 19009KT 120V200 9999 // NCD 41/05 Q1007 RMK FAOR 290400Z VRB01KT 9999 SCT030 15/13 Q1022 NOSIG KRDR 290356Z AUTO 30020G24KT 10SM CLR 04/M01 A2980 RMK AO2 PK WND 31031/0256 SLP105 T00441010 $ KELN 290353Z AUTO 00000KT 10SM CLR M02/M05 A3038 RMK AO2 SLP301 T10171050 TSNO KCFO 290350Z 00000KT 10SM CLR 01/M05 A3005 KIWD 290356Z AUTO 21007KT 10SM CLR 03/M03 A2979 RMK AO2 SLP100 T00281033 KMLJ 290122Z AUTO 7SM CLR 15/15 A3010 RMK AO2 RJTT 290400Z 06004KT 9999 FEW030 BKN050 BKN080 12/03 Q1020 BECMG 10006KT RMK 1CU030 5SC050 7AC080 A3014 KPHT 290355Z AUTO 00000KT 7SM CLR 01/M02 A3016 RMK A01 PAIK 290356Z AUTO 35010KT 10SM CLR M13/M17 A2926 RMK AO2 SLP912 T11331172 FZRANO KMRJ 290355Z AUTO 24008KT 10SM CLR 06/01 A2996 RMK AO2 UIII 290400Z 00000MPS 2700 -SN BKN033 M15/M16 Q1038 R30/490350 NOSIG RMK QFE733/0977 KDTN 290353Z AUTO 08006KT 10SM OVC023 11/05 A3011 RMK AO2 SLP193 T01110050 KBED 290351Z 25005KT 10SM CLR 02/M01 A3001 RMK AO2 SLP175 T00221011 PAFB 260558Z 00000KT 10SM SCT055 OVC070 M02/M05 A2902 RMK AO2A SLP836 WND DATA ESTMD ALSTG/SLP ESTMD 4/014 T10211051 10007 21116 58004 $ KNGP 290356Z AUTO 03020KT 10SM OVC011 21/19 A2995 RMK AO2 PK WND 05028/0332 SLP141 T02110194 $ KLHX 290353Z AUTO 32006KT 10SM CLR M02/M03 A3007 RMK AO2 SLP196 T10171033 OERF 290400Z 34009KT 3000 BR FEW040 BKN100 13/11 Q1019 KQRH 290356Z AUTO 00000KT 9000 HZ FEW027 24/21 A2994 RMK AO2 SLP141 WND DATA ESTMD T02390210 KPRS 290355Z AUTO 32008KT 10SM CLR 13/M07 A3015 RMK AO2 T01311075 KOLV 290355Z AUTO 00000KT 10SM CLR 05/M01 A3014 RMK A01 EDLW 290350Z AUTO 05003KT 6000 // NCD M01/M02 Q1024 KAZC 290355Z AUTO 13005KT 10SM CLR M05/M16 A3026 RMK AO2 RJTC 280639Z 01012KT 9999 FEW030 13/M04 Q1014 RMK 1CU030 A2996 MAX WIND 20KT KLXY 290355Z AUTO 34004KT 4SM DZ OVC003 12/12 A3008 RMK AO2 T01180115 MSSA 282350Z 00000KT 9999 FEW047 27/18 Q1015 A2999 UASK 290407Z 16005MPS 3000 SHSN OVC026CB M01/M05 Q1036 R12/850242 TEMPO 1500 SHSN BKN015CB RMK QFE751/1002 KERV 290355Z AUTO 33006KT 10SM BKN010 OVC034 09/08 A3012 RMK AO2 T00920078 CWZA 290400Z AUTO 04014KT 06/04 RMK AO1 PK WND 05018/0353 SLP287 T00630038 58004 CYRL 290300Z 05004KT 010V080 3SM -SN OVC016 M03/M03 A2973 RMK SN6SC2 LAST STFD OBS/NEXT 291000 UTC SLP093 KTVK 290355Z AUTO 10SM CLR 04/00 A3006 RMK AO2 K4M9 290355Z AUTO 30004KT 10SM CLR 04/04 A3017 RMK AO2 PWINO SCAT 290408Z AUTO 24004KT 190V360 9999 NDV // ///004 13/11 Q1017 SPEO 281900Z 20020KT 9999 FEW009 21/17 Q1012 RMK PP000 NVSC 290300Z 00000KT 9999 RA BKN018 FEW022CB OVC100 26/25 Q1010 UUOB 290400Z 13007MPS 7000 BKN007 01/M00 Q1021 R11/290055 NOSIG LEVX 290400Z 22005KT 170V250 9999 BKN028 11/09 Q1009 TEMPO 3000 RA CYBB 280000Z 23016KT 15SM IC DRSN SKC M25/M28 A2971 RMK LAST STFD OBS/NXT/301300Z SLP066 FABL 290400Z 00000KT 9999 SCT020 14/14 Q1019 NOSIG KJYL 290355Z AUTO 00000KT 4SM BR CLR 12/11 A3012 RMK AO2 T01150110 YMDG 290400Z AUTO 30025G36KT 9999 // NCD 35/14 Q1006 KEKN 290351Z AUTO 00000KT 10SM CLR M03/M05 A3018 RMK AO2 SLP241 I1000 T10281050 KNBC 290356Z AUTO 01004KT 10SM OVC027 14/12 A3011 RMK AO2 SLP198 T01390122 $ LGKO 290320Z VRB03KT CAVOK 12/09 Q1019 SBBH 290300Z 07007KT 9999 FEW040 22/15 Q1022 K6B0 260555Z AUTO 18003KT 7SM -RA SCT017 SCT027 OVC035 06/05 A3012 RMK AO2 P0004 60011 T00570047 10076 20040 CWHT 290400Z AUTO 27002KT M02/M03 RMK AO1 SOG 23 3014 SLP882 T10181030 KLUK 290353Z 00000KT 6SM BR CLR 00/M01 A3021 RMK AO2 SLP232 T00001011 FAGM 281500Z 17015KT 6000 OVC009 16/14 Q1024 KHCO 290355Z AUTO 30022G28KT 10SM SCT027 03/M02 A2976 RMK AO2 KADH 290355Z AUTO 03004KT 10SM -RA SCT042 OVC080 06/03 A3014 RMK AO2 P0008 KEWN 290354Z AUTO 00000KT 10SM CLR 08/08 A3016 RMK AO2 SLP211 T00830078 KFYM 290355Z AUTO 03005KT 10SM CLR 06/02 A3015 RMK A01 KTMA 290355Z AUTO 00000KT 10SM OVC017 16/15 A3008 RMK AO2 T01570147 KACT 290405Z 31006KT 8SM -RA FEW005 BKN021 OVC037 10/08 A3011 RMK AO2 P0000 T01000083 CYPL 290400Z AUTO 07003KT 9SM OVC027 M06/M09 A2979 RMK SLP115 PAGS 290256Z AUTO 12013G21KT 10SM UP SCT038 SCT047 OVC060 03/02 A2941 RMK AO2 RAE37UPB37 SLP957 P0002 60008 T00280017 51008 EDHI 290350Z AUTO 03003KT 9999 // OVC034/// 01/M00 Q1027 TUPJ 290100Z 06005KT 10SM FEW021 26/22 A2999 RMK Q1015 VIS16KM CZBF 290400Z AUTO 20002KT 9SM -RA OVC023 01/00 A2979 RMK SLP100 KIPJ 290255Z AUTO 00000KT 10SM CLR 06/06 A3013 RMK AO2 T00550055 CXRL 290400Z AUTO 18009KT M07/M09 RMK AO1 T10661090 YCUN 290400Z AUTO 27006KT 9999 // NCD 30/01 Q1008 RMK KISO 290355Z AUTO 00000KT 7SM CLR 06/05 A3015 RMK AO2 T00550050 EDDW 290350Z 07004KT CAVOK M01/M02 Q1027 NOSIG RJFR 290400Z 29012KT 9999 FEW030 SCT040 BKN050 13/05 Q1024 KMCN 290353Z AUTO 06004KT 9SM OVC003 14/13 A3010 RMK AO2 SLP192 T01390128 KDAL 290353Z 05006KT 4SM RA BR SCT007 OVC040 09/08 A3008 RMK AO2 SLP184 SCT V BKN P0018 T00940083 $ PAWM 290356Z AUTO 35009KT 10SM CLR M12/M13 A2919 RMK AO2 SLP891 T11171128 FZRANO LECO 290400Z AUTO VRB01KT CAVOK 10/09 Q1009 KKLS 290356Z AUTO 00000KT 10SM FEW016 OVC030 07/06 A3037 RMK AO2 SLP289 T00670056 FVRG 290300Z 00000KT CAVOK 16/15 Q1022 NOSIG ESKM 290350Z AUTO 33004KT 9999 NCD M08/M08 Q1028 CWPF 290400Z AUTO 36004KT 05/04 RMK AO1 SLP283 T00510036 55008 CXWM 290400Z AUTO 23006KT M09/M11 RMK AO1 T10921107 LGSR 281750Z 36005KT CAVOK 12/08 Q1020 RMK FEW180 BLU K2J5 290350Z AUTO 00000KT 7SM CLR 12/12 A3011 RMK AO2 T01200116 KSAT 290351Z 34008KT 10SM OVC024 12/09 A3009 RMK AO2 SLP178 T01170094 LFTH 290400Z AUTO 36006KT CAVOK 12/07 Q1011 NOSIG LYNI 290400Z 24003KT 210V290 2000 BR OVC003 M00/M01 Q1021 NOSIG GMMW 290400Z 16004KT CAVOK 11/06 Q1013 NOSIG EGPK 290350Z 05002KT 9999 FEW030 00/M01 Q1025 LSGG 290350Z AUTO 01006KT 9999 BKN010 02/00 Q1017 NOSIG KOXV 290355Z AUTO 21010G16KT 10SM CLR 07/M00 A3001 RMK AO2 SETN 282000Z 29008KT 9999 BKN030 OVC080 27/23 Q1009 A2980 CYSY 290000Z 14014KT 2SM -SN BR SCT004 BKN005 OVC045 M21/M24 A2960 RMK ST4SF2SC2 LAST STFD OBS/NEXT 291400Z SLP040 CYRT 290400Z CCA 35005KT 15SM IC FEW100 M26/M30 A3006 RMK AC1 AC TR SLP186 K38S 290400Z AUTO 00000KT 10SM 01/M06 A3039 KITH 290356Z AUTO 00000KT 10SM CLR M03/M04 A3006 RMK AO2 SLP190 T10281044 400611039 KISW 290354Z AUTO 20005KT 10SM CLR 00/M02 A2991 RMK AO2 SLP138 T00001022 YTGM 290400Z AUTO 28013KT 9999 // NCD 43/08 Q1005 RMK LTCS 290350Z 29008KT CAVOK 07/03 Q1020 RMK RWY22 30006KT SKC KOMK 290353Z AUTO 00000KT 10SM CLR M01/M03 A3041 RMK AO2 SLP316 T10111028 MDLR 290300Z VRB03KT 9999 SCT016 22/22 Q1016 CXDK 290300Z AUTO 25006KT M09/M13 RMK AO1 SOG 26 8028 SLP046 T10911128 WAAA 290400Z 29006KT 240V330 9999 SCT019 31/25 Q1008 NOSIG YKRY 290400Z AUTO 01007KT 330V030 9999 // NCD 34/11 Q1011 RMK EGUN 290357Z AUTO 07004KT 9000 BR OVC006 08/08 A3025 RMK AO2 SLP247 FZRANO $ EGOS 290350Z AUTO 16003KT 5000 BR OVC006/// 08/08 Q1024 KSPW 290353Z AUTO 25005KT 10SM CLR 01/M02 A2993 RMK AO2 SLP147 T00111022 $ KGBD 290356Z AUTO 26007KT 10SM OVC120 05/02 A3008 RMK AO2 SLP195 T00500022 CWIX 290300Z AUTO 28002KT M00/00 RMK AO1 9PAST HR 7009 SLP077 P0004 T10040000 50010 YHSM 290400Z AUTO 19014KT 9999 // BKN056 21/06 Q1012 RMK EPWA 290400Z 04005KT 360V070 9999 SCT009 BKN023 02/M00 Q1019 NOSIG KHYA 290356Z AUTO 30005KT 10SM CLR 06/M01 A2999 RMK AO2 SLP157 T00611006 EKKA 290350Z AUTO 06003KT 9999 OVC008/// 02/00 Q1029 CYVV 290400Z 23013G20KT 15SM FEW250 05/00 A2993 RMK CI1 CI TR SLP142 DTTL 290400Z AUTO 22004KT 150V260 NCD 13/09 Q1004 KBUR 290353Z 32005KT 10SM CLR 14/M10 A3011 RMK AO2 SLP188 T01441100 UMMG 290400Z 02004MPS 9000 BKN007 OVC066 M00/M02 Q1020 NOSIG KSDB 290353Z AUTO 05012KT 10SM CLR 09/M13 A3022 RMK AO2 SLP211 T00891128 KNEL 290400Z AUTO 00000KT 10SM CLR 02/00 A3012 RMK AO2 SLP197 T00220000 FZRANO $ KABI 290352Z 32005KT 10SM OVC007 06/ A3013 RMK AO2 CIG 003V010 SLP202 T0056 $ VOKN 290400Z 07007KT 6000 FEW012 30/22 Q1013 NOSIG KFDR 290353Z AUTO 01006KT 10SM OVC036 07/04 A3010 RMK AO2 RAB15E24 SLP193 P0000 T00670039 EHHW 290355Z AUTO 11010KT 030V180 9999 BKN009/// BKN010/// 04/01 Q1027 KFOZ 290353Z AUTO 21004KT 10SM CLR M02/M04 A2975 RMK AO2 LTBR 290350Z 23002KT 7000 NSC M05/M06 Q1020 NOSIG RMK RWY07 22003KT LHDC 290355Z AUTO 25003KT 200V290 9999 OVC014 01/M01 Q1021 SBPP 282100Z 00000KT 9999 SCT020 30/18 Q1013 CZUM 290400Z AUTO 01008KT 350V070 9SM FEW049 OVC060 M12/M14 A2972 RMK SLP100 KMAW 290355Z AUTO 00000KT 10SM CLR 03/01 A3017 RMK AO2 EPZG 290400Z 30005KT 270V340 7000 -RA SCT025 BKN034 03/02 Q1024 CWEE 290300Z AUTO M01/M02 RMK AO1 SLP067 T10131016 55001 KHOE 290355Z AUTO 01003KT 5SM BR OVC003 15/13 A3009 RMK AO2 KALO 290354Z AUTO 23009KT 10SM CLR 06/00 A2996 RMK AO2 SLP150 T00610000 CWZO 290400Z AUTO 07007KT RMK AO1 MMLO 290342Z 00000KT 8SM SCT220 14/03 A3025 RMK 8/008 CYQU 290400Z 19006KT 25SM FEW180 BKN240 M06/M10 A3006 RMK AC1CI4 SLP225 LGBL 290350Z 27004KT 9999 FEW030 06/03 Q1016 VAOZ 281500Z 06003KT 6000 FEW040 SCT100 20/15 Q1018 NOSIG MMGL 290343Z 00000KT 8SM SKC 17/07 A3015 K7BM 290355Z AUTO 31009G17KT 10SM CLR 00/M16 A3017 RMK AO2 EFJO 290350Z AUTO 12007KT 9999 OVC005 M03/M04 Q1033 KCIU 290356Z AUTO 20003KT 8SM CLR 02/02 A2984 RMK AO2 SLP111 T00220017 FZRANO EFMA 290350Z AUTO 02003KT 9999 OVC026 01/M00 Q1029 CYWG 290400Z CCA 36024KT 12SM -SN FEW008 OVC036 M01/M03 A2979 RMK SF2SC6 PRESRR SLP103 KGOP 290355Z AUTO 32007G14KT 4SM -DZ BKN005 BKN008 OVC014 08/08 A3013 RMK AO2 P0002 GOTK 290000Z 00000KT CAVOK 24/12 Q1013 PASO 290353Z AUTO 00000KT 10SM CLR 00/M01 A2884 RMK AO2 SLP766 I1000 T00001006 TSNO KGRN 290355Z AUTO 36011G18KT 10SM CLR 04/M11 A3007 RMK AO2 T00411113 CYGR 290300Z 33008KT 15SM FEW010 OVC048 03/00 A2979 RMK SF1SC7 KAST STFD OBS/NXT 291000Z SLP090 K0A9 290355Z AUTO 00000KT 10SM CLR 03/02 A3016 RMK AO2 ESNK 290350Z AUTO 27005KT 9999 OVC006/// M02/M03 Q1029 CYED 290400Z AUTO 23006KT 9SM CLR M07/M09 A3016 RMK SLP254 KPWK 290352Z 23009G16KT 10SM CLR 07/01 A3003 RMK AO2 SLP172 T00720011 CYXC 290400Z 27005KT 25SM FEW060 M00/M08 A3036 RMK SC1 SC TR SLP312 CYVQ 290400Z 09007KT 050V110 30SM BKN160 BKN200 BKN250 M19/M21 A2937 RMK AC5CI1CI1 PRESFR SLP957 KTAN 290352Z AUTO 00000KT 10SM CLR 02/M01 A3002 RMK AO2 SLP164 T00171011 $ KNRN 290355Z AUTO 25009KT 10SM CLR 03/00 A3005 RMK AO2 CYQK 290400Z 08006KT 20SM BKN030 BKN250 M02/M04 A2966 RMK SC6CI1 SLP067 OIIE 290400Z 00000KT 3000 RA FEW035CB SCT040 OVC100 05/04 Q1024 FYWE 290400Z 18010KT CAVOK 19/M02 Q1021 KOWX 290355Z AUTO 23007KT 10SM CLR 02/M03 A3016 RMK AO1 LIQN 281550Z VRB02KT CAVOK 11/06 Q1011 EDDB 290350Z 32004KT 2500 BR SCT001 BKN042 00/00 Q1025 TEMPO 0800 FZFG BKN004 HTTG 261700Z 00000KT 9999 FEW020 27/25 Q1010 KQFU 290410Z AUTO 24004KT 9999 FEW038 02/M08 A3041 RMK A02 TSNO KIDP 290355Z AUTO 32003KT 10SM SCT120 06/M01 A3014 RMK AO2 T00591007 EDAC 290350Z AUTO 00000KT 9999 // OVC031/// 01/M01 Q1025 PAEH 290402Z AUTO 34026G36KT 290V350 10SM OVC011 M04/M06 A2909 RMK AO2 SLP861 ESUT 290350Z AUTO 13005KT 9999 -SN SCT014/// BKN017/// BKN022/// M04/M05 Q1023 RESN KMZH 290355Z AUTO 22003KT 10SM CLR 00/M02 A2976 RMK AO2 LIPU 280700Z VRB02KT 2500 BR BKN030 05/03 Q1020 KW63 290255Z AUTO 00000KT 10SM CLR 05/05 A3013 RMK AO1 UKOH 290400Z 22002MPS 190V250 9000 OVC008 04/02 Q1019 NOSIG ETGG 290320Z AUTO 05004KT 8000 // ////// 02/01 Q1028 /// SKPE 282300Z 01004KT 9999 FEW015TCU SCT080 23/17 A3000 RMK TCU NE/SE OIBK 290400Z 06006KT 9999 SCT030 SCT180 23/17 Q1018 NOSIG KVGT 290353Z 31006KT 10SM CLR 08/M08 A3017 RMK AO2 SLP239 T00831078 RJAK 270336Z 05011KT 9999 SCT015 BKN040 13/07 Q1020 RMK 3CU015 7SC040 A3012 VOJV 290400Z 12008KT 4500 HZ FU SCT015 OVC080 23/20 Q1019 EPKS 290400Z 34010KT 9999 OVC011 03/03 Q1022 RMK 034 095 8/8= KDEC 290354Z 21008KT 10SM CLR 03/00 A3013 RMK AO2 SLP206 T00330000 KEDN 290355Z AUTO 00000KT 10SM CLR 15/15 A3006 RMK AO2 T01460146 KGMU 290353Z AUTO 00000KT 10SM CLR 11/07 A3014 RMK AO2 SLP204 T01060067 EGKB 282120Z 07007KT 040V100 2000 BR OVC003 09/08 Q1022 LFMT 290400Z AUTO 35005KT CAVOK 07/05 Q1012 NOSIG CYSJ 290400Z 00000KT 15SM FEW028 OVC040 03/03 A2986 RMK SC2SC6 SLP116 BIHN 271900Z 20016KT 9999 -RADZ VCSH FEW005 BKN017 BKN028 02/01 Q1000 TIST 290353Z AUTO 08004KT 10SM FEW041 26/21 A3001 RMK AO2 SLP163 T02560211 402940233 LYPG 290400Z 32002KT 7000 SCT050 BKN080 07/04 Q1015 NOSIG ENUG 290350Z AUTO 23038G48KT 9999NDV OVC012/// 06/04 Q1009 W///S6 CYXP 282000Z 06003KT 15SM OVC063 M06/M11 A2927 RMK SC8 S00 AFT15UTC/LAST STFD OBS/NEXT 291600Z SLP916 MDAB 282200Z 00000KT 8000 VCSH FEW016CB SCT017 25/24 Q1014 CB/SW KPWA 290353Z AUTO 02003KT 8SM -RA OVC055 06/03 A3015 RMK AO2 RAB14 SLP213 P0001 T00610033 CWPR 290400Z AUTO 34001KT M04/M05 RMK AO1 SOG 06 2016 SLP317 T10431048 OAKN 241555Z AUTO 23002KT 6000 BR CLR 10/06 A3010 RMK AO2 SLP183 WND DATA ESTMD T00950062 YNGU 290400Z AUTO 09009KT //// // ////// 41/11 Q1004 RMK OIAW 290400Z 13008KT 9999 FEW020 FEW030CB SCT035 OVC090 17/17 Q1015 GMME 290400Z 21006KT 5000 SCT011 SCT016 BKN070 16/10 Q1011 NOSIG KCVH 290355Z AUTO 00000KT 10SM CLR 07/M04 A3020 RMK A01 KOLS 290354Z AUTO 06005KT 10SM CLR 05/M12 A3013 RMK AO2 SLP189 T00501117 KM08 290355Z AUTO 00000KT 10SM CLR 02/01 A3013 RMK A01 KGEZ 290353Z AUTO 19004KT 10SM CLR 02/M03 A3015 RMK AO2 SLP216 T00171033 FALA 290300Z AUTO 11004KT //// // ////// 17/16 Q1019 KHAO 290353Z AUTO 00000KT 10SM CLR M02/M04 A3019 RMK AO2 SLP229 T10221039 KPYX 290355Z AUTO 13005KT 7SM BKN020 OVC029 02/01 A3010 RMK AO2 T00200013 KC75 290355Z AUTO 20008KT 10SM CLR 05/01 A3007 RMK AO2 T00510010 FCBB 281600Z 27004KT 240V310 9999 FEW020 FEW030CB 30/22 Q1010 NOSIG KVVV 290355Z AUTO 28009KT 10SM CLR 07/M04 A2988 RMK AO2 CWID 290400Z AUTO 17005KT M12/M13 RMK AO1 SLP065 T11161128 58012 OINZ 290400Z 20004KT 9999 SCT090 BKN170 06/05 Q1027 KTWF 290353Z AUTO 21007KT 10SM CLR M04/M06 A3038 RMK AO2 SLP314 T10391061 KSVE 290355Z AUTO 32005KT 9SM CLR M01/M05 A3030 RMK AO2 FTTC 281500Z 32010KT CAVOK 35/// Q1011 LFST 290400Z AUTO 02011KT 9999 OVC010 03/01 Q1021 TEMPO 3000 BR BKN003 MUCF 290259Z AUTO 06005KT 21/20 Q1017 KBUY 290354Z AUTO 22004KT 10SM CLR 07/03 A3015 RMK AO2 SLP207 T00720033 KGHW 290355Z AUTO 26011KT 10SM CLR 03/M02 A2985 RMK AO2 WBKK 290400Z 24007KT 190V350 9999 FEW014 30/25 Q1009 NOSIG KLAR 290353Z AUTO 06008KT 10SM CLR M07/M13 A3012 RMK AO2 SLP245 T10671128 LXGB 290350Z AUTO 21006KT 9999 -RA OVC070/// 16/12 Q1013 EHQE 290355Z AUTO 05014KT 3100 BR BKN000 OVC002 05/04 Q1025 LJCE 290400Z AUTO /////KT 9999 -RA BR FEW010/// BKN012/// OVC041/// 01/M00 Q1022 YPPF 290400Z AUTO 22015KT 9999 // NCD 22/08 Q1013 RMK KMQS 290355Z AUTO 32008KT 10SM CLR 05/M03 A3014 RMK AO2 LETO 290400Z 06004KT 020V090 4500 BR OVC010 05/05 Q1014 NOSIG KLOL 290353Z AUTO A3031 RMK AO2 SLPNO PWINO FZRANO $ CWBE 290400Z AUTO 29005KT 06/02 RMK AO1 SLP120 T00570023 50006 KGHG 290355Z AUTO VRB04KT 10SM CLR 04/00 A3001 RMK AO2 LGPA 290350Z AUTO 13007KT //// // ////// 14/11 Q1018 RE// PAFS 290401Z AUTO 00000KT 9SM CLR M17/M18 A2893 RMK AO2 SLP809 T11671183 FZRANO LTAF 290350Z 01004KT CAVOK 08/04 Q1019 NOSIG RMK RWY23 05003KT KBQP 290355Z AUTO 00000KT 10SM CLR 09/06 A3012 RMK AO2 T00900056 FYKT 290400Z AUTO 25005KT //// // ////// 16/04 Q//// SECO 282100Z 20004KT 9999 FEW020 SCT100 28/23 Q1010 RMK A2982 LEIB 290400Z AUTO 33006KT 300V010 9999 RA FEW024TCU SCT047/// 16/13 Q1011 KFCS 290358Z AUTO 32008KT 10SM CLR M02/M09 A3006 RMK AO2 SLP226 T10201092 $ KW99 290355Z AUTO 00000KT 10SM CLR 00/M01 A3017 RMK AO2 T10021015 KJOT 290355Z AUTO 21005KT 10SM CLR 05/02 A3007 RMK AO2 T00540021 KNUC 290356Z AUTO 33006KT 13/ A3013 RMK AO2 SLP201 T0133 $ KATW 290345Z 24006KT 10SM CLR 03/M04 A2989 LLBG 290350Z VRB03KT 7000 NSC 12/11 Q1019 NOSIG SPHO 281900Z 05008KT 350V110 9999 VCSH FEW040TCU SCT090 25/04 Q1023 RMK PP000 LFRN 290400Z AUTO 07004KT CAVOK 05/03 Q1019 TEMPO 0500 FG KFLY 290355Z AUTO 28005KT 10SM CLR M02/M06 A3009 RMK AO2 T10241056 KIAB 290356Z AUTO 26008KT 10SM BKN120 BKN170 BKN200 06/M01 A3011 RMK AO2 SLP205 T00561013 $ KMNV 290355Z AUTO 00000KT 10SM CLR 05/04 A3013 RMK A01 ENNA 290350Z 16015KT CAVOK M00/M04 Q1017 RMK WIND 1800FT 24022KT CWQS 290300Z AUTO 16033G43KT 08/07 RMK AO1 2PAST HR M PK WND 16047/0217 SLP105 P0012 T00820073 EGVA 290356Z AUTO 07007KT 9999 OVC008 08/08 A3024 RMK AO2 CIG 007 RWY27 SLP246 T00770077 $ LSZS 290350Z AUTO VRB02KT CAVOK M09/M10 Q1014 VTUQ 290400Z 05013KT 010V080 CAVOK 28/19 Q1017 NOSIG EHKV 290355Z AUTO 10012KT 8000 SCT003 BKN004 OVC006 07/06 Q1025 SADF 290400Z 27005KT CAVOK 18/17 Q1009 CZFM 290000Z 13002KT 2SM -SN OVC007 M19/M21 A2950 RMK NS8 STR SNWCVR/MUCH LOOSE LAST STFD OBS/NXT 291500Z SLP997 OISS 290400Z 00000KT 0600 FG FEW010 SCT030 09/09 Q1023 A3023 EFTP 290350Z AUTO 10006KT 9999 OVC025 00/M01 Q1029 KDYA 290355Z AUTO 36005KT 10SM CLR 12/10 A3010 RMK AO2 T01150102 KSHR 290353Z AUTO 31014KT 10SM BKN085 03/M08 A3027 RMK AO2 SLP277 T00331083 KMQJ 290355Z AUTO 00000KT 10SM CLR 02/M02 A3015 RMK AO1 FDST 290200Z AUTO 18007KT //// // ////// 19/17 Q1013 VARK 290400Z 19006KT 6000 NSC 25/11 Q1017 KMWT 290353Z AUTO 00000KT 10SM CLR 03/02 A3010 RMK AO2 SLP199 T00330017 HTDO 290300Z 09012KT 9999 FEW018 20/17 Q1017 NOSIG LTAL 271150Z VRB04KT CAVOK 07/M02 Q1022 LIVE 290355Z 36004KT CAVOK M02/M05 Q1013 RMK SKC VIS MIN 9999 KBTR 290353Z 04007KT 10SM -RA OVC006 17/16 A3004 RMK AO2 SLP172 P0001 T01670156 MMIO 290340Z 00000KT 2SM BR OVC005 16/12 A3013 RMK 8/7// FAKM 290400Z 00000KT CAVOK 16/15 Q1018 KHLG 290353Z AUTO 19007KT 10SM CLR 02/M04 A3016 RMK AO2 SLP223 T00221039 EGVN 290350Z 07006KT 3500 HZ OVC006 08/06 Q1024 NOSIG RMK YLO1 YLO1 ENBV 280650Z 23013KT CAVOK 02/M03 Q1019 KNQX 290353Z AUTO 06004KT 10SM CLR 24/20 A3004 RMK AO2 SLP172 T02390200 $ KRYM 290356Z AUTO 21003KT 10SM SCT190 BKN230 M01/M03 A2982 RMK AO2 SLP114 T10071033 $ KMVL 290354Z AUTO 23004KT 10SM SCT038 BKN050 OVC085 03/M01 A2995 RMK AO2 SLP150 T00331006 VTSF 290400Z 10003KT 020V140 9999 FEW016TCU SCT018 BKN020 30/27 Q1012 RETS NOSIG VTUO 290400Z 04014KT 9000 NSC 28/17 Q1016 NOSIG LFBM 290400Z AUTO VRB01KT 3600 BR NSC 06/05 Q1013 TEMPO BKN003 MRLM 290000Z 26003KT 9999 BKN020 27/23 A2987 SARE 290400Z 09009KT CAVOK 21/18 Q1012 EGTK 282220Z 09005KT 2000 BR OVC007 09/08 Q1022 KS33 290355Z AUTO 00000KT 10SM CLR 00/M02 A3035 RMK AO2 KHDN 290356Z AUTO 00000KT 10SM CLR M06/M11 A3026 RMK AO2 SLP293 T10561106 FZRANO KVUJ 290355Z AUTO 00000KT 10SM CLR 04/04 A3019 RMK AO2 T00420037 ENQA 290350Z AUTO 17014KT 9999NDV BKN046/// 08/03 Q1025 W09/S5 CXVN 290400Z AUTO 24006KT 05/M00 RMK AO1 SLP177 T00511001 51007 PHHI 290356Z AUTO 02006KT 10SM FEW029 SCT036 BKN047 22/17 A3001 RMK AO2 SLP155 T02230172 $ UMGG 290400Z 20002MPS 5000 BR OVC004CB 00/M00 Q1017 R10/620542 NOSIG RMK QBB120 FAWK 290300Z AUTO 09004KT //// // ////// 17/16 Q1020 KCXW 290350Z AUTO 02005KT 10SM CLR 05/02 A3015 RMK A01 KCWA 290347Z 22007KT 10SM CLR 01/M03 A2988 KW81 290355Z AUTO 00000KT 10SM CLR 03/01 A3013 RMK AO1 T00270014 OIBH 290400Z 10016KT 5000 -RA FEW030CB SCT035 OVC080 17/17 Q1017 KPVD 290351Z 25003KT 10SM FEW080 04/M02 A3004 RMK AO2 SLP173 T00441017 $ LIMG 281850Z 02010G20KT 9999 BKN040 14/06 Q1013 YPKS 290400Z AUTO 23005KT 9999 // SCT028 SCT053 SCT085 25/14 CWRY 290400Z AUTO 29004KT M09/M11 RMK AO1 SOG 05 3014 SLP316 T10931106 CYNC 272100Z 23009G16KT 2SM -SN FEW005 BKN013 OVC022 M01/M01 A2974 RMK SF2SC4SC2 LAST STFD OBS/NEXT 281400UTC SLP073 KWRB 290356Z AUTO 00000KT 10SM OVC006 14/14 A3010 RMK AO2 SLP195 T01350135 CHINO RWY15 $ KEOK 290355Z AUTO 21009KT 10SM CLR 06/M00 A3007 RMK AO2 KSBO 290355Z AUTO 00000KT 10SM CLR 13/13 A3011 RMK AO2 SBMS 281900Z 05015KT 9999 FEW030 33/23 Q1008 ZYHB 290400Z 21003MPS 7000 NSC M12/M15 Q1027 NOSIG KMSN 290353Z 22007KT 10SM CLR 06/02 A2995 RMK AO2 SLP147 T00610017 LYUZ 290400Z AUTO VRB01KT 0250 -SN FZFG VV001 M02/M02 Q1017 REFZRA CWIP 290400Z AUTO 05004KT M02/M02 RMK AO1 T10161020 KQFV 290410Z AUTO 14005KT 9999 BKN040 00/M09 A3034 RMK A02 TSNO EDLP 281950Z 10010KT 050V120 9999 BKN012 02/M01 Q1023 KTOC 290355Z AUTO 00000KT 10SM CLR 09/08 A3013 RMK AO2 T00910075 KTOI 290353Z AUTO 35003KT 10SM CLR 14/13 A3009 RMK AO2 SLP187 T01440128 KBIJ 290355Z AUTO 09003KT 10SM OVC023 16/13 A3008 RMK AO2 YELD 290400Z AUTO 36014KT //// // ////// 34/22 Q1005 RMK CWIS 290400Z AUTO 24003KT M04/M04 RMK AO1 SOG 33 8007 SLP085 T10371040 MMMA 290143Z 31013KT 7SM BKN015 OVC080 22/20 A2995 RMK 8/75/ HZY SCVM 290000Z 21009KT CAVOK 17/08 Q1018 MMCU 290343Z 00000KT 10SM FEW100 08/M10 A3021 RMK 8/010 ISOL CI SCFM 281700Z 30021KT 9999 SCT020 BKN030 08/M00 Q0995 K3D2 290355Z AUTO 24009G18KT 10SM CLR 05/00 A2985 RMK AO2 T00510003 KMKC 290354Z 23003KT 10SM CLR 06/M02 A3010 RMK AO2 SLP196 T00561022 CYYJ 290403Z 26003KT 20SM FEW042 BKN230 02/02 A3037 RMK SC1CS6 SLP288 CWFJ 290400Z AUTO 15002KT M08/M10 RMK AO1 T10791104 KHRI 290353Z AUTO 10004KT 10SM CLR 02/M01 A3039 RMK AO2 SLP294 T00221006 KBGE 290355Z AUTO 03007KT 10SM CLR 17/16 A3007 RMK AO2 T01660156 CYPG 272300Z 24012KT 15SM BKN110 BKN250 04/M03 A2977 RMK AC6CI1 LAST OBS/NEXT 301200 UTC SLP094 HEAX 290300Z 15002KT 9999 SCT020 13/12 Q1018 NOSIG KTXK 290353Z AUTO 07004KT 10SM OVC060 09/02 A3011 RMK AO2 SLP194 T00890022 KP59 290351Z AUTO 24005KT 00/M02 A2978 RMK AO1 SLP094 T00001022 KD60 290355Z AUTO 32021G30KT 10SM FEW020 BKN027 OVC036 M02/M03 A3014 RMK AO2 KGON 290356Z AUTO 30004KT 10SM CLR 04/M01 A3007 RMK AO2 SLP182 T00441006 KDSM 290354Z 21010KT 10SM FEW200 06/00 A3000 RMK AO2 SLP164 T00610000 KMEI 290358Z 05004KT 10SM CLR 11/08 A3010 RMK AO2 SLP193 T01110083 KSRC 290356Z AUTO 01003KT 10SM CLR 03/01 A3016 RMK AO2 SLP212 T00330011 KPBI 290353Z 18003KT 10SM CLR 23/19 A3004 RMK AO2 SLP172 T02330194 ENGK 271450Z VRB02KT 9999 FEW013 SCT018 BKN033 01/M00 Q1021 RORS 290400Z 05021KT 9999 SCT030 24/17 Q1021 KGKY 290401Z AUTO 00000KT 7SM -RA BKN005 OVC023 11/10 A3009 RMK AO2 P0001 T01110100 $ KBML 290352Z AUTO VRB03KT 10SM FEW026 BKN047 OVC080 03/M01 A2992 RMK AO2 SLP142 T00281006 WBGR 290400Z 24008KT 190V320 9999 SCT016 30/24 Q1009 SCIR 272000Z 20008KT 9999 OVC025 16/09 Q1020 KJLN 290353Z AUTO 00000KT 9SM CLR 05/M01 A3015 RMK AO2 SLP213 T00501006 $ FNKU 281500Z 18006KT 9999 TS FEW030CB BKN030 27/13 Q1017 KTWM 290355Z AUTO 21004KT 10SM CLR 00/M04 A2974 RMK AO2 KAUN 290355Z AUTO 10SM CLR 05/M00 A3019 RMK A01 OIII 290400Z 24004KT 2000 -RA BR FEW025 SCT035 OVC070 05/04 Q1024 A3025 NOSIG KGWB 290355Z AUTO 22004KT 10SM CLR 03/M02 A3012 RMK AO2 KSYF 290355Z AUTO 23010KT 10SM CLR 00/M02 A3003 RMK AO2 T00001021 PWINO EGXP 290350Z AUTO 16004KT 0200 // VV/// 07/07 Q1024 KMGG 290355Z AUTO 22006KT 10SM 05/00 A2986 RMK AO2 T00541001 400921012 VIKO 270100Z 00000KT 2500 BR NSC 13/11 Q1020 NOSIG KMKJ 290355Z AUTO 00000KT 10SM CLR 01/00 A3018 RMK AO2 T00090000 CWJR 290400Z AUTO 06004KT 01/M02 RMK AO1 SLP323 T00051023 51019 RKNF 272143Z 25012KT 4800 BR FEW002 M11/M12 A2999 KMSL 290353Z AUTO 06004KT 8SM CLR 07/05 A3012 RMK AO2 SLP201 T00670050 UMBB 290400Z 00000MPS 4800 BR OVC009CB M00/M01 Q1018 NOSIG KSCH 290150Z 29003KT 15SM CLR 03/M02 A3005 RMK LAST CWCO 290400Z AUTO 23011G19KT 05/M02 RMK AO1 PK WND 22022/0305 SLP138 T00501019 53002 RJFO 290400Z 29010KT 9999 FEW030 SCT045 14/03 Q1023 KHHR 290353Z 30003KT 10SM CLR 14/06 A3011 RMK AO2 SLP196 T01440061 $ KASH 290356Z AUTO 00000KT 10SM CLR M02/M02 A3002 RMK AO2 SLP170 T10171017 EGPE 290350Z AUTO 19001KT 9999 NCD M00/M01 Q1024 CYVM 290409Z AUTO 02009KT 2 1/2SM -SN OVC030 M11/M12 A2948 RMK SLP985 ZYCC 290400Z 23002MPS 6000 NSC M07/M12 Q1027 NOSIG KTZR 290355Z AUTO 22006KT 7SM CLR 00/M01 A3017 RMK AO2 T00001015 CMFM 290400Z AUTO 24004KT M02/M03 RMK AO1 SOG 20 6006 SLP082 T10191027 50003 EDGS 281550Z 10007KT 0200 R13/0325N FZFG VV/// M01/M01 Q1019 YGDH 290330Z AUTO 31017KT //// // ////// 39/05 Q1005 RMK YCAR 290400Z AUTO 21017KT //// // NCD 26/17 Q1008 MWCB 290000Z 08004KT 9999 FEW016 26/23 Q1014 OEWJ 290400Z 06005KT 9999 FEW030 17/10 Q1015 NOSIG EGNH 282050Z 11008KT 9999 BKN012 08/07 Q1023 EGMC 290350Z 36004KT 0600 R05/0750U FG OVC000 07/07 Q1024 FMSD 290400Z 08018KT 9999 FEW016 27/23 Q1010 MMPQ 282148Z 09005KT 8SM SCT020 29/24 A2974 RMK 8/200 HZY KYKN 290356Z AUTO 00000KT 10SM CLR 03/M04 A2993 RMK AO2 SLP158 T00331044 KBDL 290351Z 28005KT 10SM CLR 03/M02 A3007 RMK AO2 SLP182 T00331022 KDYS 290356Z AUTO 33005KT 10SM SCT007 OVC022 06/03 A3011 RMK AO2 CIG 007 RWY16 SLP199 T00580028 $ ESMQ 290350Z AUTO 34008KT 9999 FEW020/// OVC024/// 00/M01 Q1027 PAOU 290404Z AUTO 31022G30KT 6SM -RA BR FEW017 BKN027 OVC070 01/M02 A2924 RMK AO2 PK WND 32029/0357 FZRANO PNO $ PAYA 290405Z AUTO 13007KT 10SM SCT023 BKN033 OVC050 03/01 A2921 RMK AO2 T00330011 TSNO EIDW 290400Z VRB02KT 8000 BKN022 BKN100 07/07 Q1023 NOSIG VVPB 290400Z 36006KT 2000 RA BR SCT004 BKN013 BKN035 22/21 Q1020 TEMPO 1300 +RA BR CYKF 290400Z AUTO 23012G18KT 9SM CLR 02/M02 A3000 RMK SLP171 FACV 290214Z AUTO 12004KT //// // ////// 12/05 Q1019 EBAW 290350Z AUTO 07008KT 2600 BR OVC003/// 04/02 Q1024 ENGM 290350Z VRB02KT 9999 OVC004 M03/M04 Q1029 RJTO 290400Z 06004KT 020V110 9999 FEW030 BKN040 BKN150 13/05 Q1020 FKKN 270900Z 06008KT 9999 FEW026 26/08 Q1017 NZWU 290400Z 27010KT 230V300 19KM BKN041 18/13 Q1001 RMK AUTO VATSIM USE ONLY EHDL 290355Z AUTO 07006KT 360V130 8000 BR OVC008 03/02 Q1025 GRN KSCK 290355Z AUTO 23003KT 10SM CLR 07/M01 A3019 RMK AO2 SLP221 T00721006 KFTY 290353Z 00000KT 10SM CLR 09/08 A3011 RMK AO2 SLP193 T00940083 EGPH 290350Z VRB02KT 6000 BKN001 BKN014 M01/M01 Q1025 KMMI 290355Z AUTO 00000KT 10SM CLR 04/03 A3014 RMK A01 MNJG 282300Z 36010KT 9999 SCT020 21/19 Q1011 ZGHA 290400Z 35003MPS 5000 BR BKN016 OVC050 09/06 Q1032 NOSIG CXOX 290400Z AUTO 28004KT M13/M15 RMK AO1 SOG 23 3025 SLP223 T11311153 OIHR 290400Z 00000KT 2000 BR SCT015 OVC070 01/00 Q1023 GFLL 282000Z 23006KT 9999 BKN012 FEW026CB 27/23 Q1010 RMK CB-NE EGSC 271750Z 01003KT 0800 R23/0900N FG BKN001 03/03 Q1018 PABV 290356Z AUTO 00000KT 10SM BKN090 M04/M06 A2887 RMK AO2 SLP782 T10441061 FZRANO KCPF 290355Z AUTO 00000KT 10SM CLR 01/01 A3018 RMK AO2 KINS 290358Z AUTO 00000KT 10SM CLR 02/M16 A3020 RMK AO2 SLP235 T00241157 $ YSCB 290402Z AUTO 28018G28KT 9999 // NCD 27/08 Q1005 KFFL 290355Z AUTO 21008KT 10SM CLR 05/01 A3004 RMK A01 KBHB 281356Z AUTO 26003KT 10SM BKN070 04/04 A2991 RMK AO2 SLP132 T00440039 KEAU 290356Z AUTO 20005KT 10SM CLR 01/M02 A2987 RMK AO2 SLP124 T00111022 KLXT 290353Z AUTO 21010KT 10SM CLR 05/M03 A3011 RMK AO2 SLP203 T00501028 KRAS 290355Z AUTO 04016G25KT 10SM OVC010 20/18 A2997 RMK AO2 T02010185 KRID 290355Z AUTO 00/00 A3016 RMK AO2 PWINO KBCT 290353Z 15003KT 10SM CLR 21/19 A3004 K5C1 290355Z AUTO 35005KT 3SM OVC004 08/08 A3011 RMK AO1 P0001 VCRI 290310Z 05003KT 330V110 9999 FEW017 27/25 Q1012 NOSIG KM02 290355Z AUTO 00000KT 10SM CLR 04/M03 A3014 RMK A01 LKTB 290400Z 33004KT 290V010 CAVOK 01/M02 Q1021 NOSIG KOSH 290353Z 21008KT 10SM CLR 04/00 A2991 RMK AO2 SLP136 T00390000 OICC 290400Z 13004KT 5000 RA BKN035 OVC060 05/05 Q1020 A3012 CXSP 290400Z AUTO 22008KT M10/M12 RMK AO1 T11021117 KPEQ 290355Z AUTO 21007KT 10SM CLR 06/M02 A3012 RMK AO2 T00601020 KASN 290355Z AUTO 00000KT 10SM CLR 09/09 A3012 RMK AO2 T00920085 401770088 CXET 290400Z AUTO 24011G16KT 03/M03 RMK AO1 PK WND 23017/0329 SLP160 T00281026 51005 YCEM 290400Z AUTO 23010KT //// // ////// 19/11 Q1011 RMK KUKL 290355Z AUTO 00000KT 10SM CLR 05/M01 A3011 RMK AO2 T00461013 KXSA 290355Z AUTO 00000KT 7SM CLR 03/03 A3017 RMK AO2 T00280028 LTBL 261325Z 03012KT 360V060 CAVOK 18/M03 Q1018 NOSIG RMK RWY17 04013KT 010V070 DNEN 282300Z 00000KT CAVOK 26/22 Q1012 NOSIG HTDA 290300Z 00000KT 9999 SCT011 FEW013CB 24/24 Q1012 NOSIG SBBG 290400Z AUTO 35016KT CAVOK 21/18 Q1008 KSEM 290355Z AUTO 00000KT 9SM CLR 13/11 A3009 RMK AO2 CXKM 290400Z AUTO 24007KT M10/M12 RMK AO1 T10951118 LFHP 281900Z AUTO 24003KT CAVOK 02/M00 Q1013 K6B9 290355Z AUTO 22007KT 10SM CLR 02/M04 A3003 RMK AO2 KNSI 290353Z AUTO 30010KT 10SM CLR 10/M03 A3013 RMK AO2 SLP198 T01001028 $ KBCK 290355Z AUTO 20003KT 10SM CLR M04/M04 A2991 RMK AO2 T10361042 KGRI 290353Z AUTO 20006KT 10SM CLR 01/M04 A2996 RMK AO2 SLP164 T00111044 $ YPKU 290400Z AUTO 14008KT 9999 // NCD 38/18 Q1005 CWGB 290400Z AUTO 15004KT 05/04 RMK AO1 SLP284 T00510040 56006 KSFY 290355Z AUTO 22009KT 10SM CLR 07/00 A3001 RMK AO2 EHJA 290355Z AUTO 12013KT 7000 BKN004/// OVC005/// 07/06 Q1025 KLBE 290355Z AUTO 00000KT 10SM CLR M00/M03 A3017 RMK AO2 SBLS 290100Z 06002KT CAVOK 22/16 Q1023 KRNV 270835Z AUTO 11004KT 10SM CLR 10/07 A3005 RMK AO2 T01010071 LEGA 281300Z VRB03KT 9999 BKN016 OVC040 10/06 Q1009 KQEN 290410Z AUTO 24014G23KT 9999 CLR M02/M11 A3014 RMK A02 TSNO CYHD 290400Z AUTO 06006KT 9SM SCT220 BKN240 M04/M06 A2966 RMK SLP074 PAEG 290353Z AUTO 00000KT 1SM -SN BR VV012 M12/M14 A2901 RMK AO2 SLP843 P0003 T11171139 TSNO KIWI 290404Z AUTO 00000KT 1 1/4SM BR OVC001 00/00 A2996 RMK AO2 T00000000 PAIL 290353Z 00000KT 1SM -SN BR BKN006 OVC014 00/00 A2885 RMK AO2 SLP771 P0002 T00000000 UKKK 290400Z 00000MPS 0650 0550S R26/0650U FZFG SCT040 M04/M04 Q1017 R26/190060 TEMPO 0300 FZFG LIVT 281755Z /////KT 9999 OVC025 12/07 Q1017 RMK OVC QUK / QUL / VIS MAR 20 KM VIS MIN 9999 SBFN 282130Z 12013KT 9999 FEW015 SCT025 26/23 Q1013 KGPM 290355Z AUTO 02004KT 5SM OVC005 10/10 A3010 RMK AO2 P0008 T00950095 LEBT 290400Z AUTO 00000KT 9999 SCT032 OVC050 10/10 Q1013 DAOB 290400Z 27008KT 9999 FEW020 SCT023 08/08 Q1014 ETML 290320Z AUTO 36013KT //// // ////// 03/02 Q1028 /// PADU 290356Z 28014G18KT 10SM BKN035 BKN045 OVC110 02/M03 A2951 RMK AO2 RAB26E42SNE01 SLP996 P0001 T00221033 KSGH 290356Z AUTO 23005KT 10SM CLR 00/M02 A3017 RMK AO2 SLP228 T00001017 400830000 CXPL 290400Z AUTO 21006KT M14/M14 RMK AO1 T11381140 KIDA 290353Z AUTO 00000KT 10SM CLR M07/M08 A3039 RMK AO2 SLP344 T10671083 SKCC 282300Z 22004KT 6000 VCFG BKB010 SCT070 24/23 A2992 RETSRA KEFD 290350Z 10014KT 8SM -RA BKN008 OVC014 18/17 A2999 EGPA 290350Z AUTO 21007KT 180V250 9999 NCD 04/03 Q1023 KABH 290358Z AUTO 34006KT 10SM CLR M04/M07 A3009 RMK AO2 SLP229 T10391072 KFFA 290255Z AUTO 00000KT 10SM CLR 12/08 A3013 RMK AO2 T01180078 RJGG 290400Z 34005KT 300V020 9999 FEW030 BKN120 13/02 Q1020 NOSIG KMAE 290353Z AUTO 35003KT 10SM CLR 05/01 A3021 RMK AO2 SLP230 T00500006 KRHV 290347Z 00000KT 10SM SKC 09/02 A3020 KQHY 290356Z AUTO 02003KT 10SM -RA OVC110 18/16 A3006 RMK AO2 RAB41E50DZB50E52DZB52E52RAB55 SLPNO P0000 T01790157 CYAM 290400Z 09003KT 20SM FEW013 FEW230 M03/M04 A2984 RMK SC1CI1 FROIN SLP117 RJOY 290400Z 27007KT 230V300 9999 FEW030 14/06 Q1022 SBPR 282100Z 08007KT 9999 SCT030 26/14 Q1021 UBBL 290400Z 34004KT 9999 BKN036 08/06 Q1029 R33/CLRD// NOSIG RMK MT OP KEMM 290355Z AUTO 03005KT 10SM CLR M04/M10 A3026 RMK AO2 KCMY 290355Z AUTO 00000KT 10SM M01/M02 A2993 RMK AO2 T10121020 KI35 290355Z AUTO 00000KT 10SM CLR 02/01 A3016 RMK AO2 T00210012 SLSA 282300Z 09006KT 9999 FEW017 FEW023CB BKN200 28/24 Q1008 KC83 290355Z AUTO 26005KT 10SM CLR 06/M02 A3020 RMK AO2 KW29 290355Z AUTO 33004KT 10SM CLR 08/02 A3015 RMK AO2 K2WX 290356Z AUTO 31019KT 03/M08 A3014 RMK AO1 PK WND 32026/0353 SLP224 T00281078 KLNS 290353Z 23003KT 10SM CLR 06/M04 A3015 RMK AO2 SLP209 T00611039 EPBY 290400Z 35006KT 9999 FEW019 BKN030 02/01 Q1021 KLKU 290355Z AUTO 09003KT 10SM CLR 02/00 A3019 RMK AO2 T00170002 K1NW 290358Z AUTO 31004KT 10SM CLR 01/M09 A3003 RMK AO2 SLP187 T00131090 $ KFIG 290354Z AUTO 21004KT 10SM CLR 01/M04 A3013 RMK AO2 SLP214 T00061044 LIRU 281550Z VRB02KT CAVOK 13/09 Q1011 DATM 281800Z 32005KT CAVOK 22/M06 Q1015 KINF 290355Z AUTO 00000KT 7SM BKN085 19/19 A3004 RMK AO2 SARP 290000Z 32004KT CAVOK 33/23 Q1009 FOOB 281500Z /////KT 9999 SCT015 BKN033 31/21 Q1007 ETSH 290320Z 34001KT 9999 MIFG SCT038 M03/M04 Q1025 BLACKBLU+ KOGD 290353Z AUTO 17003KT 10SM CLR M02/M07 A3033 RMK AO2 SLP291 T10221072 OESH 290400Z 10010KT CAVOK 18/09 Q1016 NOSIG KSBY 290354Z AUTO 00000KT 10SM CLR 03/01 A3014 RMK AO2 SLP209 T00330011 KIXD 290353Z 20006KT 10SM CLR 05/M03 A3012 RMK AO2 SLP202 T00501033 CXCK 290400Z AUTO 12009KT M03/M06 RMK AO1 PK WND 10018/0307 SLP869 T10291057 56021 KOKM 290355Z AUTO 00000KT 10SM SCT120 07/01 A3015 RMK AO2 T00670010 VTPP 290400Z 34003KT 300V060 CAVOK 29/19 Q1016 NOSIG CWEP 290400Z AUTO 28012KT 05/02 RMK AO1 SLP083 T00500016 58008 EFKT 290350Z AUTO 21009KT 180V240 9999 -SHSN BKN011 M02/M03 Q1022 MGPB 290400Z 00000KT 9999 FEW018 23/23 Q1014 A2994 LRFT 280700Z 27003KT 0100 FZFG VV001 M03/M03 Q1020 RED RED KHSB 290355Z AUTO 00000KT 10SM CLR M01/M03 A3018 RMK AO2 T10061029 YMLT 290400Z AUTO 20013KT 9999 // SCT053 19/08 Q1004 RF00.0/001.2 CWWS 290300Z AUTO M02/M02 RMK AO1 3PAST HR M18 0256Z SOG 02 3017 SLP117 P0001 T10151015 50010 MPDA 290100Z 21003KT 9999 SCT013 26/24 Q1009 K21D 290346Z AUTO 22008KT 10SM CLR 02/M02 A2988 RMK AO2 KI63 290355Z AUTO 22006KT 10SM CLR 04/M02 A3009 RMK AO2 T00391020 NFTV 290400Z 29004KT 9999 SCT017 BKN290 26/25 Q1009 RJCB 290400Z 01003KT 310V040 9999 FEW040 04/M08 Q1016 SAOC 290000Z 05010KT 9999 FEW045CB 25/14 Q1011 RMK CB OBS TO N KPJC 290355Z AUTO 00000KT 10SM CLR M03/M03 A3015 RMK AO2 KSXK 290355Z AUTO 18011KT 10SM CLR 02/01 A2992 RMK AO2 DAAG 290400Z 26009KT 230V290 8000 FEW013 SCT020TCU FEW026CB BKN046 14/13 Q1011 KPGD 290353Z AUTO 00000KT 10SM CLR 21/19 A3005 RMK AO2 SLP174 T02060194 YMGD 290400Z AUTO 01013KT 9999 // NCD 33/22 Q1005 RMK HUMA 250900Z 36003KT 9999 SCT017 FEW018CB 19/18 RERA KROA 290354Z 23003KT 10SM CLR 06/M01 A3018 RMK AO2 SLP219 T00611011 LTCN 290350Z 07005KT 8000 NSC 02/01 Q1020 TEMPO 4000 BR MMCM 282346Z 09010KT 7SM SCT020 27/22 A2991 RMK SLP130 5//// 900 8/500 KGVT 290355Z AUTO 00000KT 7SM -DZ OVC023 10/07 A3011 RMK AO2 KPIM 290355Z AUTO 04003KT 10SM CLR 13/08 A3010 RMK AO2 T01280084 401870116 LFGJ 290400Z AUTO 35006KT 6000 NSC 00/M00 Q1016 KIIB 290355Z AUTO 22008KT 10SM CLR 04/00 A2997 RMK AO2 T00350002 YWCA 290400Z AUTO 21014KT //// // ////// 25/07 Q1009 RMK CXPC 290400Z AUTO 06/02 RMK AO1 SLP125 T00630015 53005 ETHC 290320Z AUTO 00000KT 9999 // ////// M00/M02 Q1026 /// CXBW 290400Z AUTO 20006KT M06/M06 RMK AO1 T10601060 LTBH 290350Z 03005KT CAVOK 05/02 Q1018 YPGV 290400Z AUTO 08011KT 9999 // NCD 34/21 Q1006 RF00.0/000.0 K33N 290355Z AUTO 33005KT 10SM CLR 07/M01 A3015 RMK A01 SBFI 290400Z 11006KT CAVOK 27/22 Q1013 KXBP 290355Z AUTO 33003KT 10SM OVC009 08/08 A3013 RMK AO2 T00800080 EHMG 290355Z AUTO 10012KT 9999 BKN009 BKN010 05/02 Q1027 EISG 281630Z VRB03KT 9999 FEW020 SCT048 08/05 Q1019 KFWS 290355Z AUTO 31003KT 4SM OVC005 09/09 A3011 RMK AO2 P0010 T00910085 PWINO KLKR 290355Z AUTO 00000KT 1/4SM FG VV002 07/07 A3013 RMK AO2 KOLU 290356Z AUTO 34003KT 10SM CLR M03/M05 A2996 RMK AO2 SLP163 T10331050 FZRANO VOVZ 290400Z 06006KT 5000 HZ NSC 27/15 Q1017 NOSIG LTAR 290350Z VRB02KT CAVOK M04/M07 Q1022 KCNW 290355Z 34005KT 10SM -RA SCT019 OVC032 09/09 A3010 GCHI 290400Z AUTO 33003KT 280V040 9999 FEW023 BKN030 BKN043 17/15 Q1015 KMVH 290355Z AUTO 31008KT 10SM FEW026 SCT036 BKN045 M02/M07 A3032 RMK AO2 WMKL 290400Z 10010KT 060V140 9999 FEW022 31/25 Q1011 ENLE 290320Z 14012KT 9999 FEW020 BKN025 08/04 Q1027 W10/S3 CYAY 290400Z AUTO 04007KT 9SM OVC006 00/M00 A2979 RMK SLP091 LTCK 290350Z 27003KT 180V330 0700 R29/1000N R11/1400D BCFG SCT002 SCT035 OVC080 M02/M02 Q1023 KPEA 290355Z AUTO 21007KT 10SM CLR 06/00 A3003 RMK AO2 T00590001 DAOY 290400Z 28008KT 9999 SCT013 SCT020 04/04 Q1015 LIVP 290355Z 18005KT CAVOK M02/M04 Q1013 RMK SCT SCT180 MON LIB VAL NIL VIS MIN 9999 KCNO 290353Z AUTO 25003KT 8SM CLR 11/M06 A3013 RMK AO2 SLP203 T01111061 LPLA 290400Z /////KT 9999 FEW030 BKN045 14/05 Q1022 KRGK 290355Z AUTO 02003KT 10SM CLR M01/M02 A2989 RMK AO2 LBGO 290400Z AUTO 00000KT 5000 BR NCD M01/M01 Q1019 TEMPO 3000 BR MSSS 282350Z 17007KT 9999 FEW023 BKN060 24/23 Q1014 A2994 KEND 290356Z AUTO 30003KT 10SM -RA FEW027 FEW033 BKN043 OVC090 05/05 A3012 RMK AO2 RAB39 SLP207 P0000 T00530053 $ CYDB 290400Z AUTO 12016G30KT 9SM OVC150 M03/M06 A2886 RMK SLP820 EFET 290350Z AUTO 19009KT 150V220 9999 -SN OVC006 M03/M04 Q1020 CWYY 290400Z AUTO 02001KT M02/M03 RMK AO1 SLP321 T10181029 53013 YCBB 290404Z AUTO 30020G31KT 9999 // SCT110 38/09 Q1007 KHCR 290355Z AUTO 00000KT 10SM CLR M07/M10 A3029 RMK AO2 KNCA 290356Z AUTO 02003KT 10SM CLR 12/09 A3013 RMK AO2 SLP205 T01170094 RJTY 290356Z AUTO 00000KT 10SM OVC150 11/M01 A3018 RMK AO2 SLP227 T01071008 FZRANO $ PAMR 290353Z 00000KT 9SM OVC075 M04/M07 A2885 RMK AO2 SLP773 T10441072 $ KSRQ 290353Z AUTO 00000KT 9SM CLR 21/19 A3002 RMK AO2 SLP166 T02060194 $ YNRC 290400Z AUTO 18010KT //// // ////// 20/06 Q1013 RMK SGAS 290400Z VRB03KT CAVOK 28/24 Q1010 CZST 290100Z 00000KT 1/2SM SN VV005 M02/M02 A2998 RMK SN8 /S02/LAST STFD OBS/NEXT 291500Z/ SLP153 SPQU 290100Z 00000KT 9999 SCT120 SCT170 14/06 Q1028 RMK PP000 OKBK 290400Z 12005KT 6000 FEW040 SCT080 19/18 Q1016 NOSIG KATL 290352Z 34004KT 10SM SCT200 OVC250 13/06 A3011 RMK AO2 SLP192 T01280061 YMRB 290400Z AUTO 11009KT 050V140 9999 // NCD 34/09 Q1010 RMK SBIZ 282000Z 11003KT CAVOK 31/23 Q1009 WMSA 290400Z VRB03KT 9999 FEW018 31/23 Q1011 KBMG 290353Z AUTO 00000KT 10SM CLR M01/M04 A3016 RMK AO2 SLP219 T10111039 ESTA 290350Z AUTO 35005KT 9999 OVC009/// 00/M01 Q1028 LICZ 290255Z /////KT 8000 SCT030 BKN090 13/13 Q1008 RMK BKN VIS MIN 8000 WIND THR28 24004KT WIND THR10 23003KT A2979 BLU MHCH 290000Z 00000KT 9999 SCT030 SCT250 30/25 EPOK 290400Z 04006KT 010V080 9999 OVC017TCU 05/02 Q1022 RMK 047 080 8/8= KONO 290353Z AUTO 28004KT 10SM CLR M02/M06 A3046 RMK AO2 SLP344 T10171056 KELD 290353Z AUTO 06003KT 10SM BKN050 08/03 A3012 RMK AO2 SLP197 T00830028 EDDS 290350Z 09008KT 9999 BKN012 01/M01 Q1021 KAXS 290355Z AUTO 03006KT 10SM RA OVC039 06/03 A3015 RMK AO2 T00610030 PAGY 290253Z AUTO 21026G35KT 10SM FEW022 OVC038 04/01 A2928 RMK AO2 PK WND 21044/0221 RAB23E50 SLP916 P0000 60001 T00390011 53017 TSNO KAFN 290352Z AUTO 17004KT 10SM CLR 01/M03 A2999 RMK AO2 SLP167 T00061028 CYCS 272300Z 02014KT 5SM -SN OVC012 M19/M22 A2964 RMK SC8 LAST STFD OBS/ NXT 291500 SLP041 LIPB 282150Z VRB02KT CAVOK M02/M03 Q1019 RMK MON INVIS OERY 290400Z 15005KT CAVOK 18/12 Q1018 SBLB 260600Z AUTO 07015KT 9999 FEW015 24/21 Q1017 W25/S4 KLSF 290356Z AUTO 00000KT 10SM CLR 13/12 A3008 RMK AO2 SLP191 T01270118 SBCC 290000Z 05006KT CAVOK 24/18 Q1013 KMTP 290354Z AUTO 32010G17KT 08/M01 A3007 RMK AO1 SLP183 T00831006 LECV 281800Z VRB01KT 8000 FEW020 BKN040 07/06 Q1009 OIBA 290400Z 14012KT 9999 FEW030 SCT100 25/15 Q1017 LPHR 282100Z VRB03KT 9999 VCSH SCT016 SCT035 13/07 Q1027 MMTJ 290352Z 00000KT 8SM SKC 11/01 A3013 KSYR 290354Z 00000KT 10SM FEW200 M01/M04 A3005 RMK AO2 SLP177 T10061039 ZBSJ 290400Z 28002MPS 230V320 CAVOK 03/M06 Q1033 NOSIG SKAR 241900Z VRB03KT 8000 3000N TS FEW015CB BKN017 27/20 A2997 METAR KMYP 290355Z AUTO 26012KT 10SM CLR M07/M13 A3033 RMK AO2 LIMY 271755Z 23004KT CAVOK 06/02 Q1023 RMK SKC VAL NIL VIS MIN 9999 CWSR 290400Z AUTO 26010KT M08/M12 RMK AO1 SOG 15 1025 SLP233 T10791118 EPLB 290400Z VRB01KT 6000 -SN OVC007 M01/M01 Q1018 KMFD 290352Z AUTO 19008KT 10SM CLR 01/M03 A3012 RMK AO2 SLP212 T00061028 TSNO KI74 290355Z AUTO 20003KT 10SM CLR 00/M01 A3016 RMK AO2 EPDE 290400Z 30002KT 2800 BR BKN007 OVC014 M00/M00 Q1018 RMK M003 099 8/5= FABM 280236Z 08006KT 9999 OVC012 14/12 Q1023 K11R 290355Z AUTO 33003KT 10SM RA OVC005 14/14 A3006 RMK AO2 P0001 T01420139 KPAH 290353Z 00000KT 10SM CLR 01/M02 A3017 RMK AO2 SLP220 T00111022 RCNN 290400Z 01004KT 9999 FEW012 BKN100 25/17 Q1018 NOSIG RMK A3009 KLJF 290355Z AUTO 23004KT 10SM CLR 04/M01 A2987 RMK AO2 KOGS 290355Z AUTO 23008G13KT 10SM CLR 05/01 A2995 RMK AO2 KDUC 290355Z AUTO 05006KT 10SM OVC044 06/05 A3013 RMK AO2 T00620052 KALI 290353Z AUTO 35009KT 3SM -RA BR BKN005 OVC011 18/17 A3000 RMK AO2 RAB21 SLP158 P0001 T01780172 KTVF 290356Z AUTO 28019KT 10SM CLR 03/M03 A2974 RMK AO2 SLP086 T00331033 KPQN 290355Z 00000KT 10SM 01/M03 A2993 RMK AO2 CYPA 290400Z 27006KT 15SM SKC M11/M13 A3017 RMK SLP250 FQTT 290400Z 13006KT 9999 FEW020 27/21 Q1014 FMEP 290400Z AUTO 14008KT 100V160 CAVOK 27/17 Q1014 NOSIG KORF 290351Z 23003KT 7SM CLR 08/06 A3014 RMK AO2 SLP207 T00780061 KD73 290355Z AUTO 00000KT 1SM BR VV007 10/ A3012 RMK AO2 VIS 1/4V5 T0101//// K3K3 290355Z AUTO 14005KT 10SM SCT070 OVC090 02/00 A3009 RMK AO2 KACB 290355Z AUTO 00000KT 10SM CLR 05/01 A2990 RMK AO2 T00490005 KBKB 290241Z AUTO VRB03KT 9SM -RA SCT005 BKN011 OVC017 12/11 A3004 RMK AO2 P0003 T01170106 $ CWQV 290400Z AUTO 00000KT RMK AO1 LPPR 290400Z 11006KT 9999 FEW044 11/09 Q1009 LTAP 290350Z 00000KT CAVOK M06/M09 Q1023 NOSIG RMK RWY23 VRB02KT CWXA 290400Z AUTO 25005KT M01/M15 RMK AO1 SLP290 T10131152 50007 KFBG 290356Z AUTO 01003KT 10SM CLR 07/07 A3013 RMK AO2 SLP206 T00660066 AGGC 260000Z 14005KT 9999 FEW015 31/25 Q1009 HETR 02011KT CAVOK 14/07 Q1018 UAAH 290400Z 26008MPS 9999 -SHSN SCT036CB M07/M10 Q1036 R23/450245 NOSIG RMK QFE737/0983 KEST 290352Z AUTO 24009KT 10SM CLR 02/M01 A2991 RMK AO2 SLP140 T00171011 $ CYZX 290400Z 00000KT 15SM -DZ OVC050 04/04 A2985 RMK SC8 SLP110 CYUT 282100Z 00000KT 15SM FEW100 M27/M30 A2991 RMK AC1 LAST STFD OBS/NXT 291500Z SLP135 YWIS 290400Z AUTO 03009KT 360V060 //// // ////// 29/17 Q1011 CYPX 290400Z AUTO 03008KT 9SM CLR M17/M19 A2986 RMK SLP117 PATC 290410Z AUTO 02034G42KT 1SM -SN BKN014 M08/M09 A2929 RMK AO2 PK WND 03042/0406 SLP924 CXSE 290300Z AUTO 26014KT M23/M25 RMK AO1 SOG 21 3002 PK WND 25017/0221 SLP013 T12281251 LFKC 290400Z AUTO 01019G31KT CAVOK 15/09 Q1007 NOSIG KPZQ 290355Z AUTO 21005KT 10SM CLR 04/M03 A2988 RMK AO2 T00371027 DAUB 290400Z 26006KT 9999 SCT040 SCT100 15/05 Q1009 K2DP 290406Z AUTO 00000KT 1 1/8SM -RA FG VV002 05/04 A3015 RMK AO2 VIS 1/2V1 1/8 SLPNO $ KLUV 290355Z AUTO 08004KT 10SM BKN085 OVC110 03/ A3011 RMK AO2 KSET 290354Z AUTO 00000KT 10SM CLR 02/M01 A3013 RMK AO2 SLP204 T00171006 PASL 290356Z AUTO VRB03KT 10SM OVC110 M11/M12 A2900 RMK AO2 SLP812 T11061122 FZRANO YORG 290400Z AUTO 35006KT 9999 // SCT097 SCT115 22/15 Q1010 UNAA 290400Z 00000MPS 4100 -SN FU BKN014 M11/M13 Q1041 R02/010065 NOSIG RMK QFE757 FVWN 280900Z 08005KT 9999 FEW035 SCT090 29/19 Q1020 TFFF 290400Z AUTO 06003KT CAVOK 25/24 Q1014 TEMPO 2000 SHRA SCT015CB BKN020 KUUU 290353Z AUTO 30008KT 10SM CLR 06/M01 A3003 RMK AO2 SLP168 T00561006 YBKT 290400Z AUTO 02014KT 9999 // SCT044 35/21 Q1007 RMK YTEM 290400Z AUTO 24012KT //// // ////// 31/04 Q1007 RMK KFMH 290345Z 32003KT 10SM CLR 03/M01 A2999 CWPC 290400Z AUTO 25028KT 07/01 RMK AO1 PK WND 25034/0327 SLP185 T00740008 51003 MKJP 290400Z 02007KT 9999 FEW024 26/21 Q1014 KQFW 290400Z AUTO 29002KT 9999 OVC043 01/M08 A3036 RMK A02 TSNO KSWW 290355Z AUTO 00000KT 7SM OVC002 05/05 A3014 RMK AO2 T00480048 YMIA 290400Z AUTO 11007KT 9999 // NCD 27/04 Q1011 VOSM 290400Z 05004KT 6000 SCT020 28/22 Q1015 NOSIG GLRB 290230Z /////KT 9999 BKN011 FEW022CB 24/23 Q//// CB/NE-SW FHAW 271050Z 14017KT 9999 FEW022 BKN060 25/19 Q1015 NOSIG RMK BLU BLU NWWW 290400Z AUTO 21013KT CAVOK 30/18 Q1011 NOSIG K1KW 290358Z AUTO 31010KT 10SM CLR M01/M10 A3003 RMK AO2 SLP193 T10111102 $ SBMY 262000Z AUTO 04006KT 350V080 9999 SCT041 32/23 Q1006 SPME 282000Z /////KT 9999 SCT020 26/21 Q1008 RMK BIRD HAZARD RWY 32/14 PP000 ZUCK 290400Z 09003MPS 050V160 9999 SCT017 SCT033 12/08 Q1029 NOSIG KRSN 290355Z AUTO 00000KT 10SM SCT019 BKN110 09/06 A3013 RMK AO2 T00900055 EPMI 290400Z 32006KT 9999 SCT007 BKN012 02/02 Q1023 RMK 022 100 7/3= OPLA 290355Z 00000KT 2000 FU FEW100 SCT200 13/08 Q1019 BECMG 3000 RMK QFE991 RMK A30.10 KCOT 290353Z AUTO 36008KT 6SM BR OVC004 13/12 A3008 RMK AO2 RAE32 SLP182 P0001 T01330122 KUVA 290355Z AUTO 00000KT 10SM BKN041 OVC049 12/11 A3012 RMK AO2 T01220111 K1OM 290358Z AUTO 27011KT 10SM BKN075 M02/M05 A3032 RMK AO2 SLP291 T10221055 $ KDLL 290355Z AUTO 25006KT 10SM CLR 05/00 A2993 RMK AO2 T00480003 LFQA 290400Z AUTO VRB01KT 3300 BR NSC M02/M02 Q1020 CPRO 290400Z AUTO 18006KT M10/M11 RMK AO1 T11001109 KHUL 290409Z AUTO 00000KT 4SM BR BKN080 M01/M02 A2984 RMK AO2 T10111022 YRMD 290400Z AUTO 17007KT 130V200 9999 // NCD 38/09 Q1007 RMK CERM 290400Z AUTO 13001KT M02/M02 RMK AO1 SOG 14 1004 SLP101 T10181020 KPMD 290353Z 00000KT 10SM CLR 03/M13 A3021 RMK AO2 SLP240 T00281133 SCVD 290400Z AUTO 22003KT 170V240 9999 FEW026 SCT034 10/09 Q1023 KASW 290355Z AUTO 23008KT 10SM CLR 03/M02 A3011 RMK AO2 KOLG 290355Z AUTO 18003KT 10SM CLR 00/M02 A2979 RMK AO1 KTDZ 290353Z AUTO 22008KT 10SM CLR 03/M02 A3012 RMK AO2 SLP205 T00281022 UBBG 290400Z 20006KT 9999 FEW100 01/M02 Q1028 R30/CLRD// NOSIG PHTO 290353Z 32009KT 10SM SCT028 BKN034 24/18 A2999 RMK AO2 SLP152 T02440183 KMCK 290353Z AUTO 26015KT 10SM CLR 04/M02 A3001 RMK AO2 SLP178 T00441022 KAJG 290355Z AUTO 00000KT 10SM CLR 00/M01 A3016 RMK AO2 T00021015 CWAJ 290400Z AUTO 23013G19KT 07/01 RMK AO1 PK WND 23019/0351 SLP187 T00700009 55001 FYWB 290400Z AUTO 02011KT //// // ////// 14/12 Q1014 KGCC 290353Z AUTO 34008KT 10SM CLR 00/M09 A3021 RMK AO2 SLP244 T00001094 LFJL 290400Z AUTO 06011KT 5000 BR OVC004 02/01 Q1020 TEMPO BKN001 HKWJ 261800Z 00000KT CAVOK 29/21 Q1009 PAPR 252019Z 06016KT 15SM SCT060 BKN100 M04/ A2913 RMK LAST RPMD 290400Z 03009KT 340V050 9999 FEW016 33/24 Q1007 RMK A2974 SCIE 290409Z AUTO 20008KT //// R02/P2000N FEW007/// OVC010/// 15/14 Q1021 KPUC 290353Z AUTO 05004KT 10SM CLR M04/M12 A3022 RMK AO2 SLP283 T10441122 LFMU 290400Z AUTO VRB02KT CAVOK 07/06 Q1012 NOSIG KABE 290351Z 00000KT 10SM CLR 03/M02 A3012 RMK AO2 SLP204 T00281022 KAFO 290355Z AUTO 10SM CLR M11/M13 A3031 RMK AO2 SCTN 281600Z 21007KT 9999 SCT020 OVC050 11/08 Q1016 KSFZ 290356Z AUTO 29005KT 10SM CLR 03/M01 A3003 RMK AO2 SLP117 T00281011 KMDQ 290355Z AUTO 00000KT 7SM CLR 04/04 A3014 RMK A02 T00440038 LFSB 290400Z AUTO 01007KT 6000 BKN003 OVC020 01/01 Q1019 TEMPO 2000 BR LFBI 290400Z AUTO 02008KT 4800 BR NSC 02/01 Q1016 TEMPO 0400 FG VV/// CYBU 290400Z AUTO 27010G15KT 9SM CLR M10/M13 A3011 RMK SLP229 KDUH 290355Z AUTO 23013G20KT 10SM CLR 06/M04 A3010 RMK AO2 T00551036 LFSI 290400Z AUTO 07009KT 040V100 8000 OVC008 03/01 Q1019 YERN 290400Z AUTO 12008KT 090V160 //// // ////// 33/11 Q1012 OEMA 290400Z 34004KT CAVOK 14/00 Q1019 NOSIG PAEN 290353Z 03006KT 9SM -SN SCT037 OVC060 M01/M04 A2886 RMK AO2 SLP774 P0000 T10111039 $ SAMM 222105Z 09006KT 9999 -TSRA SCT035 SCT040CB 22/13 Q1013 PASA 290356Z AUTO 01024G31KT 9SM -SN OVC029 M03/M07 A2941 RMK AO2 PK WND 35035/0313 UPE48SNB34E43B48 SLP961 P0000 T10331072 FZRANO MMPA 290040Z 06006KT 6SM SKC 24/20 A2989 RMK HZY KROC 290354Z 21007KT 10SM FEW200 SCT250 02/M04 A3005 RMK AO2 SLP182 T00221044 KOJC 290353Z AUTO 21004KT 10SM CLR 05/M03 A3011 RMK AO2 SLP200 T00501028 $ LIPE 290350Z 28004KT 0800 R12/P1500N R30/P1500U FG VV005 07/06 Q1016 EGQA 271050Z 00000KT 9999 7000SW -RADZ BKN020 07/// Q1018 RMK WHT LEDA 290400Z AUTO 00000KT 0200 FG BKN037 06/06 Q1013 KJYG 290355Z AUTO 23006KT 10SM 03/M02 A2991 RMK AO2 PWINO KADS 290355Z AUTO 05006KT 5SM RA BKN007 BKN027 OVC046 08/08 A3010 RMK AO2 P0001 T00820075 YCBA 290400Z AUTO 21013KT 9999 // ////// 34/12 Q1007 YCWA 290400Z AUTO 01009KT 290V020 9999 // SCT100 37/10 Q1009 KCBM 290356Z AUTO 00000KT 10SM CLR 07/06 A3012 RMK AO2 SLP203 T00740062 $ K1AM 290358Z AUTO 20003KT 10SM BKN065 M03/M07 A3035 RMK AO2 SLP259 T10321070 $ CYQX 290408Z 02012KT 1SM R13/P6000FT/D R03/P6000FT/N BR BKN002 OVC058 01/01 A2971 RMK FG5SF2SC1 SLP067 CPRY 290400Z AUTO 17004KT M07/M09 RMK AO1 T10671092 EGXC 290350Z 11003KT 1400 BR OVC002 07/07 Q1025 RMK AMB FTTA 290400Z 00000KT CAVOK 20/12 Q1012 KMWC 290355Z AUTO 22011G15KT 10SM CLR 05/00 A2997 RMK AO2 SBAU 281300Z 09018KT CAVOK 30/14 Q1017 KAEG 290350Z 32010KT 10SM CLR 02/M11 A3018 FOGR 281500Z /////KT 9999 SCT011TCU BKN033 30/25 Q//// LTCD 290350Z VRB02KT 4800 BR NSC M06/M07 Q1024 TEMPO 1200 BCFG PFKW 290406Z AUTO 34009KT 3SM -SN BR BKN019 OVC025 M07/M08 A2908 RMK AO2 P0000 FZRANO YEST 290400Z AUTO 03007KT //// // NCD 24/07 Q1010 RMK CYOC 282200Z 35003KT 340V130 2 1/2SM -SN BR BKN004 OVC014 M24/M26 A2940 RMK SN3ST4ST1 LAST STFD OBS/NEXT 291300Z SLP987 CYET 290400Z AUTO 25004KT 230V290 9SM SCT180 SCT200 M10/M11 A3013 RMK SLP268 OTHH 290400Z 15008KT 9999 FEW030 BKN140 25/18 Q1017 NOSIG KSNL 290355Z AUTO 00000KT 7SM -RA SCT033 SCT050 OVC070 05/04 A3015 RMK AO2 P0011 T00530035 ZJSY 290400Z 08003MPS 360V160 9999 BKN050 27/17 Q1018 NOSIG KBTP 290356Z AUTO 19005KT 10SM CLR 00/M04 A3014 RMK AO2 SLP224 T00001044 FZRANO PNO $ GMTA 290400Z 16004KT 9999 FEW090 13/09 Q1012 NOSIG KUYF 290355Z AUTO 24007KT 10SM CLR 00/00 A3015 RMK AO2 KFZY 290354Z AUTO 00000KT 10SM CLR M02/M03 A3005 RMK AO2 SLP179 T10171033 $ SBMQ 290400Z 35005KT 9999 SCT013 BKN080 27/27 Q1010 PAKW 290353Z AUTO 17015G25KT 1 1/2SM RA BR OVC027 06/04 A2962 RMK AO2 PK WND 17028/0254 SLP030 T00610044 TSNO PNO KCPK 290355Z AUTO 00000KT 5SM BR CLR 05/04 A3015 RMK AO2 T00450040 KW43 290350Z AUTO 10SM CLR 02/M08 A3021 RMK AO2 FSIA 290400Z VRB01KT 9999 BKN020 27/24 Q1011 NOSIG VMMC 290400Z 01017KT CAVOK 20/11 Q1023 NOSIG PAII 290404Z AUTO 27007KT 3SM -SN BR FEW006 BKN011 OVC025 M02/M03 A2891 RMK AO2 P0000 FZRANO LSMP 290350Z AUTO 08006KT 050V120 9999NDV BKN009 02/M00 Q1018 RMK KIGM 290351Z AUTO 10007KT 10SM CLR 03/M12 A3020 RMK AO2 SLP207 T00331117 KIZG 290354Z AUTO 15003KT 10SM CLR 02/M01 A2993 RMK AO2 SLP141 T00171011 NVSS 290400Z 11004KT 9999 -SHRA FEW012 SCT018 OVC100 25/24 Q1009 INTER 0400/0600 8000 SHRA 9000 FEW010 BKN015 KRQO 290350Z AUTO 36008KT 10SM OVC046 04/03 A3017 RMK AO2 T00420031 KUCY 290355Z AUTO 00000KT 8SM CLR 02/M01 A3015 RMK A01 KJVY 290355Z AUTO 00000KT 10SM CLR 00/M01 A3017 RMK AO2 T10041008 TSNO OIBV 290400Z 27012KT 9999 FEW025 BKN090 24/16 Q1017 LFLB 282200Z AUTO 02010KT 9999 OVC023 05/02 Q1016 YPLM 290400Z AUTO 24011KT 210V270 9999 // NCD 37/05 Q1007 EGXT 290350Z AUTO 00000KT 0150 FG VV/// 07/07 Q1024 K3U3 290400Z AUTO 26005KT 10SM M01/M07 A3035 CWWF 290400Z AUTO 33019G25KT M02/M05 RMK AO1 SOG 01 1036 PK WND 32025/0359 SLP233 T10241053 EGPO 290350Z AUTO 22007KT 9999 NCD 04/04 Q1023 KJVL 290355Z AUTO 22008KT 10SM CLR 06/01 A2999 RMK AO2 CXKT 290400Z AUTO 20003KT 03/03 RMK AO1 SLP104 T00320027 58002 SKBQ 290400Z 36003KT 9999 FEW015CB SCT070 26/25 A2985 NOSIG RMK CB/NE/E KLSV 290358Z AUTO 00000KT 9SM CLR 05/M12 A3019 RMK AO2 SLP232 T00531122 $ PGRO 290350Z 10014KT 7SM -RA SCT016 BKN025 29/23 A2976 YBGD 290400Z AUTO 29009KT 270V340 9999 // NCD 37/11 Q1009 RMK CWJV 290400Z AUTO 09004KT 01/M01 RMK AO1 SLP312 T00101008 53008 KHEY 290358Z AUTO 03005KT 10SM OVC022 16/14 A3006 RMK AO2 OVC V BKN SLP180 T01600137 DAOO 290400Z 14004KT 9999 SCT026 10/09 Q1014 RJTU 270340Z 12004KT 090V160 9999 FEW020 BKN030 11/04 Q1020 RMK 1CU020 7SC030 A3012 UKDE 290400Z 09003MPS 9999 SCT040 03/01 Q1019 R20/090070 NOSIG KCON 290351Z AUTO 00000KT 10SM CLR M02/M03 A2998 RMK AO2 SLP157 T10221033 YSBK 290000Z AUTO 33014G25KT 9999 // NCD 38/09 Q0998 RMK KGLD 290353Z AUTO 23016G23KT 10SM CLR 02/M02 A3004 RMK AO2 PK WND 23028/0305 SLP179 T00221017 RJOR 290400Z 25011KT 8000 -SHRA FEW015 SCT025 BKN035 10/08 Q1021 CYWA 290400Z AUTO 22004KT 9SM OVC040 03/M01 A2989 RMK SLP128 KEET 290353Z AUTO 00000KT 10SM CLR 12/08 A3010 RMK AO2 SLP189 T01170083 KSNA 290353Z 00000KT 10SM CLR 14/01 A3010 RMK AO2 SLP193 T01440006 MUCM 290350Z 04006KT 9000 SKC 21/20 Q1017 YMBD 290400Z AUTO 19012G22KT 9999 // NCD 22/06 Q1014 RMK KCRQ 290353Z 00000KT 10SM CLR 12/M04 A3009 RMK AO2 SLP189 T01221044 ZGKL 290400Z 03007MPS 360V060 8000 SCT033 OVC050 12/04 Q1029 NOSIG RPMR 290400Z 14006KT 070V180 9999 FEW018 31/23 Q1007 RMK A2974 KHSG 290355Z AUTO 31006KT 10SM CLR 00/M14 A3021 RMK AO2 T10031144 PWINO KDWA 290355Z AUTO 00000KT 10SM BKN016 BKN021 BKN026 07/M03 A3020 RMK AO2 EGQK 261550Z AUTO 20005KT 9999 BKN034/// 06/03 Q1017 KJTC 290355Z AUTO 21007KT 10SM CLR M04/M08 A3026 RMK AO2 KBGR 290353Z 00000KT 1/4SM R15/P6000FT FG OVC002 03/02 A2992 RMK AO2 SLP131 MOON DMLY VSBL T00280022 VAID 290400Z 07006KT 4000 HZ NSC 21/06 Q1021 KPNA 290350Z AUTO 28010KT 10SM CLR M06/M15 A3024 RMK AO2 CYND 290200Z 23003KT 15SM BKN047 03/M01 A2992 RMK SC5 LAST STFD OBS/NXT 291200Z SLP136 KMTV 290355Z AUTO 00000KT 10SM CLR 02/01 A3017 RMK AO2 T00200010 NZWN 290400Z AUTO 17011KT 9999 NCD 17/11 Q1002 NOSIG PHJR 290353Z VRB03KT 10SM FEW042 BKN055 25/17 A3001 RMK AO2 SLP167 T02500167 LTBS 290350Z 06004KT CAVOK 05/02 Q1020 NOSIG RMK RWY19 01004KT 3CI200 KART 290356Z AUTO 23010G17KT 10SM BKN120 06/01 A3001 RMK AO2 SLP164 T00610011 $ YDLQ 290400Z AUTO 22011G29KT 170V250 //// // ////// 28/05 KSJC 290353Z 14004KT 10SM CLR 09/01 A3019 RMK AO2 SLP223 T00940011 KMRF 290356Z AUTO 31005KT 10SM CLR M01/M11 A3018 RMK AO2 SLP215 T10061106 FZRANO KDYR 290356Z AUTO 00000KT 10SM CLR 02/M01 A3017 RMK AO2 SLP224 T00221006 FZRANO PNO $ KSFO 290356Z 22004KT 10SM CLR 11/02 A3019 RMK AO2 SLP221 T01060022 VTBS 290400Z 06010KT 030V090 9999 FEW045 SCT100 28/19 Q1014 NOSIG KCKF 290355Z AUTO 00000KT 10SM OVC007 15/14 A3011 RMK AO2 T01500136 MMLP 290351Z 00000KT 10SM SKC 18/10 A2999 NOSIG K6I2 290350Z AUTO 00000KT 10SM CLR 02/00 A3017 RMK AO2 KXVG 290353Z AUTO 25009KT 10SM CLR 03/M03 A2975 RMK AO2 KHBV 290355Z AUTO 35010G16KT 5SM BR OVC005 14/14 A3005 RMK AO2 T01430136 KP53 290356Z AUTO 22009KT 02/M02 A2980 RMK AO1 SLP099 T00221022 FEFT 280500Z 36006KT CAVOK 20/18 Q1013 KVKY 290355Z AUTO 08016KT 10SM FEW012 SCT022 BKN028 21/19 A3006 RMK A01 KHIF 290358Z AUTO 10004KT 10SM CLR M01/M06 A3032 RMK AO2 SLP289 T10131063 FQQL 290400Z VRB02KT 9999 SCT020 26/23 Q1013 KGTB 290406Z AUTO 24010KT 10SM BKN025 OVC110 03/00 A2999 RMK AO2 CIG 025V110 BKN V SCT SLP161 MMCE 282346Z 03006KT 7SM SKC 27/24 A2987 RMK SLP112 52004 957 CU KSGS 290355Z AUTO 23005KT 10SM CLR 07/M02 A2988 RMK AO2 T00651018 PWINO KALB 290351Z 00000KT 10SM CLR M03/M03 A3007 RMK AO2 SLP184 T10281033 FDPP 290200Z AUTO 29003KT //// // ////// 13/08 Q1019 PTKK 290351Z 05008KT 15SM FEW014 SCT120 OVC290 32/28 A2970 RMK SHRAE04 SLP059 T03180280 KOWD 290353Z AUTO 29004KT 10SM CLR 04/M02 A3002 RMK AO2 SLP164 T00441017 OPSK 290400Z 00000KT 1000 BR NSC 12/11 Q1018 TEMPO 1000 BR FDBB 290100Z AUTO 10002KT //// // ////// 23/20 Q1009 LFAC 290400Z AUTO 13007KT 0350 FG VV/// 03/03 Q1023 CYBV 272200Z 18005KT 15SM FEW035 BKN150 BKN220 M04/M07 A2964 RMK SC2AC2CS2 SNW CVR/ONE LOOSE/LAST STFD OBS/NEXT 301300UTC SLP053 KINT 290354Z AUTO 00000KT 10SM CLR 09/02 A3016 RMK AO2 SLP210 T00890017 RORK 290400Z AUTO 01015KT 9999 FEW042 SCT047 OVC050 22/12 Q1021 KNFE 290356Z AUTO 00000KT 10SM CLR 05/04 A3015 RMK AO2 SLP210 T00500039 $ LIRE 290355Z 04006KT 9999 -RA FEW020 SCT033 12/09 Q1009 RMK OVC VIS MIN 9999 WIND THR13 05006KT WIND THR31 /////KT BLU K1GM 290358Z AUTO 04007KT 10SM FEW055 M05/M07 A3031 RMK AO2 SLP303 T10521071 $ PASV 290355Z AUTO 06005KT 10SM SCT016 M11/M11 A2882 RMK AO2 SLP793 T11061113 $ EBLB 290355Z AUTO 09003KT 0500 FG OVC002/// M02/M02 Q1021 RED SLOR 281400Z 18004KT 9999 FEW020 SCT200 15/01 Q1036 KAMW 290353Z AUTO 00000KT 10SM CLR 03/M01 A2997 RMK AO2 SLP154 T00281011 KCAR 290354Z AUTO 23004KT 10SM OVC080 00/M01 A2981 RMK AO2 SLP106 T00001011 $ KEEN 290356Z AUTO 00000KT 9SM CLR M03/M03 A3002 RMK AO2 SLP174 T10281028 FZRANO $ LZSL 290400Z VRB01KT 2500 BR OVC003 M03/M03 Q1019 SENL 282300Z 10001KT 9999 SCT020 SCT100 25/23 Q1011 A2988 KLCG 290355Z AUTO 17005KT 10SM CLR 00/M02 A2994 RMK AO2 T10051022 EPKK 290400Z 23006KT 1200 R25/1800D +SN BR BKN004 M00/M01 Q1019 MMMM 290340Z 23005KT 8SM SKC 17/14 A3020 KSWO 290353Z AUTO 00000KT 10SM BKN100 07/02 A3017 RMK AO2 SLP216 T00670017 OAMS 290350Z 34002KT 2000 FU BR BKN180 OVC250 04/03 Q1032 YLO BLU+ TEMPO AMB KSUT 290355Z AUTO 35005KT 10SM SCT050 14/13 A3013 RMK AO2 T01360130 CXCD 290400Z AUTO 26010KT M02/M07 RMK AO1 PK WND 26022/0308 T10241068 FYGF 270700Z 31007KT 9999 FEW045CB SCT050 ///// Q1022 K4A9 290355Z AUTO 00000KT 10SM CLR 06/05 A3012 RMK AO2 T00620054 KFTK 290356Z AUTO 36003KT 10SM CLR 01/M03 A3016 RMK AO2 SLP221 T00081030 $ GMMX 290400Z 09004KT CAVOK 09/07 Q1013 NOSIG HULI 250900Z 18002KT 9999 BKN020 23/18 YMCO 282300Z AUTO 25013G25KT //// // ////// 21/14 Q0996 RMK KMAI 290353Z AUTO 06006KT 10SM SCT026 17/14 A3005 RMK AO2 SLP173 T01720144 $ CYLH 262209Z AUTO 27010G17KT 240V300 6SM -SN OVC009 M02/M03 A2955 RMK SLP025 CYVC 290400Z 26005KT 15SM SKC M13/M15 A3011 RMK SLP229 KMIO 290355Z AUTO 34003KT 10SM CLR 05/02 A3014 RMK AO2 K1KM 290358Z AUTO 36018KT 10SM BKN070 M01/M08 A3030 RMK AO2 RAB14E17SHRAB17E29RAB29E29RAB33E35SHRAB35E35SHRAB36E50 SLP296 T10061076 $ KLAX 290353Z 26007KT 10SM CLR 14/09 A3011 RMK AO2 SLP194 T01440089 OEAH 290400Z 17007KT 9999 -RA FEW050 BKN100 19/16 Q1017 NOSIG KFSI 290356Z AUTO 01009KT 10SM BKN039 OVC049 06/04 A3012 RMK AO2 SLP203 T00550040 $ PHNL 290353Z 03006KT 10SM FEW028 FEW040 FEW060 25/16 A2999 RMK AO2 SLP156 SHRA DSNT NW T02500161 KFSM 290353Z 00000KT 10SM CLR 08/02 A3014 RMK AO2 SLP205 T00780022 YSDU 290400Z AUTO 23014KT 9999 // NCD 35/12 Q1006 RF00.0/000.0 KEMV 290355Z AUTO 5SM A3016 RMK AO2 PWINO PNO KMLI 290352Z 22010KT 10SM CLR 07/M01 A3002 RMK AO2 SLP170 T00721006 UCFL 290400Z 36003MPS 310V020 9999 NSC M02/M12 Q1030 R07/CLRD// EDXW 290350Z AUTO 08009KT 9999 // BKN007/// OVC023/// 02/01 Q1029 CYGX 290400Z 13003KT 8SM -SN OVC015 M15/M17 A2991 RMK SC8 SLP148 KEOE 290135Z AUTO 00000KT 7SM CLR 10/10 A3014 RMK AO2 YGBI 290400Z AUTO 36005KT //// // ////// 34/24 Q1006 RMK SBCB 282300Z 04014KT CAVOK 24/22 Q1019 FNLU 290400Z VRB03KT 8000 SCT020 BKN070 24/23 Q1009 SASJ 290400Z 00000KT CAVOK 24/20 Q1014 NZGS 290400Z 31013KT 270V350 20KM NCD 21/13 Q0999 RMK AUTO VATSIM USE ONLY LRCL 290400Z VRB02KT 9999 OVC016 M00/M02 Q1019 R07/29//95 KWBF 290405Z AUTO 14004G10KT 8SM CLR 24/22 A3001 RMK A01 KMIC 290353Z AUTO 23010KT 10SM CLR 07/M02 A2985 RMK AO2 SLP115 T00671017 K7N0 252105Z AUTO 15004KT 1 1/2SM +RA FEW018 BKN065 OVC100 24/22 A3004 RMK AO2 LTG DSNT W AND NW P0012 MMPE 281544Z 35007KT 10SM FEW200 14/M08 A3018 RMK 8/005 RTS SLYA 271800Z 06012KT 9999 BKN020 27/23 Q1010 KVBW 290355Z AUTO 00000KT 10SM CLR M01/M02 A3015 RMK AO1 T10101018 KFFM 290355Z AUTO 28010KT 10SM CLR 03/M03 A2988 RMK AO2 KTAZ 290355Z AUTO 17006KT 10SM CLR 01/M01 A3013 RMK AO2 T00121012 KCVX 290355Z AUTO 18010KT 10SM CLR 06/02 A2987 RMK AO2 T00560015 401070013 CWJD 290400Z AUTO 33007G16KT M05/M08 RMK AO1 SOG 18 3038 PK WND 34019/0314 SLP157 T10521080 50003 KBID 290356Z AUTO 31008G14KT 10SM CLR 06/M01 A3006 RMK AO2 SLP181 T00611011 401220061 KFWB 290355Z AUTO 00000KT 10SM CLR 06/M00 A3014 RMK AO2 NZKK 290400Z 25008KT 210V310 11KM -RA BKN015 19/17 Q1006 RMK AUTO VATSIM USE ONL CWTN 290400Z AUTO 27002KT 01/01 RMK AO1 2PAST HR 6005 SLP106 P0001 T00120008 50002 KE11 290355Z AUTO 16005KT 10SM CLR 03/01 A3010 RMK AO2 T00300007 KOKK 290356Z AUTO 22006KT 10SM CLR 01/M03 A3014 RMK AO2 SLP215 T00111028 400831028 FZRANO ETIC 290356Z AUTO 06003KT 9999 OVC024 00/M05 A3018 RMK AO2 SLP245 T10031046 $ GOOY 290300Z 03010KT CAVOK 25/18 Q1012 CXKA 290400Z AUTO 24005KT M01/M04 RMK AO1 SOG 06 1010 SLP090 T10061036 KPRN 290358Z AUTO 06004KT 10SM CLR 14/11 A3007 RMK AO2 SLP129 T01390106 $ KSOW 290355Z AUTO 00000KT 10SM CLR M03/M05 A3025 RMK AO2 KHDE 290355Z AUTO 26016KT 10SM CLR 07/M02 A2998 RMK AO2 T00651022 CZMT 290200Z 16015G27KT 10SM -RA OVC040TCU 07/06 A2984 RMK TCU8 NEXT STFD OBS/NEXT 291500 UTC SLP105 KLGU 290351Z AUTO 00000KT 10SM CLR M06/M08 A3034 RMK AO2 SLP317 T10561078 RJDC 290400Z 30008KT 260V350 9999 FEW025 SCT035 BKN045 12/04 Q1024 NZNV 290400Z 24010KT 24KM NCD 15/06 Q1001 RMK AUTO VATSIM USE ONLY LGEL 290350Z 00000KT 9999 FEW020 SCT030 10/08 Q1016 EVVA 290350Z AUTO 05005KT CAVOK 02/02 Q1025 KMGE 290356Z 00000KT 10SM SCT200 OVC250 10/07 A3010 RMK AO2A SLP193 T00970071 $ EGPD 290350Z AUTO VRB01KT 9999 OVC031 M00/M00 Q1024 TEMPO BKN014 PAPH 290408Z AUTO 28027G34KT 9SM UP FEW018 SCT029 BKN036 M01/M04 A2905 RMK AO2 PK WND 28034/0408 UPB05SNE05 FZRANO PNO $ VLLN 290400Z 16002KT 6000 FEW020 21/16 Q1022 NOSIG LWOH 281800Z 00000KT 9999 FEW040 03/M01 Q1018 LIMP 282150Z 18005KT 160V230 1200 R20/P1500N BR BKN005 07/07 Q1018 SBAX 271600Z 12007KT 9999 SCT045 30/15 Q1019 OIBQ 290400Z 14004KT 8000 TS SCT020 SCT030CB OVC080 20/19 Q1017 KUTA 290355Z AUTO 02003KT 10SM CLR 04/01 A3015 RMK AO2 TSNO KLNC 290355Z AUTO 04006KT 7SM RA BKN006 OVC010 10/09 A3009 RMK AO2 P0001 T00960090 LROP 290400Z 10002KT 0300 R08R/0650N R26L/0800N FG VV001 00/00 Q1019 NOSIG UBBY 290400Z 10002KT 9999 SCT100 M00/M01 Q1030 R33/CLRD// NOSIG RMK MT OP RKPM 260141Z 02016KT 9999 SCT020 BKN080 10/06 A3032 RMK CIG080 KMNE 290355Z AUTO 08003KT 10SM SCT028 OVC034 10/06 A3011 RMK AO2 T01010056 KMGC 290355Z AUTO 20008KT 10SM CLR 03/00 A3008 RMK AO2 SBSC 290300Z 00000KT CAVOK 23/21 Q1018 KDRO 290353Z AUTO 00000KT 10SM CLR M06/M09 A3019 RMK AO2 SLP277 T10611089 KOAK 290353Z 11005KT 10SM CLR 11/01 A3020 RMK AO2 SLP225 T01110006 WBGY 290400Z 00000KT 9999 SCT018 31/24 Q1011 YBOK 290400Z AUTO 34007KT 9999 // NCD 35/05 Q1010 KBEH 290353Z AUTO 20009G15KT 10SM CLR 05/00 A3006 RMK AO2 SLP182 T00500000 RJSK 290400Z 18003KT 120V230 9999 -SHRASN FEW010 SCT025 BKN040 05/02 Q1021 KIRS 290401Z AUTO 23007KT 10SM CLR 03/M01 A3008 RMK AO2 KJWN 290355Z AUTO 00000KT 10SM CLR 04/00 A3014 RMK A01 EBBL 290355Z AUTO 08007KT 3500 BR OVC003/// 03/02 Q1024 YLO KSCR 290355Z AUTO 00000KT 10SM CLR 04/04 A3016 RMK AO2 T00400036 KPMP 290353Z AUTO 00000KT 10SM CLR 21/19 A3004 RMK AO2 SLP172 T02110194 CYSM 290400Z 14006KT 15SM SKC M16/M18 A2984 RMK SLP129 KCOU 290354Z AUTO 19005KT 10SM CLR 05/M03 A3012 RMK AO2 SLP203 T00501033 KHCD 290355Z AUTO 22005KT 10SM CLR 04/00 A2989 RMK AO2 T00361005 LPOV 281800Z 17008KT 9999 -RA FEW018 SCT030 14/11 Q1003 MROC 290400Z 32004KT 300V010 CAVOK 21/21 A3002 NOSIG ESIA 290350Z AUTO 30003KT 270V330 9999 -SHSN OVC009/// M01/M02 Q1029 KGYI 290355Z AUTO 06005KT 4SM RA SCT025 BKN044 OVC049 07/06 A3013 RMK AO2 T00720063 KSEA 290353Z 11005KT 3SM BR SCT003 SCT250 06/04 A3036 RMK AO2 SLP291 SCT003 V BKN T00560044 $ KEHA 290355Z AUTO 00000KT 10SM OVC007 03/02 A3009 RMK AO2 T00250022 YCFL 290400Z AUTO 13013KT //// // ////// 29/23 Q1008 RMK KALS 290352Z AUTO 05004KT 10SM CLR M06/M09 A3014 RMK AO2 SLP238 T10561089 KMTH 290353Z AUTO 00000KT 10SM CLR 22/20 A3003 RMK AO2 SLP169 T02170200 OOSH 290350Z AUTO 21002KT //// ////// 22/16 Q1018 KCUB 290402Z AUTO 00000KT 2SM BR OVC002 10/09 A3014 RMK AO2 T01000089 LSGC 290350Z AUTO VRB01KT CAVOK M04/M05 Q1014 ENDR 240620Z AUTO 08/05 Q0997 KSGJ 290356Z AUTO 34007KT 10SM OVC005 19/18 A3006 RMK AO2 SLP177 T01890178 402560189 $ SGEN 282100Z 36005KT 9999 BKN027 FEW040TCU BKN070 35/20 Q1007 KCAD 290355Z AUTO 21010KT 10SM CLR 03/01 A2991 RMK AO2 T00250010 UTDD 290400Z VRB02MPS 0350 0050E R09/0650D FZFG FU FEW002 M00/M01 Q1033 R09/CLRD// NOSIG RMK QBB075 QFE705/0940 CYAS 282200Z 29016G22KT 15SM FEW200 M13/M16 A2958 RMK CI2 SNOW COVER TRACE LOOSE LAST STFD OBS NEXT 291300UTC SLP032 UHSS 290400Z 22003MPS 2200 -SHSN BKN030CB M03/M06 Q1014 R01/810265 NOSIG RMK MT OBSC QFE759/1013 EGTE 280220Z VRB04KT 5000 RA BKN009 08/07 Q1012 EGAC 290350Z AUTO VRB02KT 6000 -RA OVC013/// 08/07 Q1024 KICT 290353Z 21005KT 10SM SCT120 04/00 A3012 RMK AO2 SLP204 T00390000 DTKA 290400Z 24012KT 9999 SCT020 12/10 Q1003 NOSIG CYYQ 290400Z 32005KT 3SM -SN OVC015 M11/M13 A2994 RMK SC8 WND ESTD SLP142 ENSD 281620Z VRB04KT 9999 FEW040 BKN050 05/00 Q1026 RMK WIND 1138FT 21009KT SLRI 282300Z 29008KT 5000 SHRA SCT010 FEW020CB BKN200 24/23 Q1010 KFTN 290355Z AUTO 34003KT 10SM BKN016 BKN021 OVC034 13/12 A3011 RMK A01 CWDA 290400Z AUTO 05003KT 01/M00 RMK AO1 T00061001 50002 RPLC 290400Z 36008KT 9999 SCT020 BKN100 30/23 Q1013 NOSIG RMK A2991 KAOO 290353Z AUTO 00000KT 10SM CLR 02/M06 A3013 RMK AO2 SLP216 T00221056 KPSX 290411Z AUTO 36007KT 5SM -RA BR FEW012 OVC029 18/18 A2997 RMK AO2 P0001 T01780178 SLJV 281600Z 00000KT 9999 NSC 30/22 Q1014 GMFK 290400Z 00000KT CAVOK 05/02 Q1017 NOSIG KAJR 290355Z AUTO 08004KT 10SM CLR 10/08 A3012 RMK AO2 T01000076 EFHK 290350Z 04007KT 9999 OVC005 01/00 Q1029 NOSIG TVSA 282300Z 01004KT 9999 SCT012 BKN028 25/24 Q1012 TEMPO SHRA KLWB 290355Z AUTO 03003KT 10SM CLR M01/M03 A3017 RMK AO2 T10071032 LERL 281100Z 24005KT 200V280 9999 BKN024 10/06 Q1008 KARW 290355Z AUTO 01004KT 10SM OVC027 14/12 A3011 RMK AO2 KDVP 290353Z AUTO 26012G17KT 10SM CLR 04/M03 A2992 RMK AO2 T00411031 KORL 290353Z AUTO 00000KT 10SM CLR 23/17 A3003 RMK AO2 SLP172 T02330172 KBWD 290355Z AUTO 30010KT 10SM OVC011 07/05 A3014 RMK AO1 PASY 290358Z AUTO 09019KT 7SM R28/5500FT M 01/M05 A2952 RMK AO2 SLP000 T00141051 FZRANO $ KN60 290352Z AUTO 33027G36KT M01/M06 A3007 RMK AO1 PK WND 34036/0351 SLP203 T10111056 EPMM 290400Z 04005KT 360V060 9999 BKN007 BKN012 OVC035 00/M01 Q1018 RMK 001 094 KDOV 290356Z AUTO 30005KT 10SM CLR 05/00 A3014 RMK AO2 SLP210 T00521002 $ KNKT 290354Z AUTO 00000KT 10SM CLR 10/08 A3016 RMK AO2 SLP208 T01000078 $ MNMG 290400Z 18004KT 9999 FEW022 23/21 Q1012 A2989 NOSIG KW22 290400Z AUTO 00000KT 10SM CLR M01/M02 A3018 RMK AO2 KSIF 290355Z AUTO 00000KT 10SM CLR 03/02 A3015 RMK AO2 T00250020 KMBO 290255Z AUTO 00000KT 10SM CLR 10/10 A3012 RMK AO2 LFBY 290130Z AUTO VRB02KT 4600 // ////// 09/07 Q1012 KMYL 290351Z AUTO 06004KT 10SM CLR M11/M13 A3034 RMK AO2 SLP348 T11061133 $ CYHZ 290406Z 31006KT 1/8SM R23/1600V2000FT/N R14/1400V1800FT/N FG VV001 02/02 A2981 RMK FG8 SLP102 YPTN 290400Z AUTO 05007KT 9999 // BKN079 BKN093 36/17 Q1005 CYOD 290400Z 25009KT 15SM SKC M08/M10 A3015 RMK SLP244 EGPF 290350Z 27002KT 0800 FZFG FEW002 SCT006 M01/M02 Q1026 KSXS 290358Z AUTO 02005KT 10SM SCT190 15/14 A3006 RMK AO2 SLP180 T01510136 CYKY 290400Z 26008G17KT 15SM SKC M13/M15 A3026 RMK SLP297 SBHT 282100Z 08003KT 9999 FEW030 28/25 Q1009 FOOR 281500Z /////KT 9999 SCT006 FEW012CB 31/23 Q//// KRYV 290355Z AUTO 22005KT 10SM CLR 04/01 A2995 RMK AO2 T00350009 LTCJ 290350Z 00000KT 0400 R02/0450N R20/0700D FG VV001 00/00 Q1020 RMK RWY20 04003KT KIPT 290354Z AUTO 00000KT 10SM CLR 00/M03 A3013 RMK AO2 SLP207 T00001033 $ OPST 290400Z 05004KT 4000 FU SCT100 13/08 Q1020 NOSIG RH71 OIZI 290400Z 05004KT CAVOK 16/M06 Q1022 CWEF 290300Z AUTO 03/ RMK AO1 SLP074 T0025 58010 ENHK 271950Z 23009KT 9999 FEW040 06/01 Q1014 ULPB 290400Z AUTO 12002MPS 070V180 9999 // ///008/// M02/M04 Q1034 RMK QBB250 QFE771/1029 KRKR 290355Z AUTO 00000KT 10SM CLR 07/01 A3013 RMK AO2 OIAA 290400Z 12006KT 9999 FEW025CB FEW035 BKN090 18/18 Q1017 KQVF 290256Z AUTO 00000KT 9999 FEW016 25/24 A2985 RMK AO2 SLP111 WND DATA ESTMD T02480237 WBKW 290400Z VRB06KT 9999 VCSH FEW015CB SCT017 29/25 Q1008 KAPS 290355Z AUTO 05003KT 10SM -DZ BKN009 BKN065 OVC100 18/17 A3005 RMK AO2 T01810165 LRCT 280700Z 19006KT 1000 BR OVC002 M02/M02 Q1021 AMB AMB KLRD 290412Z 34007KT 10SM BKN007 OVC016 14/14 A3008 RMK AO2 CIG 005V011 K0S9 290355Z AUTO 00000KT 2SM BR SCT002 01/01 A3037 RMK AO2 RJOS 290400Z 35004KT 270V030 9999 FEW030 14/04 Q1021 CWKH 290400Z AUTO 03/ RMK AO1 SLP275 T0030 58009 PAAQ 290353Z AUTO 35010KT 10SM BKN120 M01/M08 A2885 RMK AO2 SLP773 T10061083 TSNO KAZE 290355Z AUTO 00000KT 10SM OVC006 14/13 A3010 RMK AO2 T01420130 EDDV 290350Z VRB02KT 9999 BKN033 M02/M03 Q1027 NOSIG KC99 290330Z AUTO 32015G23KT 290V350 10SM CLR M05/M17 A3017 RMK AO2 EHGR 290355Z AUTO 06008KT 020V100 2600 BR OVC003 04/03 Q1024 YLO KNTD 290352Z AUTO 00000KT 10SM CLR 11/06 A3014 RMK AO2 SLP206 T01060061 $ SPYL 281900Z 23011KT CAVOK 25/18 Q1011 RMK BIRD HAZARD RWY 17/35 PP000 KBBP 290355Z AUTO 00000KT 7SM CLR 07/07 A3014 RMK AO2 SBPB 272045Z /////KT 9999 FEW020 29/24 Q1009 RJCO 290400Z 31009KT 9999 FEW015 SCT025 BKN050 03/M03 Q1019 EKVG 290350Z AUTO 20013KT 180V250 9999 -RA BKN020/// 05/03 Q1016 YPXM 290400Z AUTO 14009KT 9999 // SCT015 SCT021 BKN025 28/22 Q1011 CYUS 290400Z AUTO 17009KT ////SM //// NCD M30/M34 A2994 ENLA 290350Z AUTO 16015KT 9999NDV FEW014/// BKN044/// 08/05 Q1026 W///S3 KADF 290356Z AUTO 00000KT 10SM CLR 06/03 A3014 RMK AO2 SLP207 T00610033 KFFC 290353Z AUTO 00000KT 6SM BR CLR 10/09 A3011 RMK AO2 SLP196 T01000094 UHPP 290400Z 18001MPS 9999 NSC M04/M10 Q1003 R34L/CLRD70 NOSIG RMK QFE749/0999 DRZR 281800Z 08004KT CAVOK 29/06 Q1013 SCBA 282100Z 31024KT 9999 SCT040 BKN100 BKN200 09/M01 Q1010 CXIB 290400Z AUTO 34001KT 03/02 RMK AO1 8007 SLP084 T00300021 50003 DRZA 281800Z 12006KT CAVOK 28/08 Q1014 KDHT 290353Z AUTO 00000KT 10SM OVC012 01/M01 A3010 RMK AO2 SLP198 T00111011 YCBP 290400Z AUTO 18014KT 9999 // SCT042 SCT086 26/07 Q1012 SBTE 290400Z 18007KT CAVOK 26/21 Q1010 KTUP 290353Z AUTO 02003KT 10SM CLR 08/06 A3013 RMK AO2 SLP201 T00830056 KRQB 290401Z AUTO 22007KT 10SM CLR 04/02 A2996 RMK AO2 KM91 290355Z AUTO 00000KT 10SM CLR 03/M02 A3014 RMK A01 K7S1 290355Z AUTO 11005KT 10SM CLR M04/M09 A3033 RMK AO2 CXBO 290400Z AUTO 23008KT 03/02 RMK AO1 T00260018 50007 CYTS 290400Z 25003KT 15SM FEW012 OVC035 M00/M01 A2979 RMK SC2SC6 SLP106 SBPV 290400Z 11004KT 3000 -TSRA OVC020 FEW030CB 25/24 Q1013 RERA LQBK 290400Z 33004KT 7000 BKN006 OVC025 01/01 Q1021 NOSIG SLCB 290400Z 12004KT 9999 FEW036 SCT200 19/07 Q1024 KFSW 290355Z AUTO 21007KT 10SM CLR 07/00 A3007 RMK AO2 LRSV 290400Z 25005KT 9999 BKN033 M00/M02 Q1017 R16/29//95 KLEB 290400Z AUTO 00000KT 4SM BR FEW001 M02/M03 A2998 RMK AO2 T10221033 WMKI 290400Z VRB02KT 9999 FEW019 31/24 Q1011 RJOI 290355Z 24006KT 9999 SCT040 16/01 A3021 RMK SLP229 T01560011 CYGT 272200Z 28006KT 15SM FEW004 BKN006 M26/M29 A2959 RMK SC3SC4 LAST STFD OBS/NEXT/2816UTC SLP029 KTTA 290355Z AUTO 00000KT 10SM CLR 05/05 A3015 RMK AO2 T00460046 LRTZ 280700Z 31012KT 3000 BR SCT200 M03/M03 Q1019 YLO YLO KCLT 290352Z 00000KT 10SM CLR 12/06 A3014 RMK AO2 SLP204 T01170056 $ YABA 290400Z AUTO 20005KT 160V230 9999 // NCD 21/11 Q1009 KRAC 290353Z AUTO 24011KT 10SM CLR 07/01 A2999 RMK AO2 SLP160 T00720011 LIMV 281755Z /////KT 4000 1500N BR SCT004 04/03 Q1015 RMK BKN SCT080 MON N INVIS S LIB VAL N INVIS S FOSCHIA VIS MIN 1500N KBHK 290351Z AUTO 33018G25KT 10SM CLR M01/M07 A3020 RMK AO2 PK WND 32031/0258 PRESRR SLP248 T10111072 NVSG 290300Z 12008KT 9999 BKN020 30/26 Q1010 RMK HZ MUCU 290350Z 34005KT 9000 FEW020 24/18 Q1015 KCIC 290259Z 04005KT 10SM SCT200 10/M01 A3019 KHJO 290353Z AUTO 31003KT 9SM CLR 06/01 A3020 RMK AO2 SLP231 T00610011 EHSC 290355Z AUTO 08011KT 050V110 0900 -UP ///////// 05/05 Q1024 W11/H5 RKTB 290322Z 27014KT 9999 BKN010 BKN040 01/M00 A3045 RMK CIG010 KTEW 290355Z AUTO 22009KT 10SM CLR 04/M02 A3005 RMK AO2 T00351020 KCYD 290355Z AUTO 11012KT 10SM SCT001 OVC085 24/20 A3004 RMK A02 TSNO T02370199 UWSG 290400Z 08004MPS 9999 BKN012 OVC024 01/M00 Q1037 R08/150063 NOSIG RMK QFE775/1034 CWGM 290300Z AUTO 08001KT M10/M12 RMK AO1 T11021121 CYHA 282200Z 31021G27KT 10SM -SN DRSN OVC020 M06/M09 A2954 RMK SC8 SN CVR/TR LOOSE LAST STFD OBS/NEXT OBS 291300UTC SLP008 KGYH 290355Z AUTO 00000KT 10SM CLR 10/08 A3013 RMK AO2 EFKK 290350Z AUTO 15007KT 9999 -SHSN SCT023 M02/M03 Q1030 KHLX 290355Z AUTO 02004KT 10SM CLR 06/M01 A3014 RMK AO2 T00571007 KSFF 290353Z AUTO 06004KT 10SM CLR 01/M01 A3040 RMK AO2 SLP308 T00111011 RKPK 290400Z 33011KT CAVOK 08/M06 Q1026 LGKR 290350Z 11011KT 9999 FEW018 SCT070 15/12 Q1014 NOSIG DAUI 290400Z 00000KT CAVOK 06/M04 Q1016 EGCC 290350Z AUTO VRB02KT 6000 OVC006 08/07 Q1024 TEMPO 3000 BR KFKA 290355Z AUTO 25007KT 10SM CLR 04/00 A2992 RMK AO2 T00350001 KGOK 290353Z AUTO 00000KT 10SM BKN070 OVC090 05/04 A3017 RMK AO2 SLP223 T00500044 FAKN 290400Z 24004KT CAVOK 19/18 Q1018 NOSIG SLVR 290400Z 34006KT 9999 NSC 25/22 Q1011 KBTA 290355Z AUTO 18007KT 10SM CLR 04/00 A2996 RMK AO2 T00411002 YMEK 290400Z AUTO 31013KT 9999 // NCD 38/M02 Q1008 LHBC 281745Z VRB01KT 3900 -DZ BR OVC008 01/01 Q1021 SPJA 231820Z 34003KT 7000 SCT020 BKN080 23/21 Q1015 FZRF 280800Z 19010KT 8000 -TSRAKT BKN010 FEW022CB OVC100 23/20 Q1018 BECMG VIS 6000 RJDT 290400Z 31010KT 270V350 9999 FEW030 09/M00 Q1025 CYBX 290400Z 08013KT 15SM -SN OVC026 00/M01 A2978 RMK SC8 SLP089 EGGP 290350Z AUTO 15006KT 6000 OVC006/// 09/08 Q1024 SEAM 272100Z 00000KT 9999 SCT020 OVC100 18/13 Q1024 HECA 290400Z 22003KT 2000 BR NSC 14/10 Q1019 NOSIG MUHG 290350Z 05005KT CAVOK 21/20 Q1016 EDDN 290350Z 02003KT 9999 FEW025 M01/M04 Q1023 CXDB 290400Z AUTO 20006KT M10/M12 RMK AO1 T10951121 RJCM 290400Z 21006KT 170V250 9999 FEW030 SCT050 BKN060 05/M06 Q1015 CWQP 290400Z AUTO 26017G25KT 07/03 RMK AO1 PK WND 26027/0306 SLP174 T00680029 53004 OEGT 290400Z 23004KT CAVOK 08/06 Q1020 NOSIG KGVE 290355Z AUTO 00000KT 10SM CLR 02/02 A3015 RMK AO1 T00190016 LEPP 290400Z AUTO 00000KT 7000 NCD 05/05 Q1013 KPHN 290357Z AUTO 22005KT 10SM CLR 03/M03 A3004 RMK AO2 LIPH 290350Z AUTO 03006KT 9999 BKN076/// 07/02 Q1016 OISL 290400Z 00000KT 9999 FEW035CB SCT040 13/10 Q1020 A3012 NOSIG EKEB 290350Z AUTO 04003KT 9999 OVC012/// 01/01 Q1029 KVHN 290355Z AUTO 19004KT 10SM CLR 07/M06 A3020 RMK AO2 T00711057 YKOW 290400Z AUTO 15005KT 100V170 9999 // SCT071 36/19 Q1006 FOGO 281400Z /////KT 9999 FEW016 BKN040 30/21 Q//// MMZH 282340Z 00000KT 7SM SCT060 29/23 A2985 RMK SLP099 57004 903 8/030 HZY KMKE 290352Z 23009KT 10SM CLR 06/01 A2997 RMK AO2 SLP154 T00610011 LEGE 290400Z 35004KT 300V050 9999 OVC070 13/09 Q1012 KDTO 290353Z 05007KT 10SM BKN040 OVC075 08/07 A3009 RMK AO2 RAE24 SLP188 P0000 T00830067 LEBB 290400Z 11006KT 070V150 CAVOK 08/07 Q1012 NOSIG DAUG 290400Z 27009KT CAVOK 11/03 Q1015 KBVX 290356Z AUTO 33003KT 10SM CLR 02/00 A3017 RMK AO2 SLP221 T00170000 FZRANO MGCB 290000Z 09006KT 9999 OVC015 20/17 QFE 870.0 MTN N/W CUB/CL KBKS 290355Z AUTO 36009KT 3SM OVC005 16/16 A2999 RMK AO2 T01600160 K2P2 290355Z AUTO 23008G16KT 10SM CLR 05/02 A2985 RMK AO2 T00530021 EGSH 290350Z AUTO 10004KT 070V140 2500 HZ OVC002/// 08/07 Q1025 KIYA 290355Z AUTO 00000KT 10SM -RA OVC006 17/16 A3007 RMK AO2 T01720157 401900162 CYQM 290400Z 20004KT 9SM -SN FEW030 OVC066 02/02 A2982 RMK SC2AS6 SLP104 LPPT 290400Z 17009KT 7000 SHRA SCT030 FEW035TCU 11/09 Q1008 PGUM 290408Z 10016G22KT 10SM SCT019 BKN036 30/24 A2977 RMK AO2 T03000244 KTCL 290353Z AUTO 00000KT 10SM CLR 11/08 A3011 RMK AO2 SLP197 T01060083 ZJHK 290400Z 04008MPS 9999 BKN023 BKN033 21/16 Q1022 NOSIG KBNA 290353Z 00000KT 10SM SCT200 04/M02 A3017 RMK AO2 SLP216 T00441017 KEVM 290355Z AUTO 00000KT 10SM CLR M05/M05 A2974 RMK AO2 T10461053 VEBI 280800Z 18003KT 6000 FEW020 25/10 Q1018 VTUV 290400Z 03009KT 360V060 9999 FEW040 SCT100 26/18 Q1017 NOSIG SAME 290400Z 20002KT CAVOK 25/16 Q1010 KPHP 290355Z AUTO 33013KT 10SM CLR 06/M08 A3010 RMK AO2 SLP202 T00611083 $ DABB 290400Z 25012KT 7000 RA FEW020 FEW023CB BKN033 13/11 Q1004 OITM 290400Z 27004KT 0200 FG OVC006 00/00 Q1020 RESN CWRM 290400Z AUTO 11002KT M16/M18 RMK AO1 SOG 10 0000 SLP283 T11601180 KSUA 290355Z AUTO 19003KT 10SM CLR 22/18 A3005 RMK AO2 LFBU 290400Z AUTO 02010KT CAVOK 05/05 Q1015 KPVU 290356Z AUTO 00000KT 10SM CLR M04/M07 A3034 RMK AO2 SLP310 T10441067 FZRANO KRWV 290355Z AUTO 01004KT 1 1/4SM -DZ BR OVC004 13/ A3008 RMK AO2 P0001 T0135//// KT69 290355Z AUTO 02009KT 2SM BR SCT005 BKN012 OVC028 18/17 A2999 RMK A01 YSSY 290400Z 29030G42KT CAVOK 39/09 Q0998 CWNM 290400Z AUTO 18003KT M01/M02 RMK AO1 SLP325 T10111023 51020 CYBR 290409Z 32017KT 15SM -SN SCT020 BKN040 M01/M03 A2995 RMK SC3SC3 SLP171 KCPS 290353Z AUTO 00000KT 10SM CLR 01/M01 A3015 RMK AO2 SLP213 T00061011 KAPN 290354Z AUTO 23007KT 10SM CLR 05/M01 A2990 RMK AO2 SLP129 T00501006 BIAR 290400Z VRB01KT 9999 BKN045 OVC051 03/M03 Q0998 EHFS 290355Z AUTO 07009KT 040V110 0450 -UP VV000 04/04 Q1024 K2G4 290355Z AUTO 28006KT 10SM CLR 00/M05 A3011 RMK AO1 ESGR 290350Z AUTO 21002KT 6000 BR OVC006/// M01/M02 Q1029 LHPP 281645Z 34003KT 3000 BR OVC008 00/00 Q1021 YWWL 290400Z AUTO 27015KT //// // ////// 28/09 Q1008 RMK KLNL 290355Z AUTO 19003KT 10SM CLR M04/M05 A2983 RMK AO2 T10391051 UWUU 290400Z 11004MPS 3000 -SN OVC012 M06/M07 Q1045 R14R/490546 TEMPO 0500 FZDZ FZFG VV004 KCRG 290353Z AUTO 36006KT 7SM OVC005 18/17 A3006 RMK AO2 SLP179 T01780167 KHAI 290355Z AUTO 23008KT 10SM CLR 04/M01 A3008 RMK AO2 T00351006 LERT 290400Z VRB01KT 9000 BKN024 13/13 Q1011 NOSIG VOMY 290330Z 06008KT 6000 FEW015 24/19 Q1018 KTHV 290353Z AUTO 00000KT 10SM CLR M03/M05 A3015 RMK AO2 SLP215 T10281050 PFEL 290356Z AUTO 01014KT 10SM CLR M09/M11 A2914 RMK AO2 SLP871 T10891111 FZRANO SBUF 271900Z 14008KT 9999 SCT021 33/17 Q1011 KMFE 290353Z 31012KT 10SM OVC009 18/16 A3001 RMK AO2 SLP159 T01830156 $ KCLW 290355Z AUTO 19003KT 10SM 21/18 A3003 RMK AO2 KFXE 290353Z AUTO 00000KT 10SM CLR 23/20 A3004 RMK AO2 SLP174 T02280200 TSNO CYQQ 290400Z 20002KT 20SM FEW030 BKN230 02/01 A3037 RMK SC2CS3 HALO SLP287 LZZI 290400Z VRB01KT CAVOK 00/M03 Q1019 KPVF 290355Z AUTO 00000KT CLR 09/M02 RMK AO1 KANB 290353Z AUTO 05003KT 10SM CLR 10/09 A3011 RMK AO2 SLP197 T01000089 OICK 290400Z 00000KT 9999 FEW035CB SCT040 BKN110 BKN170 10/08 Q1016 FNCA 281200Z 18006KT 9000 -DZ FEW010 BKN050 FEW058CB 25/24 Q1011 KSUS 290354Z AUTO 00000KT 10SM CLR 00/M02 A3013 RMK AO2 SLP210 T00001017 SBCY 290400Z 28003KT CAVOK 28/22 Q1011 CXMM 290400Z AUTO 00024KT M07/M10 RMK AO1 SOG 18 6005 SLP189 T10721100 KVES 290355Z AUTO 22007KT 10SM CLR 02/M03 A3015 RMK AO2 CWPZ 290400Z AUTO 00000KT M08/M09 RMK AO1 SOG 26 7019 SLP223 T10791088 PAMO 270916Z AUTO 13009KT 1 1/2SM -SN BR OVC002 M04/M05 A2944 RMK AO2 VIS 3/4V5 SNB12 P0000 FZRANO UNEE 290400Z 12002MPS 0900 0700NE R05/0900U FU SCT001 M21/M24 Q1036 R05/820255 NOSIG RMK QBB050 QFE754 USRR 290400Z 00000MPS 9999 BKN005 M19/M21 Q1044 R25/32//50 NOSIG RMK OBST OBSC QFE777 KLDM 290355Z AUTO 22010KT 10SM CLR 07/04 A2993 RMK AO2 T00660035 KIWA 290347Z 04004KT 10SM SKC 11/M03 A3012 ENSK 271920Z 23008KT 9999 FEW038 SCT049 06/02 Q1017 KTMB 290353Z AUTO 00000KT 10SM -RA CLR 21/21 A3004 RMK AO2 RAB48 SLP172 LAST P0000 T02110206
Return To Hub Listings
| Powered by phpVMS |